ENHM 201850Z AUTO 21021KT 6000NDV -SHRA FEW008/// SCT012/// BKN015/// 04/03 Q1024 W07/S4 UUOK 201730Z 33001MPS CAVOK M09/M12 Q1022 R30/////// NOSIG RMK QFE747/0997 KIWI 201913Z AUTO 00000KT 10SM OVC005 06/06 A3026 RMK AO2 T00610056 KJMR 201915Z AUTO 30006KT 10SM BKN019 BKN024 M08/M13 A2994 RMK AO2 KIXA 201915Z AUTO 00000KT 10SM OVC008 18/18 A3042 RMK AO2 PPIT 201856Z AUTO 19009KT 7SM SCT037 M04/M05 A3053 RMK AO2 SLP338 T10441050 FZRANO TSNO KJMS 201856Z AUTO 31017KT 10SM FEW021 M13/M18 A3009 RMK AO2 SLP229 T11281178 UUOO 201900Z 28003MPS 9000 NSC M12/M13 Q1021 R30/090050 NOSIG RMK QFE752 KIXD 201853Z 33011KT 10SM BKN010 OVC014 M03/M04 A3008 RMK AO2 FZRAE50 SLP195 P0003 I1000 T10331044 ENHV 201850Z 25006KT 5000 -SHSN FEW020 SCT028 BKN038 M01/M03 Q1026 PPIZ 201856Z AUTO 17031G38KT 4SM -SN BR SCT028 SCT060 OVC085 M02/M03 A2962 RMK AO2 PK WND 17038/1848 SNE09B39 SLP035 P0000 T10171033 FZRANO TSNO KIYA 201915Z AUTO 16012G21KT 10SM BKN020 BKN025 OVC050 26/23 A3010 RMK AO2 T02630225 FDSK 201400Z 15009KT 120V180 6000 -TSRA SCT015 BKN025 FEW030CB 24/24 Q1013 NOSIG ENKB 201850Z VRB02KT CAVOK 01/M06 Q1022 RMK WIND 745FT 15011KT KJNX 201920Z AUTO 25003KT 10SM BKN034 BKN039 BKN045 24/17 A3039 RMK AO2 KM75 201915Z AUTO 25009KT 10SM BKN004 M26/M29 A3012 RMK A01 VLPS 201300Z 09002KT 9999 FEW050 30/23 Q1009 NOSIG KIZA 201915Z AUTO 00000KT 10SM CLR 11/M07 A3018 RMK AO2 ENLA 201850Z AUTO 04006KT 010V090 9999NDV SCT023/// BKN077/// 05/M01 Q1025 W///S3 KJOT 201915Z AUTO 29017G31KT 1 3/4SM +RA SCT008 OVC013 14/13 A2986 RMK AO2 VIS 1V5 LTG DSNT N P0012 T01440129 FDST 201900Z AUTO 12007KT //// // ////// 21/21 Q1017 ENLE 201850Z 05009KT 9999 FEW020 SCT040 04/M02 Q1025 W07/S4 KJQF 201853Z 20009KT 10SM BKN019 21/16 A3043 LBGO 201900Z AUTO 08011KT 9999 OVC027/// 04/02 Q1016 KIZG 201854Z AUTO 00000KT 10SM OVC012 06/04 A3022 RMK AO2 SLP239 T00610039 ENKR 201850Z 31006KT 9999 -SN SCT006 SCT010 BKN031 M05/M06 Q1023 RMK WIND 731FT 31008KT LBIA 201900Z 06008KT 9999 FEW010 OVC023 05/03 Q1016 KJRB 201915Z 17003KT 10SM 18/12 RMK AO2 PWINO FZRANO RVRNO ENLK 201850Z 10006KT 070V140 9999 FEW022 M04/M08 Q1025 KM91 201915Z AUTO 19015G26KT 10SM OVC041 23/15 A3016 RMK A01 KN03 201915Z AUTO 20009KT 10SM SCT110 17/11 A3015 RMK AO2 VLSK 201300Z 36002KT 3000 BR BKN100 29/19 Q1010 NOSIG ENMH 201850Z 02011KT 9999 SCT030 BKN040 M01/M06 Q1025 KLAA 201853Z AUTO 01007G16KT 10SM CLR M06/M15 A3004 RMK AO2 SLP211 T10611150 FDUS 201600Z AUTO 07009KT //// // ////// 23/20 Q1016 ENNA 201850Z 19003KT CAVOK M20/M22 Q1028 RMK WIND 1800FT 28012KT ENML 201850Z 02007KT CAVOK M00/M07 Q1023 ENNE 201850Z AUTO 15019KT 9999NDV BKN021/// BKN043/// BKN053/// 01/M03 Q1021 W///S4 KLAF 201854Z 20015G22KT 10SM -RA SCT090 OVC100 19/16 A2995 RMK AO2 RAE1759B27 SLP141 P0002 T01890161 ENOA 201850Z 21024KT 8000 -DZ OVC010 04/04 Q1023 W///S5 ENMS 201850Z 16003KT CAVOK M14/M16 Q1026 RMK WIND 412FT VRB02KT KLBB 201853Z 36014KT 10SM FEW030 FEW200 13/M01 A2990 RMK AO2 PK WND 27026/1754 WSHFT 1749 SLP096 LOW CLDS DSNT NE-SE T01281011 KLAL 201852Z 130/12 10SM BKN050 30/17 A3029 KJSL 201920Z AUTO 14013G22KT 120V180 7SM CLR A3008 RMK A01 KLAM 201915Z AUTO 04006KT 10SM OVC050 M03/M12 A2993 RMK AO2 T10281122 ENNM 201850Z 09012KT 9999 BKN041 M06/M11 Q1025 KLAN 201900Z 19012KT 10SM SCT009 BKN023 OVC033 16/15 A2992 RMK AO2 T01560150 KLBE 201847Z 23015G25KT 20SM FEW050 BKN150 24/12 A3020 KLBF 201853Z AUTO 32016G21KT 10SM CLR M12/M18 A3013 RMK AO2 SLP257 T11171183 KJSO 201915Z AUTO 16012G18KT 10SM SCT035 BKN041 OVC065 23/17 A2999 RMK AO2 LTG DSNT W T02330179 ENNO 201550Z 11005KT 9999 VCSH FEW025 SCT035 BKN065 M02/M05 Q1027 LATI 201920Z VRB02KT 9999 OVC053 08/08 Q1005 NOSIG KLAR 201853Z AUTO 36005KT 10SM CLR M18/M22 A2980 RMK AO2 SLP215 T11781217 VMMC 201900Z 17005KT 9999 FEW007 SCT020 18/16 Q1013 NOSIG KLAS 201856Z VRB03KT 10SM FEW120 06/M16 A3015 RMK AO2 SLP215 T00611161 KJST 201854Z AUTO 23014G20KT 10SM CLR 22/11 A3022 RMK AO2 SLP225 T02170111 KLBL 201856Z AUTO 01014G22KT 10SM CLR M01/M14 A3007 RMK AO2 SLP207 T10111144 FZRANO ENOL 201850Z 12012KT 9999 FEW010 BKN050 M01/M04 Q1023 NOSIG KJSV 201915Z AUTO 30016G26KT 10SM -RA SCT012 BKN038 OVC060 21/14 A2991 RMK AO2 LTG LTG DSNT SW AND W KLAW 201909Z 01021G30KT 10SM BKN011 OVC020 M01/M02 A3000 RMK AO2 PK WND 02033/1859 CIG 008V013 P0001 T10061017 KLBO 201915Z AUTO 32011G17KT 1 3/4SM -RA OVC004 09/08 A2996 RMK AO2 VIS 1/2V5 P0017 KLAX 201853Z VRB03KT 10SM CLR 13/M13 A3017 RMK AO2 SLP217 T01281128 $ KLCG 201915Z AUTO 33018G25KT 10SM BKN019 M11/M15 A3015 RMK AO2 T11071149 KLCH 201853Z 17016G23KT 10SM BKN022 OVC038 26/21 A3006 RMK AO2 PK WND 17029/1808 SLP187 T02610206 KLCI 201856Z AUTO 02005KT 10SM FEW003 OVC100 07/06 A3020 RMK AO2 SLP247 T00720056 KN38 201915Z AUTO 17010G16KT 10SM CLR 16/11 A3018 RMK AO2 ENQA 201850Z AUTO 19028KT 4000NDV -RA OVC012/// 04/02 Q1023 W05/S5 KLBT 201854Z AUTO 15010G16KT 10SM BKN047 BKN060 26/16 A3038 RMK AO2 SLP288 T02610161 KLCK 201915Z AUTO 22019G25KT 10SM CLR 24/13 A3012 RMK AO2 T02410132 ENQC 201850Z AUTO 19027KT 4700NDV -RA BR OVC010/// 04/03 Q1022 W///S5 ENOV 201850Z 05009KT 340V090 9999 SNRA FEW025 SCT035 BKN050 02/M05 Q1023 RMK WIND 2175FT 13018KT KLBX 201853Z AUTO 15020G30KT 9SM BKN014 OVC023 26/21 A2998 RMK AO2 PK WND 14030/1755 SLP153 T02560211 KLCQ 201915Z AUTO 13004KT 10SM OVC065 26/17 A3031 RMK AO2 VLVT 201600Z 18002KT 3000 BR NSC 27/22 Q1009 NOSIG KLDJ 201935Z AUTO 00000KT 10SM CLR 19/13 A3027 RMK AO2 T01870133 KKLS 201914Z AUTO 17006KT 9SM UP BKN016 OVC020 01/M01 A3018 RMK AO2 UPB05SNE05 P0000 FZRANO KLEB 201853Z 24003KT 10SM BKN038 OVC095 09/07 A3016 RMK AO2 SLP215 T00940072 ENRA 201820Z 31003KT CAVOK M12/M15 Q1027 KJVL 201845Z 23006KT 3SM -RA OVC018 05/05 A2985 RMK TSB1810E45 KLDM 201915Z AUTO 17005KT 10SM RA BKN006 BKN010 OVC020 12/12 A2978 RMK AO2 T01240120 KLEE 201853Z 15006KT 10SM OVC048 29/18 A3031 RMK AO2 SLP261 T02890183 KJWG 201855Z AUTO 35013G17KT 10SM OVC007 M04/M04 A3010 RMK AO2 T10411041 ENQR 201850Z AUTO 27015KT 9999NDV FEW045/// 07/04 Q1020 W///S5 KN60 201852Z AUTO 28012KT M14/M19 A3009 RMK AO1 SLP237 T11441189 ENSB 201850Z 12013KT 9999 FEW001 M06/M11 Q1030 RMK WIND 1400FT 14012KT UUWW 201900Z 28003MPS 9999 -SN FEW007 M10/M12 Q1018 R24/450237 NOSIG ENRM 201850Z 10008KT CAVOK M05/M09 Q1024 UWGG 201900Z 26002MPS 5000 -SN BKN014 M09/M10 Q1014 R36L/490238 NOSIG RMK QFE754 ENSD 201850Z 09003KT 9999 -SN SCT028 BKN036 02/M05 Q1024 RMK WIND 1138FT VRB03KT KJVW 201915Z AUTO 17016G24KT 9SM FEW045 FEW055 FEW070 28/18 A3009 RMK AO2 KJWN 201915Z AUTO 19013KT 10SM BKN045 OVC055 25/15 A3016 RMK A01 LCEN 201850Z 25003KT 9999 FEW025CB SCT030 BKN130 12/10 Q1011 NOSIG ENSE 201850Z AUTO 28015KT 9999NDV BKN086/// OVC100/// 07/04 Q1021 W///S6 ENSF 201850Z AUTO 28014KT 9999NDV BKN020/// BKN180/// 08/04 Q1022 W///S5 ENRO 201850Z AUTO 21003KT 180V250 9999NDV -SHSN FEW003/// OVC023/// M07/M09 Q1020 ENSG 201850Z 04005KT 9999 SCT035 BKN050 M05/M08 Q1024 RMK WIND 3806FT 23007KT ENSH 201850Z 05016KT CAVOK M04/M09 Q1025 RMK WIND 150FT 05024KT KLFI 201856Z AUTO 22006KT 6SM BR OVC007 18/18 A3042 RMK AO2 CIG 005 RWY08 SLP308 T01790179 KJXI 201915Z AUTO 16011G18KT 10SM BKN033 BKN039 OVC070 23/17 A2997 RMK AO2 LTG DSNT W T02300169 KLGA 201851Z 22010KT 10SM BKN250 18/11 A3027 RMK AO2 SLP251 T01780111 $ ENRS 201650Z 08014KT 9999 VCSH FEW007 SCT043 00/M02 Q1023 KLFK 201853Z AUTO 17017G22KT 10SM SCT045 25/18 A2999 RMK AO2 PK WND 16029/1810 SLP152 T02500183 KLGB 201853Z VRB05KT 10SM CLR 14/M11 A3017 RMK AO2 SLP214 T01441106 $ ENSK 201850Z 14016KT CAVOK M04/M10 Q1025 KLGC 201915Z AUTO 16010KT 10SM SCT031 BKN037 OVC070 25/17 A3031 RMK AO2 T02520173 ENSL 201850Z AUTO 20012KT 9999NDV OVC017/// 05/01 Q1025 W04/S4 ENTC 201850Z VRB01KT CAVOK M11/M14 Q1028 NOSIG RMK WIND 2600FT 16012KT KLGD 201856Z AUTO VRB03KT 10SM OVC050 M07/M14 A3017 RMK AO2 SNB16E50 SLP353 P0000 T10721139 FZRANO LBPD 201900Z AUTO 09004KT 4600 -SHRA BR FEW005/// SCT007/// OVC015/// 04/04 Q1015 RESHRA TEMPO 5000 RA KLEW 201856Z AUTO 35004KT 7SM OVC005 04/03 A3025 RMK AO2 RAB42E52 SLP260 P0000 T00390033 KJXN 201856Z 19017G25KT 7SM -RA BKN013 OVC019 17/15 A2996 RMK AO2 PK WND 17026/1824 RAE13B27 SLP144 P0002 T01670150 KLGF 201905Z AUTO 35013G20KT 10SM CLR 13/M15 A3014 KLEX 201854Z 20019G29KT 10SM FEW055 26/12 A3017 RMK AO2 PK WND 22031/1839 SLP209 T02560117 ENSO 201850Z 11005KT 9999 FEW034 BKN042 02/M06 Q1026 KJYG 201915Z AUTO 28016G23KT 7SM SCT008 OVC013 M11/M13 A3004 RMK AO2 KJWY 201920Z AUTO 15015G20KT 1 1/4SM +RA SCT006 BKN016 OVC020 20/20 A2990 RMK AO2 P0027 T01960196 LBPG 201900Z 10004KT 4000 BR OVC009 04/03 Q1015 ENRY 201850Z VRB02KT 9999 SCT022 BKN037 M03/M06 Q1028 ENSR 201820Z 16006KT CAVOK M10/M17 Q1030 WIND 1119FT 14010KT ENSS 201850Z 01018KT 9999 VCSH SCT049 M02/M10 Q1023 RMK WIND 500FT VRB10G26KT KLFT 201900Z 17015G23KT 10SM FEW030 SCT050 BKN060 27/21 A3010 RMK AO2 T02670206 KLHB 201915Z AUTO 14013G21KT 10SM BKN027 OVC034 24/19 A2993 RMK AO2 T02400190 ENST 201850Z 08005KT 030V120 CAVOK M03/M13 Q1024 RMK WIND 300FT 08007KT KJYL 201915Z AUTO 19007KT 10SM SCT040 SCT060 27/18 A3036 RMK AO2 T02730184 LBPL 201900Z 05012KT 6666 BR OVC007 02/01 Q1016 KJYM 201915Z AUTO 20013G25KT 5SM RA BKN009 OVC014 15/13 A2998 RMK AO2 P0004 UUYY 201900Z 01003MPS 6000 -SHSN SCT015CB BKN026 M14/M15 Q1013 R36/490235 TEMPO 1000 SHSN RMK QFE751/1001 EPCE 201900Z 05006KT CAVOK M03/M04 Q1024 RMK M026 089 0/0 = KJYO 201915Z AUTO 20011G16KT 10SM CLR 26/14 A3028 RMK AO2 ENTO 201850Z 29001KT 9000 -SN BKN032 M04/M05 Q1027 ENUG 201850Z AUTO 35006KT 320V070 9999NDV BKN033/// 01/M08 Q1026 W06/S3 KJZI 201915Z AUTO 17010KT 10SM SCT022 BKN041 OVC060 25/20 A3040 RMK AO2 KJYR 201915Z AUTO 33014G19KT 10SM BKN023 M09/M13 A3016 RMK AO2 EPDA 201900Z 02005KT 340V070 9999 BKN049 01/M04 Q1025 RMK 012 071 7/7 = ENVA 201850Z 12006KT 9999 VCSH SCT023 BKN036 M04/M06 Q1024 TEMPO 4000 -SN VV012 RMK WIND 670FT 14005KT FGBT 201900Z 14006KT 9999 FEW010 BKN100 27/24 Q1008 KLGU 201851Z AUTO 35004KT 10SM CLR M07/M12 A3007 RMK AO2 SNE08 SLP222 P0000 T10671122 KLIC 201855Z AUTO 03008KT 10SM CLR M11/M16 A2995 RMK AO2 SLP211 T11061161 KLHM 201915Z AUTO 23004KT 10SM CLR 06/M05 A3024 RMK AO1 ENVD 201750Z 35008KT 9999 SCT012 BKN060 M04/M07 Q1024 EPDE 201900Z 08008KT CAVOK M03/M08 Q1021 RMK M026 069 7/7= KJZP 201915Z AUTO 14007KT 110V190 10SM OVC011 18/17 A3038 RMK AO2 T01820169 PNO EPBY 201900Z 05008KT 9999 FEW044 M01/M05 Q1022 KLHQ 201853Z AUTO 22015G28KT 10SM CLR 25/12 A3014 RMK AO2 PK WND 23028/1847 SLP201 T02500122 UWKD 201900Z 21002MPS 7000 -SN NSC M08/M09 Q1013 R11/490340 NOSIG RMK QFE749/0999 UWKE 201900Z 20005MPS 9999 -SN BKN012 M10/M11 Q1012 R21/421055 NOSIG RMK QFE742/0990 VOBG 201800Z 08008KT 8000 NSC 20/14 Q1016 KMAE 201853Z AUTO 15006KT 10SM CLR 09/M05 A3025 RMK AO2 SLP244 T00891050 KLHW 201856Z 12009G18KT 10SM SCT040 BKN060 27/18 A3033 RMK AO2A SLP274 T02670183 $ KLHX 201853Z AUTO 05006KT 10SM CLR M08/M15 A3004 RMK AO2 SLP215 T10781150 KMAF 201853Z 26015G20KT 10SM CLR 23/00 A2989 RMK AO2 SLP080 T02330000 KLJF 201915Z AUTO 28009G17KT 10SM BKN021 M08/M12 A2999 RMK AO2 LBSF 201900Z 13007KT 9999 SCT011 OVC013 03/02 Q1012 NOSIG DXNG 201800Z 30004KT 280V340 9999 FEW016 33/16 Q1009 NOSIG KLHZ 201915Z AUTO 21003KT 10SM BKN014 20/17 A3044 RMK AO2 VOAT 201100Z 33005KT 6000 SCT015 30/24 Q1009 NOSIG VOCB 201900Z 07004KT 5000 HZ NSC 25/12 Q1014 NOSIG KMAI 201853Z AUTO 16010G18KT 9SM FEW033 SCT044 BKN060 27/19 A3026 RMK AO2 SLP246 T02720189 ENVR 201450Z 04015KT 9999 SCT042 BKN090 00/M03 Q1025 VOBL 201900Z VRB03KT 6000 NSC 19/14 Q1017 NOSIG VOBM 201400Z 26005KT 8000 FEW015 26/20 Q1014 KLIT 201853Z 19016G22KT 10SM SCT035 BKN047 OVC120 25/17 A3001 RMK AO2 SLP163 T02500172 $ KO22 201855Z AUTO 21005KT 10SM CLR 08/M13 A3018 RMK AO1 KMAN 201915Z AUTO 29005KT 10SM CLR M04/M17 A3020 RMK A01 KMAO 201915Z AUTO 15007KT 7SM SCT041 SCT050 BKN060 26/16 A3039 RMK AO2 VOCI 201900Z 00000KT 4000 HZ NSC 26/23 Q1010 NOSIG KMBG 201852Z AUTO 30012KT 10SM CLR M12/M18 A3014 RMK AO2 SLP247 T11171178 UWKS 201900Z 28004MPS 9000 -SN BKN011 M07/M08 Q1012 R24/920545 NOSIG RMK QFE745 VNKT 201850Z 00000KT 5000 BR FEW015 11/08 Q1017 NOSIG VOCL 201900Z 16003KT 4000 BR NSC 26/23 Q1010 NOSIG KMCB 201853Z AUTO 16017G27KT 10SM BKN035 BKN070 28/18 A3013 RMK AO2 PK WND 16027/1832 SLP199 T02780183 $ KMBL 201914Z AUTO 00000KT 10SM -RA BKN011 OVC025 11/11 A2979 RMK AO2 LTG DSNT SW P0001 KMCC 201915Z AUTO 00000KT 10SM CLR 07/M05 A3026 RMK AO2 KMCD 201915Z AUTO 11005KT 1/4SM FG OVC003 00/00 A2979 RMK AO2 P0001 T00000000 VOCP 201000Z 09008KT 6000 FEW020 33/17 Q1009 KMAW 201955Z AUTO 19023G26KT 10SM BKN027 BKN033 23/17 A3005 RMK AO2 KMCE 201853Z AUTO 00000KT 10SM CLR 08/M07 A3024 RMK AO2 SLP241 T00831072 ENWV 201850Z AUTO /////KT //// NCD 04/M02 Q1024 W///S4 EPGD 201900Z 05009KT 9999 FEW009 SCT015 BKN021 M00/M02 Q1024 VOBZ 201530Z 00000KT 2000 HZ NSC 24/20 Q1012 NOSIG KMBO 201915Z AUTO 17006G17KT 10SM SCT035 SCT043 26/18 A3011 RMK AO2 KMCF 201856Z AUTO 17009KT 10SM CLR 30/20 A3026 RMK AO2 SLP250 T03020198 FZRANO $ KLKR 201915Z AUTO 21008KT 10SM FEW027 25/16 A3039 RMK AO2 KMCI 201853Z 33013KT 10SM OVC011 M04/M06 A3007 RMK AO2 SLP193 T10441061 KMCJ 201915Z AUTO 15011G24KT 130V200 6SM HZ BKN016 OVC023 24/21 A2998 RMK A01 KMBS 201853Z 20012KT 10SM BKN011 OVC070 15/13 A2990 RMK AO2 CIG 009V015 SLP128 T01500133 KLLJ 201855Z AUTO VRB03KT 10SM CLR M07/M17 A2993 RMK AO2 SLP192 T10721172 LCLK 201900Z 33003KT 9999 FEW025CB 13/13 Q1012 NOSIG KMCK 201853Z AUTO 34018G25KT 10SM CLR M09/M17 A3012 RMK AO2 PK WND 32026/1838 SLP248 T10941167 UWLW 201900Z 20001MPS 4000 -SN BR BKN020 M11/M13 Q1014 R20/450542 TEMPO 2100 -SN BR BKN008 RMK QFE755 KLKU 201915Z AUTO 20011G18KT 170V230 10SM CLR 23/14 A3036 RMK AO2 T02340141 KLKV 201856Z AUTO 18009KT 10SM BKN025 M06/M12 A3006 RMK AO2 SLP245 T10561117 FZRANO PNO $ KMDD 201915Z AUTO 25012G19KT 10SM 23/00 A2989 RMK AO2 T02330000 KMCN 201900Z 16006KT 10SM FEW025 FEW045 SCT055 24/18 A3033 RMK AO2 T02440178 KMCO 201853Z 11011KT 10SM SCT047 29/18 A3029 RMK AO2 SLP257 T02890178 KMBY 201935Z AUTO 29014G17KT 7SM UP OVC008 01/00 A3001 RMK AO2 P0005 KMDH 201852Z AUTO 20023G34KT 10SM BKN032 BKN042 23/17 A3001 RMK AO2 PK WND 20039/1827 SLP159 T02330172 PNO $ KLLQ 201853Z AUTO 17009KT 10SM FEW026 BKN030 BKN038 25/18 A3005 RMK AO2 SLP172 T02500183 KLNA 201915Z AUTO 10013G20KT 10SM SCT021 SCT027 28/22 A3030 RMK AO2 T02750218 LBWB 201400Z 06016KT 9999 OVC006 05/03 Q1017 KMEB 201852Z AUTO 20006KT 10SM BKN055 26/17 A3040 RMK AO2 SLP292 T02610172 KLNC 201915Z AUTO 16007KT 5SM RA SCT023 BKN038 OVC050 20/19 A2991 RMK AO2 LTG DSNT SW P0001 T01970187 KLND 201853Z AUTO 15003KT 10SM CLR M18/M22 A2990 RMK AO2 SLP237 T11831217 KMCW 201912Z AUTO 30016KT 10SM OVC016 M07/M09 A3000 RMK AO2 T10721094 KMCX 201935Z AUTO 20015G22KT 10SM DZ SCT032 BKN055 OVC090 18/17 A2994 RMK AO2 T01800165 KLMO 201915Z AUTO 09004KT 10SM SCT019 BKN110 M10/M17 A3000 RMK AO2 T11011173 KMDQ 201915Z AUTO 17011G15KT 10SM BKN037 BKN047 OVC065 24/16 A3022 RMK AO2 T02410157 KMEH 201856Z AUTO 00000KT 10SM OVC033 M07/M13 A3004 RMK AO2 SLP244 T10671128 KMEI 201858Z 18010KT 10SM FEW037 SCT049 OVC065 27/18 A3018 RMK AO2 SLP215 T02670178 KMDS 201915Z AUTO 32018G25KT 10SM -SN FEW008 BKN013 M13/M14 A3007 RMK AO2 KKY8 201855Z AUTO 18017G26KT 10SM CLR 25/13 A3008 RMK AO1 KMDT 201856Z 00000KT 10SM SCT070 SCT250 18/12 A3024 RMK AO2 SLP241 T01830117 KLMT 201853Z 21005KT 10SM FEW021 SCT070 M04/M10 A3008 RMK AO2 SLP223 T10441100 KLNK 201854Z 31012G22KT 10SM BKN022 M07/M12 A3018 RMK AO2 SLP239 T10671117 KLNL 201915Z AUTO 25007KT 10SM OVC009 M03/M04 A2977 RMK AO2 T10301039 LDDU 201900Z 05006KT 020V080 9999 -RA SCT033 BKN040 07/06 Q1005 NOSIG UWOO 201900Z 28003MPS 9000 -SN OVC010 M08/M09 Q1016 R26/810256 NOSIG RMK QFE751/1002 KMFD 201852Z 21022G32KT 10SM FEW035 BKN070 21/14 A3011 RMK AO2 PK WND 21035/1825 SLP190 T02110139 KMEM 201854Z 17013KT 10SM BKN038 BKN055 OVC075 24/16 A3010 RMK AO2 PK WND 19029/1802 RAE1756 SLP189 VCSH P0000 T02390161 KMDW 201906Z 20020G28KT 1 3/4SM +RA BR BKN020 OVC024 18/16 A2982 RMK AO2 PK WND 18028/1904 LTG DSNT NW P0005 T01830161 KMFE 201917Z 16020G29KT 10SM BKN029 28/21 A2987 RMK AO2 PK WND 16031/1856 T02830211 ENZV 201850Z 13005KT 9999 FEW018 BKN028 02/M03 Q1027 NOSIG KLNN 201915Z AUTO 21007KT 10SM SCT044 SCT049 OVC080 18/15 A3009 RMK AO1 T01810151 LBWN 201900Z 07013KT 9999 FEW018 SCT026 OVC035 05/02 Q1017 R99/29//95 NOSIG UWOR 201900Z 28003MPS CAVOK M10/M13 Q1013 R25/810255 NOSIG RMK QFE736/0982 KLNP 201855Z AUTO 21011G20KT 10SM CLR 22/10 A3034 RMK AO2 KMDZ 201915Z AUTO 27007KT 10SM OVC005 M04/M05 A2980 RMK AO2 T10411054 VOHB 201500Z 00000KT 6000 FEW020 25/15 Q1014 KMFI 201854Z AUTO 28010KT 9SM OVC006 M02/M03 A2981 RMK AO2 SLP112 T10221033 TSNO KMER 201845Z VRB04KT 10SM SKC 09/M03 A3025 KLNR 201908Z AUTO 28011G19KT 10SM OVC010 02/01 A2988 RMK AO2 CIG 007V013 T00170006 EPIR 201900Z 03010KT CAVOK M01/M05 Q1022 RMK M012 076 0/0= KLNS 201853Z 19007KT 10SM CLR 23/13 A3026 RMK AO2 SLP246 T02280133 KO69 201915Z AUTO 00000KT 10SM CLR 08/M03 A3024 RMK A01 DXSK 201500Z 22006KT 9999 BKN020 BKN260 36/22 Q//// KLOL 201853Z AUTO 00000KT 10SM CLR M04/M14 A3013 RMK AO2 SLP242 T10391139 KLPC 201856Z AUTO 35009KT 10SM CLR 12/M05 A3022 RMK AO2 SLP238 T01171050 KMGC 201915Z AUTO 20015G22KT 10SM -RA OVC013 16/16 A2989 RMK AO2 VOGO 201800Z 02008KT 4500 BR SCT100 26/22 Q1010 NOSIG KLOM 201915Z AUTO 20006KT 10SM CLR 20/13 A3030 RMK AO1 KMEV 201915Z AUTO 25005KT 10SM CLR M02/M15 A3007 RMK AO2 KMGE 201856Z 15009G16KT 10SM BKN019 22/17 A3034 RMK AO2A SLP270 T02200165 $ KMGG 201915Z AUTO 31011KT 10SM SCT020 SCT050 M07/M12 A2998 RMK AO2 T10731118 LCPH 201900Z 02005KT 9999 FEW020 SCT050 11/10 Q1012 KMEZ 201915Z AUTO 20003G17KT 10SM SCT022 SCT027 BKN041 24/20 A2996 RMK AO2 KMFR 201853Z 33004KT 10SM FEW075 01/M04 A3021 RMK AO2 SLP242 T00111044 KLOR 201858Z AUTO 14007KT 10SM BKN075 25/20 A3027 RMK AO2 RAB03E23 SLP232 P0001 T02530203 KMGJ 201854Z AUTO 21012KT 10SM CLR 15/10 A3022 RMK AO2 SLP235 T01500100 KLOT 201915Z AUTO 25022G35KT 1 3/4SM +RA BKN009 OVC014 A2982 RMK AO2 LTG DSNT NE EPLB 201900Z 10008KT CAVOK M03/M06 Q1020 KLOU 201853Z 19016G28KT 10SM CLR 27/12 A3012 RMK AO2 PK WND 20034/1824 SLP194 T02670122 $ EPKK 201900Z 05009KT CAVOK M02/M07 Q1017 KMGM 201853Z 16011KT 10SM BKN037 BKN045 OVC075 26/18 A3025 RMK AO2 SLP243 T02610178 $ KMFV 201915Z AUTO 22009G14KT 10SM OVC008 20/18 A3040 RMK AO2 T01950175 KMHE 201908Z AUTO 31018KT 9SM SCT013 M12/M16 A3017 RMK AO2 T11171161 KMGN 201915Z AUTO 24003KT 10SM BKN034 BKN040 BKN070 10/08 A2977 RMK AO2 T01020086 FHAW 200550Z 15008KT 9999 FEW018 SCT042 25/19 Q1012 BLU NOSIG VOHS 201900Z 15005KT 6000 FEW020 19/16 Q1014 NOSIG KLOZ 201853Z AUTO 22015G27KT 10SM SCT050 25/12 A3025 RMK AO2 PK WND 19033/1810 SLP232 T02500122 KO86 201910Z AUTO 15005KT 10SM CLR 00/M09 A3016 RMK AO1 KLPR 201853Z AUTO 23007G17KT 10SM FEW046 BKN055 OVC075 19/12 A3009 RMK AO2 SLP186 T01940122 KMGR 201915Z AUTO 16006KT 10SM SCT036 BKN042 BKN048 26/18 A3031 RMK AO2 KMIA 201853Z 10016KT 10SM BKN025 BKN065 28/20 A3027 RMK AO2 SLP251 T02780200 LCRA 201850Z 29002KT 9999 FEW050 BKN180 14/12 Q1011 NOSIG EPKS 201900Z 03006KT CAVOK M01/M05 Q1021 RMK M014 075 5/5= KLQK 201915Z AUTO 21004KT 10SM SCT009 BKN013 OVC020 19/17 A3039 RMK AO2 T01940173 KMHK 201852Z 34007G16KT 300V010 10SM BKN021 M04/M09 A3015 RMK AO2 SLP221 T10391089 PNO KMIB 201856Z AUTO 27013KT 10SM CLR M13/M18 A3006 RMK AO2 SNE1758 SLP226 P0000 T11331183 $ EPMB 201900Z 03002KT CAVOK M01/M03 Q1024 RMK M009 087 2/2= EPLK 201900Z 06006KT CAVOK M02/M08 Q1019 RMK M019 065 6/6= EPKT 201900Z 07008KT CAVOK M01/M07 Q1017 KMHL 201915Z AUTO 31009KT 4SM UP BKN009 BKN015 OVC034 01/01 A3003 RMK AO2 P0001 KMIC 201853Z 29010KT 10SM BKN018 OVC041 M08/M12 A2995 RMK AO2 SLP158 T10781122 KLRD 201856Z 16012KT 10SM FEW085 BKN110 27/19 A2986 RMK AO2 SLP111 T02720189 EPLL 201900Z 06012KT CAVOK M01/M07 Q1019 VOHY 201600Z VRB02KT 6000 NSC 25/16 Q1015 NOSIG KMGW 201853Z 21009G19KT 10SM FEW065 25/10 A3021 RMK AO2 SLP222 T02500100 KMIE 201853Z 22022G34KT 10SM BKN075 24/13 A3001 RMK AO2 PK WND 24043/1830 SLP154 T02390128 KLRF 201856Z AUTO 18010G22KT 10SM SCT190 25/18 A3000 RMK AO2 SLP159 T02530177 KMGY 201853Z AUTO 21017G31KT 10SM BKN110 24/12 A3010 RMK AO2 PK WND 23031/1845 SLP187 T02440122 KMHR 201845Z 19003KT 10SM BKN200 05/M03 A3025 EPMI 201900Z 06004KT 9999 SCT040 M01/M07 Q1023 RMK M013 067 3/3 = KLRJ 201915Z AUTO 30015G24KT 10SM BKN018 BKN023 M11/M15 A3014 RMK AO2 KMHS 201856Z AUTO VRB04KT 10SM CLR M01/M12 A3010 RMK AO2 SLP236 T10061122 LEAB 201900Z 32012KT CAVOK 11/02 Q1013 NOSIG KMHT 201853Z 16009KT 10SM FEW090 BKN250 18/10 A3016 RMK AO2 SLP227 T01830100 KMHV 201900Z AUTO 05005G11KT 10SM CLR 04/M16 A3015 RMK A01 EPMM 201900Z 08006KT CAVOK M03/M07 Q1021 RMK M031 074 2/2 = KLSE 201853Z 29012KT 10SM BKN016 OVC036 M02/M04 A2990 RMK AO2 SLP138 T10171044 KLSF 201918Z AUTO 15008KT 10SM -RA BKN029 BKN035 BKN045 OVC075 25/18 A3029 RMK AO2 RAB18 CIG 029V075 BKN029 V SCT SLP261 KLRO 201915Z AUTO 17009G16KT 10SM SCT025 SCT055 25/19 A3040 RMK AO2 LEAG 201900Z AUTO 29007G18KT 240V010 CAVOK 22/10 Q1013 EPMO 201900Z 06007KT CAVOK M03/M07 Q1021 EPLY 201900Z 05004KT CAVOK M02/M05 Q1020 RMK M017 078 4/4= UWSS 201900Z 29007MPS 9999 DRSN OVC020 M05/M08 Q1018 R30/850340 NOSIG RMK QFE750 LEBA 201900Z AUTO 00000KT CAVOK 16/05 Q1014 KMIS 201915Z AUTO 18006KT 6SM HZ FEW025 FEW070 25/21 A3019 RMK A01 LEBB 201900Z 33010KT 290V350 9999 SCT022 BKN050 11/09 Q1022 NOSIG KNAK 201854Z AUTO 12013KT 10SM CLR 11/09 A3029 RMK AO2 SLP258 T01060094 LEAL 201900Z 02004KT 340V060 CAVOK 15/09 Q1010 NOSIG KMKC 201854Z 31012KT 10SM OVC012 M03/M06 A3009 RMK AO2 UPB1756E05B32E47FZRAB05E32SNE1756 SLP197 P0005 I1001 T10281056 KLRU 201915Z AUTO 27010KT 10SM SCT044 BKN060 OVC070 13/01 A2997 RMK AO2 T01260010 KNBC 201856Z 16010KT 10SM OVC060 24/19 A3039 RMK AO2 SLP290 T02440194 $ LEAM 201900Z 25009KT 210V280 9999 FEW070 14/12 Q1012 KMIV 201854Z AUTO 19008G15KT 150V220 10SM CLR 22/14 A3032 RMK AO2 SLP266 T02170144 $ KMKE 201913Z 24009KT 3SM RA BR SCT026 BKN042 OVC075 11/10 A2982 RMK AO2 TSE07 P0015 T01110100 KMIW 201853Z AUTO 30019KT 10SM OVC015 M04/M07 A2999 RMK AO2 SLP169 T10441067 LEAO 201900Z 30005KT 260V340 CAVOK 10/03 Q1015 LEBG 201900Z 02011KT 8000 -DZ BKN016 05/03 Q1019 KLRY 201915Z AUTO 35005KT 3SM -SN SCT012 OVC040 00/M01 A3008 RMK AO2 P0001 KMKG 201915Z 19014G22KT 10SM SCT005 OVC018 14/13 A2983 RMK AO2 RAE04 P0001 T01440133 KNBG 201855Z COR 18017G21KT 10SM SCT029 SCT036 BKN045 BKN250 27/22 A3016 RMK SLP210 T02720222 KMJQ 201915Z AUTO 29015G20KT 10SM BKN013 M10/M14 A3001 RMK AO2 LEAS 201909Z 00000KT 9000 -RA SCT008 BKN012 10/09 Q1024 TEMPO 3000 KLUA 201915Z AUTO 20015G24KT 10SM CLR 25/10 A3026 RMK AO2 KP28 201856Z AUTO 34018G27KT M04/M07 A3010 RMK AO1 PK WND 34029/1843 SLP210 T10391072 KNCA 201856Z 18011KT 10SM SCT029 BKN034 BKN055 24/18 A3043 RMK AO2 SLP306 T02440178 KMKJ 201915Z AUTO 16003KT 10SM CLR 24/09 A3035 RMK AO2 T02420086 VOMD 201900Z 08003KT 6000 NSC 24/18 Q1011 NOSIG KMLB 201853Z 13015G21KT 10SM SCT030 28/21 A3032 RMK AO2 SLP265 T02780206 EPOK 201900Z 05005KT 010V080 9999 SCT013 OVC024 01/M02 Q1025 RMK 005 084 8/4 LEBL 201900Z 09003KT CAVOK 12/10 Q1009 NOSIG KMKL 201853Z 17011KT 10SM BKN040 OVC050 25/17 A3012 RMK AO2 PK WND 21028/1810 SLP196 T02500167 KMLC 201913Z AUTO 36010G22KT 6SM RA BR OVC007 06/06 A2994 RMK AO2 WSHFT 1845 P0005 T00610056 KLUD 201915Z AUTO 16011G19KT 7SM BKN010 OVC014 20/18 A2984 RMK AO2 T02010184 KLSV 201856Z AUTO 33003KT 10SM CLR 06/M16 A3015 RMK AO2 SLP215 T00621164 $ KMKN 201915Z AUTO 18018G28KT 10SM SCT011 SCT035 BKN100 21/21 A2985 RMK AO2 LTG DSNT SE SW AND NW T02110211 KMLE 201915Z AUTO 31016G19KT 10SM OVC020 M07/M11 A3015 RMK AO2 T10681110 KMLF 201852Z AUTO 22005KT 10SM CLR M07/M09 A3004 RMK AO2 SLP219 T10721089 $ KMKO 201849Z AUTO 01013KT 7SM -RA BKN007 BKN016 OVC034 04/03 A2996 RMK AO2 PK WND 33030/1804 LTG DSNT S TSE1758 SLP145 P0022 T00390033 KMJX 201856Z AUTO 23014G18KT 10SM CLR 24/14 A3029 RMK AO2 SLP264 T02390144 KLUF 201856Z AUTO 25005KT 10SM CLR 13/M09 A3008 RMK AO2 SLP186 T01261092 $ LECH 201900Z AUTO 33019G34KT 300V010 9999 NCD 13/01 Q1010 LEBR 201900Z AUTO 31012KT 9999 SCT046 09/04 Q1017 KMLI 201852Z 29011KT 5SM RA BR BKN009 OVC070 02/01 A2993 RMK AO2 SLP139 P0018 T00220011 UWUU 201900Z 21003MPS 4500 -SN OVC013 M09/M11 Q1014 R14R/490544 NOSIG RMK QFE750/1001 KMKS 201915Z AUTO 15011G14KT 10SM BKN040 BKN050 BKN060 27/15 A3038 RMK AO2 KLTS 201856Z AUTO 36024G30KT 10SM OVC010 00/M05 A3003 RMK AO2 PK WND 36034/41 CIG 008V010 CIG 008 RWY35R SLP170 T10051053 $ KMLJ 201915Z AUTO 26004KT 10SM SCT037 SCT043 BKN050 26/18 A3034 RMK AO2 VOML 201900Z 05003KT 6000 FEW015 26/22 Q1010 NOSIG LEBT 201900Z AUTO 31007KT 240V020 9999 // ////// 14/02 Q1011 VOND 200930Z 00000KT 6000 SCT020 35/08 Q1011 N0SIG VOMM 201900Z 00000KT 6000 NSC 23/21 Q1012 NOSIG KLUK 201853Z 22020G29KT 10SM CLR 26/13 A3011 RMK AO2 PK WND 22033/1839 SLP192 T02610128 KMKT 201856Z AUTO 30017KT 9SM -SN BKN016 OVC035 M09/M12 A3000 RMK AO2 SLP179 P0000 T10891122 FZRANO KLUL 201915Z AUTO 16009G18KT 10SM SCT030 SCT038 OVC070 25/18 A3018 RMK AO2 T02530175 KLUM 201915Z AUTO 26009KT 10SM OVC012 M04/M07 A2991 RMK AO2 T10421069 LECO 201900Z 03006KT 350V060 9999 BKN044 12/08 Q1024 NOSIG DXXX 201900Z 19007KT 9999 FEW013 28/23 Q1007 NOSIG KMLP 201914Z AUTO VRB03KT 2 1/2SM -SN BR OVC009 M17/M19 A2986 RMK AO2 VIS 1 3/4V3 SNB01 P0000 T11721189 TSNO KMKY 201856Z AUTO 11013KT 10SM SCT041 BKN065 OVC075 28/21 A3025 RMK AO2 RAB39E51 SLP244 P0000 T02830206 EPPO 201900Z 05007KT CAVOK M02/M06 Q1021 LEBZ 201900Z 01001KT CAVOK 16/03 Q1015 KMMH 201915Z AUTO 12003KT 10SM CLR M03/M21 A2996 RMK AO2 T10311214 KMMI 201915Z AUTO VRB04KT 10SM BKN046 OVC060 24/14 A3030 RMK EPPR 201900Z 01004KT 9999 SCT015 00/M02 Q1024 RMK 000 085 3/3= KLVJ 201853Z AUTO 15015G26KT 8SM BKN013 OVC022 24/22 A3001 RMK AO2 PK WND 14026/1850 SLP160 T02440222 KMLS 201853Z AUTO 24004KT 10SM CLR M21/M22 A3013 RMK AO2 SLP271 T12061217 KLWA 201915Z AUTO 20011G18KT 10SM OVC016 18/16 A2986 RMK AO2 T01800159 EPRA 201900Z 10006KT CAVOK M04/M07 Q1020 KMLT 201915Z AUTO 00000KT 2 1/2SM -RA BR OVC010 02/02 A3027 RMK AO2 CIG 006V012 P0003 T00220022 KLVK 201853Z 00000KT 10SM CLR 07/M05 A3023 RMK AO2 SLP240 T00721050 KMMK 201853Z AUTO 16007KT 10SM CLR 17/11 A3024 RMK AO2 SLP241 T01670111 KLWB 201915Z AUTO 19008KT 10SM CLR 23/10 A3032 RMK AO2 T02300104 LEEC 201400Z 04009KT CAVOK 20/04 Q1015 KLWC 201911Z AUTO 31016KT 10SM OVC014 M03/M06 A3011 RMK AO2 T10331056 KMLU 201853Z 18012G23KT 10SM BKN025 BKN045 27/17 A3005 RMK AO2 PK WND 20034/1838 SLP172 T02720172 KMML 201856Z AUTO 33022G27KT 8SM SCT012 BKN019 OVC110 M12/M16 A3006 RMK AO2 PK WND 32027/1854 SNE08 SLP206 P0000 T11171156 FZRANO KLVL 201915Z AUTO 21005KT 10SM OVC011 20/17 A3040 RMK AO1 T01950167 LECV 201800Z 01009G23KT 9999 FEW040 08/M01 Q1016 KLVM 201853Z AUTO 27010KT 10SM CLR M14/M19 A2998 RMK AO2 SLP263 T11391189 KLWD 201853Z AUTO 32013KT 10SM BKN013 OVC026 M04/M07 A3003 RMK AO2 SLP183 T10391067 VOMY 201030Z 06007KT CAVOK 32/07 Q1013 KMNE 201915Z AUTO 19010G21KT 10SM BKN047 BKN050 27/17 A3002 RMK AO2 T02680167 KP53 201856Z AUTO 35003KT M02/M02 A2978 RMK AO1 SLP095 T10221022 KLVN 201915Z AUTO 27012KT 10SM -SN OVC016 M08/M11 A2996 RMK AO2 EPPW 201900Z 05004KT CAVOK M02/M05 Q1021 RMK M018 077 4/4 = KLUX 201915Z AUTO 23007KT 7SM SCT020 SCT026 22/16 A3039 RMK AO2 KMNH 201912Z AUTO 05004KT 10SM CLR M10/M13 A2982 RMK AO2 KMNI 201915Z 10SM SCT060 25/10 A3037 RMK AO2 VOPC 200900Z 04002KT 6000 SCT020 28/20 Q1012 KP58 201851Z AUTO VRB06KT 16/13 A2987 RMK AO1 SLP117 P0001 T01610128 KLVS 201853Z AUTO 25029G37KT 10SM BKN060 03/M11 A2986 RMK AO2 PK WND 25037/1851 SLP079 T00331106 KMMT 201856Z 19011G16KT 10SM BKN043 27/15 A3037 RMK AO2A SLP285 T02700150 $ KP59 201851Z AUTO 00000KT M02/M04 A2978 RMK AO1 SLP099 P0001 T10221039 KMOB 201856Z 15015G24KT 10SM BKN019 OVC070 24/20 A3023 RMK AO2 PK WND 15026/1825 SLP235 T02440200 KP60 201856Z AUTO 00000KT M25/M27 A2979 RMK AO1 SLP280 T12501272 $ KNEL 201900Z AUTO 23016KT 10SM CLR 23/14 A3027 RMK AO2 SLP249 T02330139 PNO $ UWWW 201900Z 22004MPS 3100 -SN SCT020 M07/M09 Q1014 R15/450540 NOSIG RMK QFE749/0999 KMMU 201845Z 24010KT 10SM BKN120 17/12 A3028 EPSC 201900Z 04003KT 010V070 9999 FEW042 M02/M06 Q1023 KMMV 201853Z AUTO 17008KT 8SM -SN OVC019 02/01 A3017 RMK AO2 SLP218 P0000 T00220006 KMOD 201853Z 36005KT 10SM CLR 08/M04 A3025 RMK AO2 SLP243 T00831039 KLWM 201854Z 20007KT 10SM CLR 21/11 A3019 RMK AO2 SLP221 T02060111 KMNM 201856Z AUTO VRB03KT 1 1/4SM BR OVC003 01/M01 A2980 RMK AO2 SLP112 T00061006 FZRANO $ KMNN 201853Z AUTO 22016G24KT 10SM SCT090 21/14 A3010 RMK AO2 PK WND 21026/1812 SLP191 T02110139 KNFE 201856Z AUTO 33003KT 9SM SCT018 BKN070 25/19 A3041 RMK AO2 SLP299 T02500189 KNFG 201855Z 00000KT 7SM CLR 14/M11 A3015 RMK AO2 SLP210 T01391106 KNDZ 201856Z 14016G21KT 10SM SCT019 BKN023 BKN029 25/20 A3025 RMK AO2 SLP229 T02500200 $ LEGA 201800Z 03011KT 9999 FEW060 14/01 Q1014 KP68 201853Z AUTO VRB05KT M08/M17 A3003 RMK AO1 SLP222 T10831172 KLWS 201856Z 10006KT 10SM CLR M04/M12 A3025 RMK AO2 SLP266 T10441122 KP69 201852Z AUTO 00000KT M04/M16 A3028 RMK AO1 SLP287 T10391156 KLWT 201854Z AUTO 26004KT 10SM CLR M17/M24 A2998 RMK AO2 SLP261 T11721239 KNFL 201856Z 00000KT 10SM FEW045 SCT100 BKN180 M02/M11 A3012 RMK AO2 SLP165 T10221106 KLXL 201915Z AUTO 28008KT 10SM SCT025 M08/M17 A2996 RMK AO2 FGSL 201900Z 23007KT 9999 FEW013 28/24 Q1008 NOSIG KLWV 201853Z AUTO 21024G34KT 10SM FEW045 24/15 A3002 RMK AO2 PK WND 21036/1837 SLP163 T02440150 KMNV 201915Z AUTO 20015KT 10SM FEW046 SCT055 25/14 A3028 RMK A01 LEGE 201900Z 25003KT 220V280 9000 FEW088 09/08 Q1009 KNEW 201853Z 15015KT 8SM SCT030 BKN037 BKN045 28/21 A3016 RMK AO2 RAE1758 SLP207 P0000 T02780206 KLXN 201915Z AUTO 32014KT 10SM CLR M09/M15 A3013 RMK AO2 T10931153 EPSN 201900Z 04002KT 9999 BKN040 M01/M07 Q1023 RMK M008 063 7/7= KMOP 201915Z AUTO 20007KT 10SM BKN011 OVC050 15/14 A2987 RMK AO2 T01530142 KLYH 201854Z 19021G27KT 10SM SCT034 22/14 A3035 RMK AO2 PK WND 18027/1854 SLP274 T02220139 KMNZ 201915Z AUTO 19018G22KT 10SM OVC012 21/21 A2990 RMK AO2 LTG DSNT SE T02090209 KMOR 201915Z AUTO VRB05G14KT 10SM CLR 25/11 A3028 RMK A01 EPRZ 201900Z 08012KT CAVOK M03/M07 Q1018 LDOS 201900Z 08003KT 1000 SN BR OVC003 00/M00 Q1011 R99/29//95 KLXT 201916Z AUTO 31013KT 1 3/4SM UP BR SCT007 BKN014 OVC020 M02/M03 A3006 RMK AO2 UPB1858SNE1858 P0004 T10221033 KMOT 201854Z 24011KT 10SM FEW031 FEW100 M13/M18 A3007 RMK AO2 SLP225 T11331183 KMQB 201915Z AUTO 32011KT 10SM -RA OVC005 03/03 A2995 RMK AO2 T00250025 LEHC 201900Z AUTO 28015KT 9999 NCD 08/01 Q1011 LDPL 201900Z 06010KT 030V090 9999 SCT058 04/M02 Q1008 NOSIG KLXV 201916Z AUTO 33006KT 4SM -SN FEW021 BKN032 OVC055 M13/M17 A2969 RMK AO2 P0000 T11281172 EPTM 201900Z 06006KT CAVOK M02/M07 Q1020 RMK M025 070 6/6= KNFW 201852Z 16012KT 10SM -RA FEW049 BKN070 OVC100 21/18 A2986 RMK AO2 PK WND 16027/1754 PRESFR SLP095 P0007 T02060183 $ KMQE 201856Z AUTO 23014G23KT 19/12 A3020 RMK AO1 SLP236 T01890117 KMPO 201853Z AUTO 22015G20KT 10SM CLR 17/11 A3026 RMK AO2 SLP251 T01720106 $ KMOX 201915Z AUTO 32026G29KT 1 1/2SM HZ OVC012 M12/M16 A3004 RMK AO2 KLXY 201915Z AUTO 16019G26KT 10SM OVC025 23/18 A2991 RMK AO2 LTG DSNT SW THRU NW T02290180 KNGP 201856Z 16018G22KT 5SM BR SCT008 BKN018 OVC025 23/22 A2992 RMK AO2 RAB24E47 SLP129 P0000 T02280217 EPSY 201900Z 04003KT CAVOK M02/M04 Q1023 LEGR 201900Z 04004KT 9999 FEW040 13/03 Q1014 KMQI 201915Z AUTO 20014G18KT 10SM BKN022 BKN027 OVC038 19/17 A3044 RMK AO2 T01870172 KMQJ 201915Z AUTO 21020G26KT 10SM SCT050 SCT055 BKN080 24/16 A3003 RMK AO1 LEIB 201900Z 26004KT CAVOK 14/09 Q1011 NOSIG LEGT 201900Z 02010G21KT 320V050 CAVOK 11/00 Q1016 KNHK 201752Z 22012KT 10SM FEW280 20/16 A3037 RMK SLP T02000156 10200 20133 58015 KMRB 201853Z 21011G19KT 10SM CLR 26/12 A3022 RMK AO2 SLP232 T02560122 KMRC 201915Z AUTO 20013G20KT 9SM FEW041 BKN055 24/16 A3016 RMK A01 KNGU 201859Z 25003KT 5SM BR OVC011 19/17 A3043 RMK AO2 SLP303 T01890167 KP92 201853Z AUTO 15012G17KT 26/21 A3011 RMK AO1 SLP194 T02560211 $ KMPV 201851Z AUTO 18007KT 10SM SCT026 OVC037 11/09 A3015 RMK AO2 SLP217 T01110094 KLYV 201915Z AUTO 31017G22KT 7SM BKN016 BKN075 M11/M16 A3009 RMK AO2 KNID 201856Z 00000KT 10SM CLR 07/M18 A3017 RMK AO2 SLP225 T00671178 KMRF 201856Z AUTO 19012G22KT 10SM CLR 19/M03 A2998 RMK AO2 SLP104 T01941028 KMPZ 201915Z AUTO 30013KT 10SM -RA OVC009 00/00 A2996 RMK AO2 KMRH 201858Z AUTO 19009KT 10SM FEW022 BKN032 24/19 A3045 RMK AO2 SLP312 T02390194 LDRI 201900Z 04017KT 010V130 9999 FEW037 BKN047 04/M04 Q1008 KMQS 201915Z AUTO 20007KT 170V250 10SM CLR 20/M39 A3030 RMK AO2 KMRJ 201915Z AUTO 29015G19KT 10SM OVC005 01/01 A2988 RMK AO2 EPWA 201900Z 07010KT CAVOK 00/M08 Q1021 NOSIG KLZU 201856Z 09005KT 7SM BKN010 21/18 A3037 RMK AO2 PRESFR SLP279 T02060178 $ VORY 200730Z 23005KT 6000 NSC 30/19 Q1012 NO SIG KMRN 201915Z AUTO 20005KT 10SM OVC037 20/14 A3042 RMK AO2 T02030144 KMQY 201856Z 19009G21KT 10SM BKN047 25/16 A3020 RMK AO2 SLP135 T02500156 KNIP 201853Z 11013KT 10SM SCT038 BKN045 28/18 A3033 RMK AO2 SLP266 T02780183 KLZZ 201915Z AUTO 19010G14KT 10SM OVC013 21/19 A2989 RMK AO2 LTG DSNT NE AND E T02070190 VOTK 201000Z 10010KT 7000 FEW020 34/20 Q1009 LFBA 201900Z AUTO 34008KT 310V020 5000 RA BR SCT010/// BKN014/// OVC021/// ///TCU 10/09 Q1016 TEMPO NSW BKN010 KOAJ 201856Z AUTO 16012KT 10SM SCT036 26/18 A3042 RMK AO2 SLP306 T02610178 TSNO KOAK 201853Z 19005KT 10SM FEW050 SCT130 08/00 A3025 RMK AO2 SLP245 T00780000 KMRT 201915Z AUTO 23016G25KT 10SM CLR 22/15 A3011 RMK AO2 T02210145 KNJK 201856Z 34009KT 10SM CLR 14/M11 A3019 RMK AO2 SLP237 T01441111 $ LFBC 201900Z AUTO 32011KT 280V340 9999 FEW012 OVC054 11/09 Q1019 TEMPO BKN010 KMSL 201853Z AUTO 19014G21KT 10SM BKN041 OVC049 25/16 A3020 RMK AO2 PK WND 20026/1838 SLP220 T02500156 KMTC 201900Z 21014G23KT 7SM -RA OVC016 16/16 A2997 RMK AO2A RAB00 SLP154 LFBD 201900Z AUTO 30010KT 9999 SCT032 BKN039 BKN047 10/09 Q1018 TEMPO 4000 -RA BKN010 KNJM 201857Z AUTO 19009KT 10SM FEW034 SCT060 23/21 A3046 RMK AO2 SLP317 T02330206 VOTP 201500Z 06006KT 6000 FEW020 26/18 Q1012 LFBE 201900Z AUTO 32006KT 9999 SCT031 OVC066 09/08 Q1017 TEMPO 4000 -RA BKN010 KMSN 201853Z 00000KT 4SM -RA BR SCT008 OVC080 03/02 A2986 RMK AO2 PRESRR SLP118 P0008 T00280022 $ KOBE 201915Z AUTO 12009KT 10SM SCT039 BKN050 BKN055 28/19 A3028 RMK AO2 KMSO 201853Z 00000KT 10SM OVC050 M12/M18 A3015 RMK AO2 SLP273 T11171178 VOTR 201900Z 00000KT 6000 NSC 23/19 Q1011 NOSIG LDSP 201900Z 33006KT 9999 FEW015 SCT070 08/04 Q1005 NOSIG LFBG 201900Z AUTO 32004KT 9999 BKN024 OVC031 11/07 Q1017 TEMPO BKN010 BECMG 34015G25KT KMSP 201853Z 29012KT 10SM OVC016 M07/M09 A2996 RMK AO2 SLP158 T10671094 KMRY 201854Z 28005KT 10SM CLR 11/M03 A3025 RMK AO2 SLP255 T01061033 LFAQ 201900Z AUTO 35004KT 5000 BR NSC 03/02 Q1019 LFBH 201900Z AUTO 34017KT 9999 FEW043 OVC064 10/06 Q1019 NOSIG KMTH 201853Z AUTO 11009G19KT 10SM FEW022 28/21 A3023 RMK AO2 SLP237 T02830206 LFBI 201900Z AUTO 34011KT 9999 FEW011/// BKN016/// BKN022/// ///TCU 09/08 Q1017 TEMPO 4000 -RA BKN005 LEJR 201900Z 36007KT 9999 FEW055 14/05 Q1014 EPWR 201900Z 01002KT CAVOK M01/M05 Q1020 KMSS 201853Z AUTO 07006KT 6SM -RA BR OVC003 03/03 A3009 RMK AO2 SLP195 P0003 T00280028 KMTJ 201853Z AUTO 35007KT 9SM FEW015 BKN032 OVC085 M07/M10 A2999 RMK AO2 SNB39E52 SLP175 P0000 T10671100 LFAT 201900Z AUTO 08005KT 9000 BKN017/// OVC022/// ///TCU 05/04 Q1020 VOTV 201900Z 00000KT 3000 HZ FEW015 27/21 Q1009 NOSIG LELC 201900Z 24009KT 9999 FEW050 16/08 Q1011 NOSIG LFBL 201900Z AUTO 36006KT 9999 BKN008 BKN018 OVC028 06/05 Q1015 TEMPO 2000 -RADZ BKN004 KNLC 201856Z 35011KT 10SM CLR 09/M04 A3025 RMK AO2 SLP246 RH/37 T00941044 LFBM 201900Z AUTO 28007KT 9999 SCT047 OVC058 09/09 Q1018 TEMPO 4000 -RADZ BKN008 KMSV 201856Z AUTO 00000KT 10SM CLR 14/10 A3024 RMK AO2 SLP248 T01440100 KMTN 201845Z 12007KT 10SM FEW080 17/15 A3031 LFBO 201900Z AUTO 30014KT 9999 BKN008/// OVC013/// ///TCU 09/08 Q1015 TEMPO 3000 -RA BKN007 KOCF 201851Z 14011KT 10SM BKN041 29/18 A3031 RMK AO2 SLP264 T02890183 KMTO 201853Z AUTO 19013G22KT 10SM -RA FEW075 OVC090 19/17 A2995 RMK AO2 SLP140 P0000 T01890167 LFBP 201900Z AUTO 29010KT 9999 BKN010/// OVC014/// ///TCU 09/08 Q1018 TEMPO 4000 RA BKN003 BKN012 KMSY 201853Z 16013G26KT 10SM SCT026 BKN250 28/22 A3015 RMK AO2 PK WND 15026/1849 SLP212 T02780217 KMTP 201854Z AUTO 19005KT 11/08 A3030 RMK AO1 SLP260 T01060083 KOCH 201856Z AUTO 17012KT 10SM BKN035 BKN046 OVC060 24/18 A3000 RMK AO2 PK WND 18026/1757 SLP160 T02440183 KMUI 201856Z 00000KT 6SM BR FEW008 BKN250 13/11 A3027 RMK AO2A SLP255 $ LFCK 201900Z AUTO 28017KT 9999 SCT013/// BKN020/// BKN044/// ///TCU 09/08 Q1014 TEMPO 3000 -RADZ BKN004 LFBT 201900Z AUTO 26013KT 7000 -RA BKN009/// OVC014/// ///TCU 08/07 Q1018 TEMPO 3000 RA OVC005 KNKT 201858Z 19012G19KT 7SM BKN023 BKN031 BKN055 24/19 A3045 RMK SLP308 T02440194 LELL 201900Z AUTO VRB01KT 9000 NSC 11/09 Q1009 LFBU 201900Z AUTO 35005KT 8000 -RA BKN010/// BKN015/// OVC037/// ///TCU 09/08 Q1017 TEMPO 4000 -RA BKN008 LEMD 201900Z 35012KT 320V020 CAVOK 10/01 Q1016 NOSIG KMTV 201915Z AUTO 24005KT 10SM BKN018 OVC024 19/15 A3041 RMK AO2 T01900146 LELN 201900Z 31003KT 9999 FEW040 05/01 Q1020 KMTW 201856Z AUTO 25004KT 7SM -RA BKN007 OVC038 04/04 A2983 RMK AO2 SLP122 P0005 T00440039 KMVE 201915Z AUTO 34018G23KT 7SM BKN021 M10/M16 A3007 RMK AO2 LELO 201900Z 29011KT 260V330 9999 SCT030 09/03 Q1019 KMUO 201856Z AUTO 27005KT 10SM CLR M06/M16 A3018 RMK AO2 SLP263 T10561159 $ KNKX 201855Z VRB06KT 10SM CLR 15/M08 A3014 RMK AO2 SLP203 T01501078 $ LEMG 201900Z VRB01KT CAVOK 14/10 Q1013 NOSIG LFBY 201900Z AUTO 28005KT 6000 // BKN046 10/09 Q1019 LEMH 201900Z 35008KT 320V020 9999 FEW030 11/08 Q1009 LFBZ 201900Z AUTO 33008KT 300V010 9999 BKN014 BKN054 BKN064 10/09 Q1020 BECMG BKN015 BKN025 EPZG 201400Z 06013KT CAVOK 03/M06 Q1020 KMVH 201925Z AUTO 28015G21KT 3SM HZ CLR M14/M24 A2995 RMK AO2 KOCQ 201915Z AUTO 00000KT 3SM OVC004 00/00 A2980 RMK AO1 T00001001 LFCR 201900Z AUTO 34010KT 9999 FEW048 SCT082 BKN230 05/01 Q1012 TEMPO 3000 -RADZ BKN005 KMWA 201850Z 20023G29KT 10SM OVC033 22/16 A3002 KMUT 201915Z AUTO 32013KT 9SM -RA BKN009 OVC013 02/00 A2994 RMK AO2 KOEB 201915Z AUTO 20010G16KT 5SM RA OVC012 16/16 A2995 RMK AO2 T01600160 KMVL 201914Z AUTO 00000KT 1SM BR SCT004 OVC036 04/04 A3011 RMK AO2 T00440044 KMWC 201845Z 19003KT 2SM RA SCT033 BKN060 OVC070 08/06 A2982 KNMM 201856Z 19008G18KT 10SM SCT041 SCT048 BKN065 27/17 A3019 RMK AO2 SLP231 T02670172 CHINO SOUTH VISNO SOUTH $ KMVN 201856Z AUTO 20019G25KT 10SM BKN033 OVC043 23/17 A2999 RMK AO2 PK WND 20035/1759 RAB06E19 SLP153 P0000 T02280172 KOCW 201915Z AUTO 20010KT 10SM BKN044 BKN055 27/16 A3040 RMK AO2 T02700160 VOVZ 201900Z 29004KT 3700 BR NSC 22/20 Q1011 NOSIG KODO 201853Z AUTO 23014G22KT 10SM CLR 23/M01 A2990 RMK AO2 SLP086 T02281006 LEMO 201900Z 00000KT CAVOK 15/05 Q1014 NOSIG KMWH 201852Z VRB03KT 10SM BKN055 BKN120 M04/M09 A3023 RMK AO2 SLP255 T10391094 KMWK 201915Z AUTO 00000KT 5SM BR OVC005 15/13 A3043 RMK AO2 T01500129 KMWL 201911Z AUTO 19008KT 10SM OVC015 21/18 A2983 RMK AO2 LTG DSNT N AND NW T02060183 KMWM 201915Z AUTO 00000KT 4SM HZ OVC014 M11/M19 A3003 RMK AO2 KMWN 201851Z 25041G46KT 1/16SM FG VV002 05/05 RMK SHRAE30 KODX 201853Z AUTO 31020G27KT 10SM CLR M12/M17 A3013 RMK AO2 PK WND 33028/1825 SLP248 T11171167 KMXF 201859Z AUTO 14014G18KT 10SM BKN034 BKN046 OVC055 26/18 A3024 RMK AO2 WSHFT 56 SLP242 $ KMWO 201915Z AUTO 22018G24KT 10SM CLR 25/13 A3010 RMK AO2 PWINO T02540132 KOEO 201915Z AUTO 31005KT 10SM -SN OVC011 M07/M10 A2997 RMK AO2 T10751101 KOFF 201856Z AUTO 32013G20KT 10SM -SN OVC020 M07/M12 A3013 RMK AO2 SNE1757SNB01E39SNB39E51SNB53 SLP224 P0000 T10701116 $ KNOG 201856Z AUTO 15015KT 10SM SCT027 BKN038 25/22 A2989 RMK AO2 RAE17 SLP099 T02500222 PNO $ KMVY 201853Z 23008KT 1SM R24/4500VP6000FT BR OVC002 11/10 A3029 RMK AO2 SFC VIS 1 1/2 VIS 1V2 SLPNO T01110100 $ LEPA 201900Z 29007KT 9999 FEW020 SCT045 14/09 Q1010 NOSIG LFGA 201900Z AUTO 33003KT 9999 OVC047 01/M04 Q1017 PTKK 201850Z 13007KT 15SM FEW012TCU BKN120 OVC280 27/25 A2967 RMK TCU E-SE AND W SLP049 T02660251 KNPA 201856Z 15011KT 7SM SCT006 BKN010 BKN040 24/20 A3024 RMK AO2 SLP241 T02390200 $ KOGA 201915Z AUTO 32015KT 10SM CLR M12/M18 A3011 RMK AO2 T11201180 KOGB 201853Z AUTO 14006KT 10SM FEW038 SCT048 SCT055 26/16 A3037 RMK AO2 SLP282 T02560156 KMWT 201853Z AUTO VRB03G15KT 10SM SCT033 24/18 A2995 RMK AO2 SLP132 T02390178 KOFK 201856Z AUTO 33019G24KT 10SM BKN020 M11/M14 A3013 RMK AO2 PK WND 33028/1832 SLP234 T11111144 KOGD 201853Z 20004KT 10SM FEW027 OVC037 M07/M13 A3007 RMK AO2 SLP217 T10671133 KMYF 201853Z 21004KT 10SM CLR 13/M09 A3015 RMK AO2 SLP209 T01281094 KMXO 201915Z AUTO 30010G15KT 10SM OVC013 M00/M02 A2993 RMK AO2 KOFP 201854Z AUTO 21015G22KT 10SM SCT045 25/15 A3036 RMK AO2 SLP278 T02500150 PTKR 201852Z 01005KT 15SM FEW018 FEW120 SCT320 26/23 A2980 RMK SLP090 T02600226 KMYJ 201855Z AUTO 31009KT 7SM SCT003 SCT010 OVC040 03/03 A2994 RMK AO2 P0002 LFGJ 201900Z AUTO 02011KT CAVOK 01/M03 Q1015 NOSIG KNQA 201850Z 17010G22KT 10SM BKN037 OVC050 24/16 A3009 LDZA 201900Z 01007KT 340V060 9999 -SN BKN013 OVC035 01/M01 Q1012 R05/////// NOSIG KMYL 201851Z AUTO 18005KT 10SM CLR M18/M20 A2998 RMK AO2 SLP252 T11781200 LDZD 201900Z 08006KT 040V130 9999 FEW040 03/M02 Q1006 NOSIG KNOW 201915Z AUTO 08007KT 10SM OVC050 02/M03 A3020 RMK AO2 T00211032 LEPP 201900Z 32009KT 290V350 9999 FEW018 BKN044 07/03 Q1018 ESCF 201850Z AUTO 33002KT 9999 -SN SCT022/// OVC027/// M05/M06 Q1027 KMYP 201912Z AUTO 25027G35KT CLR M18/M21 A2973 RMK AO2 PWINO KMZG 201915Z AUTO 23010G17KT 3SM BR CLR 24/22 A2993 RMK A01 KMZH 201915Z AUTO 00000KT 5SM -SN OVC022 M10/M14 A2990 RMK AO2 KNOZ 201859Z AUTO 35011KT 10SM CLR 13/M12 A3014 RMK AO2 SLP160 T01331117 KMYR 201856Z 16008KT 10SM SCT030 23/19 A3044 RMK AO2 SLP306 T02330189 KNQI 201856Z 14014KT 10SM FEW031 SCT037 BKN046 OVC140 26/22 A2988 RMK AO2 SLP116 T2 SET T02610217 $ KOGS 201915Z AUTO 00000KT 1 1/4SM RA OVC003 04/04 A3005 RMK AO2 T00410038 GABS 201900Z 01005KT CAVOK 32/02 Q1008 NOSIG KNRB 201852Z 12012KT 10SM SCT030 26/20 A3035 RMK AO2 SLP275 T02560200 $ KMYV 201853Z AUTO 08004KT 10SM CLR 06/M04 A3026 RMK AO2 SLP250 T00611044 ESDF 201850Z 04003KT 9999 -SN FEW010 BKN035 M01/M02 Q1027 FJDG 201855Z 30011KT 9999 FEW015 SCT050 BKN090 27/25 A2981 RMK SLP091 T02700250 KMYZ 201915Z AUTO 33019G23KT 10SM BKN022 M05/M09 A3014 RMK AO2 LERI 201800Z 32008KT 9999 SCT060 18/04 Q1011 NOSIG WIBB 201900Z AUTO 20002KT 9000NDV ////// 25/24 Q1006 LESA 201830Z 10007KT 9999 FEW048 08/00 Q1019 KOJA 201915Z AUTO 36016G20KT 10SM M03/M04 A3008 RMK AO2 KOJC 201914Z 34015KT 9SM OVC011 M04/M05 A3006 RMK AO2 UPB10E14FZRAE08SNB08E10 P0001 I1000 T10391050 LGAD 201850Z 12007KT 9999 FEW010 SCT025 10/07 Q1007 KPAE 201853Z 00000KT 10SM BKN055 OVC070 01/M07 A3017 RMK AO2 SLP224 T00111072 KNSE 201856Z 15013G20KT 10SM SCT020 BKN026 BKN060 25/20 A3025 RMK AO2 SLP229 T02500200 $ KNQX 201853Z 11018G22KT 10SM SCT020 28/23 A3023 RMK AO2 SLP235 T02830233 $ KPAH 201916Z 20014G31KT 10SM BKN035 24/14 A3006 RMK AO2 PK WND 23031/1907 T02390144 $ KMZZ 201915Z AUTO 23023G29KT 5SM HZ SCT085 SCT090 SCT110 21/15 A3001 RMK AO2 T02100149 FIMP 201900Z 33004KT 9999 -TS FEW014CB FEW015 SCT050 BKN090 26/24 Q1012 KNSI 201857Z 33013KT 10SM FEW055 13/M03 A3017 RMK AO2 SLP211 T01281028 $ FIMR 201800Z 06009KT 9999 VCSH SCT017 BKN250 27/24 Q1013 LERS 201900Z 27018KT CAVOK 15/04 Q1009 KNRS 201856Z 30008KT 10SM FEW050 14/M04 A3017 RMK AO2 SLP216 T01391044 $ LERT 201900Z 36008KT 330V030 CAVOK 14/09 Q1013 NOSIG LFKB 201900Z AUTO 33004KT 9999 FEW045 BKN052 BKN068 07/01 Q1005 NOSIG KOKB 201852Z AUTO 06005KT 10SM CLR 14/M10 A3015 RMK AO2 SLP209 T01391100 LFKC 201900Z AUTO VRB04KT 9999 FEW046 07/00 Q1004 NOSIG LFJL 201900Z AUTO 14003KT 9999 BKN034 01/M04 Q1017 NOSIG LGAL 201850Z 03013KT 9999 FEW015 BKN020 06/04 Q1013 KOKC 201912Z 35021KT 4SM -FZRA BR OVC006 M03/M04 A3006 RMK AO2 FZRAB08 P0001 T10331039 $ RCFN 201230Z 36002KT 9999 FEW015 SCT020 BKN030 22/20 Q1015 NOSIG RMK A2999 KPAM 201856Z 15021G28KT 10SM SCT020 26/20 A3027 RMK AO2A PK WND 13030/18 SLP253 T02600203 $ KNTD 201858Z 05009KT 10SM CLR 15/M11 A3018 RMK AO2 SLP220 T01501111 $ KPAN 201915Z AUTO 27007G12KT 210V310 10SM CLR 03/M13 A3001 RMK AO2 LESO 201900Z 34006KT 290V050 9999 SCT015 SCT026 BKN068 11/09 Q1020 LFKF 201900Z AUTO 06007KT 030V090 9999 FEW033 SCT050 BKN074 06/04 Q1004 NOSIG KPBF 201853Z AUTO 17019G23KT 10SM SCT035 BKN042 OVC075 25/18 A3003 RMK AO2 PK WND 19026/1804 SLP166 T02500178 KPAO 201847Z 03005KT 10SM BKN200 --/-- A3025 KPBG 201853Z AUTO 00000KT 9SM OVC029 07/06 A3008 RMK AO2 RAE12 SLP189 P0000 T00720061 KPBH 201915Z AUTO 25005KT 10SM OVC008 M05/M05 A2979 RMK AO2 T10491049 LFJR 201900Z AUTO 35014KT 9999 BKN020 BKN027 BKN041 08/04 Q1019 KPBI 201853Z 11015KT 10SM SCT019 BKN032 BKN065 28/22 A3031 RMK AO2 SLP262 T02780217 $ LFKJ 201900Z AUTO 01004KT 9999 BKN035 BKN050 08/04 Q1004 NOSIG WIDD 201530Z 03003KT 9000 FEW014 26/24 Q1011 LEST 201900Z 05008KT 020V100 9999 BKN035 10/05 Q1023 NOSIG LFLB 201900Z AUTO 36012KT 9999 FEW049 BKN060 BKN074 06/M02 Q1011 NOSIG KOKK 201856Z AUTO 21019G24KT 10SM FEW041 BKN100 21/15 A3000 RMK AO2 RAE26 SLP156 P0000 T02060150 KNUC 201856Z 31010KT 10SM FEW018 13/M02 A3018 RMK SLP220 T01331017 LETL 201900Z AUTO 33020KT 9999 FEW032/// 05/M01 Q1014 LFLC 201900Z AUTO 34006KT 310V040 9999 SCT033 BKN078 OVC096 05/01 Q1014 NOSIG LGBL 201850Z 16008KT 9999 FEW010 BKN030 OVC080 09/07 Q1010 PTPN 200450Z 14004KT 13SM BKN018TCU BKN130 OVC300 27/26 A2971 RMK TCU ALQDS LAST LGAV 201850Z 02006KT 9999 FEW018 BKN030 BKN070 10/07 Q1010 NOSIG KOKM 201915Z AUTO 33008KT 7SM -RA BKN007 OVC013 02/02 A3001 RMK AO2 P0001 T00210021 KPCD 201915Z AUTO 20022G33KT 10SM BKN036 OVC045 23/16 A2996 RMK AO2 T02290158 KOLE 201915Z AUTO 23008KT 210V270 10SM OVC035 17/12 A3015 RMK AO2 LETO 201900Z 35017KT CAVOK 09/02 Q1016 NOSIG KOLF 201853Z AUTO 26008KT 10SM CLR M18/M22 A3015 RMK AO2 SLP265 T11781217 KOLG 201915Z AUTO 29005KT 4SM OVC011 M10/M12 A2989 RMK AO1 EQYG 201857Z AUTO 00000KT 8SM CLR 11/ A2982 RMK AO2 TSE27 SLP095 T0106 $ ESGG 201850Z 10003KT 9999 FEW035 OVC045 M02/M03 Q1026 R03/19//95 KNUI 201853Z AUTO 16006KT 8SM CLR 21/10 A3034 RMK AO2 SLP274 T02060100 LFKS 201900Z AUTO 33004KT 300V360 9999 OVC056 08/M00 Q1005 KOMA 201852Z 33013KT 9SM -SN OVC021 M07/M11 A3015 RMK AO2 SLP223 P0000 T10721106 ESGJ 201850Z 04002KT 8000 -SN SCT007 BKN012 M04/M04 Q1026 R01/790035 WIEE 201900Z AUTO 01004KT 9999 BKN049 OVC055 25/24 Q1007 LETU 201900Z AUTO 31016G26KT 9999 -RA OVC038 10/03 Q1018 LEVC 201900Z 32012KT 9999 FEW030 16/02 Q1011 NOSIG LFLL 201900Z 34011KT CAVOK 03/M03 Q1013 NOSIG LFMC 201900Z AUTO VRB01KT 9999 ////// 07/02 Q1006 KNTU 201856Z 26007KT 10SM SCT018 BKN030 24/18 A3041 RMK AO2 SLP298 T02390178 KPDC 201915Z AUTO 29010KT 10SM SCT017 BKN031 00/M02 A2992 RMK AO2 T10031025 LEVD 201900Z 06013KT 9999 SCT046 06/01 Q1019 LFMD 201900Z AUTO VRB02KT 9999 BKN043 OVC056 08/04 Q1007 NOSIG KOLM 201854Z 09005KT 1/2SM SN FZFG VV003 M01/M02 A3018 RMK AO2 SLP223 P0004 T10111022 KOKV 201915Z AUTO 22008KT 10SM CLR 25/12 A3026 RMK AO2 KPCM 201915Z AUTO 10008G14KT 10SM BKN050 BKN065 31/17 A3029 RMK AO2 LFLN 201900Z AUTO 35005KT CAVOK 04/M01 Q1014 NOSIG KPBX 201915Z AUTO 20006KT 10SM CLR 26/10 A3025 RMK AO2 T02580102 LFLP 201900Z AUTO 34012KT CAVOK 03/M03 Q1010 NOSIG LFMH 201900Z AUTO 35005KT 310V010 9999 FEW031 03/M00 Q1013 TEMPO 1500 -SN BR OVC003 KOKZ 201915Z AUTO 15005KT 10SM SCT032 SCT040 BKN060 25/15 A3034 RMK AO2 T02500153 KNUQ 201856Z 02005KT 10SM CLR 09/M04 A3025 RMK AO2 SLP247 T00941044 KOMH 201855Z AUTO 18012G16KT 10SM CLR 23/14 A3031 RMK AO2 PTSA 200055Z 11003KT 10SM BKN014TCU BKN130 OVC300 28/25 A2976 RMK TCU NE-E LFMI 201900Z AUTO 33031KT CAVOK 09/M05 Q1008 BECMG 34027G40KT LFLS 201900Z AUTO 36015KT 340V060 CAVOK 02/M03 Q1012 TEMPO 35015G25KT ESGR 201850Z AUTO 08002KT 9999 OVC011/// M03/M07 Q1027 KPEA 201915Z AUTO 32009G15KT 10SM BKN017 OVC027 M03/M06 A3002 RMK AO2 T10321057 KOLS 201854Z AUTO 00000KT 10SM FEW037 BKN047 OVC055 08/02 A3002 RMK AO2 SLP141 T00830022 KONA 201915Z AUTO 29008G15KT 10SM OVC016 M03/M06 A2993 RMK AO2 LFMK 201900Z AUTO 29017KT 9999 -DZ BKN010/// BKN014/// OVC024/// ///TCU 10/08 Q1013 KOMK 201853Z AUTO 35006KT 10SM BKN048 M08/M15 A3027 RMK AO2 SLP276 T10831150 KPDK 201853Z VRB05KT 10SM BKN026 OVC032 22/16 A3034 RMK AO2 SLP268 T02220161 KNY0 201916Z AUTO 14003KT 10SM OVC037 10/08 A3016 RMK AO2 LFLU 201800Z AUTO 03011KT 9999 BKN078 OVC090 05/M04 Q1011 LFML 201900Z AUTO 33020KT CAVOK 09/M07 Q1007 BECMG 34020G30KT ESIB 201850Z AUTO 06003KT 9999 -SN FEW041/// OVC070/// M03/M04 Q1027 ESGT 201650Z 02004KT 2500 SN VV007 M02/M03 Q1027 KOLU 201917Z AUTO 30019KT 10SM BKN022 M09/M13 A3019 RMK AO2 FZRANO KOLV 201850Z 15011KT 10SM SCT034 BKN039 OVC050 23/18 A3010 KOMN 201850Z 12008G18KT 7SM SCT022 SCT037 25/20 A3034 LFLW 201900Z AUTO 35011KT 320V020 9999 FEW019 BKN028 OVC078 04/01 Q1013 PTRO 201850Z 00000KT 15SM FEW016 SCT300 25/22 A2979 LFMN 201900Z VRB01KT 9999 FEW038 BKN066 10/01 Q1006 NOSIG KNUW 201856Z 09009KT 10SM FEW037 BKN060 BKN090 BKN250 03/M08 A3025 RMK AO2 SLP242 T00331078 $ KPCW 201915Z AUTO 22011G20KT 5SM BR FEW003 SCT029 BKN055 17/15 A3005 RMK AO2 LFLX 201900Z AUTO 04005KT 9999 FEW032 BKN046 OVC096 05/04 Q1016 TEMPO BKN012 LFMO 201900Z AUTO 35020KT CAVOK 07/M07 Q1010 TEMPO 35025G35KT LFLY 201900Z AUTO 01008KT 330V050 CAVOK 04/M03 Q1013 NOSIG LFMP 201900Z AUTO 32017G28KT 270V350 9999 BKN035 BKN041 13/06 Q1011 TEMPO 32030G40KT KOLY 201915Z AUTO 20013G26KT 10SM SCT033 BKN039 BKN047 23/16 A3000 RMK AO2 T02340163 KOLZ 201915Z AUTO 30018KT 10SM OVC012 M03/M03 A2995 RMK AO2 KPCZ 201915Z AUTO 26007KT 10SM OVC007 02/01 A2984 RMK AO2 T00200010 LEVS 201900Z 36011KT 330V060 CAVOK 11/00 Q1016 LFOA 201900Z AUTO 34005KT 9999 ///CB 05/02 Q1016 BECMG SCT018 BKN025 KOOA 201915Z AUTO 32008KT 10SM OVC011 M02/M04 A2999 RMK AO2 T10251037 LEVT 201900Z 34004KT 280V080 9999 -RA SCT022 BKN032 07/04 Q1020 LFOB 201900Z AUTO 36004KT 9999 SCT048 BKN060 OVC078 03/02 Q1019 TEMPO 3000 RA BKN009 BKN030TCU BECMG 02014KT LFMT 201900Z AUTO 01009KT CAVOK 10/M01 Q1010 NOSIG KPDT 201853Z 19006KT 10SM BKN050 M02/M11 A3018 RMK AO2 SLP233 T10171106 LFMU 201900Z AUTO 36012KT CAVOK 11/03 Q1011 NOSIG LFOC 201900Z AUTO 35008KT 7000 -RA OVC005 06/05 Q1017 LGEL 201850Z 00000KT 9999 -RA SCT025 BKN070 10/08 Q1010 KONL 201915Z AUTO 31017G25KT 5SM HZ CLR M13/M17 A3014 RMK AO2 T11311167 LFMV 201900Z AUTO 36022KT CAVOK 07/M06 Q1009 BECMG 34025G35KT KONM 201915Z AUTO 01006KT 10SM BKN026 BKN046 BKN070 05/M04 A2998 RMK AO2 T00451042 LFOE 201900Z AUTO 36012G23KT 9999 BKN015/// BKN021/// OVC026/// ///TCU 06/04 Q1018 ETAD 201856Z AUTO 36005KT 9999 CLR 00/M04 A3003 RMK AO2 SLP181 T10041045 TSNO $ LEVX 201900Z 03005KT 330V100 CAVOK 12/05 Q1020 NOSIG KONO 201853Z AUTO 11004KT 10SM BKN060 M04/M16 A3024 RMK AO2 SLP272 T10441161 KPDX 201910Z 11012KT 2SM -SN SCT015 OVC023 01/M01 A3020 RMK AO2 P0000 T00061011 KPEO 201853Z AUTO 18011KT 10SM OVC049 19/11 A3010 RMK AO2 SLP193 T01890111 KNXF 201856Z AUTO 22007KT 9SM CLR 14/M07 A3016 RMK AO2 RAE17 SLP301 T01391067 PNO $ RCKH 201900Z 36005KT 340V040 4000 HZ FEW015 SCT030 BKN050 22/18 Q1012 NOSIG RMK A2991 LFMY 201900Z AUTO 34020G32KT CAVOK 08/M08 Q1008 KONP 201915Z AUTO 17006KT 10SM OVC020 04/01 A3018 RMK AO2 LFOH 201900Z AUTO 01015KT 9999 FEW015 BKN034 BKN043 06/04 Q1020 TEMPO 36015G25KT 3000 SHRA BKN009 BKN020TCU KPEQ 201915Z AUTO 25010G18KT 10SM CLR 23/00 A2988 RMK AO2 T02341002 LEXJ 201900Z 36006KT 320V040 9999 FEW018 BKN046 12/09 Q1023 LFOJ 201900Z AUTO 04009KT 6000 -RA OVC017 05/04 Q1017 NOSIG KPGA 201853Z AUTO VRB04KT 10SM CLR 02/M12 A3002 RMK AO2 SLP173 T00171117 TSNO LFPB 201900Z AUTO 36002KT 9999 SCT030 BKN046 BKN060 05/01 Q1019 TEMPO BKN012 LFOK 201900Z AUTO 03006KT 6000 NSC 02/M01 Q1017 NOSIG KONT 201853Z 14007KT 100V160 10SM CLR 12/M14 A3014 RMK AO2 SLP208 T01221144 KNYC 201851Z AUTO VRB05KT 10SM CLR 17/12 A3030 RMK AO2 SLP252 T01720117 $ KPGD 201853Z 14016G21KT 10SM SCT060 31/17 A3027 RMK AO2 SLP249 T03110172 WIHH 201200Z 25007KT 5000 HZ FEW017CB FEW016 28/22 Q1008 RMK CB AND RA TO NE PTTP 202354Z 05004KT 15SM SCT018 BKN300 31/24 A2980 RMK SLP091 8/101 T03080235 10308 20261 50003 KOPF 201904Z 11015G24KT 10SM SCT027 BKN065 28/21 A3028 RMK AO2 T02830211 KPEX 201915Z AUTO 30012G18KT 5SM -SN SCT018 M08/M13 A2999 RMK AO2 T10851130 KONX 201920Z AUTO 19006KT 10SM SCT023 SCT029 SCT034 22/16 A3042 RMK AO2 T02220161 VQPR 200600Z VRB03KT 9999 FEW030 17/M04 Q1020 LFOP 201900Z AUTO 01013KT 9999 OVC014 05/03 Q1019 TEMPO 35015G25KT 3000 RA BKN007 BKN030TCU LFPG 201900Z 03009KT 010V100 9999 -RA FEW024 BKN040 04/01 Q1018 NOSIG KNYG 201856Z 20011G22KT 10SM FEW020 SCT250 18/13 A3031 RMK SLP265 T01830128 KNXP 201856Z AUTO 02009G14KT 10SM CLR 08/M19 A3022 RMK AO2 SLP223 T00831189 KONZ 201915Z AUTO 20010KT M1/4SM RA BKN022 BKN036 OVC070 09/09 A3001 RMK AO2 P0004 T00900088 KPEZ 201915Z AUTO 16014G25KT 10SM BKN018 BKN025 OVC039 24/20 A2988 RMK AO2 T02400198 LFQA 201900Z AUTO 01002KT 6000 NSC 02/01 Q1018 ETAR 201856Z 05004KT 9999 BKN038 BKN046 M01/M03 A3003 RMK AO2A SLP187 T10111028 $ LFQB 201900Z AUTO VRB02KT 7000 NSC 04/M01 Q1017 LFOT 201900Z AUTO 33012KT 9000 -RA OVC012/// ///TCU 08/06 Q1017 TEMPO BKN008 KNYL 201857Z 34010KT 7SM CLR 14/M12 A3015 RMK AO2 SLP208 T01391117 $ KOPL 201915Z AUTO 17020KT 10SM BKN037 BKN043 OVC050 27/19 A3008 RMK AO2 T02650191 LFPM 201900Z AUTO 35007KT 9999 FEW032/// BKN058/// OVC070/// ///TCU 05/01 Q1018 LFOV 201900Z AUTO 35009KT 9999 SCT033 BKN056 07/03 Q1020 KPHD 201853Z AUTO 21012G22KT 180V240 10SM SCT055 24/13 A3015 RMK AO2 SLP203 T02440128 $ LFPN 201900Z AUTO 01007KT 340V050 9999 -RA BKN019/// BKN056/// OVC072/// ///TCU 04/02 Q1018 TEMPO 4000 -RA BKN010 ESKM 201850Z AUTO 15002KT 4300 -SN SCT002/// BKN029/// OVC038/// M10/M11 Q1026 KOPN 201915Z AUTO 14005KT 10SM SCT030 BKN048 OVC055 23/14 A3035 RMK AO2 LFPO 201900Z 05011KT 9999 -RA SCT021 OVC033 04/02 Q1018 TEMPO 4000 -RA BKN012 ESKN 201850Z 01003KT 9999 FEW018 BKN025 M05/M08 Q1027 R26/19//53 KPHF 201914Z 22009KT 7SM OVC005 18/16 A3041 RMK AO2 CIG 004V009 T01780161 LFQG 201800Z AUTO 32006KT CAVOK 05/02 Q1016 LEZG 201900Z 30026G40KT 9999 FEW040 10/04 Q1014 WIII 201900Z 24007KT 4000 HZ SCT021 27/24 Q1007 NOSIG LGHI 201850Z 00000KT 2000 BR FEW010 BKN025 12/11 Q1009 KPIA 201918Z 00000KT 1 3/4SM R04/6000VP6000FT +RA BR FEW006 BKN047 OVC060 07/06 A2990 RMK AO2 P0008 T00720061 $ LFPT 201900Z AUTO 05007KT 9999 -SNRA FEW012 OVC032 04/02 Q1019 LFRB 201900Z AUTO 36008KT CAVOK 07/03 Q1025 NOSIG KORB 201913Z AUTO 31005KT 10SM -SN OVC050 M13/M18 A2986 RMK AO2 KPIB 201912Z AUTO 15016KT 10SM FEW001 SCT024 BKN080 26/20 A3018 RMK AO2 GAMB 201800Z 02016KT 8000 NSC 35/03 Q1006 LEZL 201900Z VRB01KT CAVOK 16/06 Q1014 NOSIG LFRC 201630Z AUTO 01014KT 9999 FEW029 08/03 Q1021 BECMG 36015G28KT KORC 201915Z AUTO 30018KT 5SM BR SCT015 BKN020 M11/M13 A3009 RMK AO2 KPHL 201854Z 24007KT 10SM SCT250 19/13 A3030 RMK AO2 SLP259 T01890133 LFRD 201900Z AUTO 01012KT 9999 FEW037 08/04 Q1022 BECMG 01020G30KT LFPV 201900Z AUTO 03009KT 010V070 9999 -RA BKN027/// BKN038/// BKN046/// ///TCU 04/00 Q1018 TEMPO 3000 -RADZ BKN006 BKN012 KORD 201911Z 20018G25KT 2SM R10L/2200VP6000FT TSRA OVC018CB 18/16 A2980 RMK AO2 TSB06 OCNL LTGICCG OHD TS OHD MOV NE P0001 T01830156 KPGV 201925Z AUTO 20010KT 10SM SCT038 27/17 A3040 RMK AO2 P0003 KORE 201852Z AUTO 00000KT 10SM FEW100 14/11 A3021 RMK AO2 SLP232 T01390111 KPIE 201853Z 10009KT 10SM SCT035 SCT050 30/19 A3026 RMK AO2 SLP247 T03000194 $ KPHN 201915Z AUTO 19006KT 5SM RA BKN005 OVC010 13/12 A2999 RMK AO2 KORF 201851Z 25006KT 10SM BKN012 22/19 A3041 RMK AO2 SLP297 T02170189 RCMQ 201900Z 01009KT 1200 R36/P2000 BR SCT006 BKN016 BKN040 16/15 Q1014 RMK A2996 LFRG 201900Z AUTO 04007KT 9999 -RA BKN018/// OVC026/// ///TCU 06/04 Q1020 TEMPO 4000 RA BKN010 KPHP 201855Z AUTO 30011KT 10SM CLR M14/M19 A3019 RMK AO2 SLP273 T11441189 KORG 201915Z AUTO 16015G21KT 10SM BKN015 OVC022 25/22 A3006 RMK AO2 T02480220 LFRH 201900Z AUTO 36008KT 330V030 9999 BKN035 07/03 Q1023 NOSIG LFQQ 201900Z AUTO 36004KT 8000 NSC 04/00 Q1020 NOSIG KPIH 201853Z 22016KT 10SM SCT020 BKN026 BKN037 M10/M15 A3008 RMK AO2 SNB15E49 SLP242 P0000 T11001150 KORH 201854Z 23012KT 10SM CLR 18/11 A3021 RMK AO2 SLP232 T01780111 LFRI 201900Z AUTO 35016G29KT 9999 BKN020 OVC025 08/05 Q1019 TEMPO 4000 -DZRA BKN007 OVC015 BECMG 34015KT LFRJ 201900Z AUTO 01012KT 9999 FEW024 ///// Q1024 NOSIG KOSA 201915Z AUTO 17016G23KT 10SM SCT038 BKN046 24/17 A2997 RMK AO1 T02360171 LFRK 201900Z AUTO 36010KT 9999 SCT043 BKN056 OVC070 08/04 Q1021 TEMPO 4000 RA BKN014 BECMG 34015G25KT LFSB 201900Z 02005KT 340V050 9999 FEW016 OVC028 01/M05 Q1016 NOSIG KOQT 201853Z AUTO 19007G18KT 140V230 10SM BKN045 OVC055 24/14 A3028 RMK AO2 SLP247 T02440144 KPHT 201915Z AUTO 21013G30KT 10SM SCT038 BKN046 24/15 A3011 RMK A01 KOQU 201850Z 25014KT 10SM FEW009 BKN080 15/11 A3025 LFRL 201900Z AUTO 01009KT CAVOK 07/04 Q1025 ESMK 201850Z 05004KT 9999 FEW017 SCT027 OVC032 M00/M02 Q1026 KORL 201853Z 11009KT 10SM FEW044 FEW055 29/18 A3030 RMK AO2 SLP263 T02890183 KPIL 201853Z AUTO 17021G33KT 8SM BKN022 BKN027 BKN032 28/21 A2990 RMK AO2 PK WND 18033/1844 SLP124 T02780206 KOSC 201915Z AUTO 21013KT 10SM OVC005 13/12 A2985 RMK AO2 T01250122 ETEB 201856Z 04007KT 3200 -SN BR OVC030 M03/M04 A3000 RMK AO2A SNE16UPB16E30UPB33E46SNB46 SLP207 P0000 T10261042 $ KQAD 201858Z 18012KT 7SM FEW020 SCT080 OVC160 22/16 A2987 RMK SHRAE58 SLPNO WND DATA ESTMD ALSTG ESTMD PNO RCNN 201900Z 01006KT 4000 BR FEW012 BKN060 18/15 Q1013 RMK A2992 LFSD 201900Z AUTO 02009KT 9999 BKN032 OVC140 01/M03 Q1016 LFRM 201900Z AUTO 01017KT 9999 SCT014 SCT033 BKN048 08/04 Q1019 TEMPO 4900 -RADZ BKN004 BKN020 BECMG 36012G22KT KPIM 201915Z AUTO 20010KT 10SM SCT029 BKN045 OVC065 25/18 A3032 RMK AO2 T02450180 PWINO KQAE 201858Z 18009KT 7SM FEW008 BKN030 OVC100 20/17 A2989 RMK SLPNO WND DATA ESTMD ALSTG ESTMD LFRN 201900Z AUTO 36008KT 9999 BKN045 07/04 Q1021 BECMG 36015G25KT ESND 201850Z 09003KT 9999 -SN SCT029 BKN038 M09/M10 Q1024 LGIO 201850Z /////KT 9999 BKN030 BKN070 07/05 Q1006 LFRO 201900Z AUTO 35006KT 320V020 CAVOK 07/03 Q1024 NOSIG KPHX 201851Z 31007KT 10SM FEW085 12/M10 A3008 RMK AO2 SLP181 T01221100 KNZY 201852Z 27007KT 10SM FEW050 13/M05 A3016 RMK SLP212 T01281050 LFSG 201900Z AUTO 29002KT CAVOK M03/M06 Q1016 KQAH 201855Z 21009KT 7SM FEW012 SCT025 BKN040 OVC080 22/15 A2990 RMK RAB1453E55 SLPNO WND DATA ESTMD ALSTG ESTMD LFRQ 201900Z AUTO 36009KT 9999 BKN029 07/04 Q1024 NOSIG ESNG 201850Z 31007KT CAVOK M19/M21 Q1027 KOSH 201853Z VRB06KT 9SM -RA SCT009 OVC016 02/01 A2984 RMK AO2 RAE16B51 SLP118 P0001 T00220011 LFSI 201900Z AUTO 03003KT CAVOK 01/M02 Q1017 PTYA 201750Z VRB05KT 12SM FEW016 SCT300 25/24 A2978 RMK SLP084 8/101 T02530239 10270 20253 57019 ESMQ 201850Z 35004KT CAVOK M03/M03 Q1027 KPIR 201853Z AUTO 30014KT 10SM CLR M13/M17 A3019 RMK AO2 SLP264 T11331167 LGIR 201850Z VRB03KT 8000 -TSRA FEW018CB BKN025 BKN080 12/10 Q1009 NOSIG LFRS 201900Z AUTO 35008KT 320V020 9999 OVC026 08/05 Q1020 TEMPO 4000 -DZRA BKN008 OVC015 KORS 201915Z AUTO VRB05KT 10SM CLR 00/M07 A3022 RMK AO2 LFRT 201900Z AUTO 01011KT 9999 BKN040 07/03 Q1023 KPIT 201851Z 21017G25KT 10SM FEW046 FEW110 OVC250 24/11 A3016 RMK AO2 SLP214 T02390111 ESMS 201850Z 06011KT 9999 FEW027 BKN042 00/M02 Q1026 R17/09//95 KPKB 201853Z 24013G20KT 210V280 10SM CLR 25/11 A3020 RMK AO2 PK WND 20026/1809 SLP221 T02500106 $ LFRU 201800Z AUTO 36008KT 9999 BKN024 08/04 Q1024 LGKC 201220Z 05010KT 7000 BKN005 OVC012 10/10 Q1011 LFSL 201900Z AUTO 33010KT 9999 FEW018 BKN037 OVC050 07/04 Q1015 TEMPO 3000 -DZRA BKN005 LHBC 201745Z 04006KT 6000 -RA BKN004 OVC083 03/02 Q1013 ESNK 201850Z AUTO VRB01KT 9999 OVC072/// M14/M15 Q1029 ESMT 201850Z 07002KT 9999 OVC044 00/M02 Q1027 KQBD 201825Z AUTO 35003KT 10SM FEW023 SCT036 BKN043 BKN220 M06/M13 A3010 RMK AO2 SLP246 WND DATA ESTMD T10581131 LFRV 201900Z AUTO 36012KT 330V040 9999 FEW028 OVC036 07/03 Q1021 ESNL 201920Z 00000KT 7000 -SG VV018 M17/M19 Q1028 KPKD 201910Z AUTO 29014KT 3/4SM HZ BKN021 M11/M16 A2994 RMK AO2 UPE03 P0000 T11111156 LFSN 201900Z AUTO 12002KT 8000 OVC039 M01/M04 Q1017 KQD3 201856Z AUTO VRB03KT 9999 CLR 25/20 A2993 RMK AO2 SLP101 WND DATA ESTMD T02510204 LGKF 201750Z 11009KT 9999 SCT014 BKN020 BKN070 12/12 Q1007 LFSO 201900Z AUTO 11002KT 9999 OVC034 M01/M04 Q1016 NOSIG ESNN 201850Z VRB02KT 9999 SG BKN020 OVC074 M08/M11 Q1029 R16/72//62 ESOE 201850Z 30003KT 9999 OVC023 M05/M07 Q1028 KQBF 201656Z AUTO 00000KT 9000 M CLR 37/11 A2968 RMK AO2 SLPNO WND DATA ESTMD T03720113 $ ESMX 201850Z 01004KT 6000 -SN OVC039 M02/M03 Q1026 ESNO 201850Z 34003KT CAVOK M21/M23 Q1029 KOTG 201856Z AUTO 30020KT 10SM BKN070 M11/M14 A3002 RMK AO2 SLP201 T11061144 FZRANO KS25 201915Z AUTO 27012KT 10SM CLR M16/M20 A3010 RMK AO2 LFRZ 201900Z AUTO 35010KT 320V030 9999 BKN042 08/04 Q1021 TEMPO 4000 -DZRA BKN009 OVC015 LFTH 201900Z AUTO VRB01KT 9000 NSC 06/03 Q1007 TEMPO BKN030TCU KOTH 201856Z 15011KT 10SM FEW013 BKN028 OVC035 04/02 A3021 RMK AO2 UPE09B28E34RAB09E28 SLP228 P0000 T00440022 ESNQ 201850Z 20004KT 170V230 CAVOK M17/M19 Q1026 GANR 201800Z 04006KT CAVOK 35/04 Q1009 LFST 201900Z AUTO 32005KT 9999 BKN052 02/M02 Q1017 NOSIG ESPA 201850Z 34003KT CAVOK M18/M20 Q1030 ESNS 201850Z 28003KT 9999 MIFG NSC M22/M24 Q1030 LGKL 201850Z 33004KT 7000 -RA FEW020TCU SCT030 OVC080 11/09 Q1008 ESOK 201850Z 03003KT 9999 SCT020 BKN059 M06/M08 Q1027 KOSU 201853Z 20023G33KT 10SM FEW110 23/14 A3011 RMK AO2 PK WND 21037/1755 SLP192 T02330144 KQBL 201756Z AUTO VRB03KT 10SM BKN006 OVC008 23/21 A3031 RMK AO2 CIG 006V008 BKN V SCT SLP266 WND DATA ESTMD T02330210 10239 20194 50002 ESNU 201850Z 33002KT CAVOK M22/M24 Q1030 R14/72//65 KOTM 201853Z AUTO 31016KT 10SM OVC014 M02/M04 A2997 RMK AO2 SLP159 T10171039 PNO $ KS32 201915Z AUTO 31016KT 10SM CLR M13/M17 A3009 RMK AO2 ESNV 201850Z 00000KT 9999 -SN SCT007 OVC062 M13/M15 Q1026 RESN LFSX 201900Z AUTO 01004KT 330V040 9999 OVC037 01/M05 Q1016 NOSIG LGKO 201850Z /////KT 9999 TS FEW016CB SCT020 11/10 Q1010 ESPE 201850Z AUTO 00000KT 1100 0650// R11/0900VP2000U R29/1400VP2000U -SN BKN004/// BKN014/// OVC043/// M24/M26 Q1029 LGKP 201850Z AUTO 18005KT //// // ////// 15/12 Q1010 RERA ESNX 201920Z 00000KT 8000 -SN SCT010 BKN040 M16/M18 Q1026 LHBP 201900Z 06007KT 5000 -SN BR SCT007 OVC023 00/00 Q1013 R88/290195 NOSIG ETGG 201820Z 09005KT 9999 BKN038 02/M02 Q1025 BLU ESNZ 201850Z 12008KT 9999 -SN OVC043 M10/M11 Q1024 LGKR 201850Z 13016KT 9999 -RA SCT015 BKN025 BKN080 12/08 Q1005 NOSIG VRMM 201700Z 06011KT 9999 FEW018 28/23 Q1010 NOSIG ETHA 201820Z 03003KT 1400 SN BR BKN010 OVC035 M04/M05 Q1013 BLACKAMB FCST CANCEL WIMM 201900Z 17004KT 7000 SCT018 26/23 Q1007 KS39 201915Z AUTO 14008KT 10SM SCT055 SCT065 SCT085 M02/M11 A3007 RMK AO2 ETHB 201820Z 11004KT 9000 SCT032 01/M03 Q1021 BLU+BLU+ BECMG WHT LHDC 201845Z 04009KT 4900 -RA SCT026 OVC046 01/01 Q1013 NOSIG ETHC 201820Z 05003KT 8000 FEW034 01/M04 Q1022 BLU+ LGKV 201850Z 07006KT 9999 FEW020 SCT030 BKN080 08/05 Q1013 LGLM 201850Z 05007KT 9999 FEW012 SCT020 09/06 Q1011 KPMD 201853Z AUTO VRB06KT 10SM CLR 06/M13 A3016 RMK AO2 SLP221 T00561133 KPKV 201915Z AUTO 15015G22KT 7SM BKN013 OVC020 25/21 A2994 RMK AO2 T02480210 LFTW 201900Z AUTO 01019KT CAVOK 08/M02 Q1010 TEMPO 36020G30KT KOVE 201853Z AUTO 16005KT 10SM CLR 06/M04 A3025 RMK AO2 SLP246 T00561039 KPLN 201854Z AUTO 00000KT 1/4SM FG VV002 02/02 A2979 RMK AO2 SLP095 T00220022 KOUN 201856Z 34010KT 3 1/2SM -SN BR OVC008 M02/M03 A3003 ESOW 201850Z AUTO 01002KT 9999 BKN030/// OVC067/// M08/M10 Q1028 ETHF 201820Z 06006KT 9999 SCT022 BKN042 01/M04 Q1019 BLU BLU KQDG 201856Z AUTO 31004KT 0800 M VV004 M05/M05 A2998 RMK AO2 SLP154 P0002 T10471049 PWINO FZRANO $ LGKZ 201750Z 00000KT 9999 -DZ SCT004 BKN020 OVC070 04/03 Q1010 KPLR 201915Z AUTO 18014KT 10SM FEW036 FEW041 SCT070 27/17 A3025 RMK A01 LGLR 201850Z 00000KT 9999 -RA BKN030 OVC070 07/06 Q1011 BLU KOWA 201915Z AUTO 00000KT 10SM OVC017 M07/M10 A2996 RMK AO2 KPNA 201915Z AUTO 00000KT 10SM SCT027 M15/M19 A2987 RMK AO2 LGMK 201750Z 01010KT 9999 FEW008 SCT025 11/08 Q1009 KOWB 201856Z 19018G22KT 10SM CLR 26/14 A3008 RMK AO2 PK WND 17026/1819 SLP193 T02560139 KPNC 201853Z AUTO 35017KT 10SM OVC011 M03/M06 A3009 RMK AO2 SLP198 T10281056 KOVL 201915Z AUTO 30019G25KT 4SM HZ BKN008 M11/M14 A3003 RMK AO2 KPLU 201915Z AUTO 00000KT 6SM -SN SCT027 BKN035 01/M04 A3018 RMK AO2 ETHL 201820Z 04005KT 4500 -SN BR FEW016 BKN026 M03/M04 Q1014 GRN GRN BECMG YLO KOWD 201853Z 24008KT 10SM SCT080 21/12 A3020 RMK AO2 SLP226 T02110122 ETIC 201856Z 00000KT 8000 BR FEW025 M02/M03 A3000 RMK AO2A UPE01 SLP188 P0000 T10221028 FZRANO $ KS52 201915Z AUTO 00000KT 10SM OVC110 M15/M17 A3024 RMK AO2 T11481170 KPNE 201854Z 22008KT 10SM CLR 20/13 A3031 RMK AO2 SLP262 T02000133 ETHN 201845Z 02007KT 9999 BKN025 M02/M05 Q1016 BLU FCST CANCEL LFVP 201900Z 03007KT 9999 BKN005 SCT026 02/00 Q1024 NOSIG KPMP 201853Z 11013KT 10SM SCT018 SCT065 27/22 A3029 RMK AO2 SLP256 T02720222 ETIH 201856Z AUTO 00000KT 5000 -UP BR FEW010 OVC014 M02/M02 A3000 RMK AO2 SNE23UPB23E39SNB39E43UPB43 SLP192 P0000 T10181019 $ KOWI 201915Z AUTO 32017KT 8SM CLR M03/M04 A3006 RMK AO2 KOVS 201853Z AUTO 26009KT 10SM SCT017 BKN024 OVC029 01/M02 A2991 RMK AO2 RAE03 SLP135 P0000 T00111017 ETHS 201820Z 07004KT 7000 BKN033 M01/M05 Q1022 WHT LGMT 201850Z VRB03KT 5000 -RA FEW016 BKN025 11/09 Q1011 ESSA 201850Z 35002KT 9999 FEW020 M11/M12 Q1028 R01L/19//56 R01R/19//95 R08/19//58 NOSIG KPOB 201856Z AUTO 23005KT 10SM FEW025 SCT033 BKN046 BKN055 24/18 A3039 RMK AO2 SLP293 T02400175 $ KQFB 201910Z AUTO 30006KT 9999 BKN180 02/M16 A3021 RMK A02 TSNO KOXB 201853Z AUTO 25010G20KT 10SM OVC010 18/17 A3039 RMK AO2 CIG 009V015 SLP290 T01830167 ESSB 201850Z VRB02KT CAVOK M09/M11 Q1028 R30/19//47 KOXC 201851Z VRB04KT 10SM CLR 17/12 A3026 RMK AO2 SLP259 T01720117 KPOC 201847Z 18005KT 10SM CLR 10/M14 3017 KQEL 201910Z AUTO 00000KT 9999 CLR M07/M15 A3031 RMK A02 TSNO KPMU 201915Z AUTO RMK AO2 PWINO PNO TSNO ETIK 201900Z AUTO 05006KT 9999 -UP BKN036 M01/M03 A3005 RMK AO2 UPB00 SLP201 $ WIOO 201500Z 00000KT 4000 FU SCT012 26/25 Q1010 NOSIG KPNM 201915Z AUTO 28011KT 10SM SCT022 SCT060 M07/M13 A2995 RMK AO2 TSNO KPMV 201915Z AUTO 32015G21KT 10SM OVC018 M07/M10 A3012 RMK AO2 T10721100 ESSD 201850Z 13001KT 9999 -SN OVC016 M08/M09 Q1027 RESG KPOE 201858Z AUTO 16014G20KT 10SM FEW028 SCT100 26/20 A3004 RMK AO2 RAE09 SLP172 P0000 T02600197 KQEN 201910Z AUTO 26004KT 9999 CLR M10/M19 A3004 RMK A02 TSNO KPOF 201853Z AUTO 20018G35KT 10SM FEW027 SCT035 BKN046 23/18 A3001 RMK AO2 PK WND 18038/1806 SLP159 T02330178 KQEP 201910Z AUTO 32001KT 9999 CLR M01/M10 / RMK A02 TSNO KOWP 201915Z AUTO 35007KT 5SM -SN BKN008 OVC012 02/00 A3004 RMK AO2 P0002 T00150002 RCSS 201900Z 26006KT 7000 FEW005 BKN008 BKN020 16/15 Q1015 NOSIG RMK A3000 LGPA 201850Z AUTO VRB02KT //// // ////// 12/11 Q1009 RE// KQES 201910Z AUTO 33010G14KT 9999 CLR M01/M11 A3031 RMK A02 TSNO KPNS 201853Z 13012KT 10SM BKN009 24/20 A3025 RMK AO2 SLP245 T02390200 KPPA 201915Z AUTO 35017G22KT 10SM CLR 00/M09 A3001 RMK AO2 T00031095 ESTA 201850Z 09006KT 9999 OVC045 01/M02 Q1026 KPNT 201915Z AUTO 32023G31KT 1 1/2SM +RA BKN006 BKN010 OVC017 11/10 A2987 RMK AO2 P0011 T01070104 ESSL 201850Z 33003KT 9999 -SN FEW016 BKN020 OVC028 M05/M06 Q1028 KQEV 201910Z AUTO 33001KT 9999 BKN230 M02/M15 A3022 RMK A02 TSNO WIPP 201730Z 00000KT 2000 BR FEW012 25/25 Q1008 NOSIG FKKD 201900Z VRB03KT 9999 SCT013 FEW016CB 28/26 Q1007 NOSIG KQEW 201910Z AUTO 26007KT 9999 CLR M00/M13 A3019 RMK A02 TSNO KQGE 201856Z AUTO 14005KT 10SM BKN009 OVC016 22/20 A3026 RMK AO2 SLP251 T02230198 LGNX 200950Z 03005KT 9000 -RA FEW012 BKN025 13/10 Q1012 RCTP 201900Z 02011KT 1500 -DZ BR SCT001 BKN002 BKN004 14/14 Q1016 NOSIG RMK A3002 KPPF 201908Z AUTO 35010G18KT 6SM FZRA BR BKN011 OVC034 00/M01 A3007 RMK AO2 P0002 I1001 T00001011 KOWX 201916Z AUTO 20008KT 10SM OVC075 17/15 A3005 RMK AO1 KQEY 201910Z AUTO 30005KT 9999 BKN200 M01/M14 A2992 RMK A02 TSNO ESSP 201850Z 00000KT 9999 OVC023 M04/M07 Q1028 R27/09//95 KOXR 201851Z 07008KT 10SM CLR 14/M13 A3017 RMK AO2 SLP217 T01441128 KQFR 201854Z AUTO 00000KT 1/4SM OVC001 M04/M04 A3045 RMK AO1 KOZA 201915Z AUTO 21016G21KT 10SM SCT043 BKN050 BKN055 25/11 A2988 RMK AO2 KQFT 201910Z AUTO 16001KT 9999 CLR M05/M15 A3024 RMK A02 TSNO ESST 201850Z AUTO 17002KT 9999 -SN OVC059/// M06/M07 Q1027 KPOU 201853Z 24007KT 10SM CLR 18/10 A3022 RMK AO2 SLP230 T01830100 FKKL 201200Z VRB04KT CAVOK 37/01 Q1008 ESTL 201850Z AUTO 10003KT 9999NDV BKN017/// OVC037/// 01/M02 Q1026 KQFV 201910Z AUTO 27002KT 9999 CLR M08/M15 A3022 RMK A02 TSNO KOXV 201915Z AUTO 31016G23KT 10SM OVC015 M03/M06 A3000 RMK AO2 KPOV 201915Z AUTO 21005KT 10SM SCT036 OVC043 20/14 A3013 RMK AO2 T01950136 PWINO KOYM 201656Z AUTO 23007G19KT 10SM SCT030 19/12 A3021 RMK AO2 ESSV 201850Z 00000KT 9999 -SN FEW018 BKN025 M03/M04 Q1026 R21/71//67 ESUD 201850Z AUTO 00000KT 1800 -SN FEW022/// OVC066/// M14/M15 Q1027 KQFW 201910Z AUTO 10001KT 9999 CLR M07/M14 A3022 RMK A02 TSNO FKKN 201700Z 34004KT 7000 NSC 31/14 Q1012 KQFX 201910Z AUTO 11001KT 9999 CLR M07/M14 A3022 RMK A02 TSNO KPPO 201915Z AUTO 21015G27KT 7SM -RA SCT010 OVC015 17/16 A2991 RMK AO2 T01660155 KPOY 201915Z AUTO 14013KT 10SM CLR M18/M23 A2993 RMK AO2 KPPQ 201915Z AUTO 00000KT 2 1/2SM RA BKN003 OVC045 06/06 A2993 RMK AO2 VIS 2V4 P0006 T00630060 LFYR 201900Z AUTO 05004KT 330V100 8000 SCT008 BKN012 BKN018 05/04 Q1016 KPQI 201856Z AUTO 05003KT 10SM UP OVC039 03/00 A3027 RMK AO2 RAE23UPB48 SLP296 P0000 T00280000 FKKR 201900Z 00000KT 4000 HZ NSC 33/11 Q1005 NOSIG KPRB 201853Z AUTO 32005KT 10SM CLR 08/M02 A3022 RMK AO2 SLP237 T00781017 KPQL 201853Z 14013KT 10SM OVC016 25/20 A3021 RMK AO2 SLP231 T02500200 KPRC 201853Z 02005KT 10SM CLR 02/M17 A3004 RMK AO2 SLP175 T00171172 KPQN 201915Z AUTO 33017G23KT 7SM SCT014 M12/M16 A3004 RMK AO2 KPRG 201915Z AUTO 20025G31KT 10SM BKN120 21/17 A2998 RMK AO2 T02060166 LGPZ 201850Z VRB03KT 9999 SCT025 BKN070 11/07 Q1007 ESUP 201850Z AUTO 26003KT 9999 BKN049/// M19/M21 Q1028 KOZR 201856Z AUTO 15007KT 10SM FEW075 26/19 A3026 RMK AO2 DZE1756RAB1756E09DZB09E11 SLP248 P0000 T02630194 LGSA 201850Z 00000KT 9999 FEW018TCU SCT030 11/10 Q1008 KOZS 201915Z AUTO 31009KT 10SM OVC005 05/05 A2997 RMK AO2 VTBD 201900Z 19008KT 9999 FEW025 27/25 Q1009 NOSIG ESUT 201850Z AUTO VRB02KT 9999 -SN SCT057/// M18/M19 Q1024 KPSC 201853Z 10003KT 10SM OVC110 M02/M11 A3028 RMK AO2 SLP257 T10171106 KRAC 201918Z AUTO 26008KT 2SM RA BR FEW016 SCT023 OVC036 11/10 A2984 RMK AO2 VIS 1 1/4V3 LTG DSNT E TSE1856 P0009 T01060100 ETML 201820Z AUTO 08023KT //// // ////// 02/M03 Q1023 /// ETND 201420Z 07007KT 9999 SCT032 04/M03 Q1020 BLU+ KOZW 201915Z AUTO 20012G18KT 7SM RA BKN011 OVC014 16/15 A2995 RMK AO2 P0001 T01560148 KPRN 201856Z AUTO 18007G22KT 150V230 10SM FEW034 BKN070 27/16 A3024 RMK AO2 SLP235 T02720161 ETMN 201820Z 07008KT 9999 M00/M04 Q1023 BLU+BLU+ TEMPO WHT KPSF 201854Z AUTO VRB04KT 10SM CLR 17/10 A3019 RMK AO2 SLP210 T01720100 KPRO 201915Z AUTO 30011G15KT 10SM OVC018 M06/M08 A3007 RMK AO2 T10561076 LGRP 201850Z 12003KT 9999 FEW016CB FEW018TCU SCT025 13/11 Q1010 NOSIG KQHY 201856Z AUTO 12004KT 10SM OVC008 22/20 A3027 RMK AO2 SLP257 T02200201 $ ETNG 201850Z 02006KT CAVOK 01/M03 Q1020 NOSIG ETNH 201846Z 07005KT 9000 M01/M04 Q1024 BLU+FCST CANCEL LIBA 201855Z 27008KT 2000 -RA BR SCT015 BKN030 07/05 Q1004 RMK OVC VIS MIN 2000 WIND THR11 27008KT WIND THR29 /////KT YLO VTCC 201900Z 10004KT 070V150 9999 FEW035 24/16 Q1011 NOSIG KPRS 201915Z AUTO 21007G20KT 10SM CLR 25/M02 A2991 RMK AO2 T02471022 LGSK 201750Z 04010KT 9999 -RA SCT008 OVC020 10/07 Q1011 KPSK 201915Z AUTO 18016G20KT 10SM CLR 22/12 A3036 RMK AO2 T02170120 KT20 201915Z AUTO 16008G17KT 7SM RA BKN019 BKN023 OVC031 23/21 A2991 RMK AO2 P0001 T02260212 KPTB 201516Z AUTO 20006KT 10SM BKN003 OVC018 15/13 A3047 RMK AO2 LIBC 201450Z 01006KT 9999 -RAVCTS SCT015CB SCT025 10/07 Q1004 KRAL 201853Z VRB06KT 10SM CLR 12/M13 A3015 RMK AO2 SLP203 T01171133 $ VTBO 201100Z 23008KT 8000 FEW021 28/24 Q1008 ETNL 201820Z 05006KT 9999 M01/M05 Q1023 BLU+ LGSM 201750Z 00000KT 9000 RA FEW016 BKN020 12/11 Q1010 LIBD 201850Z VRB01KT 8000 FEW015 SCT024 09/08 Q1003 KRBD 201901Z 17008KT 3SM -RA BR SCT010 BKN026 OVC045 21/19 A2989 RMK AO2 LTG DSNT S AND SW P0000 T02060194 KPTD 201915Z AUTO 00000KT 1 1/2SM BR FEW004 SCT010 OVC013 04/04 A3005 RMK AO2 KPSM 201856Z 07005KT 10SM OVC008 11/08 A3019 RMK AO2A SLP226 T01090081 LHKE 201845Z 07008KT 2000 SN OVC003 00/00 Q1013 TEMPO 1500 SN BR RMK YLO KPSN 201915Z AUTO 14011G20KT 10SM SCT028 BKN033 OVC080 24/18 A2996 RMK AO2 T02420184 LIBF 201450Z 29009KT 8000 RA BKN015 07/06 Q1005 ETNN 201820Z 03003KT 9999 SCT110 01/M04 Q1019 BLU+ VTCH 201200Z 09005KT CAVOK 26/12 Q1008 LGRX 201850Z 08010KT 9999 FEW020 BKN050 11/09 Q1007 LGSO 201850Z AUTO 04006KT //// // ////// 12/09 Q1009 RE// KPSO 201915Z AUTO 24012G15KT 10SM SCT031 BKN039 OVC050 M05/M16 A2990 RMK AO2 T10551159 KPRX 201856Z AUTO 17012KT 10SM -RA BKN048 BKN055 OVC075 21/17 A2994 RMK AO2 RAB18 SLP149 P0000 T02060172 LIBG 201850Z 04004KT 9999 VCTS SCT035 08/07 Q1002 KRAP 201852Z 20003KT 10SM CLR M17/M21 A3010 RMK AO2 SLP277 T11721206 KPSP 201853Z 00000KT 10SM CLR 13/M18 A3018 RMK AO2 SLP221 T01331178 KRBG 201853Z AUTO 18006KT 10SM OVC060 03/M03 A3021 RMK AO2 SLP235 T00331033 KQKG 201855Z AUTO 00000KT 9SM -SHRA SCT100 57/53 A2984 RMK AO2 LTG DSNT SE SHRAB1735 SLP863 WND DATA ESTMD P0000 T05660527 $ LGTG 201850Z 00000KT 9000 FEW015 BKN025 OVC070 09/08 Q1010 BLU LIBH 201755Z 08012KT 9999 TS OVC020 12/11 Q1003 RMK OVC QUK / QUL / VIS MAR 20 KM VIS MIN 9999 VTBS 201900Z 20008KT 170V230 9999 FEW025 27/22 Q1009 NOSIG LGSR 201850Z 24003KT 9999 FEW016 SCT020 11/08 Q1009 VTBU 201900Z 18004KT 6000 FEW020 27/22 Q1009 NOSIG VTCL 201200Z 13003KT 8000 NSC 27/20 Q1008 LICA 201850Z 32004KT 290V360 9999 -RA FEW015 SCT020 BKN040 09/07 Q1004 RETSRA KRCA 201856Z AUTO 17006KT 10SM CLR M15/M21 A3009 RMK AO2 SLP274 T11551214 $ LICB 201850Z 13004KT 100V190 9999 FEW030 06/04 Q1005 ETNS 201820Z AUTO 06005KT 7000 // ////// M02/M04 Q1024 /// KPUB 201853Z 13005KT 10SM BKN019 M09/M13 A2998 RMK AO2 SLP206 T10891128 KPTK 201909Z 22010G20KT 6SM -RA BR SCT009 OVC013 16/14 A2996 RMK AO2 P0001 T01560144 ETNT 201820Z 06004KT 8000 01/M02 Q1023 BLU+ VTCN 201300Z 01003KT 7000 FEW025 25/23 Q1008 NOSIG LICC 201850Z 27007KT 9999 FEW040 09/05 Q1004 KPUC 201853Z AUTO 28013G20KT 10SM FEW060 M04/M21 A2993 RMK AO2 SLP192 T10391206 KRBL 201854Z AUTO 01007KT 10SM CLR 08/M08 A3024 RMK AO2 SLP240 T00781078 LICD 201850Z 21007KT CAVOK 12/07 Q1006 LIBN 201855Z 13003KT 9999 -RA SCT015 SCT020 09/08 Q1003 RMK OVC BKN070 VIS MIN 9999 WIND THR14 13003KT WIND THR32 13003KT BLU VTCP 201000Z 24005KT 210V270 4000 HZ FEW020 34/19 Q1006 KRAW 201915Z AUTO 33010KT 1 1/2SM -SN OVC010 A3000 RMK AO2 KPTN 201856Z AUTO 15016G22KT 10SM BKN028 BKN032 OVC065 27/21 A3013 RMK AO2 PK WND 17028/1759 SLP202 T02670211 KQN3 201856Z AUTO 00000KT 4000 HZ CLR 35/02 A2969 RMK AO2 VIS 4000V5000 SLP047 WND DATA ESTMD T03450015 ETNW 201820Z 07004KT 9999 FEW041 01/M03 Q1021 BLU+ LICF 201855Z 32008KT 9999 SCT018 11/04 Q1003 RMK BKN BKN080 QUK / QUL / VIS MAR 12 KM MON INVIS NC VIS MIN 9999 KPSX 201902Z AUTO 14019G26KT 7SM BKN009 OVC019 25/22 A2995 RMK AO2 T02500222 KRBO 201915Z AUTO 15016G22KT 10SM SCT010 BKN110 23/22 A2989 RMK AO2 T02320216 LICG 201755Z 24009KT 8000 -RA SCT015 BKN025 10/08 Q1005 LIBP 201850Z 29003KT 260V320 5000 -DZ BR BKN020 05/04 Q1007 KT35 201915Z AUTO 18017G22KT 10SM OVC024 24/19 A2990 RMK AO2 LTG DSNT NW THRU NE T02360190 LGSY 201650Z 03007KT 9999 FEW012 BKN020 11/06 Q1009 RMK OVC080 BLU LIBQ 201855Z 27005KT 0000 -SN FZFG VV/// 00/M00 Q1002 RMK MON INVIS VAL INVIS VIS MIN 0000 VTCT 201900Z 30002KT 8000 NSC 17/17 Q1010 LIBR 201850Z 15001KT CAVOK 10/09 Q1003 LGTS 201850Z 26006KT 9999 FEW010 SCT030 09/05 Q1012 NOSIG LICJ 201850Z 25019KT 9999 SHRA BKN040 10/07 Q1003 KPTS 201915Z AUTO 35005KT 3SM UP SCT010 BKN028 OVC035 02/02 A3004 RMK AO2 P0003 T00200018 KPUJ 201915Z AUTO 16010KT 7SM OVC022 24/19 A3033 RMK AO2 KPTT 201915Z AUTO 35015G19KT 10SM OVC019 M05/M09 A3010 RMK AO2 T10491086 KPVB 201915Z AUTO 29011G18KT 10SM OVC009 00/00 A2989 RMK AO1 T00010001 LICL 201755Z 28007KT 9999 FEW022 12/05 Q1004 RMK FEW QUK / QUL / VIS MAR 18 KM VIS MIN 9999 KPVC 201918Z AUTO 21015G19KT 1SM BR OVC002 09/08 A3023 RMK AO2 LIBV 201855Z 06003KT 4000 -RA BR SCT007 BKN020 06/05 Q1002 RMK OVC VIS MIN 4000 WIND THR32 09003KT WIND THR14 06003KT GRN KPVD 201851Z 26012KT 10SM FEW020 BKN085 BKN300 17/12 A3025 RMK AO2 SLP242 T01670117 KRCM 201955Z AUTO 33006KT 4SM UP BKN010 OVC013 00/00 A3004 RMK AO2 P0001 KRDD 201853Z 33007KT 10SM FEW110 07/M11 A3021 RMK AO2 SLP232 T00721106 KPTV 201856Z AUTO 22008KT 10SM CLR 09/M04 A3025 RMK AO2 SLP257 T00891044 ETOU 201856Z 00000KT 9999 OVC043 02/M04 A3008 RMK AO2A SLP196 T00211044 $ GCGM 201900Z AUTO VRB03KT 9999 BKN045 BKN050 18/08 Q1017 RMK R09/VRB03KT ARP/01004KT 310V090 GCFV 201900Z 34012KT 9999 SCT035 18/10 Q1015 KPTW 201854Z AUTO 19008KT 8SM CLR 19/12 A3029 RMK AO2 SLP256 T01940122 KPVE 201915Z AUTO 19014G24KT 10SM FEW030 SCT055 BKN065 24/16 A3015 RMK A01 KRBW 201855Z AUTO 15008G16KT 10SM SCT035 SCT043 BKN055 26/17 A3039 RMK AO2 KPVF 201855Z AUTO 25003KT 10SM CLR 04/M14 A3016 RMK AO1 LIBY 201855Z 00000KT 9999 SCT012TCU SCT020 10/07 Q1003 RMK OVC BKN070 QUK / QUL / VIS MAR 10 KM VIS MIN 9999 KRDG 201854Z 01003KT 8SM CLR 16/13 A3027 RMK AO2 SLP258 T01610133 KPVG 201911Z AUTO VRB04KT 10SM OVC010 21/18 A3042 RMK AO2 PNO $ LICR 201850Z 05007KT 9999 BKN040 11/06 Q1004 KRCR 201915Z AUTO 20015G21KT 10SM -RA SCT009 SCT015 BKN050 18/16 A2996 RMK AO2 GCHI 201900Z AUTO 02013KT 340V060 9999 SCT028/// 18/12 Q1017 LIEA 201850Z 01005KT CAVOK 07/06 Q1004 KPWA 201853Z 35017G25KT 5SM UP BR OVC006 M03/M04 A3005 RMK AO2 PK WND 01029/1800 UPE1759B24 SLP182 P0000 T10281039 KPVJ 201915Z AUTO 34016G20KT 1 3/4SM -SN OVC006 00/00 A3002 RMK AO2 P0002 T00010001 LIEB 201855Z 32009KT 9999 FEW025 SCT030 06/04 Q1001 RMK BKN QUK / QUL / VIS MAR 25 KM MON INVIS VIS MIN 9999 LICT 201855Z 12006KT 9999 -RA SCT020 SCT040 09/08 Q1003 KRDK 201915Z AUTO 33012G19KT 10SM -SN OVC018 M07/M10 A3011 RMK AO2 LIEC 201855Z 27008KT 9999 FEW015 08/07 Q1002 RMK SCT QUK / QUL / VIS MAR 20 KM VIS MIN 9999 KPWC 201915Z AUTO 32009KT 10SM OVC024 M11/M16 A2997 RMK AO2 LIED 201855Z 04003KT 9999 -RA SCT012 BKN030 07/06 Q1002 RMK OVC VIS MIN 9999 WIND THR35 04003KT WIND THR17 /////KT BLU KRCV 201910Z AUTO 25019G25KT 10SM CLR M05/M16 A2982 RMK AO2 T10461156 KRDM 201856Z 16007KT 10SM OVC065 M01/M10 A3006 RMK AO2 SLP213 T10061100 KQND 201856Z AUTO 00000KT 9999 CLR 31/01 A2979 RMK AO2 SLPNO WND DATA ESTMD T03080013 LIEE 201850Z 02003KT 9999 FEW015 SCT045 08/06 Q1003 KPUW 201853Z AUTO 13012KT 10SM CLR M08/M12 A3018 RMK AO2 SLP275 T10831117 KRCX 201915Z AUTO 27009KT 10SM OVC008 M04/M06 A2986 RMK AO2 T10391057 KPWG 201856Z AUTO 17010KT 6SM RA BR FEW007 BKN027 OVC050 20/19 A2991 RMK AO2 LTG DSNT NE SLP136 P0008 T02000194 LICZ 201855Z 25007KT 9999 FEW040 07/05 Q1005 RMK FEW VIS MIN 9999 WIND THR28 25007KT WIND THR10 25006KT A2968 BLU KRCZ 201915Z AUTO 17007KT 10SM SCT033 SCT041 24/17 A3039 RMK AO2 T02400166 KRDR 201901Z 32009KT 10SM FEW006 FEW010 SCT018 M12/M17 A3010 RMK AO2A SLP221 $ ETSA 201820Z AUTO 01005KT //// // ////// M04/M05 Q1014 /// KPWK 201852Z 20015G24KT 10SM OVC020 19/16 A2981 RMK AO2 PK WND 20026/1827 RAB29E49 SLP092 P0004 T01890161 ETSB 201820Z AUTO 36006KT 9999 // ////// M00/M05 Q1016 /// KRDU 201915Z 25007KT 9SM SCT008 OVC013 19/17 A3042 RMK AO2 T01940167 KPVU 201856Z VRB04KT 10SM BKN025 M04/M11 A3009 RMK AO2 SLP225 T10441106 KPWM 201851Z VRB03KT 1 1/2SM BR OVC002 07/06 A3025 RMK AO2 SLP243 T00670061 KRFD 201909Z 30010KT 3SM RA BR SCT005 BKN050 OVC085 05/04 A2989 RMK AO2 P0004 T00500044 KPVW 201915Z AUTO 01013G19KT 10SM CLR 07/M03 A2992 RMK AO2 T00681033 KPXE 201915Z AUTO 17012KT 10SM SCT033 BKN047 OVC060 25/17 A3033 RMK AO2 T02460172 LIEO 201850Z 32003KT 280V360 9999 -RA SCT020 BKN030 07/06 Q1004 KREO 201852Z AUTO VRB04KT M05/M21 A3009 RMK AO1 SLP235 T10501206 ETSH 201820Z 04005KT 9999 FEW200 M02/M06 Q1020 BLU+BLU+ KRFI 201915Z AUTO 17013G17KT 10SM SCT033 OVC045 25/17 A2999 RMK AO2 LTG DSNT W T02450172 ETSI 201820Z 14001KT 5000 -SN BR FEW010 BKN015 M02/M03 Q1016 WHT LHPA 201845Z 01004KT 1000 R34/P1500 -SN BR BKN004 OVC017 M00/M01 Q1013 NOSIG RMK AMB KRGA 201915Z AUTO 20020G30KT 10SM SCT049 25/12 A3020 RMK AO2 KPWT 201918Z AUTO 00000KT 1 1/4SM -SN BR SCT005 OVC016 00/M02 A3019 RMK AO2 P0000 FZRANO ETSL 201906Z 03004KT 3000 SN FEW005 OVC030 M04/M04 Q1014 YLO ETSN 201848Z 23002KT 3000 -SN BR SCT013 OVC018 M02/M03 Q1016 BLACKYLO LGZA 201750Z 14010KT 8000 -RA SCT012 BKN018 BKN070 12/11 Q1006 GCLA 201900Z 01012KT 350V050 9999 SCT040 17/11 Q1017 KRGK 201915Z AUTO 28011G15KT 10SM BKN013 OVC018 M06/M09 A2995 RMK AO2 FLKK 201500Z /////KT 9999 FEW040TCU SCT100 27/17 Q1014 KPYM 201852Z AUTO 25014KT 10SM FEW080 18/11 A3023 RMK AO2 SLP236 T01780111 TSNO KT82 201915Z AUTO 19013KT 10SM BKN011 OVC018 21/18 A2990 RMK AO2 P0001 T02070182 LHPP 201645Z 08004KT 2000 -SN OVC013 M01/M01 Q1011 FMCH 201800Z 09004KT 9999 FEW020 27/24 Q1008 NOSIG LHPR 201845Z AUTO 03004KT 3900 -SN NCD 00/M00 Q1014 RESN RMK GRN KRHI 201853Z AUTO 27011KT 6SM BR OVC005 M02/M03 A2977 RMK AO2 SLP105 T10221028 AGGH 201900Z 16003KT 9999 FEW015 23/21 Q1006 KRIC 201854Z 20015G22KT 10SM SCT037 SCT300 24/16 A3036 RMK AO2 SLP285 T02440161 KRID 201915Z AUTO 21020G27KT 10SM SCT110 22/13 A3008 RMK AO2 KQRD 201858Z AUTO 10003KT 9SM BKN009 22/22 A3026 RMK AO2 SLP251 KPYX 201915Z AUTO 36016G22KT 10SM CLR 00/M13 A3004 RMK AO2 T00041132 KRHP 201915Z AUTO 19006KT 10SM SCT038 BKN044 OVC049 22/14 A3036 RMK AO2 T02150139 GCLP 201900Z 36013KT 9999 FEW030 SCT050 18/10 Q1015 NOSIG KPZQ 201916Z AUTO 20005KT 1/2SM FG OVC003 07/06 A2980 RMK AO2 T00670063 KQRH 201856Z AUTO 00000KT 9000 BR FEW020 25/21 A2990 RMK AO2 SLP112 WND DATA ESTMD T02520207 KSAA 201915Z AUTO 25015KT 7SM CLR M10/M16 A2987 RMK AO2 KRIL 201853Z AUTO 13003KT 10SM CLR M07/M11 A2997 RMK AO2 SLP199 T10671111 PWINO FZRANO $ KSAC 201853Z 00000KT 10SM CLR 06/M04 A3025 RMK AO2 SLP244 T00611039 KSAD 201851Z AUTO 29013G18KT 10SM OVC070 09/M05 A3000 RMK AO2 SLP149 T00891050 KRHV 201847Z VRB05KT 10SM SCT070 10/M05 A3023 FMEE 201900Z AUTO 20004KT CAVOK 24/20 Q1010 TEMPO 4000 SHRA FEW020CB SCT025TCU KSAF 201853Z 25011G20KT 10SM OVC055 01/M09 A2993 RMK AO2 SLP128 T00111094 FMCZ 201900Z AUTO 01002KT 9999 NCD 26/24 Q1009 NOSIG KSBA 201853Z 18007KT 10SM CLR 12/M07 A3017 RMK AO2 SLP217 T01221072 LHSM 201545Z 03004KT 7000 -SN SCT007 OVC013 01/M00 Q1012 KSBD 201850Z 00000KT 07SM SKC 12/M14 A3015 KRKD 201856Z AUTO 05007KT 10SM OVC007 05/04 A3024 RMK AO2 SLP241 T00500044 KRIV 201856Z AUTO 11005KT 10SM CLR 10/M13 A3013 RMK AO2 SLP208 T00971128 ETWM 201820Z AUTO 36003KT 9999 // ////// M01/M04 Q1022 /// KSAN 201851Z 32006KT 10SM FEW040 13/M07 A3018 RMK AO2 SLP218 T01281067 LHSN 201845Z 06008KT 2500 -SNRA BR BKN003 OVC015 00/00 Q1013 NOSIG RMK YLO KRIW 201853Z AUTO VRB03KT 10SM CLR M19/M24 A2991 RMK AO2 SLP250 T11891239 FMEP 201900Z AUTO 06005KT 9999 FEW018 OVC190 25/22 Q1011 KSAR 201915Z AUTO 19016G22KT 10SM BKN032 BKN040 OVC120 22/18 A2997 RMK AO2 T02200176 KSAT 201851Z 16013KT 8SM -RA OVC013 22/19 A2991 RMK AO2 RAE1752B50 SLP114 P0000 T02170194 LHUD 201845Z 11003KT 2000 SN SCT004 OVC013 00/00 Q1013 KSAV 201853Z 15011KT 10SM SCT023 BKN038 BKN055 25/19 A3037 RMK AO2 SLP284 T02500189 KSBM 201853Z AUTO 27004KT 2 1/2SM -RA BR OVC085 04/04 A2980 RMK AO2 SLP097 P0009 T00440044 TSNO KSCD 201915Z AUTO 16012KT 10SM SCT036 BKN044 BKN055 26/19 A3026 RMK AO2 T02630189 KRLD 201915Z AUTO 00000KT 10SM SCT110 M01/M09 A3028 RMK AO2 T10101095 GBYD 201900Z 27012KT CAVOK NSC 22/15 Q1008 LJCE 201900Z 00000KT 9999 -SN OVC017 00/M01 Q1012 RMK WHT KSBN 201854Z 21019G29KT 2 1/2SM RA BR BKN010 OVC015 17/16 A2993 RMK AO2 PK WND 20029/1850 CIG 007V013 SLP133 P0016 T01670156 KSAW 201847Z 23005KT 2 1/2SM BR OVC002 M03/M04 A2976 KSBO 201915Z AUTO 18007KT 10SM SCT037 BKN050 BKN060 26/17 A3035 RMK AO2 KRKP 201853Z AUTO 15010KT 4SM HZ OVC016 23/21 A2993 RMK AO2 LTG DSNT W SLP136 T02330206 KSBP 201856Z 32009KT 10SM CLR 12/M04 A3022 RMK AO2 SLP233 T01221044 KSCH 201748Z 20004KT 10SM SCT070 BKN100 13/10 A3018 KSAZ 201915Z AUTO 31012KT 10SM OVC024 M11/M16 A2996 RMK AO2 KRKR 201915Z AUTO 18020G31KT 10SM SCT042 SCT048 SCT060 22/14 A2989 RMK AO2 LIMA 201350Z 00000KT 7000 FEW020 08/M02 Q1007 KSBS 201912Z AUTO 00000KT 10SM CLR M11/M17 A2989 RMK AO1 T11151175 KSDA 201915Z AUTO 33012G18KT 10SM BKN020 M07/M10 A3013 RMK AO2 KRKS 201754Z AUTO 00000KT 10SM CLR M16/M19 A2989 RMK AO2 SLP237 I6000 T11611194 11161 21222 51016 KSDB 201853Z AUTO 07011G15KT 030V090 10SM CLR 02/M13 A3010 RMK AO2 SLP200 T00221128 KSCK 201855Z VRB03KT 10SM CLR 08/M03 A3025 RMK AO2 SLP243 T00831033 KSDC 201915Z AUTO 17004KT 10SM -RA BKN048 OVC055 16/13 A3005 RMK AO2 LIMC 201850Z 16004KT 9999 SCT050 04/M01 Q1008 NOSIG KU42 201915Z AUTO 34005KT 10SM BKN030 BKN041 OVC080 M06/M12 A3008 RMK AO1 P0002 T10651116 LIME 201850Z 13004KT 090V160 8000 BKN035 05/M01 Q1009 NOSIG KRME 201853Z 08008KT 10SM BKN034 OVC044 13/12 A3013 RMK AO2 SLP204 T01330117 KRKW 201915Z AUTO 20015G22KT 10SM BKN023 BKN028 BKN048 21/15 A3029 RMK A01 LIMF 201850Z 06004KT 9999 BKN040 05/M01 Q1008 KSDF 201856Z 20020G28KT 10SM FEW055 SCT250 OVC300 27/12 A3011 RMK AO2 PK WND 18030/1805 SLP191 T02720117 KQVF 201856Z AUTO VRB06KT M M CLR 25/ A2979 RMK AO2 SLPNO WND DATA ESTMD $ LIMG 201650Z 04007KT CAVOK 10/M05 Q1006 KRMG 201853Z AUTO 18011KT 10SM FEW023 SCT070 24/18 A3030 RMK AO2 SLP252 T02390183 KSBY 201906Z 19012KT 10SM BKN014 19/16 A3037 RMK AO2 T01940161 LIMH 201755Z /////KT 0800 FZFG VV/// M17/M18 Q0996 RMK MON INVIS VAL INVIS VIS MIN 0800 KSCR 201915Z AUTO 20004KT 10SM OVC012 19/17 A3041 RMK AO2 T01860168 LIMJ 201850Z 06004KT 020V090 CAVOK 07/M01 Q1007 KSEA 201853Z 25003KT 10SM -SN FEW030 OVC048 01/M05 A3018 RMK AO2 SNB51 SLP232 P0000 T00061050 LIMK 201855Z 12005KT 9999 BKN030 02/M00 Q1006 RMK BKN VAL FOSCHIA VIS MIN 9999 FKYS 201900Z /////KT 6000 SCT010 FEW020CB 23/20 Q1012 RETS NOSIG LIML 201850Z 13004KT 100V160 8000 FEW030 05/M01 Q1009 NOSIG KSDL 201853Z VRB06KT 10SM CLR 12/M10 A3009 RMK AO2 SLP182 T01171100 KRNC 201915Z AUTO 21016G24KT 180V240 10SM BKN046 BKN055 25/14 A3023 RMK A01 KRND 201856Z 16014KT 10SM -RA BKN012 OVC021 22/20 A2991 RMK AO2A RAE1757DZB1757E1758DZB04E14DZB39E46RAB46 BKN V OVC CIG 011 RWY33R SLP122 P0000 T02170203 KSDM 201853Z 23004KT 10SM CLR 12/M06 A3015 RMK AO2 SLP208 T01221061 LIMN 201755Z 14003KT 6000 NSC 04/M01 Q1008 RMK SKC VIS MIN 6000 WHT KSEE 201847Z VRB05KT 10SM SKC 13/M13 A3015 KRMN 201915Z AUTO 22009G17KT 10SM CLR 25/14 A3035 RMK AO2 T02510137 KSCX 201915Z AUTO 20012G20KT 10SM BKN031 BKN037 BKN045 22/14 A3027 RMK A01 KSEF 201915Z AUTO 15011G17KT 10SM CLR 31/17 A3028 RMK AO2 T03080170 LIMP 201850Z 16003KT 140V200 7000 SCT040 04/00 Q1010 KSEG 201853Z AUTO VRB03KT 10SM CLR 15/11 A3024 RMK AO2 SLP243 T01500111 KRNH 201915Z AUTO 29009KT 10SM OVC008 M07/M10 A2993 RMK AO2 T10721096 LIMS 201755Z 16003KT 8000 NSC 04/M01 Q1007 KROA 201854Z 21014G19KT 10SM SCT047 24/12 A3035 RMK AO2 SLP271 T02390117 KSFB 201853Z 11013KT 10SM FEW060 28/18 A3031 RMK AO2 SLP262 T02830178 LIMU 201855Z 01005KT CAVOK 08/M01 Q1006 RMK SKC QUK / QUL / VIS MAR 15 KM VIS MIN 9999 KROC 201854Z 25008G16KT 10SM -RA OVC044 21/15 A3004 RMK AO2 RAB27 SLP174 P0000 T02060150 LIMV 201755Z /////KT 8000 NSC 03/M04 Q1006 RMK SKC MON LIB VAL FOSCHIA VIS MIN 8000 KRNM 201853Z VRB05KT 10SM CLR 11/M10 A3012 RMK AO2 SLP200 T01111100 KSEM 201915Z AUTO 17012KT 10SM FEW043 SCT049 BKN075 28/16 A3021 RMK AO2 LIMW 201720Z AUTO 28009KT 260V320 9999 FEW100/// 08/M09 Q1005 VTPH 201200Z 16009KT 8000 NSC 28/24 Q1008 NOSIG KSFF 201853Z 00000KT 10SM FEW043 OVC055 M07/M13 A3022 RMK AO2 SLP265 T10721133 KRNO 201855Z VRB03KT 10SM FEW045 SCT100 SCT140 BKN220 M03/M13 A3008 RMK AO2 SLP213 ACSL DSNT SE-S T10281128 LIMY 201355Z 33003KT CAVOK 05/M01 Q1007 RMK FEW FEW070 VAL FOSCHIA VIS MIN 9999 KSDY 201856Z AUTO 29014KT 10SM CLR M15/M19 A3013 RMK AO2 SLP260 T11501194 FZRANO KRNP 201915Z AUTO 19004KT 10SM RA BKN006 OVC012 14/13 A2992 RMK AO2 T01420133 KRMY 201915Z AUTO 20010G18KT 7SM RA OVC010 16/16 A2994 RMK AO2 P0003 T01580155 KSEP 201915Z AUTO 17015G20KT 10SM BKN010 BKN100 20/18 A2988 RMK AO2 T02000183 KROG 201858Z 25008KT 10SM -RA OVC007 17/16 A2993 RMK AO2 CIG 005V013 SLP128 P0003 T01720161 LIMZ 201850Z 01003KT CAVOK 04/M01 Q1007 GCRR 201900Z 35009KT 320V020 9999 FEW032 17/11 Q1015 LIPA 201855Z 31002KT CAVOK 04/M01 Q1008 RMK SCT SCT200 VIS MIN 9999 WIND THR05 /////KT WIND THR23 /////KT A2979 BLU KU68 201915Z AUTO 10SM SCT120 M19/M22 A3007 RMK AO2 LIPB 201850Z 03003KT 9999 SCT080 08/M11 Q1008 VTPM 201100Z 25007KT 8000 NSC 32/14 Q1007 KRNT 201853Z VRB04KT 10SM OVC070 02/M07 A3020 RMK AO2 SLP232 T00171067 KSET 201901Z AUTO 30014KT 7SM -RA BKN017 OVC100 15/13 A2992 RMK AO2 WSHFT 1841 P0000 T01500133 LIPC 201855Z 26003KT 3000 BR BKN040 02/01 Q1009 KQWU 200455Z 21007KT 10SM CLR 03/M14 A2980 RMK SLP104 WND DATA ESTMD T00271136 KQWV 201855Z 10003KT 7SM CLR 07/M17 A3020 RMK SLP252 WND DATA ESTMD ALSTG/SLP ESTMD TSNO VTPO 201000Z VRB02KT 4000 HZ FEW022 33/23 Q1006 FNBC 201600Z VRB02KT 9999 FEW015 27/// Q1008 KSFM 201856Z AUTO 06008KT 10SM OVC009 08/06 A3022 RMK AO2 SLP239 T00780061 KRNV 201915Z AUTO 17015G19KT 10SM SCT039 BKN048 OVC065 24/20 A3007 RMK AO2 T02430201 KRPD 201915Z AUTO 27006KT 10SM OVC010 M05/M07 A2989 RMK AO2 T10501066 VTPP 201300Z 00000KT 8000 NSC 29/21 Q1008 LIPE 201850Z 26005KT 9999 -DZ SCT010 BKN040 03/01 Q1010 LIPF 201755Z 35002KT 9999 SCT030 BKN070 05/M00 Q1009 KSGF 201852Z 33011KT 7SM -RA OVC006 07/06 A2996 RMK AO2 PK WND 30029/1804 RAB17 SLP143 P0003 T00720061 KSFO 201856Z 08005KT 10SM SCT120 09/01 A3025 RMK AO2 SLP241 T00890006 FNBG 201600Z 30016KT 9999 FEW015 SCT020 FEW030CB BKN090 29/24 Q1007 LIPH 201850Z 35002KT CAVOK 05/M01 Q1009 KSGH 201856Z AUTO 23022G29KT 10SM SCT050 23/14 A3010 RMK AO2 PK WND 24029/1855 SLP190 T02330139 KSEZ 201915Z AUTO 17005KT 10SM CLR 03/M15 A3003 RMK AO2 KSFQ 201915Z AUTO 24007KT 10SM OVC009 21/20 A3042 RMK AO2 T02100195 KRPH 201855Z AUTO 32024G33KT 09/ A2989 RMK AO2 P0008 T0093 PWINO LIPI 201455Z /////KT 9999 FEW070 SCT080 BKN090 07/M01 Q1008 RMK OVC VIS MIN 9999 WIND THR06 VRB01KT WIND THR24 26002KT BLU KROS 201915Z AUTO 31005KT 10SM OVC016 M08/M13 A2994 RMK AO2 T10801126 KSGJ 201856Z 12013KT 10SM CLR 26/20 A3035 RMK AO2 SLP278 T02560200 KRPJ 201915Z AUTO 27010KT 7SM RA BKN005 BKN018 OVC065 05/05 A2988 RMK AO2 P0001 T00520052 LIPK 201650Z VRB03KT 3000 -RASN BKN010 02/M02 Q1008 FNCA 201900Z 00000KT 9999 FEW016 SCT080 27/25 Q1007 EVLA 201850Z AUTO 03004KT 9999 BKN025/// OVC030/// M05/M07 Q1026 KRQB 201915Z AUTO 18009G16KT 150V210 4SM BR BKN008 OVC020 14/12 A2983 RMK AO2 T01350119 LIQC 201855Z 06004KT 9999 BKN040 10/08 Q1002 RMK BKN QUK / QUL / VIS MAR 20 KM VIS MIN 9999 LIPL 201855Z /////KT 5000 BR SCT036 SCT045 05/M01 Q1009 RMK BKN VIS MIN 5000 WIND THR31 12005KT WHT KSHD 201915Z AUTO 23013G19KT 10SM CLR 24/12 A3031 RMK AO2 T02390115 KROW 201851Z 29007KT 10SM SCT090 19/M04 A2986 RMK AO2 SLP064 T01891039 KRQE 201853Z AUTO 23014KT 10SM BKN046 OVC055 M03/M12 A2995 RMK AO2 SLP146 T10331122 TSNO KROX 201915Z AUTO 29006KT 3SM -SN BKN012 M13/M16 A3001 RMK AO2 LIPO 201850Z 13009KT 6000 SCT040 05/M01 Q1009 KQZF 201855Z AUTO 14001KT 8SM CLR 29/01 A2982 RMK AO2 SLP082 WND DATA ESTMD T02880013 $ KSFY 201915Z AUTO 29009G14KT 7SM RA SCT010 BKN070 OVC090 01/01 A2992 RMK AO2 T00110010 LIPQ 201850Z VRB01KT 9999 BKN080 04/M03 Q1009 KSFZ 201856Z AUTO 25007KT 210V280 10SM SCT080 18/11 A3023 RMK AO2 SLP183 T01830111 VTSB 201400Z 06007KT 7000 FEW020 27/23 Q1009 LIPR 201845Z 27007KT 3500 -RA BR OVC030 03/02 Q1008 KSGR 201853Z 16016KT 10SM BKN021 BKN026 OVC032 26/21 A2998 RMK AO2 SLP152 T02610211 LIPS 201855Z 03001KT 9999 SCT070 BKN080 04/02 Q1009 RMK OVC VIS MIN 9999 WIND THR26 00000KT WIND THR08 02001KT BLU VTSC 201000Z 09012KT 060V120 9999 FEW020 29/24 Q1008 NOSIG LIRA 201850Z 10003KT CAVOK 06/02 Q1003 KSGS 201915Z AUTO 28008KT 10SM BKN016 BKN022 OVC036 M06/M10 A2995 RMK AO2 T10611097 GCTS 201900Z 10010KT 070V140 9999 FEW025 BKN040 18/10 Q1016 BECMG 03006KT KSGT 201756Z AUTO 17018G25KT 10SM SCT026 BKN032 24/18 A3008 RMK AO2 SLP184 T02440183 10244 20189 58012 LIPU 200700Z VRB02KT 9999 BKN070 02/M03 Q1011 VTSE 201100Z 11006KT 8000 SCT020 SCT100 28/25 Q1008 NOSIG KSGU 201856Z AUTO VRB05KT 10SM CLR 03/M09 A3012 RMK AO2 SLP208 T00331094 KSHL 201915Z AUTO 30017G23KT 10SM BKN016 M11/M14 A3007 RMK AO2 VTSF 201300Z 10004KT 080V160 8000 FEW018 27/24 Q1009 NOSIG LIQN 201650Z 09005KT 7000 3000E DZ BKN020 04/03 Q1002 LIRE 201855Z 03003KT CAVOK 07/03 Q1003 RMK BKN SCT100 SCT200 VIS MIN 9999 WIND THR13 04002KT WIND THR31 03004KT BLU VTSG 201900Z 00000KT 9999 FEW020 22/22 Q1009 KSHN 201853Z AUTO 01004KT 1/2SM SN FG OVC008 00/M02 A3016 RMK AO2 SLP218 P0003 T00001017 VTSH 201100Z 08010KT 5000 BR FEW020 28/24 Q1007 NOSIG LIPX 201850Z 35005KT 9999 SCT040 BKN070 05/M01 Q1009 LIRF 201850Z 01005KT 9999 FEW025 07/03 Q1003 NOSIG KSIF 201915Z AUTO 25009KT 10SM BKN016 BKN039 20/16 A3040 RMK AO2 T01970158 KRQO 201915Z AUTO 36017KT 7SM BR OVC005 M04/M05 A3006 RMK AO2 T10381046 LIRG 201755Z 33006KT 9999 FEW030 BKN035 09/02 Q1003 LIPY 201850Z 21003KT 8000 -RA SCT008 BKN015 02/02 Q1007 WMBA 201900Z 00000KT 7000 FEW030 BKN280 24/23 Q1007 LIRH 201755Z 06005KT 9999 BKN030 FEW035CB 08/04 Q1002 LIPZ 201850Z 01007KT 9999 SCT070 05/M01 Q1009 NOSIG VTSK 200300Z 13008KT 9999 FEW030 30/21 Q1009 LIRI 201550Z 36005KT 8000 SCT020 BKN030 10/08 Q1003 KSHR 201853Z AUTO 00000KT 10SM BKN070 M15/M23 A3002 RMK AO2 SLP257 T11501228 FMMI 201900Z 14006KT 110V170 9999 FEW020CB 19/17 Q1017 NOSIG LIRK 201855Z AUTO /////KT //// ///// Q//// VTSM 201500Z 13006KT 9999 FEW020 28/23 Q1011 KSIK 201915Z AUTO 19013G25KT 10SM BKN028 23/17 A3006 RMK AO2 LIRL 201755Z 05001KT 9999 SCT025 SCT080 09/03 Q1003 KSJC 201853Z 00000KT 10SM FEW009 SCT070 SCT095 10/M04 A3024 RMK AO2 SLP241 FU FEW009 T01001044 KRRL 201915Z AUTO 26006KT 10SM OVC008 M01/M02 A2980 RMK AO2 T10151023 LIRM 201855Z /////KT 9999 FEW020 BKN060 08/06 Q1003 KTAD 201854Z AUTO 07006KT 10SM OVC010 M07/M09 A2989 RMK AO2 SNE03 SLP163 P0000 T10671094 KSHV 201856Z 19017G28KT 10SM SCT041 BKN050 BKN055 26/18 A2999 RMK AO2 PK WND 17030/1826 SLP153 T02610178 LIQW 201455Z 02011KT CAVOK 10/M01 Q1007 VTSP 201900Z 00000KT 8000 FEW020 24/21 Q1008 NOSIG LIRN 201850Z VRB02KT 9999 FEW020 BKN035 09/07 Q1002 NOSIG VTSR 201200Z 09008KT 040V130 CAVOK 29/21 Q1008 NOSIG LIRP 201845Z 14004KT 9999 FEW060 SCT080 05/M01 Q1006 NOSIG VTSS 201900Z 05003KT 9999 FEW020 26/23 Q1008 NOSIG LIRQ 201850Z 33007KT 280V040 9999 SCT060 06/M02 Q1006 VTST 201200Z 05009KT 9999 FEW020 28/22 Q1007 WMAU 201900Z AUTO 36005KT 300V050 //// // 25/23 Q//// QFF1008 LIRS 201855Z 36008KT CAVOK 04/M01 Q1004 KSKA 201906Z 14007KT 10SM BKN022 OVC055 M08/M14 A3015 RMK AO2A SLP256 $ LIRT 201855Z 16007KT 0000 -SN FZFG VV/// M01/M03 Q1000 RMK MON INVIS VAL INVIS VIS MIN 0000 VTUD 201500Z 29004KT 6000 NSC 27/21 Q1010 NOSIG KRRT 201915Z AUTO 30009KT 4SM HZ CLR M13/M16 A3000 RMK AO2 LIRU 201550Z 27007KT 9999 FEW030 11/04 Q1003 FMMT 201900Z 00000KT 9999 VCSH SCT017TCU 28/24 Q1011 TEMPO 4000 TSRA KRSL 201853Z AUTO 35017KT 10SM SCT026 M04/M10 A3016 RMK AO2 SLP240 T10441100 FNDU 201400Z 00000KT 9999 TS FEW050CB BKN050 29/// Q1010 LIRV 201755Z 05007KT 9999 FEW035 05/M01 Q1003 FMNM 201900Z 12004KT 9999 FEW020CB 26/23 Q1009 KTAN 201852Z AUTO VRB06KT 10SM FEW080 17/11 A3024 RMK AO2 SLP238 T01670111 KSJN 201854Z AUTO 24005KT 10SM FEW027 BKN042 OVC060 00/M05 A2998 RMK AO2 SLP154 T00001050 TSNO KRSN 201915Z AUTO 19018G25KT 10SM BKN047 BKN060 27/15 A3007 RMK AO2 T02740148 LIRX 201855Z 36009KT CAVOK 03/M00 Q1002 RMK FEW FEW080 VIS MIN 9999 VIS MAR 20 KM FMNN 201500Z 30002KT 9999 BKN020CB BKN100 27/24 Q1008 KSKF 201907Z 14014G17KT 10SM BKN016 OVC025 22/20 A2988 RMK AO2A RAE1856 CIG 014 RWY34 SLP113 $ VVCI 201900Z 11003KT 0150 FG BKN002 OVC005 19/19 Q1011 NOSIG VTUI 201400Z 00000KT 6000 NSC 28/23 Q1008 NOSIG KSIY 201853Z AUTO 00000KT 10SM FEW080 M02/M09 A3017 RMK AO2 SLP255 T10171089 KRSP 201854Z AUTO 22008G19KT 180V270 CLR 21/12 A3029 RMK AO2 SLP257 T02060117 PWINO $ LIRZ 201850Z 02010KT 9999 BKN040 05/00 Q1004 VTUK 201900Z VRB02KT 6000 FEW025 SCT080 25/22 Q1009 NOSIG VTUL 201200Z 30003KT 260V350 2000 TS BR BKN030CB 27/24 Q1009 TEMPO FM1300 1500 TSRA KSJS 201915Z AUTO 21007G17KT 10SM CLR 26/11 A3023 RMK AO2 T02600112 KSJT 201851Z 18017G24KT 10SM SCT042 BKN060 BKN110 27/13 A2983 RMK AO2 LTG DSNT SE SLP081 T02670133 KSLB 201915Z AUTO 30019KT 10SM -SN FEW016 M09/M11 A3006 RMK AO2 KRST 201916Z 28018KT 10SM OVC011 M07/M08 A2993 RMK AO2 UPE1856FZDZB1857E10 P0000 I1000 T10671078 KTCC 201853Z AUTO 07009KT 10SM CLR 04/M08 A2993 RMK AO2 SLP122 T00441078 KSLC 201854Z 01006KT 10SM FEW020 SCT038 BKN065 M03/M09 A3009 RMK AO2 SNE47 SLP213 TCU DSNT N-NE SH DSNT SE-SW P0000 T10331089 VTUO 201100Z 00000KT 7000 VCSH FEW020TCU SCT025 32/24 Q1008 A2976 INFO L RWY 04 KRSV 201915Z AUTO 21018G34KT 10SM OVC040 23/16 A3001 RMK AO2 T02260155 KRSW 201853Z 13009G21KT 10SM FEW075 29/18 A3025 RMK AO2 SLP241 T02940183 KRTN 201853Z AUTO 25028G38KT 10SM CLR 06/M16 A2982 RMK AO2 PK WND 25039/1803 SLP068 T00561156 KRUE 201853Z AUTO VRB04KT 10SM OVC035 22/17 A2997 RMK AO2 SLP142 T02170167 KTBN 201856Z AUTO 19012G26KT 10SM SCT029 BKN095 20/15 A2990 RMK AO2 PK WND 17026/49 SLP120 T02010149 KSLE 201856Z 18016KT 3SM -SN BKN020 BKN036 OVC045 03/M02 A3017 RMK AO2 SNB46 SLP219 P0000 T00281017 VTUQ 201000Z VRB02KT 8000 FEW025 34/22 Q1007 NOSIG KSJX 201916Z AUTO 24010KT 10SM OVC004 04/03 A2978 RMK AO2 T00420034 VVCR 201900Z 36002KT 9999 FEW017 22/21 Q1011 NOSIG GCXO 201900Z 33013KT 300V010 9999 FEW012 BKN020 12/09 Q1017 NOSIG KRUG 201915Z AUTO 26015KT 10SM CLR M15/M18 A3006 RMK AO2 KSLG 201904Z AUTO 33015G22KT 10SM RA SCT016 BKN029 OVC047 08/08 A2996 RMK AO2 WSHFT 1846 P0003 KSLH 201915Z AUTO 02003KT 1/4SM FG OVC002 01/01 A2979 RMK AO2 T00120011 KTAZ 201915Z AUTO 20025G32KT 10SM -RA SCT022 BKN065 OVC100 18/16 A2991 RMK AO2 P0001 T01800162 VVCT 201700Z 12003KT 9999 SCT040 24/22 Q1010 NOSIG KSLI 201856Z 10005KT 10SM CLR 14/M13 A3016 RMK AO2A SLP216 T01431129 KTBR 201915Z AUTO 15007KT 10SM SCT040 BKN055 OVC065 27/14 A3035 RMK AO2 T02710142 FNGI 201600Z 03006KT 9999 FEW010 BKN020 29/16 Q1012 VTUU 201900Z 00000KT 7000 NSC 28/22 Q1008 NOSIG LJLJ 201900Z VRB02KT 9999 -SN SCT020 BKN040 00/M02 Q1010 NOSIG KRTS 201915Z AUTO 11006KT 10SM SCT110 M05/M12 A3008 RMK AO2 VTUV 201400Z 20002KT 4000 HZ NSC 28/20 Q1009 A2980 NOSIG INFO O RWY 36 LJMB 201900Z 35010KT 2000 -SN BR OVC008 M01/M02 Q1012 KSLK 201851Z AUTO 23009KT 6SM BR OVC008 10/10 A3007 RMK AO2 CIG 006V011 SLP193 T01000100 LIVC 201855Z ///28KT 0000 FZFG VV/// M08/M10 Q0999 RMK MON INVIS VAL INVIS VIS MIN 0000 VVDN 201900Z 15006KT 5000 BR SCT013 SCT060 24/22 Q1011 NOSIG VTUW 201400Z 10004KT 060V130 8000 NSC 29/20 Q1009 NOSIG KTCL 201853Z 18017G22KT 10SM SCT050 BKN070 26/17 A3021 RMK AO2 SLP226 T02610172 LIVD 201755Z /////KT 9999 OVC025 M02/M11 Q1007 RMK OVC VIS MIN 9999 KTCM 201903Z AUTO 02004KT 10SM -RA OVC042 00/M02 A3019 RMK AO2 RAB03 SLP231 $ LIVE 201855Z 03006KT CAVOK M05/M12 Q1004 RMK SCT SCT080 VIS MIN 9999 KSLN 201853Z 33018KT 10SM BKN022 M04/M08 A3016 RMK AO2 SLP228 T10441078 KSME 201915Z AUTO 10SM BKN050 23/13 A3024 RMK AO2 LIVF 201855Z 24006KT 0100 -SN FZFG VV/// M00/M01 Q1004 RMK MON INVIS VAL INVIS VIS MIN 0100 KSMF 201853Z 00000KT 10SM SCT250 06/M04 A3025 RMK AO2 SLP243 T00611044 KSKX 201856Z AUTO 25018G26KT 10SM OVC055 M01/M12 A2993 RMK AO2 PK WND 25028/1838 SLP154 T10111117 FZRANO $ KSLO 201915Z AUTO 20018G27KT 10SM SCT033 SCT039 OVC100 23/17 A2996 RMK AO2 T02250166 KTDF 201915Z AUTO 22006KT 10SM BKN022 OVC029 20/15 A3042 RMK AO2 KRUQ 201905Z AUTO 21005KT 10SM 20/17 A3040 RMK AO2 T01990168 KSLR 201915Z AUTO 17009KT 10SM SCT033 BKN044 OVC065 22/19 A2994 RMK AO2 LTG DSNT SW T02180189 KTCS 201900Z AUTO VRB05KT 10SM BKN025 08/M02 A2995 RMK AO2 T00781017 KSNA 201853Z 19009KT 10SM FEW020 13/M10 A3016 RMK AO2 SLP213 T01331100 KTEB 201851Z 24014KT 10SM CLR 17/12 A3026 RMK AO2 SLP247 T01720117 EVRA 201920Z 04006KT 9999 -SN BKN023 M10/M12 Q1026 R36/490195 NOSIG KRUT 201856Z AUTO 00000KT 10SM BKN039 BKN046 OVC060 14/10 A3015 RMK AO2 SLP231 T01390100 $ KSNC 201915Z AUTO VRB06KT 9SM CLR 16/11 A3027 RMK AO2 LKCV 201900Z 03005KT CAVOK 00/M05 Q1016 NOSIG KSMN 201856Z AUTO 22003KT 10SM CLR M07/M18 A3004 RMK AO2 SLP237 T10671183 FZRANO LIVO 201755Z 28001KT 7000 -SN OVC010 M01/M03 Q1008 RMK OVC VIS MIN 7000 KSMO 201851Z 00000KT 10SM CLR 13/M13 A3017 RMK AO2 SLP217 T01281128 KRWF 201853Z AUTO 29015G24KT 5SM -SN OVC016 M11/M14 A3003 RMK AO2 SNB34 SLP190 P0000 T11061144 KSMP 201851Z AUTO VRB04KT 2SM -SN BR BKN037 OVC046 M09/M12 A2998 RMK AO2 SNB50 P0000 T10941117 $ LIVP 201855Z 36012KT CAVOK M10/M13 Q1001 RMK BKN FEW060 SCT200 MON LIB VAL S CLD SCT VIS MIN 9999 KSMQ 201853Z AUTO VRB03KT 10SM CLR 18/13 A3027 RMK AO2 SLP249 T01780133 KSNH 201915Z AUTO 20018KT 10SM SCT029 BKN033 OVC049 23/17 A3017 RMK A01 LIVR 201755Z 02010KT 6000 SCT015 M07/M12 Q1003 RMK OVC OVC060 MON CIME INC VIS MIN 6000 KRWI 201853Z AUTO VRB04KT 9SM FEW018 SCT023 BKN035 22/18 A3041 RMK AO2 SLP298 T02220178 KTDR 201856Z AUTO 16015G21KT 10SM FEW021 27/20 A3027 RMK AO2 PK WND 16027/15 SLP254 T02660202 $ KRVS 201853Z VRB06G18KT 6SM RA BR BKN008 OVC013 02/00 A3003 RMK AO2 TSB02E17 CIG 006V011 SLP173 P0018 T00170000 KSMS 201915Z AUTO VRB06G11KT 10SM SCT041 BKN050 BKN055 26/16 A3038 RMK AO2 KSOA 201915Z AUTO 20008KT 10SM FEW023 FEW028 SCT032 24/16 A2991 RMK AO2 LIVT 201755Z 05014G31KT 9999 BKN025 05/M03 Q1008 RMK BKN SCT060 QUK / QUL / VIS MAR 15 KM VIS MIN 9999 KSNK 201915Z AUTO 25013G20KT 10SM CLR 23/02 A2986 RMK AO2 LTG DSNT SE T02340022 KRWL 201813Z AUTO 23017G24KT 6SM HZ OVC014 M13/M17 A2985 RMK AO2 T11331172 PWINO FZRANO $ KSNL 201915Z AUTO 36006KT 1 1/4SM -SN OVC006 M01/M02 A3005 RMK AO2 P0008 T10101017 FNHU 201600Z 00000KT 9000 VCSH SCT019 FEW026CB 23/17 Q1017 FMSD 201900Z 08008KT 9999 FEW016 SCT033 25/23 Q1013 KRXE 201853Z AUTO 21011KT 9SM BKN026 OVC031 M12/M16 A3001 RMK AO2 SNB1759E09 SLP241 P0000 T11171156 KSMX 201851Z VRB04KT 10SM CLR 12/M04 A3022 RMK AO2 SLP238 T01171044 $ KTDZ 201915Z AUTO 21014G22KT 4SM -RA BR FEW045 BKN060 OVC080 17/16 A3005 RMK AO2 P0005 T01720156 KSPA 201915Z AUTO 00000KT 10SM OVC007 17/16 A3040 RMK AO2 KSNS 201853Z 00000KT 10SM CLR 10/M02 A3024 RMK AO2 SLP251 T01001017 KSNT 201851Z AUTO 00000KT M18/M23 A2988 RMK AO1 SLP205 T11781228 KSPB 201853Z AUTO 14006KT 1/2SM SN FG OVC004 00/M01 A3019 RMK AO2 SLP223 P0001 T00001006 KSPD 201856Z AUTO 01007KT 340V050 M06/M14 A2999 RMK AO1 SLP191 T10561144 KRWV 201915Z AUTO 17013G20KT 10SM SCT026 SCT036 OVC060 24/19 A2993 RMK AO2 LTG DSNT N AND NW T02350191 KTEW 201915Z AUTO 18008G16KT 080V320 10SM RA OVC012 16/14 A2993 RMK AO2 T01620140 KSPF 201915Z AUTO 32012KT 10SM M15/M21 A3002 RMK AO2 KTEX 201915Z AUTO 25010G14KT 10SM SCT036 BKN044 OVC050 M10/M18 A2984 RMK AO2 T11001185 KSNY 201853Z AUTO 31010KT 10SM CLR M13/M20 A3005 RMK AO2 SLP263 T11331200 KSPG 201853Z 10005KT 10SM CLR 28/21 A3025 RMK AO2 SLP242 T02780206 KTFP 201915Z AUTO 7SM SCT006 SCT017 OVC025 23/21 A2992 RMK AO2 T02310209 PNO KSOP 201856Z AUTO 22009G16KT 10SM SCT022 BKN028 24/18 A3041 RMK AO2 SLP313 T02440178 TSNO KSPI 201901Z AUTO 29022G28KT 4SM RA BR SCT012 BKN018 OVC023 13/11 A2992 RMK AO2 PK WND 29028/1857 WSHFT 1847 PRESRR P0002 T01280106 KTGI 201919Z AUTO 17011G15KT 7SM SCT002 OVC006 12/12 A3039 RMK AO1 KTHA 201915Z AUTO 19011G19KT 10SM BKN044 OVC055 24/15 A3022 RMK A01 KRYM 201856Z AUTO 32009KT 10SM -SHSN SCT140 M09/M15 A2995 RMK AO2 SHSNE22SNB22E26SHSNB45 SLP169 T10941146 PWINO FZRANO $ KRYN 201845Z 29003KT 10SM FEW044 BKN070 10/M01 A3008 KSOW 201915Z AUTO 21008G13KT 9SM -UP FEW024 BKN031 OVC044 M01/M06 A2998 RMK AO2 KSQI 201856Z AUTO RMK AO2 SLPNO PWINO FZRANO RVRNO $ KSPR 201905Z AUTO 15012KT 6SM HZ CLR 25/22 A3012 RMK A01 KSPS 201852Z 01028G33KT 4SM -RA BR BKN009 OVC018 01/M01 A2997 RMK AO2 PK WND 01033/1850 TSB1753E46 SLP146 P0030 T00061011 FNMA 201200Z 28004KT 9999 BKN008 FEW010CB SCT045 26/22 Q1015 EVVA 201850Z AUTO 08001KT 9999 SCT030 M09/M09 Q1026 KSRB 201915Z AUTO 19015G22KT 10SM FEW048 BKN060 25/14 A3022 RMK A01 KSQL 201847Z 00000KT 10SM SCT180 09/M04 A3025 KSRC 201856Z AUTO 19017G25KT 10SM FEW027 SCT032 BKN042 24/19 A3002 RMK AO2 PK WND 19026/1844 SLP170 T02440194 TSNO KRZL 201915Z AUTO 19019G25KT 10SM BKN016 BKN075 OVC100 18/14 A2991 RMK AO2 FNKU 201600Z 18010KT 9999 SCT020 27/21 Q1016 KRYV 201915Z AUTO 28003KT 4SM RA OVC004 04/04 A2983 RMK AO2 P0004 T00380038 KSPW 201916Z AUTO 30018G24KT 9SM SCT017 M08/M13 A3006 RMK AO2 SNB01E13 P0000 T10831128 KRYW 201915Z AUTO 16008G15KT 3SM RA OVC002 21/20 A2992 RMK AO2 LTG DSNT NE P0001 T02050203 KRZN 201915Z AUTO 32005KT 10SM -SN OVC011 M09/M12 A2993 RMK AO2 T10911116 KTIF 201915Z AUTO 32014KT CLR M13/M18 A3012 RMK AO2 T11301181 KRYY 201816Z 13010KT 7SM BKN014 BKN024 21/17 A3036 RMK AO2 WMKA 201900Z 06003KT 320V130 9999 FEW030 SCT140 BKN280 26/23 Q1008 LJPZ 201900Z 04010KT 010V070 9999 FEW050 SCT100 BKN130 05/M04 Q1009 WMKB 201900Z VRB01KT 7000 SCT024 SCT140 BKN260 25/24 Q1007 NOSIG KRZR 201915Z AUTO 19013G18KT 10SM FEW032 SCT038 OVC060 23/16 A3028 RMK A01 WMKC 201900Z VRB03KT 9999 FEW020 BKN280 25/24 Q1009 WMKD 201900Z VRB03KT 9999 FEW024 SCT160 BKN280 24/23 Q1008 NOSIG KRZT 201915Z AUTO 21017G22KT 10SM SCT060 25/09 A3014 RMK AO2 KTIK 201856Z 35015KT 9SM +PL OVC007 M02/M03 A3003 RMK AO2A SNE1758DZB1758E38UPB38E49FZRAB49 CIG 006 RWY13 SLP178 P0000 T10231029 $ WMKE 201900Z AUTO 00000KT //// // 24/23 Q1008 KSSC 201856Z 19012G20KT 10SM SCT041 BKN050 26/15 A3036 RMK AO2A SLP281 T02580152 $ FNLU 201700Z 21010KT 9999 SCT020 SCT250 28/22 Q1007 NOSIG GEML 201830Z 24003KT 200V280 9999 FEW015 14/11 Q1013 KTHV 201853Z AUTO 22012G20KT 10SM CLR 23/13 A3025 RMK AO2 SLP245 T02330128 KW13 201915Z AUTO 17010G22KT 10SM BKN048 23/13 A3031 RMK AO1 T02310130 KSSF 201853Z 17009KT 140V200 7SM -RA OVC016 23/21 A2989 RMK AO2 RAB48 SLP112 P0000 T02330206 FNMO 201500Z 31010KT 9999 FEW023 27/21 Q1009 WMKI 201900Z 02003KT 9999 FEW030 BKN280 24/23 Q1008 KTIP 201915Z AUTO 20019G32KT 10SM -RA BKN014 OVC020 19/18 A2991 RMK AO2 T01920178 WMKJ 201900Z VRB03KT 9999 FEW024 BKN300 24/23 Q1008 KSRQ 201853Z 13012G23KT 10SM BKN050 BKN065 32/17 A3024 RMK AO2 SLP238 T03170172 WMKK 201900Z 09004KT 050V140 9999 FEW030 BKN280 27/23 Q1007 NOSIG KSSI 201853Z AUTO 15008KT 10SM FEW050 24/20 A3036 RMK AO2 SLP283 T02440200 KSRR 201715Z AUTO 23042G55KT 10SM CLR 05/M05 A2983 RMK AO2 WMKL 201900Z VRB03KT 9999 FEW024 BKN270 27/23 Q1008 WMKM 201900Z 04007KT 350V090 9999 FEW028 SCT150 BKN300 25/23 Q1008 LKKB 201900Z 35004KT 280V010 CAVOK M00/M04 Q1017 NOSIG WMKN 201900Z VRB02KT 9999 FEW022 BKN300 25/23 Q1009 KSTC 201908Z 32008KT 10SM SCT022 M08/M14 A2995 RMK AO2 T10831139 KTKC 201915Z AUTO 31015KT 2 1/2SM BR BKN016 M11/M14 A3005 RMK AO2 VIS 2V4 T11141141 KW22 201915Z AUTO 20011G16KT 10SM CLR 25/10 A3022 RMK AO2 WMKP 201900Z 04003KT 340V090 7000 FEW025 SCT140 BKN260 25/24 Q1007 NOSIG KTIW 201903Z 00000KT 1 1/2SM -SN BR BKN011 OVC026 M01/M02 A3019 RMK AO2 P0000 T10061022 KSTE 201915Z AUTO 26007KT 10SM OVC008 M01/M01 A2983 RMK AO2 T10081010 KUBE 201915Z AUTO 28011KT 10SM OVC007 M07/M08 A2988 RMK AO2 KTIX 201850Z 14015G20KT 7SM SCT031 BKN040 29/20 A3032 KUAO 201853Z 19008KT 4SM -SN FEW022 BKN034 OVC048 03/M01 A3018 RMK AO2 SNB20 SLP222 P0000 T00281011 KSTF 201915Z AUTO 16012KT 10SM SCT046 OVC060 24/17 A3017 RMK AO2 LLBG 201850Z VRB02KT CAVOK 16/10 Q1011 NOSIG RMK FEW130 KTKI 201853Z 17011KT 5SM -RA BR BKN020 OVC025 19/19 A2990 RMK AO2 SLP125 P0007 T01940194 KSTJ 201853Z 33013KT 10SM BKN018 OVC032 M04/M07 A3012 RMK AO2 SLP211 T10441067 KSUA 201850Z 11012G21KT 7SM SCT020 BKN055 27/22 A3032 KW29 201855Z AUTO 17011G16KT 10SM CLR 21/14 A3030 RMK AO2 KSTK 201910Z AUTO 01006KT 10SM CLR M11/M19 A3006 RMK AO2 KSTL 201851Z 19019G22KT 7SM -RA FEW022 SCT075 OVC100 19/17 A2991 RMK AO2 PK WND 19030/1803 SLP122 P0004 T01890172 KW31 201915Z AUTO 21008G18KT 10SM SCT028 22/16 A3038 RMK AO1 T02210162 KSUE 201856Z AUTO 26005KT 8SM OVC003 01/00 A2980 RMK AO2 RAB14E28 SLP116 P0000 T00060000 FZRANO KSTP 201853Z 30008KT 9SM OVC016 M07/M10 A2997 RMK AO2 SLP160 T10721100 KTLH 201853Z 16015G19KT 10SM FEW029 SCT034 27/19 A3029 RMK AO2 SLP257 T02670194 VVNB 201900Z 12006KT 7000 BKN030 22/21 Q1011 NOSIG KSTS 201853Z 13003KT 10SM FEW150 07/M03 A3023 RMK AO2 SLP232 T00721033 KTMA 201850Z AUTO 16008KT 10SM SCT034 BKN060 OVC065 26/18 A3033 RMK AO2 T02600182 KTMB 201904Z 10017G23KT 10SM SCT027 BKN040 27/21 A3027 RMK AO2 T02720206 LKKU 201500Z 34007KT 4000 BR NSC M00/M05 Q1014 KSVC 201915Z AUTO 29013KT 10SM SCT023 SCT060 OVC065 06/00 A2998 RMK AO2 T00610000 LKKV 201900Z 31003KT CAVOK M04/M05 Q1015 KTKV 201915Z AUTO 26008KT 10SM OVC007 M03/M04 A2980 RMK AO2 T10291041 FOGM 201500Z /////KT 9999 SCT013 BKN025 30/25 Q//// LKLN 201900Z AUTO VRB01KT 9000 BKN100 BKN120 M01/M03 Q1016 KSUN 201847Z 12008KT 2SM SCT010 BKN 014 OVC020 M12/M14 A2998 KSVE 201915Z AUTO 10003KT 10SM FEW120 M02/M12 A3010 RMK AO2 KTME 201915Z AUTO 18015G25KT 8SM SCT023 BKN032 BKN038 26/21 A2997 RMK AO2 KW43 201915Z AUTO 10SM CLR M16/M22 A3001 RMK AO2 KTKX 201915Z AUTO 19021G28KT 2SM HZ BKN029 BKN035 OVC070 24/18 A3004 RMK AO2 FOGO 201400Z 28006KT 9999 TS SCT015TCU FEW020CB BKN030 29/22 Q//// KUDG 201856Z AUTO 20006KT 10SM BKN050 24/17 A3039 RMK AO2 SLP296 T02440167 KUCP 201856Z AUTO 24011G19KT 10SM BKN050 OVC090 22/14 A3016 RMK AO2 SLP221 T02220139 KSVH 201915Z AUTO 19004KT 7SM OVC004 16/14 A3040 RMK AO2 T01560140 FOGR 201500Z /////KT 9999 SCT013TCU BKN033 32/25 Q//// LKNA 201900Z 01004KT CAVOK M02/M07 Q1014 NOSIG KSUS 201854Z 19009G19KT 10SM -RA FEW022 BKN095 OVC150 19/17 A2990 RMK AO2 PK WND 20028/1805 SLP119 P0004 T01940172 KTNB 201915Z AUTO 26004KT 10SM OVC012 15/11 A3042 RMK AO2 T01480108 KTMK 201915Z AUTO 00000KT 10SM OVC022 02/01 A3017 RMK AO2 KSUT 201915Z AUTO 17009KT 10SM CLR 24/19 A3044 RMK AO2 T02430194 KSUU 201856Z AUTO 01004KT 10SM BKN130 08/M07 A3024 RMK AO2 SLP248 T00821067 $ KSUW 201915Z AUTO 31007KT 5SM -SN OVC017 M10/M13 A2994 RMK AO2 T11051135 KSVN 201913Z AUTO 14014KT 10SM -RA FEW020 SCT045 24/23 A3035 RMK AO2 RAB13 SLP280 $ KSUX 201852Z 32025G33KT 9SM BLSN SCT016 M11/M14 A3013 RMK AO2 PK WND 32033/1845 SNB44E51 SLP224 P0000 T11061144 KSWF 201745Z 26007KT 20SM SCT060 16/12 A3027 KUCY 201915Z AUTO 18016G26KT 10SM OVC039 23/15 A3009 RMK A01 VVPB 201900Z 27003KT 1500 BR SCT002 22/22 Q1011 TEMPO 0800 FG VV002 KTOA 201847Z VRB04KT 10SM SKC 13/M11 A3017 FNSA 201500Z 00000KT CAVOK 31/17 Q1019 LKMT 201900Z 04011KT 8000 NSC M02/M06 Q1016 R04/710195 NOSIG KTOB 201915Z AUTO 28008KT 10SM OVC012 M08/M10 A2994 RMK AO2 KTMT 201915Z AUTO 10003KT 10SM CLR M05/M16 A3005 RMK AO2 T10551162 KTOC 201915Z AUTO 00000KT 7SM BKN006 OVC010 20/19 A3039 RMK AO2 T01950190 KW63 201915Z AUTO 19007KT 10SM BKN024 OVC032 21/17 A3039 RMK AO1 KSWO 201913Z 35012G20KT 10SM OVC009 M03/M05 A3007 RMK AO2 CIG 008V013 T10281050 KTOI 201853Z AUTO 17006KT 10SM FEW026 BKN030 OVC075 25/19 A3028 RMK AO2 SLP249 T02500189 KTPA 201853Z 15007G16KT 10SM SCT045 31/19 A3027 RMK AO2 SLP249 T03060189 KUES 201915Z 28006KT 7SM -RA BKN005 BKN014 OVC080 07/07 A2985 LLET 201850Z 08004KT CAVOK 18/06 Q1010 KTOL 201852Z 21010KT 5SM -RA BR FEW060 SCT090 OVC100 17/17 A3003 RMK AO2 SLP167 P0008 T01720172 KTNU 201915Z AUTO 30013G21KT 10SM OVC014 M04/M06 A3002 RMK AO2 LKPD 201900Z 03006KT CAVOK 00/M05 Q1016 NOSIG KSWW 201915Z AUTO 24015G19KT 10SM SCT065 25/02 A2988 RMK AO2 LTG DSNT E AND SE T02510022 VVPQ 201730Z 10006KT 9999 FEW017 25/23 Q1010 NOSIG KTPF 201915Z AUTO 12007KT 10SM SCT070 OVC100 29/18 A3026 RMK AO2 KSYF 201915Z AUTO 31011G17KT 10SM CLR M10/M18 A3010 RMK AO2 T11031176 FNSO 201600Z 18005KT 9999 FEW013 BKN070 ///// Q1007 KTOP 201853Z 32013KT 10SM OVC019 M03/M06 A3012 RMK AO2 SLP208 T10331061 KW75 201915Z AUTO 20012G15KT 10SM BKN012 20/18 A3039 RMK AO1 T02000179 KTPH 201856Z AUTO VRB03KT 10SM CLR M04/M18 A3005 RMK AO2 SLP211 T10391178 KTOR 201853Z AUTO 30004KT 10SM CLR M14/M20 A3005 RMK AO2 SLP259 T11391200 KSYI 201915Z AUTO 17017KT 10SM BKN043 BKN050 OVC055 24/15 A3021 RMK A01 LLHA 201850Z VRB02KT CAVOK 17/10 Q1011 KSXS 201858Z AUTO M M M M M M RMK AO2 SLPNO PWINO PNO FZRANO TSNO$ KW78 201850Z AUTO 20004KT 10SM BKN021 OVC029 21/16 A3040 RMK AO1 T02120160 KSXT 201856Z AUTO 16007KT 10SM FEW002 SCT027 OVC038 M05/M06 A3006 RMK AO2 SLP228 T10501061 FNUB 201700Z 04015KT 9999 BKN025 FEW030CB 22/// Q1019 RMK TSVCRA METAR FNBG 201700Z 29010KT 9999 SCT020 FEW030CB BKN090 28/23 Q1008 KTPL 201917Z AUTO 21011KT 7SM VCTS RA FEW007 BKN011 OVC016 20/19 A2991 RMK AO2 LTG DSNT N AND NE AND SW P0003 KSXU 201915Z AUTO 24011G17KT 190V290 10SM SCT055 10/M07 A2991 RMK AO2 T00951071 KW81 201915Z AUTO 21013G20KT 10SM SCT034 SCT041 23/16 A3036 RMK AO1 T02340155 FNSU 201400Z 31006KT 9999 SCT014 BKN015 27/// Q1010 KSYM 201915Z AUTO 23010G19KT 10SM CLR 26/11 A3020 RMK AO2 KTQE 201854Z AUTO 32021G28KT 10SM OVC021 M08/M12 A3016 RMK AO2 PK WND 33028/1854 SLP226 T10831122 KSYN 201915Z AUTO 29009KT 10SM OVC016 M06/M09 A2995 RMK AO2 T10621094 KUGN 201910Z 29016G45KT 1 1/2SM RA BR BKN010 OVC021 13/12 A2983 RMK AO2 PK WND 22045/1904 WSHFT 1856 VIS 3/4V5 P0003 T01280122 FNUE 201600Z 33005KT 9999 SCT032 27/19 Q1012 FNUG 201600Z 00000KT 9999 FEW023 BKN090 27/20 Q1009 WMSA 201900Z 00000KT 7000 FEW025 BKN140 BKN270 26/23 Q1007 KTQH 201915Z AUTO 35009KT 2SM BR OVC007 03/03 A2996 RMK AO2 P0008 LKPR 201900Z 36007KT 320V020 CAVOK M01/M04 Q1016 NOSIG KSYR 201854Z 20011KT 10SM FEW045 SCT070 BKN180 BKN250 20/14 A3008 RMK AO2 SLP181 T02000144 $ LLIB 201550Z 01006KT CAVOK 16/10 Q1010 RMK BKN100 KSZL 201856Z 34006KT 4SM -RA BR BKN007 OVC012 01/M01 A2999 RMK AO2A SLP165 P0007 T00051007 GFLL 201900Z 24007KT 9999 FEW014 29/23 Q1007 MBPV 201900Z 10015G20KT 9999 SCT012 27/18 Q1022 KW96 201915Z AUTO 18006KT 10SM CLR 23/17 A3036 RMK AO1 T02250168 KTRI 201853Z 22008KT 10SM FEW045 SCT250 25/12 A3030 RMK AO2 SLP243 T02500117 MDAB 201900Z 04016KT 9999 SCT022 29/23 Q1022 KSZT 201915Z AUTO 00000KT 10SM M10/M14 A3022 RMK AO2 KTRK 201855Z 00000KT 10SM SCT130 SCT210 M09/M11 A3001 KW99 201915Z AUTO 20009G16KT 10SM CLR 26/12 A3022 RMK AO2 T02590120 KUIL 201853Z AUTO 05006KT 10SM OVC025 01/M04 A3015 RMK AO2 SLP211 T00111044 KTRL 201853Z AUTO 16010KT 10SM -RA FEW037 SCT047 OVC060 21/18 A2992 RMK AO2 SLP126 P0002 T02110183 KTRM 201852Z AUTO 33005KT 10SM CLR 16/M18 A3016 RMK AO2 SLP212 T01611183 KVAD 201856Z 16006KT 10SM BKN060 27/18 A3030 RMK AO2A SLP261 T02660182 $ KUIN 201902Z AUTO 30011KT 3SM -RA BR BKN004 BKN034 OVC060 03/03 A2994 RMK AO2 P0001 T00330028 KVAF 201915Z AUTO 17020KT 3SM HZ FEW015 24/22 A3001 RMK A01 KSZY 201915Z AUTO 21010G19KT 10SM FEW028 SCT032 OVC060 23/17 A3015 RMK A01 KTTA 201915Z AUTO 00000KT 10SM SCT027 BKN037 SCT043 20/17 A3040 RMK AO2 T01960168 LKTB 201900Z VRB02KT 9000 NSC 00/M06 Q1015 NOSIG FOOB 201500Z /////KT 9999 BKN015TCU 30/21 Q1009 KTTD 201900Z 09014KT 1SM -SN BR OVC023 00/M02 A3021 RMK AO2 P0000 T00001022 KUKF 201910Z AUTO 03003KT 10SM OVC013 16/15 A3044 RMK AO2 KTTF 201859Z AUTO 21013G22KT 7SM RA BKN018 BKN044 OVC065 17/15 A3001 RMK AO2 P0006 T01650151 KTSP 201915Z AUTO 00000KT 8SM CLR 02/M18 A3011 RMK AO2 KVBG 201855Z 03013KT 10SM FEW013 11/M06 A3023 RMK AO2A SLP237 T01091063 MDBH 201900Z 13015KT 9999 FEW025 31/21 Q1019 VVTS 201900Z 13005KT 100V190 8000 FEW017 SCT050 25/22 Q1008 NOSIG FOOG 201900Z 18004KT 9999 TS SCT008 FEW020CB OVC030 28/26 Q1008 KUKI 201856Z AUTO 35003KT 10SM CLR 05/M06 A3023 RMK AO2 SLP238 T00501056 KVCB 201853Z AUTO VRB04KT 10SM CLR 09/M07 A3026 RMK AO2 SLP247 T00891072 $ FOOK 201500Z /////KT 9999 TS SCT015TCU FEW020CB 28/23 Q//// FOOL 201900Z 22003KT 190V250 9999 FEW013 FEW020CB 28/25 Q1008 TEMPO TS KTTN 201853Z 20007KT 9SM CLR 18/13 A3029 RMK AO2 SLP250 T01780133 FOON 201800Z 30004KT 9999 TS SCT013 FEW020CB 26/24 Q1008 KVAY 201854Z AUTO 23008G16KT 10SM CLR 22/14 A3029 RMK AO2 SLP256 T02170139 FOOR 201500Z /////KT 9999 SCT005 BKN008 27/24 Q//// KTTS 201901Z AUTO 13013G18KT 10SM OVC031 26/22 A3032 RMK AO2 SLP272 $ KVBS 201910Z AUTO 10014G20KT 10SM FEW075 SCT090 20/19 A3004 RMK A01 KUKT 201915Z AUTO 20007KT 10SM CLR 19/13 A3028 RMK A01 KVBT 201918Z AUTO 32013KT 10SM -RA BKN004 BKN030 OVC036 11/10 A2995 RMK AO2 CIG 003V008 P0002 FOOT 201500Z 12004KT 9999 SCT013TCU BKN033 30/25 Q1007 KTUL 201917Z 33013KT 6SM RA BR BKN008 BKN020 OVC026 01/01 A3004 RMK AO2 P0004 T00110011 KTVC 201853Z 20008KT 10SM BKN019 OVC070 14/11 A2977 RMK AO2 SLP084 T01440106 KULM 201915Z AUTO 28019KT 4SM HZ SCT014 M10/M13 A3002 RMK AO2 KVBW 201915Z AUTO 10SM CLR 24/12 A3028 RMK AO2 T02400116 KTVF 201913Z AUTO 32013KT 1 3/4SM -SN FEW020 SCT027 OVC034 M13/M17 A3005 RMK AO2 SNB03 P0000 FZRANO KVDF 201915Z AUTO 14009KT 10SM CLR 29/17 A3027 RMK AO2 KTUP 201853Z 15018G22KT 10SM SCT023 BKN037 23/17 A3018 RMK AO2 SLP215 T02330167 RJAA 201900Z 36012KT 9999 FEW020 BKN170 BKN/// 04/00 Q1013 NOSIG KTVI 201915Z AUTO 16005KT 10SM SCT045 BKN070 OVC080 26/20 A3032 RMK AO2 KVDI 201915Z AUTO 15008KT 10SM SCT060 28/17 A3033 RMK AO2 KTUS 201853Z VRB04KT 10SM BKN065 10/M03 A3007 RMK AO2 SLP168 T01001028 KTVK 201855Z AUTO 30011KT 10SM M02/M02 A2999 RMK AO2 KVCT 201851Z 17020KT 9SM BKN018 OVC024 24/21 A2994 RMK AO2 PK WND 15029/1831 LTG DSNT NW RAB12E33 SLP137 P0001 T02390211 KTVL 201853Z AUTO 19006KT 10SM OVC110 M04/M20 A2997 RMK AO2 SLP186 T10391200 KVCV 201848Z 33005KT 10SM SKC 05/M16 A3015 RJAF 200700Z 26015KT 9999 FEW060 06/M13 Q1012 LKVO 201400Z 01003KT 320V110 CAVOK 03/M04 Q1015 KTWF 201853Z 25008KT 10SM CLR M09/M14 A3011 RMK AO2 SLP238 T10941144 MDCY 201900Z 07015KT 9999 SCT018 28/24 Q1022 RJAH 201900Z 01005KT 9999 FEW040 SCT180 BKN/// 00/M03 Q1013 KTVR 201853Z AUTO 18015G26KT 10SM FEW050 FEW065 28/19 A3008 RMK AO2 PK WND 17026/1850 SLP192 T02830189 KUNI 201915Z AUTO 20012G16KT 10SM SCT060 25/11 A3016 RMK AO2 T02530111 RJBB 201900Z AUTO 03007KT 9999 NSC 06/02 Q1018 NOSIG KX60 201915Z AUTO 10007G14KT 10SM CLR 31/18 A3029 RMK A01 RJBD 201000Z 32009KT CAVOK 08/M00 Q1017 KVEL 201853Z AUTO 00000KT 10SM CLR M08/M16 A3002 RMK AO2 SLP228 T10831156 RJBE 201200Z 33004KT 310V040 CAVOK 07/01 Q1018 KTWM 201915Z AUTO 00000KT 7SM -SN OVC012 M09/M13 A2986 RMK AO2 SABE 201900Z 03005KT 340V070 9000 FEW040 SCT200 27/20 Q1007 SAAP 201020Z 14002KT 2500 BR NSC 20/20 Q1006 KUNO 201853Z AUTO 19014G23KT 10SM SCT028 BKN039 21/16 A2998 RMK AO2 SLP141 T02060156 KTVY 201915Z AUTO 00000KT 10SM SCT065 SCT080 M06/M12 A3010 RMK AO2 SAAR 201900Z 16014KT CAVOK 29/09 Q1008 RJCA 200640Z 24013KT 0500 SHSN VV005 M06/M08 Q1008 RMK A2977 KVER 201915Z AUTO 32010KT 3SM -RA BKN008 OVC011 02/ A3000 RMK AO2 T0016 RJCB 201100Z VRB03KT 9999 FEW030 M07/M11 Q1008 KVES 201850Z AUTO 20012G20KT 10SM SCT045 SCT110 21/15 A3006 RMK AO2 RJCC 201900Z VRB01KT 9999 FEW030 BKN070 M15/M16 Q1013 EYKA 201920Z 01004KT 330V040 9999 OVC012 M07/M10 Q1024 R08/29//95 KTXK 201853Z 17010G24KT 10SM SCT044 OVC100 24/17 A2999 RMK AO2 SLP151 T02390167 SAAV 191949Z 18020KT 8000 TSDS SCT035 FEW040CB OVC050 29/20 Q1001 KUNU 201915Z AUTO 00000KT 2 1/2SM RA SCT002 BKN011 OVC065 02/02 A2985 RMK AO2 P0003 T00200020 RJAW 201800Z 24003KT 9999 FEW020 SCT230 18/15 Q1013 RMK 1CU020 A2993 KUNV 201853Z 21008G17KT 10SM FEW045 20/12 A3021 RJCH 201100Z 31004KT 290V010 6000 -SHSN FEW004 SCT015 BKN035 M05/M09 Q1013 RJBT 200900Z 31004KT 250V350 9999 FEW025 SCT035 06/M01 Q1017 RJCK 201100Z 27009KT 9999 FEW030 M05/M13 Q1008 RJDC 201200Z 01003KT 340V040 9999 FEW030 SCT140 BKN160 08/M02 Q1019 RJCM 201100Z 35005KT 9999 -SHSN FEW007 SCT009 BKN010 M08/M09 Q1009 RJCN 200900Z 05003KT 9999 FEW015 BKN050 M06/M09 Q1008 LLOV 201850Z VRB02KT CAVOK 15/03 Q1012 SADF 201900Z 07004KT CAVOK 28/18 Q1007 RJCO 201045Z 30010KT 4000 -SHSN FEW010 SCT015 BKN025 M06/M09 Q1012 RMK 1ST010 3ST015 6CU025 A2990 SACO 201900Z 36005KT 9999 SCT030 FEW040CB 28/12 Q1011 KUOX 201915Z AUTO 16013G20KT 10SM SCT027 BKN032 OVC065 23/17 A3014 RMK AO2 KTYQ 201915Z AUTO 21022G32KT 10SM SCT040 SCT080 SCT110 21/14 A3001 RMK AO2 T02120141 FQCH 201900Z 00000KT 9999 BKN015 BKN020 FEW025CB 23/21 Q1016 RMK CB TO NE/SE KTYR 201853Z 17017G21KT 10SM SCT030 OVC036 24/17 A2996 RMK AO2 PK WND 18026/1836 SLP138 T02440172 RJCT 200745Z 32004KT 9999 -SHSN FEW005 BKN010 BKN020 M04/M08 Q1008 RMK 1ST005 5ST010 7CU020 A2979 RJEB 200700Z 35009KT 1500 R32/0900V1400U -SHSN VV003 M07/M08 Q1008 FQBR 201900Z /////KT 9999 SCT016 SCT070 28/25 Q1009 KTYS 201853Z 21019G27KT 10SM SCT055 SCT250 26/13 A3027 RMK AO2 PK WND 21033/1811 SLP242 T02560128 RJEC 201130Z 28004KT 230V330 3200 -SHSN FEW003 SCT010 BKN020 M08/M10 Q1008 RMK 1ST003 3ST010 6CU020 A2979 KVGT 201853Z 34008KT 10SM CLR 07/M19 A3014 RMK AO2 SLP232 T00671194 RJDM 200351Z 35013G24KT 9999 FEW200 14/M03 Q1019 RMK 1CI200 A3009 RJCW 201022Z 29023KT 1600 R08/1200VP2000D BLSN -SHSN FEW010 SCT040 BKN050 M07/M12 Q1008 RMK 1ST010 3CU040 5CU050 A2977 SADP 200100Z 00000KT CAVOK 24/19 Q1005 KVIH 201853Z AUTO 36005KT 10SM SCT016 BKN023 OVC028 11/10 A2990 RMK AO2 PK WND 20033/1759 SLP123 T01060100 KTZR 201850Z 21022G30KT 10SM SKC 24/14 A3013 RJDT 201100Z 29003KT CAVOK 09/M05 Q1019 MDJB 201900Z 03014KT 9999 SCT020 28/23 Q1020 LLSD 201850Z VRB03KT CAVOK 16/10 Q1011 RMK FEW120 BKN150 RJFF 201900Z AUTO VRB02KT 9999 NSC 08/01 Q1018 KUSE 201920Z AUTO 22008G15KT 3SM -RA FEW031 SCT045 BKN070 16/16 A3001 RMK AO2 RJFG 200900Z 06005KT 020V100 9999 -RA FEW025 SCT030 BKN040 10/06 Q1016 KVJI 201915Z AUTO 26010G15KT 10SM CLR 25/10 A3032 RMK AO2 T02510100 RJFK 201200Z 08005KT 050V110 9999 FEW020 BKN100 08/02 Q1017 KVIS 201856Z AUTO VRB04KT 10SM CLR 07/M03 A3026 RMK AO2 SLP255 T00721028 KUTA 201915Z AUTO 18011KT 10SM 22/18 A3009 RMK AO2 TSNO KY19 201915Z AUTO 28013KT 10SM CLR M14/M18 A3012 RMK AO2 RJFM 201200Z 29005KT 9999 FEW030 SCT090 BKN110 10/05 Q1017 KWAL 201854Z 23012KT 10SM SCT017 BKN250 24/18 A3039 RMK AO2 SLP287 T02390178 RJFO 201300Z 27005KT CAVOK 08/M01 Q1018 KY23 201915Z AUTO 28007KT 250V320 10SM OVC010 M05/M07 A2988 RMK AO2 T10481067 RJGG 201900Z 35009KT 9999 FEW040 BKN150 06/M03 Q1017 NOSIG SAEZ 201900Z 18010KT CAVOK 29/13 Q1007 RJFR 201900Z 02003KT 9999 FEW030 BKN080 07/03 Q1018 RJFS 201900Z 20004KT 130V250 CAVOK 07/03 Q1019 RJFT 201200Z 12003KT 100V160 CAVOK 08/M03 Q1018 RJFU 201200Z 32007KT CAVOK 09/00 Q1018 EYPA 201850Z 01004KT 9999 OVC024 M05/M08 Q1026 R01/1///95 KY31 201915Z AUTO 21006KT 4SM BR OVC004 13/12 A2984 RMK AO2 T01300122 KVLD 201853Z AUTO 17007KT 10SM FEW041 BKN049 OVC065 26/17 A3031 RMK AO2 SLP271 T02610167 KUTS 201853Z AUTO 15009G21KT 10SM FEW029 SCT035 BKN043 26/18 A2997 RMK AO2 SLP144 T02560183 KUVA 201915Z AUTO 15008KT 10SM SCT021 24/19 A2988 RMK AO2 T02350192 KVKS 201915Z AUTO 20019G25KT 10SM FEW050 SCT055 SCT065 29/16 A3007 RMK A01 KVLL 201915Z AUTO 21016G23KT 7SM -RA BKN013 OVC018 16/15 A3000 RMK AO2 T01630149 GGOV 201900Z 24009KT CAVOK 28/15 Q1007 NOSIG KVKY 201915Z AUTO 00000KT 8SM CLR 26/21 A3020 RMK A01 KWDG 201845Z 33012KT 10SM OVC012 M03/M04 A3009 SBAA 201800Z 31003KT 9999 BKN020 31/25 Q1010 MDLR 201900Z 07008KT 9999 SCT020 28/22 Q1020 KY50 201913Z AUTO 28014G17KT 10SM OVC006 01/M01 A2984 RMK AO2 RAE07 CIG 004V009 P0000 KY49 201915Z AUTO 29011G17KT 3/4SM -SN OVC020 M11/M16 A2994 RMK AO2 VIS 1/4V5 T11151165 LMML 201845Z AUTO 26007KT 9999NDV SCT017/// BKN020/// BKN025/// 11/10 Q1006 BECMG NSW KUUU 201912Z AUTO VRB05KT 2 1/2SM BR OVC002 09/09 A3026 RMK AO2 T00940094 KVNC 201915Z AUTO 20009KT 10SM FEW050 SCT065 28/21 A3026 RMK AO2 KY51 201915Z AUTO 27005KT 10SM OVC006 M02/M02 A2987 RMK AO1 T10191019 SBAF 201900Z 24007KT 9999 FEW020 SCT040 BKN100 33/23 Q1005 RJKA 201000Z 05012KT 9999 -SHRA FEW006 SCT008 BKN010 17/16 Q1014 KWDR 201915Z AUTO 12005KT 10SM SCT013 SCT020 BKN027 22/18 A3039 RMK AO1 KVOA 201915Z AUTO 13018KT 6SM HZ FEW034 SCT045 SCT060 25/22 A3019 RMK A01 EYSA 201850Z 03003KT 9999 -SN OVC015 M06/M08 Q1025 R32R/29//95 R32L/29//95 WHT NOSIG SBAN 201900Z 33005KT 9999 4000N VCSH BKN030 FEW040TCU 25/19 Q1014 SBBE 201900Z 36004KT 9999 FEW015 BKN070 27/23 Q1008 KY63 201915Z AUTO 28019G23KT 4SM HZ SCT010 SCT014 M13/M17 A3005 RMK AO2 T11331167 SBBG 201900Z 15009KT 9999 BKN030 BKN080 28/18 Q1003 FQIN 201400Z 09007KT 9999 BKN020 28/24 Q1011 SBAQ 200200Z 11002KT 9999 SCT020 FEW045TCU BKN100 22/21 Q1014 SBBH 201800Z 22006KT 4000 -RA BKN040 FEW050TCU BKN100 24/21 Q1013 SBBI 201900Z 33010KT 9999 SCT015 FEW040TCU BKN080 21/19 Q1009 SBAR 201900Z 09012KT 9999 SCT019 30/23 Q1010 SBCA 201900Z 36008KT 9999 FEW007 BKN009 22/19 Q1009 SBAT 201800Z 27005KT 9999 BKN035 34/24 Q1010 SBCB 201900Z 08014KT 9999 FEW020TCU 29/22 Q1006 SBAU 192300Z 11005KT 9999 FEW010 SCT040 BKN070 ///// Q1010 SBCC 201900Z 17007KT 9999 SCT020 FEW025TCU SCT090 30/21 Q1009 KVOK 201856Z 30009KT 7SM OVC006 00/00 A2985 RMK AO2A SLP122 KY70 201915Z AUTO 17007KT 5SM -DZ SCT010 OVC014 13/13 A2988 RMK AO2 T01320132 KVPC 201853Z AUTO 15009G15KT 10SM FEW026 SCT030 BKN042 22/17 A3033 RMK AO2 SLP260 T02220172 MDPC 201900Z 05015G30KT 9999 FEW025 27/19 Q1021 NOSIG KUXL 201915Z AUTO 15018G26KT 10SM SCT016 BKN031 OVC060 26/21 A3006 RMK AO2 T02630211 SBAX 201900Z 36007KT 9999 SCT018 26/18 Q1014 SBCF 201915Z 01009KT 4000 RA FEW013 BKN030 FEW050TCU 24/19 Q101 3 KUYF 201915Z AUTO 20018G23KT 10SM SCT047 SCT120 23/16 A3011 RMK AO2 SBCG 201900Z 01011KT 8000 -RA SCT003 FEW035TCU BKN090 19/19 Q10 10 SBCH 201800Z 34010G20KT 9999 TS VCSH SCT018 BKN025 FEW035TCU FEW040CB 23/19 Q1007 SBBQ 201900Z 20001KT 9999 VCTS FEW030CB BKN100 23/19 Q1016 KVNY 201851Z VRB04KT 10SM CLR 12/M12 A3015 RMK AO2 SLP210 T01171122 SBCI 201900Z 31002KT 6000 -TSRA SCT015 BKN020 FEW023CB OVC080 24/24 Q1009 RERA SBBR 201900Z 02006KT 340V050 9999 VCTS FEW030 FEW035CB BKN100 2 7/18 Q1014 RETSRA SBCJ 201900Z 00000KT 9999 SCT021 27/21 Q1011 SBBT 201800Z AUTO 11009KT 080V140 9999 BKN023 29/23 Q1010 KUZA 201854Z AUTO 21011KT 170V240 10SM FEW029 BKN043 BKN050 22/16 A3040 RMK AO2 SLP287 T02220161 SBBU 201800Z 29012KT 9999 VCSH BKN025 28/23 Q1010 FPST 201900Z 26006KT 9999 FEW020CB BKN040 28/25 Q1008 NOSIG SBBV 201900Z 07009KT 9999 SCT040 SCT080 35/16 Q1009 SBBW 201800Z 33006KT 9999 SCT020 FEW025TCU SCT080 29/23 Q1009 FQLC 201900Z 08005KT 9999 SCT020 FEW025CB 21/18 Q1018 RMK DIST LIT TO NE/SW/N SAME 201900Z 09011KT CAVOK 26/11 Q1014 SBCO 201900Z 26005KT 5000 -RA BKN011 BKN030 FEW040TCU 23/22 Q1002 SBCP 201900Z 06016KT 9999 FEW020 29/21 Q1008 MDPP 201900Z 09015KT 9999 FEW020 28/21 Q1022 SBCR 201900Z 31008KT 8000 VCSH SCT035 FEW040TCU SCT100 31/24 Q1 005 KVPS 201900Z 14014KT 10SM FEW010 SCT016 BKN070 24/20 A3025 RMK AO2A $ SBCT 201900Z 36010KT 9999 SCT035 FEW040TCU BKN083 22/19 Q1009 FQMA 201900Z 09005KT 9999 FEW015 BKN020 25/24 Q1013 NOSIG KVRB 201853Z 12015G22KT 10SM SCT028 27/21 A3032 RMK AO2 SLP265 T02720211 SBDN 201900Z 32006KT 270V360 9999 BKN020 24/18 Q1009 SBCX 201900Z 33010KT 9999 BKN033 FEW053TCU 22/19 Q1006 RJNG 201146Z 28006KT 9999 FEW030 05/M02 Q1017 RMK 1CU030 A3006 SBCY 201900Z 30009KT 9999 BKN020 33/23 Q1008 SBEG 201900Z 01007KT 9999 FEW025 32/18 Q1009 KWHP 201855Z 00000KT 10SM SKC 10/M15 A3018 SBCZ 201900Z 02004KT 9999 SCT030 BKN100 30/24 Q1008 RETS KVQQ 201850Z 13006KT 10SM BKN046 28/19 A3033 KVPZ 201828Z AUTO 21018G27KT 3SM RA BR BKN008 OVC013 18/16 A2991 RMK AO2 PK WND 21027/1821 CIG 006V011 P0010 T01780161 RJOA 201300Z 33004KT 270V010 CAVOK 05/M04 Q1017 SBEK 201800Z 01002KT 9999 SCT015 FEW025TCU BKN100 32/24 Q1009 RJOB 201200Z VRB02KT 9999 FEW030 BKN/// 06/M03 Q1018 RJNK 201900Z 11002KT 9999 FEW030 BKN/// 01/M02 Q1018 EYVI 201850Z 33005KT 5000 BR OVC006 M04/M05 Q1023 R01/2///95 NOSIG SAOC 201900Z 09012KT 9999 FEW025 FEW040CB 25/12 Q1012 RJOC 201100Z 16004KT 9999 FEW035 BKN/// 05/02 Q1019 KVQT 201915Z AUTO 16021KT 6SM HZ CLR 26/22 A3009 RMK A01 RJOE 200318Z 33010G20KT 9999 FEW030 12/M04 Q1016 RMK 1CU030 A3002 FQNC 201400Z VRB02KT 9999 SCT020 BKN090 31/23 Q1006 MDSD 201900Z 07015KT 030V090 9999 SCT020 30/21 Q1019 RJOF 200335Z 24011KT 220V310 9999 FEW030 11/M00 Q1019 RMK 1CU030 A3012 KVSF 201854Z AUTO VRB05KT 10SM OVC009 09/08 A3019 RMK AO2 SLP229 T00890078 KWJF 201856Z 10SM CLR 06/M13 A3018 RMK AO2 SLP233 T00561133 RJOH 201900Z 19004KT 9999 -SHRA FEW020 SCT030 BKN050 03/00 Q1017 RJOI 201855Z 00000KT 9999 FEW030 BKN100 OVC120 07/M02 A3006 RMK SLP178 T00671022 SBFI 201900Z 30004KT 9999 BKN020 FEW025TCU 28/22 Q1005 SBES 201900Z 07016KT 9999 FEW025 FEW030TCU 31/24 Q1006 RJNS 201200Z 26022KT 9999 FEW030 BKN/// 07/M07 Q1013 RJOK 201100Z 01003KT CAVOK 07/M05 Q1017 RJNT 201207Z 31010KT 9999 -SHRA FEW020 BKN030 BKN040 03/M00 Q1019 RMK 1CU020 5CU030 6CU040 A3010 SANT 201900Z 09006KT 9999 SCT035 FEW050CB 29/20 Q1008 KVTA 201854Z AUTO 22016G25KT 10SM FEW055 24/13 A3013 RMK AO2 PK WND 21028/1829 SLP197 T02440128 SBFL 201900Z 01009KT 9999 FEW027 30/22 Q1001 RJOM 201200Z 11007KT 9999 FEW030 SCT170 BKN/// 08/01 Q1019 SBFN 201900Z 15011KT 9999 SCT015 SCT030 27/24 Q1010 RJNW 201000Z 30006KT 250V020 9999 VCSH FEW001 SCT010 BKN030 01/M01 Q1017 LOAN 201600Z 36004KT 1300 SN BR VV005 RJOO 201100Z 01003KT 340V050 CAVOK 08/M03 Q1018 RJNY 201625Z 28014KT 260V350 9999 FEW030 BKN180 BKN/// 06/M06 Q1012 RMK 1CU030 5AC180 A2991 RJOR 201200Z 32011KT 9999 FEW030 SCT040 BKN/// 08/M01 Q1019 FQNP 201800Z 19002KT 9999 FEW020 28/23 Q1010 RJOS 200649Z 05008KT 9999 FEW025 12/M05 Q1016 RMK 1CU025 A3002 SBFS 201900Z /////KT 9999 FEW030 ///// Q//// KVTI 201935Z AUTO 31012G21KT 10SM BKN014 OVC026 M01/M04 A2996 RMK AO2 T10071037 RJOT 201200Z 22007KT CAVOK 07/M06 Q1018 SAOU 200835Z 09018G28KT 9999 VCTS BKN040 FEW045CB 16/13 Q1009 RMK CB OBS TO W VYMD 201330Z CALM 6000 HZ NSC 20/13 Q1008 MDST 201900Z 10010KT 9999 SCT020 29/20 Q1021 SBGL 201900Z 12007KT 9999 SCT040 BKN090 32/23 Q1005 SBGM 201700Z 32008KT 9999 OVC040 22/22 Q1012 RERA LOAV 201600Z 32006KT 0800 -SN BR VV005 M00/M02 RJOW 201000Z VRB01KT CAVOK 08/M00 Q1019 KWLD 201854Z AUTO 36016KT 10SM BKN012 OVC031 M04/M04 A3009 RMK AO2 SLP202 T10391044 KVTN 201852Z AUTO 31010KT 10SM FEW020 M14/M19 A3015 RMK AO2 SLP269 T11391194 SBGO 201900Z 28008KT 9999 VCSH SCT035 SCT040TCU 25/20 Q1012 RJOY 201000Z 29007KT CAVOK 08/M02 Q1018 RJOZ 200518Z 32010KT 190V360 9999 FEW035 13/M03 Q1018 RMK 1CU035 A3006 SBFZ 201900Z 06010KT 9999 FEW020 29/24 Q1009 KVTP 201924Z AUTO 21024G41KT 10SM SCT034 OVC040 M07/M17 A2980 RMK AO2 KXBP 201915Z AUTO 18013G22KT 10SM SCT017 SCT047 BKN065 21/19 A2986 RMK AO2 LTG DSNT SW THRU NW T02140187 SBGR 201900Z 31008KT 9999 SCT030 26/21 Q1010 KVUJ 201915Z AUTO 14003KT 10SM BKN011 OVC018 18/17 A3045 RMK AO2 T01800174 SBIC 201800Z 08003KT 9999 SCT020 30/24 Q1010 SARC 201900Z 20011KT 9999 FEW025 30/19 Q1006 KWMC 201856Z AUTO VRB03KT 10SM CLR M04/M16 A3010 RMK AO2 SLP228 T10441161 SBGW 201900Z 27005KT 220V360 9999 SCT030 SCT080 31/18 Q1009 SARE 201900Z 19008KT 150V230 9999 SCT030 31/21 Q1005 SARF 201900Z 14005KT 9999 FEW020 32/22 Q1005 KVUO 201915Z AUTO 11009KT 1 1/4SM -SN BR SCT006 BKN017 OVC025 01/00 A3020 RMK AO2 P0000 T00060000 SBIH 201900Z 06002KT 8000 SCT008 FEW023TCU BKN080 24/23 Q1009 SARI 201900Z 32006KT 9999 FEW025TCU BKN025 28/22 Q1006 RJSA 201212Z 22010KT 6000 -SHSN FEW005 SCT010 BKN020 M05/M06 Q1013 RMK 1ST005 3ST010 5CU020 A2992 SASA 201900Z 07005KT 9999 BKN020TCU 28/17 Q1012 SBHT 201900Z 36002KT 9999 -RA BKN020 29/25 Q1008 RKJB 201900Z AUTO 35014KT 9999 NCD 01/M11 Q1024 SBIL 201800Z 05006KT 9999 FEW025 SCT070 30/22 Q1010 RJSC 201000Z 36010KT 2000 -SHSN FEW003 SCT015 BKN020 M02/M03 Q1014 SARL 201900Z 18015KT 9999 BKN016 SCT017 31/20 Q1004 FQQL 201900Z 13003KT 9999 FEW020 28/25 Q1009 RJSF 201100Z 12003KT 100V160 9999 FEW035 BKN060 01/M04 Q1013 SBIP 201800Z 06007KT 9999 SCT020 FEW035TCU BKN050 32/23 Q1010 SARP 201900Z 23009KT 9999 SCT030 FEW050CB 27/23 Q1004 RERA RJSH 201302Z 28003KT 250V330 5000 -SHSN FEW010 BKN030 M03/M06 Q1014 RMK 1ST010 7CU030 A2995 RJSI 201000Z VRB02KT 9999 FEW020 SCT100 BKN/// M03/M07 Q1013 SCBA 201900Z 30021KT 9999 FEW040 BKN200 16/04 Q1013 SASJ 201900Z 07005KT 9999 FEW030 FEW035TCU 30/17 Q1010 RJSK 201200Z 32007KT 280V350 5000 -SHSN FEW005 SCT010 BKN020 M02/M05 Q1015 RKJK 201856Z 01007KT 10SM FEW100 01/M11 A3027 RMK A02A SLPNO WND DATA ESTMD ALSTG ESTMD $ HAAB 201700Z 28006KT 7000 RA BKN025 SCT070 15/13 Q1024 RJTE 201819Z 01015G25KT 9999 FEW030 BKN230 08/00 Q1011 RMK 1CU030 A2988 KVVV 201915Z AUTO 32018G23KT 4SM HZ OVC014 M12/M16 A3008 RMK AO2 RJSN 201300Z 34020KT 6000 -SHSN FEW005 BKN010 BKN020 02/00 Q1017 RMK 1ST005 5CU010 6CU020 A3004 RJTF 200700Z 13009KT 9999 FEW030 11/M07 Q1013 RJSO 201832Z 33004KT 270V050 5000 -SHSN FEW010 BKN015 BKN030 M05/M07 Q1014 RMK 2ST010 5CU015 7CU030 A2995 SBKG 201800Z 09008KT 5000 -RA BR SCT007 BKN010 BKN015 23/22 Q1013 SBJP 201900Z 11010KT 9999 SCT040 29/21 Q1010 SCAP 201800Z 22011KT 190V260 9999 FEW046 20/05 Q1021 SBIZ 201900Z 33004KT 9999 BKN025 BKN080 28/24 Q1008 SBJR 201800Z 16003KT 9999 FEW030 35/24 Q1005 RJTI 200700Z 16004KT 110V210 9999 FEW030 10/M06 Q1013 RJSR 201000Z 00000KT 1200 R11/1500VP2000U -SHSN FEW001 BKN008 BKN015 M03/M03 Q1014 SCAR 201900Z 21012KT CAVOK 26/16 Q1011 RJSS 201200Z 03006KT 9999 FEW015 SCT050 BKN070 00/M05 Q1015 RJTK 192238Z 02008KT 9999 FEW030 SCT050 BKN250 05/M01 Q1016 RMK 1CU030 3SC050 7CI250 A3001 SBLB 201800Z 07017KT 9999 SCT020 BKN070 29/22 Q1010 W///S3 SCAT 201900Z 27010KT 220V300 9999 FEW020 24/14 Q1015 RJSU 200036Z 31007G17KT 9999 FEW020 04/M09 Q1016 RMK 1CU020 A3002 SCCC 201900Z 29024G34KT 9999 FEW040 BKN200 20/M00 Q1010 SBJU 201800Z 12008KT 9999 BKN018 29/22 Q1013 SBJV 201800Z 01003KT 9999 SCT035 31/23 Q1003 KVWU 201915Z AUTO 27006KT 3SM -SN SCT012 BKN029 OVC047 M12/M15 A2995 RMK AO2 SBLE 201800Z 06003KT 9999 BKN030 30/20 Q1012 HABD 201400Z 36006KT 9999 FEW025 FEW026 FEW057 27/15 Q1017 RJTO 200700Z 22004KT 170V280 9999 FEW025 10/01 Q1013 SCCF 201900Z 27021KT CAVOK 21/03 Q1024 RJSY 201234Z 33009KT 300V010 2000 -SHSN FEW003 SCT007 BKN010 M01/M02 Q1016 RMK 1ST003 3ST007 5ST010 A3001 SBKP 201900Z 34010KT 300V010 9999 VCSH SCT030 FEW035TCU 28/19 Q 1009 SCCH 201900Z 21006KT 9999 SCT030 24/15 Q1017 SATR 201010Z 20003KT 6000 NSC 20/20 Q1005 SCCI 201900Z 30018KT CAVOK 15/05 Q1002 NOSIG SBMA 201900Z 28003KT 9999 FEW024 FEW026TCU 32/24 Q1008 SCDA 201900Z 22015KT CAVOK 25/15 Q1012 RJTT 201900Z 35014KT 9999 FEW050 BKN170 07/M04 Q1013 NOSIG SAVC 201900Z VRB06KT 9999 FEW040 SCT040 24/08 Q1011 SBMD 201900Z 02003KT 9999 SCT014 BKN080 26/24 Q1009 SBME 201800Z 02008KT 9999 FEW020 42/23 Q1006 SBLO 201900Z 32011KT 9999 SCT025 BKN100 25/20 Q1009 SBLP 201900Z 27005KT 9999 SCT030 31/21 Q1010 SBMG 201900Z 34010KT 9999 BKN020 24/19 Q1008 RJTY 201856Z AUTO 35005KT 10SM CLR 03/M06 A2997 RMK AO2 SLP157 T00251056 FZRANO $ SBLS 201900Z 05004KT 9999 TS SCT035 FEW040CB 26/19 Q1013 SBMK 201900Z 36005KT 9999 FEW030 FEW040TCU 26/20 Q1012 RETS KVYS 201915Z AUTO 28008KT 2 1/2SM RA SCT005 BKN031 OVC044 06/05 A2989 RMK AO2 P0007 T00550050 SBML 192300Z 00000KT 9999 SCT030 BKN090 23/22 Q1011 KWRB 201856Z 16005KT 10SM BKN055 25/18 A3032 RMK SLP268 T02520176 SBMN 201900Z 07008KT 9999 SCT020 FEW025TCU 32/18 Q1009 SAWE 201900Z 29024G34KT 9999 BKN020 18/06 Q1002 SBNF 201900Z 01008KT 9999 SCT020 28/23 Q1002 SBMO 201900Z 13010KT 9999 SCT030 30/22 Q1010 KXIF 201856Z AUTO 22007KT 000V300 10SM CLR 25/11 A3019 RMK AO2 SLPNO WND DATA ESTMD T02450109 SCCY 201900Z 25010KT 200V320 9999 SCT033 BKN200 17/04 Q1013 SAWG 201900Z 36011KT 9999 SCT035 SCT040 19/03 Q1003 SAWH 201900Z 36018KT 9999 SCT040 16/03 Q1000 SBMQ 201900Z 04008KT 9999 SCT013 BKN022 BKN070 28/25 Q1009 KXIH 201915Z AUTO 14019KT 4SM BR CLR 21/20 A3001 RMK A01 SBMS 201800Z 05009KT 9999 SCT025 35/23 Q1007 KWRI 201856Z AUTO 29005KT 10SM CLR 22/14 A3026 RMK AO2 SLP246 T02230136 $ SCFA 201900Z 19012KT CAVOK 24/15 Q1013 NOSIG SBMT 201900Z 29005KT 9999 FEW040 26/20 Q1010 SCEL 201900Z 15013KT 130V190 9999 FEW050 29/09 Q1015 NOSIG SBNM 192000Z 36010KT 9999 SCT027 SCT030TCU BKN077 27/21 Q1003 KWRL 201853Z AUTO 00000KT 10SM CLR M18/M23 A3004 RMK AO2 SLP277 T11831228 FQVL 201800Z 12007KT 090V150 9999 SCT020 28/24 Q1010 SBMY 201900Z 02007KT 9999 FEW024TCU SCT024 SCT100 33/25 Q1008 SBOI 201900Z 07005KT 5000 -DZ FEW008 BKN020 BKN080 25/24 Q1011 SBPA 201900Z 28007KT 6000 BKN007 BKN045 BKN070 23/22 Q1002 SBPB 201900Z 05010KT 9999 SCT017 29/25 Q1008 HADR 201500Z 02009KT 8000 TS.RA FEWCB026 BKN027 BKN056 23/20 Q1016 SBNT 201900Z 10013KT 9999 SCT029 30/22 Q1009 SBPC 201800Z 01006KT 9999 SCT015 FEW020TCU 27/23 Q1015 RKPC 201900Z 02008KT 330V050 9999 BKN030 OVC100 06/M06 Q1023 NOSIG SCFM 201900Z 29020KT 9999 SCT040 BKN200 16/06 Q1004 SCGE 201900Z 00000KT 9999 BKN046 23/11 Q1018 SBPF 201900Z 33014KT 9999 SCT025 SCT040 23/18 Q1006 RKNY 201900Z 32006KT CAVOK M01/M19 Q1022 NOSIG LPAR 201700Z /////KT 9999 FEW030 19/06 Q1016 SBPJ 201900Z 18005KT 9999 SCT030 FEW035TCU 30/22 Q1009 SAZB 201916Z 18005KT 6000 -RA FEW030 OVC050 20/14 Q1015 SBPK 201900Z 19007KT 9999 FEW030 BKN100 27/21 Q1002 RKPK 201900Z 36006KT CAVOK 05/M06 Q1020 NOSIG LPBJ 201900Z 35007KT 9999 FEW035 15/05 Q1016 SCFT 201900Z 28004KT 220V300 CAVOK 20/04 Q1016 MGCB 201900Z 07008KT 9999 FEW018 25/17 QFE870.8 KWST 201902Z AUTO 23006KT 1/2SM FG VV002 10/10 A3029 RMK AO2 T01000100 SBPL 201900Z 13005KT 9999 SCT047 34/19 Q1009 SBPP 201900Z 00000KT 9999 BKN020 27/20 Q1009 SBPR 201900Z 35004KT 9999 FEW030 FEW035TCU SCT080 28/21 Q1013 LPAZ 201900Z 18013KT 9999 4000N -DZ SCT004 BKN012 14/13 Q1020 REDZ SBPS 201900Z 06013KT 9999 SCT020 29/23 Q1010 SBRB 201900Z 33006KT 9999 BKN025 BKN100 28/22 Q1009 SCIC 201900Z 27009KT 9999 SCT040 29/12 Q1014 SAZM 201900Z 19018KT 9999 BKN024 BKN200 21/15 Q1011 SBPV 201900Z 05006KT 8000 -TSRA FEW010 SCT025 FEW030CB 25/23 Q1 008 KXLL 201915Z AUTO 00000KT 10SM CLR 16/12 A3029 RMK AO2 SAZN 201900Z 27009KT CAVOK 25/M01 Q1014 SCIE 201900Z 23007KT 9999 FEW040 22/14 Q1017 SBRF 201900Z 07006KT 9999 BKN023 28/23 Q1009 SCGZ 201900Z 27010KT 9999 FEW050 SCT076 BKN100 14/05 Q1000 SAZR 201118Z 23008KT 5000 RA BKN027 OVC100 17/12 Q1013 SCHR 201900Z 33010KT 9999 BKN040 20/02 Q1008 SAZS 201900Z 29017KT CAVOK 20/00 Q1016 SBRJ 201900Z 17010KT 9999 SCT030 SCT090 31/24 Q1005 KWVI 201853Z AUTO VRB03KT 10SM SCT120 09/M02 A3025 RMK AO2 SLP244 T00941017 LPCS 201900Z 01013KT CAVOK 13/08 Q1016 KXNA 201914Z 31013G22KT 10SM -RA FEW007 BKN014 OVC025 10/09 A2994 RMK AO2 P0001 T01000094 SBSC 201900Z 19005KT 9999 SCT030 BKN100 32/23 Q1005 FSIA 201900Z VRB02KT 9999 FEW019 27/24 Q1010 NOSIG SBQV 201900Z 14006KT 9999 BKN030 26/17 Q1014 KWVL 201856Z AUTO 01004KT 5SM -RA BR OVC004 03/03 A3020 RMK AO2 SLP256 P0002 T00330033 KWWD 201855Z AUTO 21012KT 10SM CLR 20/14 A3035 RMK AO2 SLP278 T02000144 SBRP 201900Z 30009KT 9999 BKN040 29/21 Q1009 SBSG 201900Z 15012KT 120V180 9999 SCT030 30/22 Q1009 RKSG 201856Z AUTO 29006KT 10SM CLR M04/M15 A3026 RMK AO2 SLP251 T10381146 PWINO $ SCIP 201900Z 31007KT 270V010 9999 BKN020 28/22 Q1020 NOSIG SCIR 201900Z 13009KT 9999 BKN015 19/13 Q1019 RKSI 201900Z 33009KT CAVOK M04/M12 Q1025 NOSIG SBTA 201900Z 32008KT 9999 SCT030 SCT100 30/18 Q1009 KXMR 201856Z AUTO 15013KT 10SM CLR 27/21 A3031 RMK AO2 SLP267 T02690207 $ SBSJ 201900Z 33008KT 9999 SCT030 30/20 Q1009 SBTC 201800Z 06004KT 9999 FEW020 BKN070 31/25 Q1011 SBSL 201900Z 02008KT 9999 BKN017 FEW025TCU 26/24 Q1009 SBSM 201800Z 04004KT 360V070 9000 -RA SCT005 SCT020 FEW040TCU OVC080 22/22 Q1003 RERA RKSM 201900Z 01002KT 9999 FEW200 M02/M16 A3027 SBTE 201900Z 04005KT 9999 SCT020 BKN070 30/23 Q1008 SBSN 201900Z 30005KT 9999 SCT013 BKN100 26/24 Q1009 SBTF 201900Z 14005KT 9999 FEW020 FEW025TCU BKN080 30/26 Q1008 SCJO 201900Z VRB04KT 9999 FEW035 22/04 Q1017 RKSO 201901Z 28005KT 7SM CLR M06/M15 A3025 RMK AO2A SLP248 T10601146 $ SBSP 201900Z 34011KT 9999 FEW030 25/19 Q1011 KXNO 201856Z AUTO 18006KT 10SM BKN038 BKN047 26/10 A3038 RMK AO2 SLP288 T02580104 $ SBSR 201800Z 36003KT 9999 FEW012 SCT025 24/21 Q1011 SBUA 201900Z 32004KT 9999 SCT030 FEW035TCU SCT080 32/25 Q1008 RKSS 201900Z 24002KT CAVOK M06/M19 Q1025 NOSIG KWWR 201915Z AUTO 36014G18KT 10SM OVC017 M03/M07 A3011 RMK AO2 SBTK 201800Z 06004KT 9999 BKN020 OVC090 27/24 Q1011 MGES 201900Z 07004KT 9999 SCT020 29/14 QFE910.2 SBST 201900Z VRB03KT CAVOK 32/24 Q1004 HBBA 201000Z 09004KT 9999 TS FEW015 FEW025CB BKN100 26/20 Q1012 NOSIG LPFL 201800Z 18013G23KT 150V210 8000 -RA SCT016 14/12 Q1008 SBSV 201900Z 12011KT 9999 FEW020 29/22 Q1010 RKTN 201900Z 30007KT CAVOK 03/M15 Q1021 NOSIG SBUF 201800Z 15005KT 9999 FEW022 36/16 Q1009 SBUG 201900Z 21011KT CAVOK 31/20 Q1004 SBSY 201800Z AUTO 35014KT 320V020 9999 FEW033 28/19 Q1011 LPFR 201900Z 28007KT CAVOK 14/10 Q1015 SBTT 201900Z 10009KT 9999 SCT020 29/23 Q1009 SBTU 201900Z /////KT 9999 SCT025 FEW026TCU BKN100 ///// Q1010 SBUL 201800Z 32009KT 9999 BKN020 SCT100 25/18 Q1014 RKTU 201900Z 21002KT CAVOK M03/M12 Q1024 NOSIG VYYY 201900Z 26004KT 7000 NSC 25/16 Q1009 SBVH 201900Z 28009KT 250V310 9999 SCT030 FEW035TCU 27/23 Q1011 SBUR 201800Z 34010KT 9999 BKN020 27/19 Q1013 SCMK 201900Z 02011KT 9999 FEW046 16/11 Q1016 KWYS 201915Z AUTO VRB03KT 9SM SCT025 SCT032 M19/M23 A2984 RMK AO2 MGGT 201900Z 36006KT 9999 SCT020TCU 27/12 Q1025 A3027 TCU E/SE KXPY 201915Z AUTO 15009KT 8SM CLR 26/22 A3015 RMK A01 YABA 201900Z AUTO 21005KT 9999 // SCT014 SCT026 BKN050 13/12 Q1015 LPHR 201900Z 16026KT 9999 SCT016 SCT030 BKN080 17/13 Q1015 KXSA 201915Z AUTO 18007G15KT 10SM CLR 25/17 A3035 RMK AO2 T02450167 SBVT 201900Z 04014KT 9999 FEW025 29/23 Q1009 MGHT 201900Z 27006KT 9999 FEW020 27/06 QFE819.5 WSAP 201900Z 03009KT 9999 FEW018 BKN300 26/24 Q1008 KYIP 201914Z 22016KT 3SM RA BR FEW018 BKN028 OVC100 16/14 A2999 RMK AO2 PK WND 22027/1858 P0008 T01610144 SCNT 201900Z 29014KT 250V330 9999 SCT060 SCT100 16/05 Q1003 SCON 201900Z 36006KT 9999 BKN025 19/12 Q1017 MHAM 201900Z 02004KT 9999 FEW030 35/20 LPLA 201900Z /////KT 9999 FEW025 17/12 Q1017 MHCA 201900Z 01004KT 9999 SCT028TCU 26/22 Q1018 RERA TCU ALL LQBK 201900Z 31002KT 5000 -SN BR BKN008 OVC027 01/00 Q1011 NOSIG KYKM 201853Z VRB03KT 10SM SCT055 A3021 RMK AO2 SLPNO $ KYKN 201856Z AUTO 30019KT 5SM HZ CLR M12/M15 A3017 RMK AO2 PK WND 31028/1806 SLP256 T11171150 FZRANO SCPQ 201900Z 34009KT 290V030 9999 FEW046 20/07 Q1017 MHCH 201800Z 35014KT 9999 SCT034 36/18 HZ SBYS 201900Z 35012KT 9999 VCTS FEW028 BKN035 FEW040CB 28/20 Q1010 LPMA 201900Z 36008KT 300V050 9999 SCT015 14/11 Q1019 SCRD 201900Z 24007KT CAVOK 27/13 Q1016 SCRG 201600Z 20007KT CAVOK 23/12 Q1016 SCQP 201900Z VRB04KT 9999 SCT046 21/11 Q1017 KXVG 201915Z AUTO 31006KT 10SM SCT021 BKN048 M12/M17 A2994 RMK AO2 SCRM 201900Z 01020KT 0700 FG OVC002 02/02 Q0995 MGMM 201900Z 12012KT 9999 BKN020 32/19 Q1015 A2997 SCSE 201900Z 27012KT 9999 FEW020 22/15 Q1015 LOWG 201850Z 05002KT 2600 -SN BR FEW002 BKN004 OVC011 M01/M01 Q1012 R17/29//95 TEMPO 3500 BKN012 KYNG 201851Z 23009G17KT 10SM BKN038 OVC050 20/13 A3015 RMK AO2 RAB11E40 SLP206 P0000 T02000133 $ LPMR 201900Z 33005KT CAVOK 12/09 Q1017 LOWI 201850Z VRB01KT 5000 -SN FEW009 SCT030 BKN040 M00/M02 Q1012 TEMPO 3000 -SN BR SCTB 201900Z 21005KT 9999 FEW070 28/07 Q1016 MGMT 201900Z 18006KT CAVOK 32/22 QFE1011.3 LPMT 201900Z 35007KT CAVOK 15/09 Q1016 LOWK 201850Z 07003KT 040V100 4500 -SN FEW007 SCT012 BKN050 M00/M02 Q1011 R10L/29//95 NOSIG SEAM 201900Z 19004KT 9999 SCT033 SCT300 22/14 Q1025 LOWL 201850Z VRB01KT 2400 SN FEW005 BKN013 BKN016 M00/M01 Q1015 R08/290195 BECMG 5000 -SN SCT012 BKN018 SCTE 201900Z VRB05KT 9999 SCT050 SCT210 20/07 Q1017 NOSIG SCSN 201900Z 23013KT CAVOK 22/15 Q1016 SECA 201900Z 36007KT 9999 -RA BKN040 BKN100 24/18 Q1016 LOWS 201850Z 31006KT 4000 -SN BR FEW007 SCT012 BKN020 M01/M02 Q1014 NOSIG MGPB 201900Z 36008KT 9999 FEW020 29/21 Q1015 A2997 SCTN 201900Z 32008KT CAVOK 18/08 Q1017 LPPD 201900Z 15014KT 9999 VCSH FEW018 FEW020TCU SCT030 15/12 Q1020 RERA LOWW 201850Z 35008KT 4000 -SN BR FEW004 BKN005 OVC012 M01/M02 Q1015 R88/29//95 TEMPO 1400 SN LOXT 201850Z 24003KT 1500 -SN BR SCT006ST BKN012SC M01/M01 Q1015 RMK OVC SCVD 201900Z VRB04KT CAVOK 22/07 Q1017 LPOV 201900Z 36008KT CAVOK 12/09 Q1017 SECO 201900Z 11004KT 9999 SCT023 BKN100 30/21 Q1012 RMK A2989 LOXZ 201850Z 29003KT 4000 -SN BR FEW008ST SCT025SC BKN035SC M01/M02 Q1010 LPPR 201900Z 36004KT 330V040 CAVOK 13/08 Q1018 LPPS 201900Z 01012KT 9999 SCT015 BKN030 15/07 Q1019 SECU 201900Z 16004KT 9999 -RA SCT020 OVC040 15/12 Q1025 LPPT 201900Z 33011KT CAVOK 14/07 Q1016 SCVM 201900Z 29012KT CAVOK 23/15 Q1015 YBAF 201900Z AUTO 12010KT 9999 // SCT035 BKN065 BKN074 23/19 MGQZ 201900Z 18006KT 9999 BKN025 21/05 QFE773.2 YBAS 201900Z AUTO 20006KT 9999 // SCT097 29/15 Q1007 MGSJ 201900Z 18008KT 8000 FEW018 32/23 Q1013 A2991 FU MGRT 201900Z 22008KT 9999 SCT020 32/18 Q1015 A2997 VOL. STA. MARIA Y SANTIAGUITO EN ACTIVIDAD YBBN 201900Z 12013KT CAVOK 24/19 Q1011 LRBC 201900Z 17005KT 9999 BKN025 OVC029 M00/M02 Q1021 YBCG 201900Z AUTO 14015KT 9999 // SCT028 BKN044 BKN105 25/18 Q1012 YBCK 201900Z AUTO 11010KT //// // ////// 20/15 Q1007 RMK YAMB 201900Z AUTO 17008KT 9999 // SCT028 OVC074 22/19 Q1011 LRAR 201900Z AUTO 06005KT 9999 R09////// R27/P2000 BKN056/// ///// Q1012 LPST 201700Z 34009KT CAVOK 15/08 Q1017 MHLC 201900Z 01007KT 9999 FEW026 29/23 Q1015 A2997 NOSIG LRBM 201900Z AUTO /////KT //// FEW026/// SCT240/// ///// Q//// YBDG 201900Z AUTO 07005KT 9999 // NCD 18/07 Q1015 RMK MHLE 201900Z 00000KT 9999 FEW026 24/11 LRBO 201900Z 02013KT 8000 BKN025 OVC040 M00/M03 Q1021 BLU BLU YBCS 201900Z 17009KT 9999 FEW018 SCT040 BKN080 26/23 Q1006 NOSIG SEGS 201900Z 06006KT 9999 FEW023 BKN070 29/23 Q1011 A2987 LRBS 201900Z 04012KT 9000 OVC022 00/M00 Q1019 R07/29//95 NOSIG LRCK 201900Z 06011KT 9999 SCT030 00/M02 Q1020 NOSIG SEGU 201900Z 06004KT 9999 SCT023 SCT100 29/24 Q1010 NOSIG RMK A2983 YBCV 201900Z AUTO 09011KT 9999 // SCT021 OVC040 22/16 Q1010 MGTU 201900Z 18006KT 9000 SKC 34/22 HZ LRCL 201900Z 11008KT CAVOK 04/M03 Q1013 MHLM 201900Z 03005KT 9999 FEW030 32/19 Q1014 A2995 NOSIG YANG 201900Z AUTO 05007KT 9999 // NCD 24/21 Q1006 RMK YBDV 201900Z AUTO 10012KT //// // ////// 31/13 Q1003 LRCT 201900Z 09006KT 9999 BKN070 01/M02 Q1013 BLU BLU SEJD 201900Z 36001KT 9999 SCT020 BKN100 28/23 Q1014 LRCV 201900Z AUTO 07018KT 7000 OVC006/// 00/M01 Q1016 LQMO 201900Z 02002KT 9999 FEW045 05/02 Q1004 ROAH 201900Z 27008KT 9999 FEW015 BKN040 22/19 Q1012 BGBW 201850Z 00000KT 9999 FEW078 SCT085 BKN095 M12/M24 Q0999 YBGD 201900Z AUTO 33005KT 9999 // NCD 26/20 Q1005 RMK SFAL 201850Z 34017KT 9999 FEW025 13/05 Q1012 GMAD 201900Z 22008KT 180V250 9999 FEW030TCU 15/11 Q1011 NOSIG MHNO 201900Z 18004KT 9999 FEW030 31/15 HZ GMAG 201800Z 30014KT 9999 FEW016 15/10 Q1010 NOSIG FTTA 201900Z 00000KT CAVOK 32/16 Q1006 FTTC 201500Z 28006KT CAVOK 39/12 Q1007 FTTD 201500Z 10004KT 8000 NSC 38/11 Q1006 HDAM 201000Z 08006KT 8000 BR 29/22 Q1012 YBHI 201900Z AUTO 05009KT 9999 // NCD 25/09 Q1011 KZPH 201915Z AUTO 15010G15KT 10SM SCT047 BKN060 31/18 A3028 RMK AO2 T03060178 MGZA 201900Z 03010KT 9999 FEW028 33/15 QFE987.7 SEMC 201900Z 01003KT 9999 SCT030 BKN100 22/20 Q1017 LRFT 201100Z 04010KT 9999 OVC040 02/M01 Q10221 BLU BLU FTTJ 201900Z 33006KT CAVOK 31/01 Q1006 NOSIG YBHM 201900Z AUTO 26005KT 9999 // NCD 23/21 Q1005 MHPL 201900Z 06012KT 9999 SCT028TCU 28/23 Q1014 TCU ALL HZ GMAT 201800Z 34014KT 8000 BKN016 15/10 Q1012 NOSIG YARG 201900Z AUTO 12003KT 9999 // BKN068 25/25 Q1007 LRIA 201900Z 07005KT 9999 SCT031 M02/M05 Q1022 R14/19//95 BGGH 201850Z 32013KT 9999 4900N -SN FEW010 SCT025 BKN080 M17/M18 Q1003 SELT 201900Z 35004KT 9999 SCT030 BKN300 20/10 Q1026 FVBU 201400Z 23003KT 150V290 9999 FEW025CB SCT030 26/18 Q1015 NOSIG RODN 201856Z AUTO 25008KT 10SM FEW013 SCT032 SCT044 21/19 A2990 RMK AO2 SLP131 T02080187 $ HCMF 201300Z 36004KT 9999 FEW028 26/22 Q1009 FTTY 201500Z 00000KT CAVOK 36/M04 Q1007 YCBA 201900Z AUTO 08009KT 9999 // NCD 18/10 Q1014 HCMH 201300Z 36014KT 9999 SCT030 26/16 Q1015 YCBB 201900Z AUTO 14005KT 110V190 //// // ////// 12/11 Q1017 LQSA 201900Z 30003KT 5000 BR SCT012 BKN020 01/01 Q1007 NOSIG WSSL 201900Z 02007KT 9999 FEW018 BKN300 26/23 Q1008 RMK 1430Z Q1009 SEMT 201900Z 26007KT 9999 FEW023 SCT100 29/24 Q1011 SENL 201900Z 09004KT 9999 FEW016 29/21 Q1012 YBKE 201900Z AUTO 08011KT //// // ////// 22/12 Q1012 RMK MHSC 201903Z AUTO 05014G19KT 9999 SCT070 32/14 A3000 RMK AO2 WSHFT 1858 SLP117 $ HCMM 201300Z 10010KT 9999 SCT028 29/25 Q1006 MHRO 201900Z 08018KT 9999 FEW020 29/24 Q1016 A3000 NOSIG YCAR 201900Z AUTO 19015KT 9999 // NCD 24/21 Q1003 YCAS 201900Z AUTO 19010KT //// // ////// 20/18 Q1014 WSSS 201900Z 03007KT 350V090 9999 FEW020 BKN300 26/24 Q1008 NOSIG FVCZ 200600Z 00000KT 9999 BKN010 24/23 Q1017 FVFA 200600Z 32006KT 290V350 9999 FEW010 BKN090 21/19 Q1016 NOSIG MHTE 201900Z 03002KT 9999 SCT028TCU 30/23 Q1014 TCU NW HZ YCBP 201900Z AUTO 13011KT 9999 // NCD 28/07 Q1006 MHTG 201900Z 06008KT 9999 BKN030 23/14 Q1020 A3012 NOSIG GMFF 201900Z 19003KT 9999 FEW030 12/08 Q1014 NOSIG YBMA 201900Z AUTO 24007KT 9999 // ////// 26/19 Q1005 YBKT 201900Z AUTO 36008KT //// // ////// 28/28 Q1003 MHSR 201900Z 35006KT 9999 SCT030 26/12 HZ YBLN 201900Z AUTO 17008KT //// // ////// 13/09 Q1013 RMK GMFK 201900Z 27009KT 9999 SCT026 16/M02 Q1013 NOSIG GMFM 201900Z 00000KT CAVOK 13/07 Q1013 NOSIG GMFO 201900Z 30004KT 210V330 9999 FEW020 12/09 Q1014 NOSIG BGJN 201850Z 14013KT 1000 SHSN DRSN SCT005 BKN014 M18/M21 Q1006 YBNA 201900Z AUTO 12015KT 9999 // SCT023 SCT030 SCT040 22/19 Q1013 YBLT 201900Z AUTO 02012KT 9999 // NCD 18/10 Q1015 RMK MHTR 201900Z 09012KT 9999 SCT026TCU 30/23 TCU SE W HZ YBMK 201900Z AUTO 04008KT 9999 // BKN022 OVC025 24/21 Q1005 SERB 201900Z 07008KT 9999 TS FEW030CB BKN040 21/12 Q1025 FVHA 201900Z 18007KT CAVOK 18/17 Q1020 NOSIG YCEE 201900Z AUTO 18010KT //// // ////// 20/20 Q1010 RMK SEQM 201900Z 35013KT 9999 SCT026 SCT300 22/12 Q1023 NOSIG RMK A3023 YCDO 201900Z AUTO 10004KT //// // ////// 15/10 Q1016 RMK BGKK 201850Z 18016KT 9999 SCT043 M08/M14 Q0997 YCCY 201900Z AUTO 25003KT //// // ////// 27/19 Q1002 ROIG 201100Z 14006KT 9999 FEW016 BKN070 22/19 Q1014 LQTZ 201900Z 27003KT 3000 BR BKN005 OVC016 01/M00 Q1009 SESA 201900Z VRB01KT 9999 SCT012 28/24 Q1010 YCDU 201900Z AUTO 17011KT 9999 // NCD 22/19 Q1006 YCEM 201900Z AUTO 00000KT //// // ////// 11/11 Q1014 RMK GLRB 201900Z 00000KT 9999 FEW016 SCT100 28/20 Q1007 NOSIG SERO 201900Z 29010KT 9999 SCT030 31/25 Q1010 SESG 201700Z 00000KT CAVOK 09/M01 Q1017 YBNS 201900Z AUTO 02001KT 9999 // NCD 09/08 Q1017 RMK YBOK 201900Z AUTO 10012KT 9999 // BKN021 BKN120 20/16 Q1012 YCFL 201900Z AUTO 20005KT //// // ////// 25/22 Q1006 RMK SESM 201900Z 23003KT 9999 FEW026 BKN100 21/17 Q1016 A3003 YAYE 201900Z AUTO 24004KT 9999 // NCD 25/21 Q1007 LROD 201900Z 04003KT CAVOK 03/01 Q1012 R01/25//95 YCFS 201910Z AUTO 23012KT 6000 SHRA SCT013 SCT025 BKN035 18/17 Q1017 SGAS 201800Z 25008KT 190V300 9999 BKN030 32/22 Q1005 SEST 201900Z 21009KT 9999 SCT015 BKN080 28/24 Q1010 RMK A2983 HEBA 201800Z 05005KT CAVOK 16/11 Q1011 NOSIG FVKB 200600Z 00000KT CAVOK 25/22 Q1013 YBPN 201900Z AUTO 31004KT 9999 // SCT019 BKN115 21/20 Q1005 LSGC 201850Z AUTO 07007KT 040V130 9999 OVC008 M05/M06 Q1011 SETN 201900Z 32006KT 9999 SCT023 BKN300 28/25 Q1011 A2986 LROP 201900Z 05015KT 9000 OVC024 00/M01 Q1019 R08R/29//95 R08L/29//95 NOSIG LSGG 201850Z 04016KT 9999 FEW040 BKN150 03/M02 Q1012 NOSIG YCHK 201900Z AUTO 36008KT 9999 // NCD 22/22 Q1006 RMK YAYT 201700Z 06004KT CAVOK 15/M03 Q1016 HEAR 201900Z 00000KT CAVOK 13/06 Q1012 NOSIG SETU 201900Z 05010KT 9999 BKN023 17/10 Q1029 HECA 201900Z 07010KT CAVOK 19/09 Q1011 NOSIG BGNS 201442Z 09012KT 9999 OVC090 M11/M19 Q1003 HEAT 201900Z 00000KT CAVOK 19/06 Q1012 NOSIG HEBL 201900Z 33005KT CAVOK 22/M01 Q1010 NOSIG SGCO 201800Z 33003KT 9999 BKN027 30/24 Q1006 HEAX 201900Z 07005KT CAVOK 16/12 Q1011 NOSIG MHYR 201900Z 09008KT 9999 SCT025TCU 27/17 TCU ALL HZ YBRK 201900Z AUTO 15007KT 9999 // BKN009 OVC018 23/21 Q1007 YBRL 201900Z AUTO 33005KT //// // ////// 28/25 Q1004 RMK LSGS 201850Z 28008KT 230V320 9999 SCT110 05/M04 Q1009 YBRM 201900Z AUTO 31008KT 9999 // SCT021 27/24 Q1005 YCIN 201900Z AUTO 01004KT //// // BKN015 25/25 Q1005 GMMB 201900Z 36006KT 2000 BR BKN005 13/13 Q1014 NOSIG GMMC 201900Z 04008KT CAVOK 14/12 Q1012 FWCL 200700Z 36007KT 9999 SCT025 28/21 Q1016 NOSIG YBSG 201900Z AUTO 00000KT //// // ////// 25/24 Q1006 RMK GMMD 201900Z 00000KT CAVOK 15/06 Q1011 NOSIG GMME 201900Z 03004KT 5000 SCT010 12/10 Q1013 NOSIG GMMH 201900Z 02016KT CAVOK 17/13 Q1014 NOSIG GMMI 201800Z 04014KT 6000 SCT016 16/12 Q1011 NOSIG LRSB 201900Z 14005KT 120V190 CAVOK 03/M04 Q1012 LTAC 201850Z 10005KT 9999 SCT040 BKN100 07/01 Q1012 NOSIG SGEN 201800Z 35008KT 9999 SCT027 27/19 Q1004 GMML 201900Z 36010KT 9999 FEW050 17/10 Q1014 NOSIG KZZV 201853Z AUTO 21012G22KT 10SM CLR 24/12 A3015 RMK AO2 SLP203 T02440122 YBTH 201900Z AUTO 07006KT 9999 // NCD 11/08 Q1019 RMK ROMY 201100Z 05006KT 9999 FEW010 BKN030 BKN080 21/20 Q1014 LTAF 201850Z 35006KT 310V040 9999 SCT035 BKN100 15/08 Q1012 NOSIG GMMN 201900Z 02010KT 6000 SCT010 14/12 Q1014 NOSIG LTAG 201850Z 36007KT 9999 SCT035 BKN100 15/08 Q1012 NOSIG LTAH 200926Z 10003KT 050V140 9999 BKN035 BKN100 08/02 Q1013 RERA RMK RWY13 15003KT 100V270 SGES 201800Z 36006KT 9999 BKN028 28/24 Q1005 LTAI 201850Z 33005KT 280V340 9999 FEW015CB BKN030 11/10 Q1012 RESHRA NOSIG YBSU 201900Z AUTO 12019KT 9999 // SCT033 BKN061 26/18 Q1010 YBTL 201900Z AUTO 27005KT 9999 -DZ SCT077 SCT105 BKN125 22/21 Q1005 LTAJ 201850Z 08006KT 9999 SCT025 BKN080 10/07 Q1015 NOSIG LTBA 201850Z 05010KT 9999 OVC016 09/03 Q1014 NOSIG YBUD 201900Z AUTO 17006KT 9999 // SCT074 SCT120 22/21 Q1008 YCKN 201900Z AUTO 32005KT 9999 // OVC064 25/22 Q1006 LRTC 201900Z AUTO 04007KT 9999 OVC029/// 01/M01 Q1021 LTAL 201250Z 04003KT 9999 SCT025 BKN100 07/02 Q1011 LRSM 201900Z AUTO 03007KT 9999 FEW090/// BKN110/// 02/M00 Q1013 LTBD 201450Z 09004KT 7000 VCSH SCT040 BKN080 13/11 Q1010 FVMV 200600Z 27002KT 9999 FEW015 BKN090 FEW///CB 21/19 Q1018 TEMPO TS LTAN 201850Z 00000KT 9999 -RA SCT021 BKN090 05/05 Q1012 NOSIG GMMW 201800Z 06008KT CAVOK 17/10 Q1013 NOSIG LTBF 201850Z 35003KT 9999 -SHRA SCT035 BKN100 08/06 Q1013 NOSIG LTAP 201850Z 04008KT 9999 SCT040 BKN100 04/01 Q1013 NOSIG GMMX 201900Z 03005KT 9999 FEW026 FEW033CB 17/03 Q1012 NOSIG BGSF 201850Z AUTO 06004KT 9999NDV BKN090/// BKN100/// M23/M26 Q1006 LTBH 201850Z 04011KT 8000 -SHRA BKN030 BKN090 08/07 Q1012 LTAR 201850Z 13009KT 9999 BKN033 BKN090 03/M02 Q1013 GMMZ 201900Z 07011KT 9999 BKN030 16/M02 Q1011 NOSIG LTAS 201350Z 31006KT 9999 SCT033 BKN090 09/05 Q1014 LTBJ 201850Z 20006KT 3100 -RA BR SCT026 BKN090 11/10 Q1010 R342///95 NOSIG LTCA 201850Z 11009KT 9999 SCT035 BKN100 09/03 Q1015 NOSIG LTAT 201850Z 15003KT 9999 SCT040 BKN100 07/05 Q1015 NOSIG LTCB 201850Z 25004KT 7000 BKN009 BKN028 08/07 Q1017 REDZ LTBL 201804Z 00000KT 3100 -RA BR SCT033 OVC100 10/09 Q1011 NOSIG RMK RWY17 00000KT LTAU 201909Z 02003KT 330V050 9999 BKN035 BKN090 07/04 Q1013 RESHRA NOSIG RMK RWY07 35005KT 340V040 LTCC 201850Z VRB02KT 9999 FEW040 BKN100 10/06 Q1016 NOSIG LRTM 201900Z AUTO 04004KT 9999 OVC092/// 01/M02 Q1014 LRSV 201900Z 15012KT 9999 BKN048 M04/M06 Q1019 LTCD 201850Z 29004KT 250V330 9999 SCT040 BKN100 03/M01 Q1015 NOSIG YDBY 201900Z AUTO 00000KT 9999 // NCD 26/26 Q1005 LTCE 201850Z VRB02KT 9999 SCT035 BKN070 M03/M05 Q1016 NOSIG LTAW 201250Z 29003KT 230V030 9999 SCT040 BKN200 11/02 Q1012 BIBD 201522Z 21021KT 9999 FEW035 01/M05 Q1010 LTCF 201850Z 18003KT 9999 BKN035 M06/M06 Q1016 LTBO 201350Z 23006KT 200V280 9999 -SHRA BKN035 BKN100 10/04 Q1011 LTCG 201850Z VRB02KT 9999 SCT015 BKN028 09/05 Q1017 NOSIG LTAY 201850Z 00000KT 8000 SCT030 BKN100 07/07 Q1011 SGGR 201800Z 23006KT 9999 SCT033 28/21 Q1004 LTAZ 201850Z 09004KT 9999 -SHRA BKN035 BKN090 07/06 Q1013 LTBQ 201850Z 00000KT 8000 SCT014 BKN020 BKN080 07/05 Q1014 NOSIG LRTR 201900Z 24003KT 210V270 CAVOK 04/01 Q1011 R11/290095 LTBR 201850Z VRB02KT 9999 SCT035 BKN090 08/05 Q1012 NOSIG RMK RWY07 10002KT LTCI 201850Z 00000KT 9999 SCT035 BKN100 00/M02 Q1016 NOSIG LSMA 201850Z AUTO 03013KT 350V060 9999NDV SCT028 OVC032 01/M04 Q1014 RMK LTBS 201850Z 08004KT 9999 SCT025 BKN090 11/10 Q1012 NOSIG LTCJ 201850Z 07003KT 9999 SCT040 BKN100 09/07 Q1016 LTDA 201850Z 04008KT 9999 SCT040 BKN100 13/10 Q1013 NOSIG YCMM 201900Z AUTO 19011KT //// // ////// 19/19 Q1010 RMK BIAR 201900Z 19008KT 9999 FEW057 02/M06 Q1016 LTCK 201250Z 00000KT 9999 SCT040 BKN200 08/01 Q1016 LTCL 201250Z 27006KT 9999 SCT040 BKN100 14/05 Q1016 LTBU 201850Z 04013KT 9999 -RA SCT015 BKN050 05/05 Q1014 LSMD 201850Z AUTO 08005KT 360V110 9999NDV SCT031 OVC037 M01/M05 Q1015 RMK LTCM 201750Z 12005KT 9999 SCT015 BKN025 OVC080 07/04 Q1016 LSME 201850Z AUTO 36003KT 310V030 9999NDV FEW025 OVC032 00/M04 Q1014 RMK BGTL 201856Z AUTO 09005KT 9999 CLR M23/M26 A2960 RMK AO2 SLP016 T12351258 TSNO $ LTCN 201850Z VRB01KT 8000 SCT030 BKN090 10/08 Q1014 RESHRA NOSIG HEGN 201900Z 33002KT CAVOK 19/05 Q1010 NOSIG LTCO 201350Z 07006KT 9999 BKN025 03/M01 Q1017 LTBY 201850Z 10004KT 9999 SCT030 BKN100 06/01 Q1011 LTCP 201450Z 08004KT 9999 SCT033TCU BKN090 12/06 Q1015 LTBZ 201850Z 14006KT CAVOK 05/04 Q1011 LRTZ 201900Z 07012KT 9999 BKN020 OVC040 04/00 Q1019 WHT WHT YCMT 201900Z AUTO 14003KT //// // ////// 20/18 Q1007 RMK YCNK 201900Z AUTO 17004KT //// // ////// 17/13 Q1017 RMK LTCR 201750Z 07004KT 9999 FEW035 SCT100 BKN180 10/07 Q1016 LTCS 201850Z 12007KT 9999 FEW025 BKN100 07/06 Q1016 LTCT 201250Z VRB02KT 9999 FEW035 SCT070 08/01 Q1017 YCNM 201900Z AUTO 08010KT //// // ////// 18/11 Q1014 YCOE 201900Z AUTO 35003KT //// // ////// 24/23 Q1006 RMK LTCU 201250Z 21004KT 150V240 9999 SCT035 BKN100 10/01 Q1016 LSMM 201850Z AUTO 05014KT 010V090 9999NDV BKN030 BKN037 OVC055 M00/M04 Q1012 RMK LTCV 201450Z 16003KT 9999 FEW040 BKN100 12/06 Q1016 YBWP 201900Z AUTO 05001KT 9999 // BKN023 BKN028 27/25 Q1005 LTCW 201250Z 28004KT 9999 SCT030 BKN090 01/M03 Q1018 LSMP 201850Z AUTO 06005KT 9999NDV FEW038 BKN110 BKN170 00/M04 Q1014 RMK RORS 201000Z 05009KT 9999 SCT027 BKN041 22/19 Q1014 LTFA 201303Z VRB02KT 5000 -SHRA BR SCT035 BKN100 11/07 Q1011 RMK RWY17 VRB02KT LSMS 201850Z 28008KT 230V320 9999 SCT110 05/M04 Q1009 RMK BLU+ YCOM 201900Z AUTO 03007KT 9999 // OVC016 08/07 Q1020 YBWW 201900Z AUTO 13017KT 9999 // SCT025 BKN037 21/17 Q1012 LTFC 201850Z 07005KT 9999 -SHRA BKN030 BKN100 07/06 Q1012 YBWX 201900Z AUTO 24017KT //// // ////// 26/23 Q1003 LTFD 201850Z 06013KT 9999 SCT035 BKN100 10/06 Q1011 YCNY 201900Z AUTO 00000KT //// // ////// 26/21 Q1003 RMK LTFE 201850Z VRB02KT 8000 -RA SCT035 BKN100 12/10 Q1011 NOSIG RORY 201900Z AUTO 25014KT 9999 SCT020 BKN039 BKN044 21/19 Q1012 LTFG 201850Z 11004KT 9999 BKN030 11/10 Q1011 LTFH 201850Z 18002KT 7000 SCT015 BKN028 OVC080 07/05 Q1017 NOSIG BIEG 201900Z 20015KT CAVOK 01/M07 Q1018 RPLB 201800Z 06004KT 9999 FEW020 25/22 Q1009 NOSIG RMK A2980 METAR RPMD 201800Z 36003KT 9999 FEW016 SCT290 24/22 Q1009 RMK A2980 LTFJ 201850Z 03012KT 9999 FEW017 SCT030 BKN090 07/04 Q1013 NOSIG HEIS 201600Z 36008KT CAVOK 19/12 Q1012 RPLC 201700Z 30007KT 9999 FEW020 SCT300 26/21 Q1011 NOSIG RMK A2985 LTFK 201250Z 05007KT 9999 SCT030 BKN100 08/06 Q1014 GMTA 201900Z 00000KT CAVOK 12/11 Q1013 NOSIG GOBD 201300Z 34016KT CAVOK 25/13 Q1011 NOSIG RPLI 201500Z 12002KT 9999 FEW019 25/24 Q1012 NOSIG RMK A2988 YBYU 201900Z AUTO 24009KT 9999 // SCT016 28/24 Q1006 YDGU 201900Z AUTO 15009KT 9999 // OVC022 23/18 Q1006 RMK FWKI 201900Z 00000KT 9999 TS FEW020CB 21/17 Q1019 NOSIG RPLL 201800Z 07004KT 9999 FEW025 27/23 Q1010 NOSIG RMK A2983 RPMD 201800Z 36003KT 9999 FEW016 SCT290 24/22 Q1009 RMK A2980 SGME 201800Z 18008KT 9999 SCT040 34/23 Q1004 GMTN 201900Z 00000KT CAVOK 14/09 Q1013 NOSIG HEMA 201900Z 21003KT 9999 SCT020 18/12 Q1011 NOSIG SGLV 201800Z 36002KT 9999 FEW027 34/21 Q1006 GMTT 201900Z 00000KT 8000 FEW013 12/08 Q1014 NOSIG RPMR 200900Z KT 9999 FEW020CB SCT080 31/24 Q1009 NOSIG RMK A2980 HEMM 201900Z 14007KT CAVOK 17/12 Q1011 NOSIG HELX 201900Z 02002KT CAVOK 17/00 Q1010 NOSIG RPMZ 201800Z 00000KT 9999 SCT016CTU SCT090 BKN300 26/24 Q1008 RMK A2977 NCAI 201900Z AUTO 05007KT //// ////// 24/24 Q1010 SGPC 201800Z 25002KT 9999 BKN033 33/23 Q1004 MKJP 201900Z 13021KT 9999 FEW024 32/18 Q1017 SGPI 201800Z 18004KT 9999 SCT040 30/23 Q1005 SGPJ 201800Z 34012KT 9999 SCT027 26/22 Q1007 MKJS 201900Z 07021KT 9999 SCT020 29/23 Q1018 YCUN 201900Z AUTO /////KT 9999 // NCD 15/11 Q1012 RMK BIIS 201700Z 24020G30KT 9999 BKN030 00/M06 Q1009 ROYN 201900Z AUTO 25003KT 9999 FEW022 SCT043 OVC044 //////TCU 22/21 Q1013 YDLQ 201900Z AUTO 06010KT //// // ////// 18/08 Q1015 RMK YCWA 201900Z AUTO 04002KT 9999 // NCD 23/22 Q1007 RMK GOGG 201800Z 26008KT CAVOK 31/19 Q1008 BIKF 201900Z 20017KT 9999 -SHSN FEW015CB SCT050 M00/M02 Q1016 GOGK 201800Z 18004KT CAVOK 39/13 Q1006 HEPS 201900Z 05003KT CAVOK 16/13 Q1012 NOSIG GOGS 201900Z VRB06KT CAVOK 22/17 Q1009 YCWR 201900Z AUTO 14004KT //// // ////// 13/08 Q1017 SGSJ 201800Z 26010KT 9999 FEW027 SCT030 29/20 Q1005 HESC 201900Z 00000KT CAVOK 12/M00 Q1016 NOSIG SGSP 201800Z 36008KT 9999 BKN027 27/21 Q1003 HESG 201900Z 24002KT CAVOK 18/00 Q1011 NOSIG HESH 201900Z 34002KT CAVOK 20/10 Q1009 NOSIG YDPO 201900Z AUTO 08007KT 9999 // OVC037 14/07 Q1020 RMK HESN 201900Z 36006KT CAVOK 22/02 Q1011 NOSIG LSZA 201850Z VRB02KT 8000 FEW040 03/M01 Q1008 NOSIG LSZB 201850Z VRB03KT 9999 OVC036 00/M05 Q1013 NOSIG RPVD 201200Z 36004KT 9999 FEW015 28/25 Q1010 NOSIG RMK A2983 LSZC 201850Z AUTO VRB06KT 9999 OVC032 01/M04 Q1014 LSZG 201850Z AUTO 04009KT 9999 BKN027 00/M04 Q1014 LSZH 201850Z 03011KT 9999 SCT024 BKN038 M01/M06 Q1015 NOSIG HETR 201900Z 30012KT CAVOK 19/14 Q1010 RPVM 201800Z 04007KT 9999 SCT020 OVC250 27/24 Q1009 NOSIG RMK A2980 LSZL 201850Z AUTO VRB01KT 8000NDV NCD 02/M01 Q1008 RMK RPVP 201200Z 09010KT 9999 FEW019 28/25 Q1010 RMK A2993 SGVR 201800Z 36007KT 9999 FEW040 30/21 Q1005 LSZR 201850Z VRB03KT 9999 FEW020 OVC033 M00/M04 Q1015 NOSIG RMK R LSZS 201850Z AUTO 03008KT 9999 OVC048 M07/M13 Q1005 MMAA 201843Z 20005KT 8SM SKC 29/23 A2994 RMK HZY YELD 201900Z AUTO 12003KT //// // ////// 25/24 Q1005 RMK CAHR 201500Z AUTO 03007KT 02/01 RMK AO1 SOG 11 1010 SLP265 T00220005 BIRK 201900Z 15008KT 9999 FEW025CB SCT038 BKN044 00/M02 Q1017 R19/590231 MMAN 201840Z 10006KT 4SM SCT020 SCT080 BKN200 24/18 A2992 RMK 8/572 HZY GOOD 201800Z 34008KT CAVOK 36/13 Q1008 YFBS 201900Z AUTO 13007KT //// // ////// 14/09 Q1016 RMK GOOG 201800Z 36004KT CAVOK 37/11 Q//// MMAS 201844Z 24010KT 10SM FEW040 FEW200 20/00 A3023 RMK 8/102 MMCB 201900Z RTD 18006KT 10SM SCT025 SCT240 27/08 A3010 RMK 8/104 LUKK 201900Z 11004KT CAVOK M02/M06 Q1022 R08/110095 NOSIG GOOK 201800Z 36006KT CAVOK 37/15 Q1008 FYGB 201900Z AUTO 12004KT //// // ////// 29/03 Q1019 YFDF 201900Z AUTO 35009KT 9999 // OVC015 24/21 Q1006 RMK MMCE 201842Z 13012KT 7SM FEW015 SCT250 30/22 A2994 RMK 8/108 CBBC 201500Z AUTO 00000KT 9SM FEW210 M08/M10 A3022 RMK SLP238 FYGF 201700Z 00000KT 9999 FEW035TCU SCT040 25/19 Q//// YEML 201900Z AUTO 15006KT 9999 // SCT026 SCT032 OVC041 20/20 Q1007 MMBT 201845Z 20015KT 7SM FEW050 31/// A2996 RMK 8/100 HZY MMCL 201844Z 28005KT 10SM FEW020 SCT100 25/15 A3002 RMK 8/130 MMCM 201841Z 13015KT 6SM -RA SCT010 BKN020 OVC100 26/24 A3003 RMK 8/63/ MMCN 201841Z 22002KT 10SM FEW030 21/10 A3000 RMK 8/400 HZY MMCP 201841Z 12014G24KT 7SM SCT020 32/21 A2993 RMK 8/100 GOOY 201800Z 36012KT CAVOK 21/17 Q1010 MMCS 201854Z 23017KT 10SM SCT050 16/M01 A2996 RMK 8/500 MMCT 201844Z 16021KT 8SM BKN035 OVC070 30/19 A3005 RMK 8/53/ BINOVC MSGTX MMMD MMCU 201749Z 18009KT 10SM SKC 18/00 A3003 RMK SLP109 52003 913 MMCV 201845Z 15022KT 5SM FEW010 BKN100 27/18 A2989 RMK 8/510 HZ MMDO 201842Z 20023KT 10SM SCT020 BKN040 BKN080 18/02 A3017 RMK 8/830 HZY MMCZ 201844Z 11020KT 8SM BKN015TCU 29/22 A3008 RMK 8/200 SC FZAA 201900Z 35002KT 8000 FEW020 SCT100 26/23 Q1009 NOSIG BIVM 201700Z 24020G30KT 9999 3000W SHRASN FEW010 SCT020 BKN025 01/M00 Q1017 MMEP 201843Z 00000KT 12SM BKN100 24/12 A3010 RMK 8/030 SC ARND GOSM 201900Z 36002KT CAVOK 36/09 Q1006 GOSP 201800Z 04002KT CAVOK 36/04 Q1007 GOSS 201900Z 36010KT CAVOK 23/14 Q1009 GOTK 201800Z 00000KT CAVOK 38/14 Q1006 MMGL 201844Z 29010KT 10SM FEW030 SCT300 24/04 A3016 RMK 8/101 ISOL AC MMGM 201840Z 25010KT 10SM SCT050 20/11 A2999 RMK 8/400 HZY FYKM 201800Z 00000KT 9999 FEW020CB 24/18 Q1014 MMIA 201841Z 18008KT 8SM SCT025 26/16 A3009 RMK 8/100 YERN 201900Z AUTO 25007KT //// // ////// 25/17 Q1009 RMK FYKT 201600Z AUTO 00000KT //// // ////// 37/M00 Q1013 GOTT 201900Z 28004KT CAVOK 37/10 Q1006 MMHO 201840Z 23005KT 10SM BKN070 18/05 A3006 RMK 8/030 HZY NCRG 201900Z 01007KT 9999 FEW020 SCT050 OVC100 27/24 Q1009 RMK DEW ON GRASS NCPY 201900Z AUTO 05014KT //// ////// 29/24 Q1009 FYML 201900Z AUTO 14003KT //// // ////// 36/02 Q1016 YESP 201900Z AUTO 18009KT 2800 // OVC003 17/16 Q1012 MMIO 201840Z 18010KT 10SM SCT040 BKN120 22/11 A3011 RMK 8/570 CI YGBI 201900Z AUTO 29006KT //// // ////// 27/25 Q1006 RMK FYLZ 201900Z AUTO 20017KT //// // ////// 19/15 Q1011 FYOA 201500Z 13005KT 9999 FEW040CB 35/10 Q1010 YGAY 201900Z AUTO 17002KT //// // ////// 22/21 Q1009 RMK YFLI 201900Z AUTO 09007KT 9999 // OVC038 15/09 Q1019 RMK MNBL 201900Z 10016KT 9999 SCT018 28/22 Q1015 YGDH 201900Z AUTO 15012KT //// // ////// 15/11 Q1016 RMK FYOO 201900Z AUTO 00000KT //// // ////// 29/02 Q//// MNCH 201900Z 26006KT 9999 SCT025 36/18 Q1011 MMMA 201841Z 17017G27KT 7SM BKN020 BKN070 27/22 A2991 RMK 8/150 HZY ISOL CI MMLM 201840Z 20011KT 10SM SCT020 21/09 A3004 RMK 8/100 MMMD 201913Z 16020G30KT 2SM SHRA BKN015TCU 24/21 A3003 RMK 8/200 SHRAB10 FYOW 201900Z AUTO 24002KT //// // ////// 27/08 Q1016 MMLO 201847Z 22009KT 10SM FEW030 SCT250 23/05 A3026 RMK 8/508 MMLP 201740Z 36003KT 10SM SCT030 20/09 A3010 RMK SLP192 52007 913 8/400 YGEL 201900Z AUTO 15006KT 9999 // NCD 17/15 Q1006 RF00.0/000.0 MMLT 201751Z 03011KT 7SM BKN040 BKN200 19/14 A3004 RMK SLP173 8/505 MMML 201742Z 36006KT 10SM SKC 12/M09 A3017 RMK SLP217 52020 947 FZIC 201100Z 17004KT 8000 FEW008 OVC10 23/21 Q1011 NOSIG MMMM 201842Z 17011KT 8SM BKN030TCU 24/07 A3021 RMK 8/200 HZY MMMT 201850Z 00000KT 10SM FE020 31/22 A2987 RMK 8/100 MMNL 201840Z 18009KT 10SM SCT025 OVC080 26/19 A2987 RMK 8/57/ YGFN 201900Z AUTO 17005KT 9999 // SCT017 BKN027 BKN057 19/18 Q1016 MMMV 201840Z 27005KT 10SM SCT150 BKN200 31/08 A2986 RM8/072 SKBG 201900Z 33007KT 290V040 9999 FEW015 28/16 A2995 WS ALL RWY MMMX 201845Z 01006KT 6SM SCT030 20/04 A3027 NOSIG RMK 8/100 HZY MMMY 201843Z 31004KT 4SM BKN080 OVC100 25/18 A2987 RMK 8/07/ HZ ISOL SC SKAR 201900Z 30004KT 9999 SCT025 SCT100 27/18 A3000 MMMZ 201750Z 36005KT 15SM SCT025 BKN038 OVC080 25/14 A3001 RMK SLP160 52017 912 8/47/ BINOVC ISOL TCU ALQDS MMPA 201841Z 01004KT 6SM SCT020 29/22 A2994 RMK 8/100 HZY MMPB 201844Z 16010KT 8SM FEW025 20/05 A302 RMK 8/100 HZY CI SKCC 201900Z 02012KT 9999 SCT022 29/20 A2993 MMPE 201901Z RTD 30010KT 10SM BKN070 16/M09 A3011 RMK 8/030 SKBO 201900Z 30015KT 270V330 9999 SCT023TCU 21/10 A3025 RMK TCU/SE SKCG 201900Z 34012KT 9999 FEW013 31/21 A2982 MMPG 201840Z 12006KT 8SM BKN030 23/18 A2987 RMK 8/500 HZY SKBQ 201900Z 01017KT CAVOK 29/21 A2985 SKCL 201900Z 29004KT 9999 SCT020TCU 31/17 A2992 RMK TCU/W/SW MMPN 201840Z 10010KT 15SM FEW045TCU BKN110 23/11 A3020 RMK 8/230 HZY MMOX 201845Z 10007KT 10SM SCT030 BKN080 OVC220 24/06 A3019 RMK 8/158 HZY MMPQ 201852Z 05006KT 6SM FEW040 30/23 A2982 RMK 8/100 HZY MSGTX MMMD MMPR 201843Z 21008KT 15SM FEW020 BKN090 BKN250 27/20 A2997 RMK 8/538 MMPS 201840Z 18010KT 12SM SKC 26/21 A3004 RMK CU N HZY YHBA 201900Z AUTO 13007KT 9999 // SCT026 SCT052 BKN077 24/21 SKEJ 201900Z 24004KT CAVOK 34/20 A2976 YFRT 201900Z AUTO 13010KT //// // ////// 20/18 Q1006 MMQT 201841Z 25006KT 9SM FEW030 SCT100 BKN200 22/07 A3026 RMK 8/132 BKPR 201900Z 16009KT 9999 FEW040 BKN080 04/00 Q1007 NOSIG RMK 17290095 FYWB 201900Z AUTO 30005KT //// // ////// 17/14 Q1012 MMSD 201745Z 12010KT 12SM SCT020TCU 23/15 A3005 RMK SLP165 50005 909 8/200 FYWE 201800Z 16007KT CAVOK 27/02 Q1019 MNJG 201900Z 36006KT 9999 BKN020 23/19 Q1014 YGLA 201900Z AUTO 13011KT 5000 // SCT019 SCT027 SCT032 21/20 Q1008 YGLB 201900Z AUTO 12007KT 9999 // OVC029 13/08 Q1020 RMK TAPA 201900Z 07016KT 9999 SCT018 26/19 Q1018 NOSIG FYWH 201900Z AUTO /////KT //// // ////// 22/04 Q1020 GQNI 201500Z 08008KT CAVOK 32/03 Q//// MMSL 201750Z 30007KT 9SM KC 22/12 A3009 RMK AC CB 2NDQUAD MMTC 201844Z 25009KT 15SM BKN030 BKN080 26/05 A2998 RMK 8/570 ISOL CI YHAY 201900Z AUTO 06011KT //// // ////// 19/10 Q1014 RMK MMRX 201842Z 11020G30KT 7SM BKN020 OVC040 27/19 A2988 RMK 8/5// HZY MMSP 201842Z 21009KT 15SM FEW025 23/M04 A3016 RMK 8/100 CI GQNO 201900Z 33013KT 8000 NSC 23/13 Q1010 NOSIG MMTG 201847Z 08008KT 10SM SCT025TCU 31/14 A2995 RMK 8/200 MMTJ 201741Z 00000KT 10SM SKC 11/M04 A3019 RMK SLP228 52016 942 HZY CU S SW GQPA 200900Z VRB01KT 8000 -RA OVC100 21/09 Q1014 MNJU 201900Z 07010KT 9999 SCT020TCU SCT080 28/23 Q1013 TCU/W/NW MMTM 201843Z E12018KT 5SM BKN020 26/23 A2992 RMK 8/100 HZY YFTZ 201900Z AUTO 33005KT //// // ////// 25/23 Q1006 RMK FYWW 201900Z AUTO 16003KT //// // ////// 28/03 Q1019 MMTO 201846Z 00000KT 5SM BKN015 BKN070 BKN200 17/02 A3034 RMK 8/232 HZY MMTP 201843Z 27010KT 10SM SKC 33/20 A2991 RMK HZY YGLS 201900Z AUTO 36008KT //// // ////// 26/17 Q1007 RMK SKIB 201900Z 30010KT 9999 VCSH BKN020TCU BKN100 24/22 A3002 RMK VCSH/TCU/W/NW MMVA 201840Z 07009KT 7SM SKC 29/21 A2994 K06C 201915Z AUTO 30009G20KT 270V330 2 1/2SM SCT007 OVC016 11/10 A2984 RMK AO2 VIS 1 1/4V4 P0006 T01120100 K04V 201913Z AUTO 32009G16KT 10SM CLR M03/M17 A2981 RMK AO2 K06D 201915Z AUTO 27010G15KT 10SM FEW029 M13/M20 A3000 RMK AO2 TSNO MMUN 201850Z 11019KT 6SM BKN015TCU 28/22 A3011 RMK 8/200 HZ K04W 201915Z AUTO 29005KT 7SM -SN OVC016 M08/M12 A2992 RMK AO2 MNMG 201900Z 08016KT 9999 BKN025 30/20 Q1012 A2989 NOSIG GQPP 201900Z 35018KT 8000 NSC 18/13 Q1012 NOSIG K05U 201915Z AUTO 14005KT 10SM FEW040 M08/M18 A3003 RMK A01 SLAG 192000Z 16004KT 9999 -TSRA FEW025 FEW027CB SCT200 26/23 Q1006 SKIP 201900Z 07010KT 9999 BKN018TCU 17/10 A3035 GQPZ 201800Z 36006KT CAVOK 23/06 Q1012 MMVR 201841Z 11008KT 5SM FEW015TCU 29/22 A2989 RMK 8/200 HZY SLAL 201900Z 01010KT 9999 SCT023 FEW030CB 19/08 Q1024 K08D 201915Z AUTO 27016KT 8SM -SN CLR M15/M18 A3005 RMK AO2 LWOH 201500Z 09007KT 9999 OVC035 06/01 Q1007 SLCA 201900Z 00000KT 9999 SCT036 31/20 Q1010 SLCB 201900Z 29006KT 210V330 9999 SCT027 FEW030CB SCT080 BKN200 25/10 Q1019 SKLC 201900Z 30012KT 9999 FEW020 33/22 A2981 LXGB 201850Z 20009KT CAVOK 18/08 Q1013 NOSIG MNPC 201900Z 09010KT 7000 SCT016 30/26 Q1015 HZ NFFN 201900Z 08005KT 9999 FEW018CB 25/22 Q1007 NOSIG YHID 201900Z AUTO 25003KT 9999 -RA SCT021 BKN033 OVC056 26/25 Q1006 SKMD 201900Z 21016KT 9999 FEW030CB 26/15 A3006 RMK CB/NE/SE MMZC 201900Z RTD 21025KT 10SM SCT150 19/01 A3021 RMK 8/070 SLCO 201900Z 02008KT 9999 SCT017 FEW020CB BKN200 28/24 Q1008 SLCP 201900Z 30014KT 9999 SCT017 BKN200 27/23 Q1011 MMZH 201840Z 23005KT 7SM SKC 30/22 A2995 RMK HZY CU SKLT 201900Z 08004KT 9999 8000N VCSH BKN016 SCT080 30/26 A2981 MMZO 201842Z 15010KT 10SM SCT025 29/24 A2995 RMK 8/100 HZY SKMR 201900Z 00000KT 9999 FEW015 35/20 A2979 K11R 201915Z AUTO 18014G18KT 10SM BKN030 BKN050 OVC065 25/20 A2994 RMK AO2 LTG DSNT N T02510200 YGTE 201900Z AUTO 10003KT 9999 // NCD 26/24 Q1004 YGTH 201900Z AUTO 09009KT 9999 // NCD 17/09 Q1015 K12N 201854Z AUTO 21006KT 13/11 A3027 RMK AO1 SLP255 T01330106 YHLC 201900Z AUTO 25005KT 9999 // NCD 23/21 Q1008 RMK MNRS 201900Z 36008KT 9999 FEW016 30/22 Q1012 SLET 201900Z 32010G20KT 9999 SCT020 FEW025TCU BKN200 28/22 Q1006 TBPB 201500Z 09023KT 9999 FEW022 28/21 Q1017 NOSIG SKPC 201700Z 09014KT 9999 SCT020 32/19 A2990 LWSK 201900Z 14007KT 9999 SCT050 OVC070 07/03 Q1010 NOSIG YGTN 201900Z AUTO 05003KT 9999 // NCD 25/23 Q1006 SKNV 201900Z 17003KT 110V250 9999 FEW027 28/21 A2986 SKPE 201900Z 33004KT 9999 SCT020TCU SCT090 25/18 A3001 RMK TCU/E LYBE 201900Z 12008KT 2000 SN SCT005 BKN010 00/M00 Q1011 12/5/0593 NOSIG MPBO 201900Z 240004KT 9999 SCT016 OVC080 Q1017 SKPS 201900Z 33006KT 9999 BKN020 21/16 A3013 YHML 201900Z AUTO 01007KT 9999 // SCT093 21/10 Q1012 RMK MPDA 201800Z 18005KT 9999 FEW020 32/21 Q1010 LYBT 201900Z 08006KT 2500 SN BKN010 00/00 Q1011 12/////// NOSIG SKPV 201600Z 10010KT 060V210 060V210 9999 SCT018 29/24 A3003 SKRG 201900Z 04006KT 9999 BKN015 21/13 A3024 SKRH 201900Z 11015G25KT 9999 FEW015 33/16 A2989 K14Y 201915Z AUTO 26011G15KT 10SM BKN022 M09/M14 A2997 RMK AO2 NFNA 201900Z 36006KT 320V020 9999E 4000W -SHRA BKN017TCU SCT048 25/25 Q1008 K0A9 201915Z AUTO 26007KT 230V310 9SM CLR 26/10 A3029 RMK AO2 SLJE 201900Z 36010KT 9999 SCT017 BKN200 30/23 Q1010 YIFL 201900Z AUTO 21005KT 9999 // BKN023 BKN105 23/23 Q1006 K18A 201915Z AUTO 14005KT 10SM BKN011 OVC017 21/18 A3039 RMK AO2 T02060177 K17J 201915Z AUTO 19010G16KT 10SM SCT033 BKN041 OVC070 27/19 A3028 RMK AO2 T02670191 SKSM 201900Z 22008KT 9999 FEW020 32/22 A2980 YHOO 201900Z AUTO 30004KT //// // ////// 25/22 Q1006 RMK SLJO 201900Z 32005KT 4000 -RA BKN015 FEW023CB OVC070 23/23 Q1009 SKSP 201900Z 06012G22KT 030V090 9999 FEW018 29/23 A2996 YHOT 201900Z AUTO 28006KT //// // ////// 08/04 Q1019 K18H 201915Z AUTO 14012G21KT 10SM CLR 25/22 A3006 RMK A01 SKUC 201900Z 08005KT 9999 SCT010 34/16 A2989 TDCF 201900Z 12003KT 9999 -SHRA BKN017 28/18 Q1015 SKUI 201900Z 12005KT 8000 FEW020 OVC080 26/23 A2983 RMK HZ NGFU 201900Z 26007KT 9999 SCT019 BKN310 29/25 Q1007 K0E0 201915Z AUTO 29010G15KT 10SM OVC047 01/M08 A2996 RMK AO2 T00121080 K21D 201915Z AUTO 28006KT 10SM BKN014 OVC036 M06/M09 A2995 RMK AO2 SLMG 201900Z 32008KT 6000 VCSH FEW010 SCT015 FEW023CB BKN080 25/24 Q1009 SLLP 201900Z 18007KT 130V260 9999 SCT017 FEW020CB SCT070 BKN200 16/M00 Q1033 YJAB 201900Z AUTO /////KT //// // ////// 26/// Q1006 RMK K19S 201915Z AUTO 35018KT 10SM SCT090 M03/M15 A3008 RMK AO2 T10321155 K20U 201915Z AUTO 26014KT 10SM OVC004 M18/M21 A3009 RMK AO2 K20V 201911Z AUTO 06003KT 10SM BKN029 OVC035 M05/M14 A2985 RMK AO2 K0F2 201915Z AUTO 34022G34KT M1/4SM +SN BKN005 OVC013 03/03 A2992 RMK AO2 P0024 T00310026 SKVP 201900Z 03024KT 9999 FEW025 35/12 A2985 K0CO 201912Z AUTO 2SM HZ BKN009 OVC014 M21/M27 A2958 RMK AO2 YHSM 201900Z AUTO 07008KT 9999 // NCD 20/10 Q1012 RMK SKVV 201900Z VRB02KT 9999 FEW020 SCT090 32/15 A2990 K22N 201915Z AUTO 00000KT 10SM CLR 14/10 A3028 RMK AO2 K24A 201915Z AUTO 18007KT 10SM OVC036 19/10 A3041 RMK AO2 T01860104 HKEL 201900Z 09012KT 9999 -RA FEW018CB BKN080 19/12 Q1023 YHUG 201900Z AUTO 08004KT 9999 // NCD 24/20 Q1004 NFTF 201900Z 00000KT 9999 FEW019TCU BKN300 26/22 Q1010 SLOR 201900Z 19006KT 9999 FEW020 19/04 Q1031 K24J 201915Z AUTO 12006KT 10SM OVC065 28/18 A3031 RMK A01 NFTL 201900Z 09008KT 99999 FEW018 SCT300 27/22 Q1009 SLPO 201700Z 36005KT 9999 SCT020 15/06 Q1034 SLPS 201900Z 00000KT 9999 SCT017 FEW025CB BKN200 30/26 Q1005 SLRB 201900Z 36018KT 9999 BKN017 31/24 Q1009 METAR SLPS 201900Z 00000KT 9999 SCT017 FEW025CB BKN200 30/26 Q1000 LYKV 201900Z 13006KT 9999 BKN040 03/M00 Q1010 NOSIG NFTV 201900Z 13004KT 9999 FEW008 SCT017 BKN300 25/21 Q1008 MPMG 201900Z 33009KT 290V350 9000 SCT020 32/21 Q1011 NOSIG SLRI 201800Z 03008KT 7000 VCSH BKN015 FEW020CB OVC070 26/24 Q1010 K1A5 201915Z AUTO 15008G14KT 120V190 10SM BKN046 20/13 A3038 RMK AO2 T02010130 SLSA 201900Z 34014KT 8000 VCSH SCT017 FEW023CB BKN200 30/24 Q1007 K1A6 201915Z AUTO 18010G19KT 10SM BKN050 25/13 A3027 RMK AO2 T02480128 K1A9 201915Z AUTO 16010G17KT 10SM SCT035 SCT045 BKN070 26/18 A3024 RMK AO2 T02610177 SLRQ 201900Z 34010KT 9999 SCT017 SCT200 31/25 Q1006 SLSI 201900Z 32010KT 9999 SCT020 BKN200 30/23 Q1009 LYNI 201900Z 08018KT 9999 SCT047 06/M02 Q1010 K27K 201915Z AUTO 21018G22KT 10SM SCT050 24/12 A3017 RMK AO1 SLRY 201900Z 34014KT 9999 SCT020 SCT200 32/24 Q1007 SMJP 201900Z 03010KT 9999 FEW012 SCT030 26/21 Q1011 NOSIG SLTJ 201900Z 14008KT 9999 SCT030 26/13 Q1014 MPPA 201900Z 02018KT 9000 FEW020 33/// Q1010 K28J 201855Z AUTO 12009G18KT 10SM FEW044 OVC050 28/18 A3032 RMK AO2 HKJK 201900Z 09008KT 9999 FEW030 22/14 Q1018 K1AM 201856Z AUTO 27011KT 10SM CLR M13/M23 A3000 RMK AO2 SLP224 T11271229 $ K1AN 201856Z AUTO 28016KT 10SM CLR M15/M19 A3004 RMK AO2 SLP236 T11491190 $ LYPG 201900Z 02005KT 9999 -RA SCT017 BKN030 OVC070 06/05 Q1007 NOSIG SLTR 201900Z 32010KT 9999 SCT015 SCT200 31/24 Q1007 HKKI 201900Z 35004KT 9999 -RA FEW019 SCT020 BKN090 22/20 Q1014 K1BM 201856Z AUTO 27015KT 10SM CLR M15/M21 A2997 RMK AO2 SLP272 T11461212 $ K1BN 201856Z AUTO 28013KT 10SM FEW036 M16/M19 A3006 RMK AO2 SLP234 T11561193 $ K1AW 201856Z AUTO 20009KT 10SM CLR M16/M20 A2993 RMK AO2 SLP262 T11601203 $ ZBAA 201900Z VRB01MPS CAVOK M05/M14 Q1027 NOSIG LZIB 201900Z 01004KT 3800 -SN BR SCT009 BKN014 OVC026 00/M00 Q1014 R88/610495 NOSIG SLVM 201900Z 00000KT 9999 BKN023 33/23 Q1006 K1F0 201915Z AUTO 02007G15KT 340V040 3SM RA BKN006 OVC012 04/03 A2996 RMK AO2 P0006 K1CM 201856Z AUTO 31012KT 10SM CLR M14/M20 A2995 RMK AO2 SLP267 T11431204 $ K1CN 201856Z AUTO 28015KT 10SM -SN FEW060 M16/M19 A3007 RMK AO2 SHSNB29E30SNB30 SLP238 T11561191 $ K1BW 201856Z AUTO 29006KT 10SM CLR M17/M21 A2998 RMK AO2 SLP274 T11661210 $ SLVR 201900Z 33010KT 9999 FEW012 BKN017 BKN200 27/23 Q1006 HKML 201900Z 10006KT 9999 FEW021 28/24 Q1008 K1DN 201856Z AUTO 29017KT 10SM FEW085 M16/M19 A3006 RMK AO2 SHSNE1756SHSNB03E19SHSNB32E33 SLP238 T11581193 $ HKMO 201800Z 08008KT 9999 FEW023 28/24 Q1008 NOSIG GUCY 201900Z 23004KT 5000 HZ SCT110 30/21 Q1007 NOSIG SLYA 201900Z 00000KT 9999 BKN023 31/22 Q1007 YJLC 201900Z AUTO 35013KT 9999 // ////// 27/21 Q1002 RMK NGTA 201900Z VRB02KT 9999 FEW020 SCT300 29/24 Q1008 TDPD 201900Z 09015KT 9999 BKN017 27/21 Q1018 MPSM 201900Z 18004KT 9000 FEW030 29/22 Q1010 K1H2 201915Z AUTO 17009G14KT 10SM SCT034 BKN040 OVC110 21/17 A2998 RMK AO2 T02080170 K1EM 201258Z AUTO 25005KT 10SM FEW140 M23/M27 A2996 RMK AO2 SLP277 T12331275 $ CERM 201500Z AUTO 01003KT 02/M03 RMK AO1 SOG 73 1008 SLP273 T00211031 K1EN 201856Z AUTO 28016KT 10SM SCT030 BKN050 M16/M19 A3004 RMK AO2 SLP238 T11561189 $ K1DW 201258Z AUTO 30012KT 10SM CLR M26/M29 A2991 RMK AO2 SLP258 T12621291 $ K0R0 201915Z AUTO 17014G25KT 10SM -RA FEW030 SCT038 BKN055 27/19 A3019 RMK AO2 K33V 201915Z AUTO 26009KT 10SM CLR M10/M20 A2980 RMK AO1 K1FM 201756Z AUTO 19004KT 10SM CLR M21/M25 A2996 RMK AO2 SLP298 T12131253 11207 21273 52008 $ HKNW 201800Z 09010KT 9999 SCT024 22/13 Q1018 MPTO 201900Z 21004KT 9999 SCT018 SCT090 33/21 Q1010 NOSIG K1FN 201856Z AUTO 29016KT 10SM FEW038 M16/M19 A2996 RMK AO2 SHSNE1756SNB1756E19SHSNB22E47 SLP239 T11591193 $ K0R4 201915Z AUTO 18012G18KT 10SM BKN050 OVC065 27/18 A3007 RMK AO2 T02740184 YIVO 201900Z AUTO 06008KT //// // ////// 22/11 Q1012 RMK LYTV 201900Z VRB02KT 9999 -RA FEW030 SCT040 OVC070 07/07 Q1005 K1GM 201258Z AUTO 20010KT 10SM CLR M26/M28 A2992 RMK AO2 SLP274 T12561281 $ K1GN 201856Z AUTO 28014KT 10SM BKN028 M16/M19 A3002 RMK AO2 SHSNE34 CIG 021V028 SLP233 T11591190 $ K1FW 201258Z AUTO 31012KT 10SM CLR M24/M27 A2989 RMK AO2 SLP233 T12411268 $ LZKZ 201900Z 02011KT 9999 BKN025 00/M03 Q1014 K0S9 201915Z AUTO VRB05KT 10SM FEW040 BKN047 BKN055 01/M03 A3021 RMK AO2 K1K1 201850Z AUTO 35016G22KT 10SM OVC014 M05/M08 A3010 RMK AO2 T10551077 K1HM 201258Z AUTO 26003KT 10SM CLR M23/M28 A2996 RMK AO2 SLP263 T12291281 $ K1HN 201856Z AUTO 27016KT 9SM FEW055 M15/M19 A3008 RMK AO2 SLP242 T11511187 PWINO FZRANO $ LYUZ 201900Z AUTO VRB02KT 1000 BR SN VV002 M01/M01 Q1006 LYVR 201900Z 13023G34KT CAVOK 04/M02 Q1011 NOSIG GVAC 201900Z 04013KT 9999 SCT014 BKN100 21/16 Q1013 NOSIG K1IM 201258Z AUTO 21004KT 10SM CLR M23/M27 A3001 RMK AO2 SLP295 T12311274 $ K1IN 201856Z AUTO 28019KT 10SM BKN040 M16/M20 A3002 RMK AO2 SLP230 T11631196 $ SOCA 201900Z AUTO 35006KT 9999 SCT023 BKN036 BKN042 26/23 Q1011 TEMPO 2000 SHRA SCT012TCU BECMG 07012KT GVBA 201900Z 01010KT 9999 FEW014 BKN100 21/16 Q1013 NOSIG K2C8 201915Z AUTO 31007KT -SN M13/M17 A3008 RMK AO2 TSNO K40B 201916Z AUTO VRB05KT 02/02 A3020 RMK AO1 SLP248 T00150016 56018 P0003 K1JM 201258Z AUTO 27010KT 10SM CLR M29/M32 A2997 RMK AO2 SLP291 T12941324 $ ZBHH 201900Z 08003MPS CAVOK M15/M27 Q1023 NOSIG K1JN 201856Z AUTO 28016KT 10SM FEW060 M16/M19 A3001 RMK AO2 SLP225 T11601194 $ K1IW 201258Z AUTO 34006KT 10SM CLR M21/M24 A2993 RMK AO2 SNE02 SLP232 T12141241 $ K1M4 201856Z AUTO 16014G18KT 10SM BKN036 BKN046 OVC060 24/17 A3023 RMK AO2 SLP246 T02440172 K0V4 201915Z AUTO 20014G20KT 10SM SCT025 22/16 A3037 RMK AO1 T02220156 K2D5 201915Z AUTO 30014G19KT 10SM M12/M17 A3012 RMK AO2 PWINO K1M5 201915Z AUTO 21015G25KT 10SM SCT041 BKN048 OVC060 24/15 A3018 RMK A01 K40J 201915Z AUTO 20007KT 10SM SCT045 BKN050 OVC065 28/18 A3030 RMK AO2 T02760175 HLLB 202350Z 00000KT 8000 FEW020 BKN080 13/11 Q1012 K1KM 201258Z AUTO 27009KT 10SM CLR M21/M25 A2991 RMK AO2 SLP264 T12121255 $ K1KN 201856Z AUTO 27016KT 10SM FEW035 M16/M19 A3000 RMK AO2 SHSNE01 SLP224 T11621194 $ K1JW 201258Z AUTO M 10SM CLR M21/M24 A2989 RMK AO2 SHSNE01 SLP226 T12141241 $ YKII 201900Z AUTO 08017KT 9999 // SCT022 16/13 Q1015 RMK LZPP 201900Z 08003KT 3600 BR OVC040 00/M01 Q1014 HLLM 201850Z 28001KT 6000 SCT020 SCT060 12/10 Q1009 K1LN 201856Z AUTO 27011KT 4SM -SHSN BKN025 M14/M18 A3004 RMK AO2 SHSNB04E27SHSNB44 SLP224 T11451182 $ K2F5 201915Z AUTO 24014G25KT 10SM SCT090 SCT120 22/M02 A2989 RMK AO2 K0VG 201850Z AUTO 24008KT 10SM CLR 24/12 A3032 RMK AO2 YLBD 201900Z AUTO 33003KT 9999 // SCT015 SCT028 28/25 Q1006 K42J 201915Z AUTO 12007KT 10SM BKN049 28/14 A3031 RMK AO1 TSNO MSAC 201650Z 18012KT CAVOK 30/20 Q1011 A2985 K1P1 201935Z AUTO 00000KT 10SM OVC100 09/05 A3020 RMK AO2 T00890051 TFFF 201900Z AUTO 09016G26KT 060V120 9999 BKN032/// ///TCU 28/20 Q1016 TEMPO 4000 SHRA K1MN 201856Z AUTO 27011KT 10SM FEW026 M15/M19 A3005 RMK AO2 SLP230 T11471186 $ K1LW 201258Z AUTO 32016KT 10SM -SHSN FEW120 M21/M24 A2990 RMK AO2 SNB23E49SHSNB49 SLP242 T12151241 $ K2G4 201855Z AUTO 22009G14KT 10SM CLR 21/09 A3028 RMK AO1 K2DP 201906Z AUTO 17013KT 10SM SCT021 23/19 A3043 RMK AO2 SLPNO $ HKWJ 201600Z 14006KT CAVOK 35/17 Q1004 LZSL 201900Z 00000KT 1600 -SN BR BKN014 OVC020 00/M01 Q1013 K2G9 201915Z AUTO 23014G23KT 10SM CLR 22/10 A3024 RMK AO2 K1NN 201856Z AUTO 29013KT 10SM FEW036 FEW060 M14/M18 A3007 RMK AO2 SLP227 T11411183 $ TFFR 201900Z AUTO 07017KT 9999 SCT028/// ///TCU 27/20 Q1017 TEMPO 07015G25KT 4000 SHRA MRLB 201900Z 08016KT 9999 FEW045 33/18 A2984 NOSIG K2I0 201835Z AUTO 20017G24KT 10SM CLR 27/13 A3010 RMK AO2 T02700130 K1ON 201856Z AUTO 27012KT 10SM -SN BKN041 M13/M17 A3007 RMK AO2 SLP228 T11331175 $ YLEC 201900Z AUTO 09013KT //// // ////// 29/08 Q1008 LZTT 201900Z 11006KT 9999 SCT046 OVC066 M03/M07 Q1013 MRLM 201900Z 06003KT 9999 VCSH SCT015 BKN110 26/21 A2994 YKMP 201900Z AUTO 22005KT //// // ////// 18/15 Q1017 RMK SMZO 201900Z 04008KT 9999 SCT020 BKN030 27/20 Q1011 NOSIG K46D 201915Z AUTO 28011KT 10SM BKN006 BKN010 M14/M17 A3011 RMK AO2 K1OW 201856Z AUTO 23005KT 10SM CLR M16/M21 A2995 RMK AO2 SLP266 T11631214 PWINO FZRANO $ K2J3 201850Z AUTO 17008KT 130V200 10SM SCT037 SCT048 BKN050 26/16 A3035 RMK AO2 T02580160 K1S5 201915Z AUTO 00000KT 10SM SCT100 M04/M11 A3024 RMK AO2 T10361107 K2J9 201915Z AUTO 17010KT 10SM FEW029 SCT037 BKN065 28/20 A3030 RMK AO2 YKNT 201900Z AUTO 00000KT //// // ////// 26/18 Q1007 AYMH 200700Z VRB03KT 9999 SCT030 SCT050 20/18 Q1015 MROC 201900Z 08015KT 060V120 CAVOK 28/14 A3001 NOSIG K46U 201900Z AUTO 00000KT 3SM HZ CLR M12/M16 A2997 RMK A01 AYMO 200001Z 32008KT 9999 BKN018 30/24 Q1009 K49A 201915Z AUTO 17011G17KT 10SM BKN020 OVC030 20/15 A3038 RMK AO2 T02040147 YKOW 201900Z AUTO 04002KT 9999 // ////// 25/24 Q1005 RMK K3D2 201915Z AUTO 25005KT 5SM BR OVC003 00/M01 A2977 RMK AO2 T10051007 YLHI 201900Z AUTO 14005KT 9999 // SCT044 SCT054 OVC067 21/12 Q1015 K1V4 201854Z AUTO 06/06 A3012 RMK AO1 SLP206 T00610061 SPCL 201900Z 33006KT 9999 SCT020 SCT100 29/23 Q1010 RMK PP000 K3AU 201915Z AUTO 35010KT 10SM OVC012 M05/M06 A3009 RMK AO2 YLHR 201900Z AUTO 35002KT 9999 // NCD 24/24 Q1005 LZZI 201900Z 09004KT CAVOK 00/M06 Q1014 YKSC 201900Z AUTO 20009KT 9999 // SCT057 BKN065 OVC076 19/18 AYNZ 200800Z 09015KT 9999 SCT035 30/24 Q1004 MRPV 201900Z 07017G27KT 9999 FEW040 24/13 A3005 NOSIG K3F3 201915Z AUTO 16015G24KT 10SM BKN042 OVC060 26/18 A3004 RMK AO2 T02590177 YMBA 201900Z AUTO 11005KT //// // ////// 23/21 Q1008 YLIS 201900Z AUTO 18009KT 9999 // SCT006 BKN012 OVC016 21/20 Q1014 ZBSJ 201900Z 32002MPS 4500 HZ NSC M04/M08 Q1028 NOSIG OAHR 201655Z 00000KT CAVOK 09/M01 Q1019 RMK A3011 BLU YMBD 201900Z AUTO 33002KT 9999 // NCD 21/15 Q1010 RMK K2LS 201915Z AUTO 18014G21KT 10SM BKN024 BKN030 BKN039 27/20 A3016 RMK AO2 YKRY 201905Z AUTO 11009KT 4700 DZ SCT013 BKN032 BKN059 19/18 Q1012 K2P2 201850Z AUTO 24005KT 1 3/4SM BR OVC002 M01/M01 A2980 RMK AO2 T10101012 ZBTJ 201900Z 31002MPS 280V340 6000 NSC 01/M10 Q1027 NOSIG AYPY 201800Z 29005KT 9999 SCT070 23/22 Q1006 OAKB 201850Z VRB03KT 9999 FEW030 BKN035 05/04 Q1020 RESHRA NOSIG RMK A3013 BLU BLU K54A 201915Z AUTO 18011G16KT 10SM SCT050 SCT060 BKN070 29/21 A3025 RMK AO2 YMAV 201900Z AUTO 00000KT //// // NCD 14/13 Q1014 YLLE 201900Z AUTO 08012KT 9999 // NCD 27/11 Q1007 RMK OAJL 201855Z 30001KT 9999 FEW130 SCT160 12/09 A3005 RMK AO2A SLP163 T01240092 YMAY 201900Z AUTO 08004KT 9999 // NCD 14/08 Q1017 OAIX 201858Z 10003KT 9999 SCT043 OVC060 08/05 A3009 RMK AO2A RAE1804 SLP144 GVNP 201900Z 04019KT 9999 FEW015 SCT200 22/16 Q1012 NOSIG OBBI 201900Z 31008KT 5000 HZ SKC 19/13 Q1015 NOSIG K54J 201915Z AUTO 15012G16KT 10SM BKN026 BKN044 BKN070 26/19 A3026 RMK AO2 T02580191 SPGM 202300Z /////KT 9999 SCT015 BKN090 22/21 Q1015 RMK TN21.0 BIRD HAZARD RWY19 RA EN LA NOCHE PP100 YMCO 201900Z AUTO 33006KT //// // ////// 11/09 Q1018 RMK NIUE 201900Z 08006KT 9999 SCT017 BKN030 24/23 Q1008 RMKS OAKN 201855Z VRB05KT 8000 DU SCT120 SCT240 16/M04 A2998 RMK AO2A SLP111 Q1015 PA3249 DA4187 K3I2 201915Z AUTO 20009KT 10SM CLR 27/13 A3019 RMK AO2 T02720134 YMDG 201900Z AUTO 12009KT 9999 // OVC027 16/10 Q1018 SPHI 201900Z 21013KT 9999 FEW013 28/20 Q1010 RMK BIRD HAZARD RWY 19/01 PP000 SPHO 201900Z VRB04KT 9999 VCSH SCT030TCU BKN090 24/11 Q1022 RMK PP000 MSLP 201850Z 18009G19KT 140V210 9999 FEW050 32/19 Q1012 A2988 NOSIG K4A6 201915Z AUTO VRB04G15KT 10SM FEW032 SCT065 24/18 A3025 RMK AO2 YMEK 201900Z AUTO 14012KT 9999 // OVC022 22/17 Q1007 K3J7 201915Z AUTO 13005KT 10SM SCT038 BKN046 BKN050 25/16 A3032 RMK AO2 SPJC 201900Z 18009KT 140V220 CAVOK 27/20 Q1012 NOSIG RMK PP000 MSLU 201650Z 15004KT CAVOK 34/19 Q1013 A2994 K4A9 201915Z AUTO 10SM SCT025 BKN045 OVC060 22/15 A3027 RMK AO2 K1YT 201856Z AUTO 00000KT 10SM BKN050 M04/M11 A3017 RMK AO2 SLPNO T10401111 $ YMEN 201900Z AUTO 02003KT 9999 // NCD 19/11 Q1014 K57C 201915Z AUTO 27011KT 10SM -RA SCT005 BKN013 OVC085 08/08 A2983 RMK AO2 P0002 T00760075 SPHY 201900Z /////KT 9000 SCT015 BKN060 13/07 Q1034 RMK BIRD HAZARD RWY03/21 PP000 K3K3 201915Z AUTO 35014G18KT 10SM CLR M03/M16 A3007 RMK AO2 SPHZ 201130Z 00000KT 8000 SCT050 SCT100 11/09 Q1033 YMER 201900Z AUTO 00000KT 9999 // BKN047 12/11 Q1019 YMES 201900Z AUTO 12004KT 9999 // NCD 10/08 Q1016 SPJI 201900Z 00000KT 9999 OVC020 28/24 Q1019 RMK PP000 YMGB 201900Z AUTO 00000KT //// // ////// 27/25 Q1005 OAMS 201850Z 25004KT 9000 BKN020 OVC050 07/05 Q1022 WHT WHT YMGD 201900Z AUTO 26004KT 9999 // NCD 27/24 Q1005 RMK SPJL 201900Z 29015KT 9999 FEW010 BKN080 13/03 Q1031 RMK PPOOO K3L4 201915Z AUTO 16020G27KT 10SM FEW019 FEW065 FEW090 RMK A01 SPJR 201900Z 21010KT 170V260 9999 SCT026 BKN046 20/09 Q1024 RMK PP000 YMHB 201900Z 33005KT 9999 FEW030 BKN270 11/08 Q1020 ZBYN 201900Z 31002MPS CAVOK M02/M19 Q1025 NOSIG K2V5 201915Z AUTO 34011G17KT 10SM CLR M08/M16 A3008 RMK AO2 YMIA 201900Z AUTO 06007KT 9999 // NCD 24/06 Q1011 K2V6 201904Z AUTO 32009KT 10SM CLR M12/M18 A3005 RMK AO2 YLRE 201900Z AUTO 10011KT 9999 // NCD 22/16 Q1005 SPME 201900Z 32013KT 9999 FEW014 BKN033 30/22 Q1010 RMK BIRD HAZARD RWY 32/14 PP000 SPLO 201900Z 15010KT CAVOK 27/18 Q1011 RMK PP000 K4BM 201911Z AUTO 22009G18KT 190V260 10SM CLR M12/M18 A2968 RMK AO2 LTG DSNT N AND NW GVSV 201900Z 07016KT 9999 SCT016 BKN090 20/16 Q1014 NOSIG K3LF 201915Z AUTO 19016G22KT 10SM -DZ SCT019 BKN065 OVC090 18/17 A2993 RMK AO2 T01750167 K2W6 201857Z AUTO 20009G16KT 10SM CLR 21/15 A3036 RMK AO1 YMHU 201900Z AUTO 02003KT 9999 // NCD 28/25 Q1004 RMK K3N8 201915Z AUTO 31011KT 7SM BKN014 M14/M17 A3003 RMK AO2 T11401174 YMIN 201900Z AUTO 21006KT 190V250 //// // ////// 22/16 Q1009 SPMS 201900Z 32005KT 9999 FEW015 BKN100 24/22 Q//// RMK BIRD HAZARD RWY 09/27 PP000 MSSA 201650Z 16004KT CAVOK 30/17 Q1021 A3018 YNAR 201900Z AUTO 07008KT //// // ////// 16/08 Q1016 YLTN 201900Z AUTO 17014KT //// // ////// 19/19 Q1005 RMK MSSM 201650Z 07004KT CAVOK 33/14 Q1014 A2995 DAAD 201800Z 34016KT 9999 BKN026 13/03 Q1011 YNBR 201900Z AUTO 15013KT 9999 // SCT115 17/11 Q1014 DAAE 201900Z 27009KT 8000 FEW023 BKN040 13/10 Q1010 YMMB 201900Z AUTO 09003KT 9999 // NCD 13/10 Q1014 RMK DAAG 201900Z 26010KT 9999 FEW020 SCT040 13/10 Q1012 MSSS 201750Z 15005KT 9999 FEW037 30/14 Q1017 A3004 YLTV 201900Z AUTO 08006KT 9999 // NCD 13/11 Q1016 RMK DAAJ 201900Z 36006KT CAVOK 20/M00 Q1010 MUCC 201851Z 10015KT 070V130 9000 SCT020 28/22 Q1023 DABB 201900Z 28012KT 250V310 4000 RA FEW010 SCT016 FEW026CB BKN026 11/10 Q1006 DABC 201900Z 28010KT 8000 SCT020 BKN026 07/05 Q1009 K4I3 201915Z AUTO 22015G23KT 10SM CLR 23/15 A3014 RMK AO2 MUCF 201853Z 22005KT 150V260 9999 SCT025 30/20 Q1021 K2WX 201856Z AUTO 27015KT M17/M22 A3000 RMK AO1 SLP237 T11671217 DAAP 201900Z 00000KT CAVOK 19/07 Q1010 YMLT 201900Z AUTO 26003KT 9999 // OVC033 11/07 Q1020 K3R7 201915Z AUTO 17017G23KT 10SM SCT026 BKN047 OVC070 26/20 A3008 RMK AO2 T02640202 YMML 201914Z 36021G31KT CAVOK 20/07 Q1014 MUCL 201850Z 10018KT 9000 SCT020 28/22 Q1021 DAAS 201900Z 30018KT 9999 -RA FEW010 BKN026 06/03 Q1009 DAAT 201900Z 24009KT 7000 FEW040CB BKN046 14/05 Q1014 RERA MUCM 201850Z 07020KT 9000 SCT020 29/18 Q1022 YMNG 201900Z AUTO 03005KT 9999 // NCD 16/08 Q1016 RMK DAAV 201900Z 28008KT 8000 SCT016 FEW023CB BKN030 12/10 Q1009 TGPY 201900Z 07018KT 8000 -SHRA BKN018 SCT035 28/21 Q1015 NOSIG DAAY 201900Z 21008KT 9999 FEW026 10/M00 Q1015 K5A6 201915Z AUTO 16010G19KT 10SM BKN034 OVC045 24/18 A3012 RMK AO2 T02380176 AZUH 201850Z 15004KT 9999 FEW040 03/02 Q1017 SPQT 201900Z 35008KT 9999 SCT030 33/21 Q1008 NOSIG RMK BIRD HAZARD RWY 06/24 PP000 K3S8 201915Z AUTO 00000KT 10SM FEW046 BKN060 02/M04 A3023 RMK AO2 K65S 201915Z AUTO 17004KT 10SM OVC060 M13/M18 A3019 RMK AO2 SPQU 201900Z 27012KT 230V290 9999 SCT050 18/06 Q1025 NOSIG RMK PP000 DABS 201900Z 34014KT 9999 BKN033 09/02 Q1008 MUCU 201851Z 13016KT 9000 FEW020 29/19 Q1020 DABT 201900Z 29015KT 9999 FEW020 BKN023 08/03 Q1009 YMOG 201900Z AUTO 11014KT //// // ////// 22/16 Q1008 RMK K3T5 201915Z AUTO 17013G16KT 7SM -RA SCT025 SCT034 OVC065 24/21 A2991 RMK AO2 LTG DSNT NW T02440208 K66R 201915Z AUTO 20012G19KT 10SM BKN027 BKN035 OVC050 25/20 A2995 RMK AO2 T02450201 SPRU 201900Z 20006KT 160V220 9999 SCT002 23/20 Q1011 RMK PP000 K5C1 201915Z AUTO 17011G16KT 5SM OVC009 20/19 A2993 RMK AO1 SPSO 201900Z 24014KT CAVOK 27/19 Q1010 RMK BIRD HAZARD RWY 22/04 PP000 YMOR 201900Z AUTO 13007KT 9999 // NCD 19/14 Q1013 SPST 201900Z 33005KT 9999 SCT025 SCT100 31/22 Q1009 RMK BIRD HAZARD RWY 17/35 PP000 SPTN 201900Z 23014KT CAVOK 28/15 Q1013 RMK PP000 YMRB 201900Z AUTO 13007KT 9999 // OVC089 20/19 Q1007 RMK YNHL 201900Z AUTO 07009KT //// // ////// 21/08 Q1011 RMK DAFH 201800Z 36010KT CAVOK 12/00 Q1012 MUHA 201855Z 15007KT 010V180 9999 SCT030 30/18 Q1022 SPTU 201900Z 33008KT 300V360 9999 SCT015 31/23 Q1006 RMK BIRD HAZARD RWY 01/19 PP000 MUGM 201856Z 10021G26KT 9999 31/23 A3012 RMK PK WND 11028/1812 SLP200 T03110233 MTPP 201900Z 12006KT 9999 FEW030 33/15 Q1016 A3002 MUHG 201851Z 09017KT 9999 SCT025 29/20 Q1021 K4O4 201915Z AUTO 18009G15KT 10SM SCT005 SCT010 BKN049 21/15 A2994 RMK AO2 YMRY 201900Z AUTO 27004KT 9999 // OVC047 16/13 Q1019 RMK YMTG 201900Z AUTO 05005KT 9999 // OVC100 21/11 Q1011 YMTI 201900Z AUTO 28006KT //// // ////// 30/27 Q1004 RMK K4MR 201856Z AUTO 23003KT 10SM CLR 11/M04 A2993 RMK AO2 SLP106 T01081036 $ K5H4 201915Z AUTO 28011KT 10SM CLR M14/M19 A3010 RMK AO2 SPYL 201900Z 26010KT 9999 FEW020 29/21 Q1011 RMK BIRD HAZARD RWY 17/35 PP000 DBBB 201900Z 23009KT 9999 SCT012 28/25 Q1007 NOSIG K4R5 201915Z AUTO 32005KT 10SM OVC007 M07/M08 A2989 RMK AO2 T10681082 K6A1 201915Z AUTO 16005KT 10SM 25/16 A3033 RMK AO2 T02490160 K74V 200735Z AUTO 00000KT 1 1/2SM -SN BKN013 OVC020 M11/M13 A2982 RMK AO2 K6A2 201915Z AUTO 16006KT 10SM SCT032 SCT043 OVC065 24/17 A3035 RMK AO2 K4S2 201915Z AUTO 04003KT 1 3/4SM -SN BKN021 OVC029 M02/M05 A3023 RMK AO2 SPZO 201900Z VRB04KT 9999 VCSH SCT050 BKN100 18/05 Q1028 NOSIG RMK BIRD HAZARD RWY 28 PP000 UAAA 201900Z 20002MPS 1000 R05L/P2000D R05R/P2000N BR FU SCT200 M08/M10 Q1013 R88/91//50 NOSIG K6B0 201915Z AUTO 00000KT 10SM OVC035 09/07 A3014 RMK AO2 T00890071 UAAH 201130Z 07010MPS CAVOK M04/M08 Q1021 R05/710155 NOSIG RMK QFE729/0972 YMYB 201900Z AUTO 16006KT 9999 // SCT019 BKN032 OVC048 23/21 Q1009 K6B9 201915Z AUTO 19007G15KT 160V220 10SM SCT048 BKN060 OVC095 19/13 A3010 RMK AO2 UACC 201900Z 08003MPS CAVOK M13/M16 Q1020 R04/3///65 NOSIG RMK QFE733/0978 K4V0 201915Z AUTO 00000KT 10SM CLR M09/M14 A3001 RMK AO2 T10871144 DAOB 201900Z 28011KT 9999 SCT026 09/05 Q1013 TJBQ 201850Z 09022KT 10SM SCT029 28/19 A3016 DAOF 201900Z 26009KT 9999 SCT033 21/M02 Q1008 YNRC 201900Z AUTO 05014KT //// // ////// 25/10 Q1010 RMK UACK 201130Z 16006MPS 9999 DRSN NSC M09/M13 Q1025 R20/810260 NOSIG RMK QFE745/0993 DAOI 201900Z 29008KT 9999 FEW033 13/09 Q1012 K79J 201856Z AUTO 18007G15KT 150V230 10SM FEW029 SCT039 BKN070 27/18 A3024 RMK AO2 SLP236 T02720183 UADD 201900Z 18007MPS 9999 SCT046 OVC100 04/M03 Q1012 R13/0///65 NOSIG RMK QFE703/0937 K5M9 201915Z AUTO 20014G28KT 130V240 10SM SCT070 24/13 A3008 RMK AO2 T02400125 DAOL 201900Z 23010KT 8000 FEW030 13/12 Q1013 UACP 201130Z 12004MPS CAVOK M09/M13 Q1025 R23/4/0556 NOSIG RMK QFE756/1008 DAON 201900Z 11004KT 9999 FEW026 12/08 Q1013 DAOO 201900Z 26006KT 9999 FEW026 12/08 Q1013 DAOR 201900Z 05002KT 9999 SCT030 17/M01 Q1012 YPAD 201900Z 25003KT CAVOK 24/19 Q1009 K82C 201915Z AUTO 30010KT 3SM BR OVC008 00/00 A2985 RMK AO2 T00021004 YPAG 201900Z AUTO 12006KT 9999 // NCD 25/16 Q1007 RMK DAOV 201900Z 00000KT 9999 SCT023 13/10 Q1013 DAOY 201900Z 33008KT 9999 BKN023 07/M01 Q1013 YNSM 201900Z AUTO 19011KT //// // ////// 15/15 Q1010 RMK OEAB 201900Z 00000KT CAVOK 16/10 Q1022 NOSIG MUSC 201850Z 09015KT 9000 BKN020 28/20 Q1022 OEAH 201900Z 36002KT CAVOK 17/07 Q1015 NOSIG OEBA 201900Z VRB02KT CAVOK 18/13 Q1018 NOSIG YPCC 201900Z AUTO 12007KT 9999 // BKN017 BKN025 27/24 Q1009 YOLD 201900Z AUTO 12006KT 9999 // NCD 29/13 Q1006 YNTN 201900Z AUTO 03005KT 9999 // NCD 26/23 Q1003 YPBO 201900Z AUTO 09010KT 9999 // ////// 28/19 Q1004 K82V 201915Z AUTO 21006KT 10SM CLR M15/M21 A2999 RMK AO2 PWINO OEAO 201900Z 27006KT 9999 SCT040 BKN200 21/02 Q1012 OEBH 201900Z 04006KT 7000 SKC 22/09 Q1015 NOSIG OEAR 201900Z 27005KT CAVOK 24/20 Q1011 MWCB 201900Z 11014KT 9999 FEW018 29/23 Q1020 K6I2 201910Z AUTO 19025G33KT 10SM CLR 24/13 A3017 RMK AO2 YPEA 201900Z AUTO 09017G28KT 9999 // NCD 17/10 Q1010 YPED 201900Z AUTO 34001KT 9999 // SCT110 23/17 Q1009 RMK YOLW 201900Z AUTO 23014KT //// // ////// 25/20 Q1003 RMK DAUA 201900Z 00000KT CAVOK 21/M10 Q1010 YPDN 201900Z 00000KT 9999 FEW014 25/24 Q1006 DAUB 201900Z 31016KT 9999 SCT040 17/04 Q1008 TJIG 201850Z 07015G25KT 10SM SCT050 27/19 A3017 DATM 201800Z 33018KT CAVOK 26/02 Q1009 OEDF 201900Z 00000KT CAVOK 16/09 Q1015 NOSIG DAUE 201900Z 33004KT CAVOK 15/04 Q1012 UAII 201900Z 22006MPS 4000 -SHRA BR SCT006 OVC023CB 03/02 Q1019 R28/2///55 NOSIG RMK QBB200 QFE727/0969 MWCR 201900Z 10016KT 9999 FEW023 30/23 Q1019 DAUG 201900Z 33004KT CAVOK 14/M03 Q1011 DAUH 201900Z 27004KT CAVOK 14/07 Q1011 YOOD 201900Z AUTO 10004KT //// // ////// 27/06 Q1004 RMK DAUI 201900Z 00000KT CAVOK 19/M06 Q1010 YNWN 201900Z AUTO 03003KT 9999 // NCD 25/22 Q1005 OEDM 201800Z 12016KT 7000 NSC 21/00 Q1014 DAUK 201900Z 00000KT CAVOK 13/07 Q1009 DAUL 201900Z 34012KT 9999 FEW030 12/M00 Q1012 DAUO 201900Z 23004KT 9999 FEW040 13/07 Q1009 MUVR 201851Z 07012KT 9000 BKN020 28/21 Q1022 OEDR 201900Z VRB01KT CAVOK 18/09 Q1013 NOSIG UBBB 201900Z 09003KT 9999 BKN013 OVC025 07/05 Q1021 R88/CLRD// NOSIG YOOM 201900Z AUTO 09010KT 9999 // NCD 28/14 Q1006 RMK UAKD 201500Z 08011MPS 7000 SCT040 OVC100 M08/M10 Q1016 R04/910060 NOSIG RMK QFE729/0972 K5T9 201915Z AUTO 19008KT 10SM CLR 26/18 A2984 RMK A01 DAUT 201900Z 00000KT CAVOK 21/M04 Q1011 DAUU 201900Z 00000KT 9999 FEW046 15/08 Q1010 ZGGG 201900Z VRB01MPS 8000 BKN013 22/19 Q1012 NOSIG UBBG 201900Z 14002KT 9999 OVC023 05/03 Q1019 R30/190065 NOSIG K6L4 201915Z AUTO 20009G15KT 10SM CLR 26/10 A3025 RMK AO2 ZGHA 201900Z 36004MPS 9999 BKN008 OVC050 07/05 Q1023 NOSIG DAUZ 201900Z 32007KT CAVOK 18/M03 Q1010 UAKK 201900Z 10005MPS CAVOK M15/M17 Q1019 R05/810560 NOSIG RMK QFE717/0956 TIST 201853Z AUTO 06012G22KT 10SM FEW034 FEW045 27/21 A3012 RMK AO2 RAE00B20E27 SLP199 P0000 T02720206 $ UBBL 201900Z VRB02KT 9999 BKN032 08/06 Q1021 R33/CLRD// NOSIG RMK MT OP UBBN 201900Z 03008KT 9999 FEW050 SCT100 02/00 Q1016 R14R/CLRD// NOSIG RMK MT OP QFE687 TISX 201853Z 06015G22KT 10SM FEW027 SCT035 BKN075 27/21 A3012 RMK AO2 SLP196 T02670206 PNO $ K5SM 201912Z AUTO 24008G16KT 1SM -SN BKN003 OVC010 M17/M20 A2975 RMK AO2 UBBQ 201900Z 00000KT 9999 OVC021 05/03 Q1019 R34/CLRD// NOSIG RMK MT OBSC YPGV 201900Z AUTO 33005KT 9999 // NCD 27/25 Q1005 YORG 201900Z AUTO 06006KT 9999 // NCD 08/07 Q1019 RMK OEGN 201900Z 05004KT 9999 SCT030 27/21 Q1010 NOSIG K7BM 201912Z AUTO 27005G16KT 10SM SCT048 BKN050 M06/M21 A2971 RMK AO2 UBBY 201900Z VRB02KT 9999 OVC023 05/04 Q1021 R33/////// NOSIG RMK MT PT OBSC OEGS 201900Z 09011KT 9999 SCT040 20/06 Q1012 OEGT 201900Z 09004KT CAVOK 14/01 Q1009 OEHL 201900Z 35008KT 9000 NSC 18/03 Q1015 NOSIG UBEE 201500Z 31004KT 9999 OVC035 08/05 Q1019 R30/CLRD// NOSIG YPKA 201900Z AUTO 30012KT 9000 // SCT016 SCT125 28/25 Q1002 OEJB 200447Z 24003KT 200V290 2500 HZ NSC 14/04 Q1017 NOSIG YPKG 201916Z AUTO 17010KT 7000 -DZ OVC006 16/16 Q1009 YPJT 201900Z AUTO 11013KT 9999 // NCD 16/10 Q1011 RF00.0/000.0 ZHCC 201900Z 31003MPS 1500 -SN BR OVC020 M00/M01 Q1028 NOSIG ZGKL 201900Z 05003MPS 9999 OVC050 09/06 Q1018 NOSIG K6P9 201915Z AUTO 20010G14KT 10SM OVC010 20/18 A2986 RMK AO2 T01970180 UAOO 201900Z 25003MPS 5000 -SN OVC019 M01/M01 Q1015 TEMPO 5000 -FZRA OVC013CB RMK QFE750/1000 OEJN 201900Z 31005KT CAVOK 24/18 Q1008 NOSIG YPKS 201900Z AUTO 06014KT 9999 // NCD 16/09 Q1016 RMK YPKT 201900Z AUTO 10001KT //// // ////// 24/23 Q1005 RMK OEKJ 201900Z 10006KT CAVOK 19/M01 Q1018 YPKU 201900Z AUTO 00000KT 9999 // SCT081 25/25 Q1006 YPLM 201900Z AUTO 23013KT 9999 // SCT100 24/20 Q1004 OEKM 201900Z 21005KT CAVOK 17/10 Q1022 NOSIG K6R3 201915Z AUTO 18013G25KT 5SM HZ OVC016 24/20 A3000 RMK AO2 T02430195 K6R6 201853Z AUTO 25011G21KT 27/02 A2984 RMK AO1 SLP073 T02720017 OEMA 201900Z 25011KT CAVOK 25/06 Q1013 NOSIG K6S0 201915Z AUTO 25020KT 10SM CLR M14/M20 A2998 RMK A01 K96D 201915Z AUTO 32007KT 7SM CLR M12/M18 A3008 RMK AO2 K6S2 201915Z AUTO 14004KT 10SM BKN018 OVC023 04/01 A3017 RMK AO2 YPMQ 201900Z AUTO 27005KT 9999 // OVC067 18/17 Q1017 RMK K8A3 201915Z AUTO 21010G17KT 10SM BKN040 BKN050 24/14 A3022 RMK A01 SUAA 201900Z 19016KT 9999 BKN015 SCT200 25/21 Q1007 YPOD 201900Z AUTO 09008KT 9999 // SCT094 17/13 Q1011 RMK OEMK 201900Z 19002KT 9999 SCT040 25/20 Q1010 ZGNN 201900Z 12002MPS 5000 BR SCT007 BKN033 20/19 Q1012 NOSIG K8B0 201915Z AUTO 18003KT 5SM RA BKN002 OVC007 02/01 A3017 RMK AO2 OENG 201900Z 03004KT 8000 SKC 21/03 Q1017 NOSIG UARR 201900Z 20001MPS 9999 SCT045 BKN100 M17/M19 Q1019 R22/CLRD70 NOSIG RMK QFE760/1014 TJSJ 201856Z 06017G23KT 10SM FEW035 SCT044 28/20 A3015 RMK AO2 SLP207 T02780200 UASK 201900Z VRB01MPS 0050 R12/0225 FZFG BKN002 M24/M26 Q1029 R12/850150 TEMPO 0200 FZFG VV002 RMK QBB060 QFE746/0995 YPPD 201900Z AUTO 31012KT 9999 // SCT043 28/23 Q1003 YPPF 201900Z AUTO 00000KT 9999 // OVC110 24/16 Q1009 RMK UATE 201900Z 03004MPS CAVOK M03/M04 Q1021 R30/0///70 NOSIG RMK QFE765/1020 K7L2 201915Z AUTO 31014KT 10SM M13/M19 A3016 RMK AO2 YPPH 201907Z 10021G31KT CAVOK 17/09 Q1010 UATG 201900Z 34006MPS 5000 BR OVC011 M05/M06 Q1022 R32/CLRD70 NOSIG RMK QFE768/1024 UASP 201900Z 13004MPS CAVOK M16/M18 Q1027 R21/720350 NOSIG RMK QFE759/1012 SUCA 201900Z 14008KT 9999 SCT023 25/21 Q1005 UASS 201030Z 09004MPS CAVOK M10/M14 Q1034 NOSIG RMK QFE756/1009 OEPA 201900Z 13004KT 9999 SCT035 19/05 Q1016 NOSIG ZGOW 201900Z 07002MPS 040V110 9999 BKN050 17/15 Q1014 NOSIG ZHHH 201900Z 03002MPS 360V060 4500 BR OVC030 06/04 Q1024 NOSIG K8D3 201856Z AUTO 31021KT M12/M16 A3009 RMK AO1 PK WND 32026/1834 SLP231 T11221156 UATT 201900Z 29004MPS CAVOK M08/M10 Q1014 R13/0///60 NOSIG RMK QFE741/0988 K7N0 201856Z AUTO 16012G19KT 10SM BKN028 BKN034 OVC045 27/20 A3017 RMK AO2 SLP215 T02670200 CMGB 201515Z AUTO 36001KT 04/04 RMK AO1 SOG 25 8005 SLP210 T00360035 CMFM 201500Z AUTO 11003KT M02/M04 RMK AO1 SOG 87 0002 SLP246 T10201035 UAUU 201900Z 15002MPS CAVOK M11/M13 Q1015 R15/820060 NOSIG RMK QFE745/0993 OERF 201900Z 10013KT 9999 BKN040 SCT100 18/00 Q1013 SUDU 201400Z 18006KT 9999 FEW026 SCT200 26/21 Q1006 OERK 201900Z 12004KT 8000 NSC 17/M02 Q1016 NOSIG OESH 201900Z 07006KT CAVOK 23/08 Q1013 NOSIG OERR 201900Z 10012KT 9999 SCT030 BKN100 14/12 Q1013 NOSIG OETB 201900Z 18006KT 9999 SCT040 15/M01 Q1011 NOSIG OESK 201900Z 15010KT 9999 FEW040 SCT080 16/02 Q1014 UCFL 201900Z 34003MPS 9999 SCT130 M03/M06 Q1017 R07/CLRD70 RMK G/O YPTN 201900Z AUTO 00000KT 9999 // NCD 24/23 Q1006 UCFM 201900Z 23006MPS 5000 BR FU NSC M03/M08 Q1013 R26/CLRD70 TEMPO 26010G15MPS UCFO 201900Z VRB01MPS 5000 BR FU NSC 06/00 Q1015 R12/CLRD70 NOSIG OETF 201900Z 17009KT CAVOK 19/09 Q1017 NOSIG ZGSZ 201900Z 26002MPS 6000 BKN017 19/18 Q1013 NOSIG TKPK 201500Z 05018KT 9999 FEW023 27/19 Q1021 TKPN 201900Z 09019KT 9999 FEW024 27/19 Q1018 OETR 201900Z 09008KT 9999 BKN030 BKN100 13/06 Q1012 K9A5 201915Z AUTO 18010G17KT 10SM SCT029 SCT037 BKN045 22/16 A3030 RMK AO2 T02180160 YREN 201900Z AUTO 05008KT 9999 // NCD 25/08 Q1009 RMK OEWD 201900Z 12010KT 6000 SKC 19/10 Q1014 NOSIG YPWR 201900Z AUTO 12010KT 9999 // NCD 27/14 Q1008 RF00.0/000.0 OEWJ 201900Z 03004KT 9999 FEW040 20/09 Q1010 NOSIG YPXM 201900Z AUTO 28003KT 9999 // SCT085 23/21 Q1009 SVBM 201400Z 09009KT 9999 FEW016 24/16 Q1018 MYGF 201900Z 14009KT 9999 BKN020 27/23 A3031 RMK RB28E36 SVBS 201100Z /////KT CAVOK 18/15 Q1019 K9D7 201915Z AUTO 26013KT 10SM FEW013 FEW018 M13/M18 A3008 RMK AO2 OEYN 201900Z 00000KT CAVOK 23/13 Q1008 NOSIG K7W4 201915Z AUTO 22012G18KT 200V270 10SM CLR 24/13 A3033 RMK AO1 T02400131 SVCR 201100Z /////KT 9999 FEW016 23/20 Q1015 K7W6 201915Z AUTO 18011KT 10SM CLR 22/19 A3044 RMK AO2 T02240188 SULS 201900Z 19010KT 9999 FEW023 FEW033TCU SCT080 SCT200 27/19 Q1005 HTDA 201800Z 09005KT 9999 FEW017 28/25 Q1008 NOSIG SUMU 201900Z 20012KT 9999 BKN017 25/21 Q1006 NOSIG YSBK 201900Z AUTO 23001KT //// // OVC055 17/13 Q1018 RMK YSCB 201900Z 17005KT 9999 BKN033 12/08 Q1020 FM2000 11005KT 9999 BKN020 TLPC 201900Z 07010G20KT 9999 BKN022 27/21 Q1016 TEMPO SHRA SVGD 201100Z /////KT 9999 BKN020 22/21 Q//// HSOB 201900Z 36005KT CAVOK 28/04 Q1009 HSNN 201900Z 00000KT CAVOK 27/07 Q1008 TLPL 201900Z 08020KT 9999 FEW022 SCT038 26/20 Q1016 TEMPO SHRA YRMD 201900Z AUTO 33012KT 9999 // NCD 26/22 Q1002 YSCN 201900Z AUTO 00000KT 9999 // NCD 15/12 Q1019 RMK YSCO 201900Z AUTO 12002KT //// // ////// 13/13 Q1018 RMK YSCR 201900Z AUTO 13013KT //// // ////// 17/13 Q1011 RMK HSPN 201900Z 32001KT CAVOK 24/18 Q1009 MZBZ 201900Z 11010G21KT 9999 FEW024 29/23 A3000 Q1016 NOSIG HRYR 201900Z 32003KT 270V350 9999 FEW023CB BKN025 21/17 Q1017 NOSIG YSDU 201900Z AUTO 08017KT 9999 // NCD 16/11 Q1016 YSGE 201900Z AUTO 14008KT 9999 // NCD 20/18 Q1012 SUSO 201900Z 19005KT 9999 BKN023 32/19 Q1004 MYNN 201900Z 09014KT 9999 SCT018 30/21 A3029 RMK PKWND 20KT K9L2 201858Z AUTO 12003KT 8SM CLR 06/M15 A3016 RMK AO2 SLP223 T00561154 TNCA 201900Z 08020G30KT 9999 FEW022 29/23 Q1015 NOSIG TNCB 201855Z 08022G33KT 050V110 9999 FEW011 SCT020 BKN036 26/22 Q1015 HSSJ 200900Z 06005KT 9999 SCT040 32/15 Q1010 TNCC 201900Z 09011KT 9999 SCT021 28/22 Q1016 NOSIG TNCE 201855Z AUTO 05018KT 020V090 //// // ///////// 28/18 Q1019 RE// DFFD 201900Z 02002KT 8000 FEW026 35/18 Q1006 TEMPO TS FEW020 FEW033CB YSHK 201900Z AUTO 18012KT //// // ////// 23/19 Q1004 RMK ZJHK 201900Z 14002MPS 110V170 0600 R09/0650D FG BKN003 21/21 Q1011 BECMG TL1940 0500 FG HTKJ 201800Z 10010KT 9999 FEW036 27/14 Q1011 NOSIG HSSS 201900Z 36007KT CAVOK 28/M02 Q1009 NOSIG SVMD 201100Z /////KT CAVOK 14/11 Q1023= TNCM 201900Z 07012KT 9999 FEW020 SCT035 27/21 Q1020 A3012 NOSIG K8W2 201915Z AUTO 20013G21KT 10SM CLR 25/11 A3025 RMK AO1 T02490107 SVMI 201900Z 05005KT 9999 FEW016 28/21 Q1015 YSHT 201900Z AUTO 06006KT //// // NCD 17/08 Q1016 RMK YSHW 201900Z AUTO 15002KT 9999 // OVC055 16/13 Q1019 RMK SVMN 200900Z /////KT 9999 CAVOK 25/21 Q1012 UEEE 201900Z 00000MPS 0500 0400SW R23L/1200D FG NSC M41/M45 Q1015 R23L/490150 NOSIG RMK QFE752 SVMR 201100Z SVCR 201100Z /////KT 9999 FEW016 23/20 Q1015 SVMT 201000Z /////KT CAVOK 23/22 Q1014 OIAA 201900Z 33004KT 9999 FEW040 BKN100 18/06 Q1014 K9MN 201915Z AUTO 28012G16KT 10SM OVC013 M06/M09 A2994 RMK AO1 T10651086 YTAR 201900Z AUTO 12012KT //// // ////// 28/12 Q1007 RMK YRTI 201900Z AUTO 11014KT //// // ////// 17/11 Q1011 RMK OIAG 201900Z 31008KT 8000 NSC 16/11 Q1015 OIAH 201900Z 00000KT 4000 DU NSC 12/05 Q1016 OIAI 201900Z 00000KT 7000 NSC 14/12 Q1014 OIBA 201500Z 27012KT 4000 HZ NSC 22/14 Q1011 OIBB 201900Z 33012KT CAVOK 19/08 Q1013 A2992 DGAA 201900Z 28005KT CAVOK 26/22 Q1008 NOSIG OIAM 201900Z 38006KT CAVOK 16/08 Q1014 HTMW 201800Z 30010KT 9999 FEW021 FEW022CB 25/20 Q1012 NOSIG HUEN 201900Z 29007KT 9999 FEW019 FEW021CB 23/19 Q1014 OIBJ 201500Z 31006KT 6000 NSC 19/01 Q1014 OIBK 201900Z 28010KT 4000 HZ NSC 20/15 Q1012 OIBL 201800Z 30006KT 6000 NSC 20/14 Q1012 OICC 201900Z 00000KT CAVOK 06/02 Q1017 A3004 OIAW 201900Z 26002KT CAVOK 16/08 Q1014 YSMH 201900Z AUTO 12003KT 9999 // SCT026 BKN120 24/22 Q1006 OIBP 201800Z 00000KT 3500 HZ NSC 18/14 Q1009 A2982 OIBQ 201500Z 28010KT CAVOK 19/13 Q1014 OICI 201900Z 11002KT 8000 FEW015 BKN200 06/05 Q1018 A3007 OICJ 201850Z AUTO 22002KT //// // ////// 05/00 Q1018 OIBS 201500Z 27021KT 3500 HZ NSC 22/13 Q1011 OICK 201850Z 12004KT CAVOK 06/04 Q1017 YTEE 201900Z AUTO 27012KT 9999 // NCD 29/17 Q1003 RMK KMG 201900Z AUTO 36020KT //// // NCD 16/08 Q1016 RMK OICM 201900Z AUTO 00000KT //// // ////// 14/M10 Q//// OIBV 201400Z 26014KT 5000 SA NSC 22/14 Q1011 YSNF 201917Z AUTO 12005KT 9999 // SCT012 BKN018 BKN071 23/18 Q1011 YTEF 201900Z AUTO 32008KT 9999 // SCT092 23/22 Q1005 OICS 201851Z 00000KT CAVOK 04/02 Q1016 YTEM 201900Z AUTO 09009KT //// // ////// 14/08 Q1017 RMK CPBT 201400Z AUTO 25009KT M18/M22 RMK AO1 T11831222 UDSG 201900Z 00000KT 8000 SCT040 M01/M02 Q1016 R02/CLRD70 NOSIG YSOL 201900Z AUTO 01005KT 9999 // SCT089 24/21 Q1006 RMK YSNW 201900Z 24006KT 9999 BKN047 16/12 Q1019 NOSIG CPEH 201400Z AUTO 26006KT M21/M24 RMK AO1 T12141235 YTGM 201900Z AUTO 09013KT //// // ////// 24/13 Q1009 OIFK 201900Z 00000KT CAVOK 09/00 Q1016 OIFM 201900Z 00000KT CAVOK 05/M08 Q1017 A3005 OIGG 201900Z 00000KT CAVOK 06/06 Q1019 YTIB 201900Z AUTO 07017KT //// // ////// 26/10 Q1009 RMK SVVA 201900Z /////KT 9999 SCT016 30/20 1014 OIFS 201900Z 12002KT 9999 FEW040 01/M03 Q1019 OIGK 201850Z AUTO 17002KT //// // ////// 00/M03 Q1015 CPFI 201500Z AUTO 26010KT M20/M25 RMK AO1 T11951246 K9V9 201915Z AUTO 27013KT 10SM CLR M12/M16 A3019 RMK AO2 T11201161 YSRI 201900Z AUTO 00000KT //// // OVC056 16/14 Q1018 OIHH 201852Z 02002KT CAVOK 02/00 Q1017 DFOO 201900Z 22006KT 9999 FEW026 35/17 Q1006 YSRN 201900Z AUTO 01004KT 9999 // OVC034 12/11 Q1019 RMK OIHM 201850Z 12004KT CAVOK 04/00 Q1018 OIIE 201900Z 24007KT CAVOK 07/01 Q1016 OIHR 200800Z 34008KT 9999 FEW035 06/M02 Q1019 OIII 201900Z 12006KT CAVOK 10/M01 Q1016 A3002 NOSIG OIIK 201900Z 27002KT CAVOK 03/M00 Q1016 PAAD 201915Z AUTO 25017KT 1 1/4SM -SN SCT006 OVC013 00/00 A2987 RMK AO2 T00001002 YSTH 201900Z AUTO 31001KT 9999 // OVC035 13/09 Q1020 OIIP 201700Z 03004KT CAVOK 06/M04 Q1016 OJAI 201900Z 09005KT 6000 NSC 11/07 Q1012 NOSIG OIIS 201900Z 36004KT CAVOK 08/M03 Q1017 PABA 201913Z AUTO 26016KT 1/2SM SN FZFG BKN013 OVC018 M01/M02 A2987 RMK AO2 P0000 FZRANO TSNO OIKB 201900Z 21008KT 5000 HZ NSC 21/16 Q1012 A2988 PAAK 201856Z AUTO 11017KT 1 3/4SM +RA BR OVC010 05/04 A2994 RMK AO2 PK WND 08029/1802 RAB21 SLP138 P0002 T00500039 OJAM 201900Z 25003KT 5000 HZ SCT040 SCT045 12/05 Q1011 NOSIG YSSY 201900Z 31005KT 9999 FEW035 BKN055 19/13 Q1018 NOSIG ZJSY 201900Z 06003MPS 9999 FEW020 23/20 Q1012 NOSIG PABE 201853Z 18005KT 5SM BR BKN034 M05/M07 A3056 RMK AO2 SLP350 T10501067 OJAQ 201900Z 00000KT CAVOK 18/06 Q1009 NOSIG PAAQ 201853Z 00000KT 7SM OVC004 M06/M06 A3048 RMK AO2 SLP327 T10561056 $ PABI 201915Z 22009KT 5SM -SN BR FEW010 BKN020 OVC026 M03/M04 A3038 RMK AO2 P0000 T10331044 CPIR 201400Z AUTO 26014KT M21/M25 RMK AO1 PK WND 26018/1343 T12101247 OIKK 201900Z 18004KT CAVOK 06/M10 Q1018 A3007 PABL 201856Z AUTO 21023G32KT 10SM CLR M01/M04 A3012 RMK AO2 PK WND 21032/1854 SLP203 T10061039 FZRANO YSTW 201900Z AUTO 15010KT 9999 // NCD 15/10 Q1016 PACD 201853Z 15014KT 10SM SCT100 03/02 A3051 RMK AO2 SLP333 T00280022 $ OIKO 201850Z 00000KT 7000 NSC 19/13 Q1012 OIKQ 201900Z 25016KT 4000 SA NSC 21/16 Q1011 PABR 201853Z 19010KT 10SM CLR M06/M07 A2976 RMK AO2 SLP078 T10611072 HTZA 201800Z 09005KT 9999 LT TO W FEW016 FEW018CB 28/25 Q1007 NOSIG OIMB 201900Z 13008KT CAVOK 04/M07 Q1018 PABT 201853Z 16007KT 10SM FEW006 BKN018 M07/M08 A3018 RMK AO2 SLP238 SHSN VC S-SW FROPA T10671083 OIMC 201900Z AUTO 10006KT //// // ////// 07/06 Q1021 YTMO 201900Z AUTO 29015KT 9999 // NCD 28/19 Q1003 RMK PACM 201856Z AUTO 19022G29KT 10SM CLR M01/M03 A3041 RMK AO2 PK WND 18031/1822 SLP292 T10061033 FZRANO OIMD 201900Z AUTO 25010KT //// // ////// 09/M01 Q1017 PABV 201915Z AUTO 06007KT 1 3/4SM BR OVC003 M04/M06 A3049 RMK AO2 FZRANO $ YTNG 201900Z AUTO 12003KT 9999 // SCT110 21/19 Q1008 PADE 201853Z AUTO 18024KT 10SM CLR M01/M05 A3002 RMK AO2 PK WND 19038/1804 SLP166 T10061050 TSNO $ YSWG 201900Z AUTO 05005KT 9999 // NCD 14/07 Q1017 YSWH 201900Z AUTO 06008KT 9999 // NCD 20/08 Q1013 RMK PADG 201714Z 19031G42KT 1/4SM SN BLSN VV000 M03/M04 A2980 UDYZ 201900Z 05001KT 9999 NSC 03/01 Q1016 R09/010070 NOSIG YTNK 201900Z AUTO 21007KT 180V240 9999 // NCD 28/22 Q1006 OINB 201900Z 09006KT CAVOK 09/07 Q1019 PADK 201856Z AUTO 12011G16KT 4SM -RA BR OVC019 06/03 A2979 RMK AO2 PK WND 12028/1830 SLP089 P0002 T00560033 PAEC 201752Z 00000KT 30SM FEW050 M09/M10 A3036 RMK NOSPECI FIRST PADL 201856Z 04005KT 10SM CLR M03/M03 A3060 RMK AO2 SNE1757 SLP367 T10281033 OIMM 201900Z 11008KT 8000 BKN010 06/06 Q1019 A3011 PAED 201916Z 00000KT 1/2SM R06/1200V2200FT FZFG VV003 M04/M04 A3047 RMK AO2A CIG 003V005 CIG 001 RWY24 SLP317 $ PACV 201853Z 00000KT 10SM FEW080 SCT130 OVC250 M04/M06 A3034 RMK AO2 SLP275 T10441056 PADM 201856Z AUTO 21010KT 8SM OVC041 M03/M04 A3059 RMK AO2 SLP367 T10281044 FZRANO OINE 201900Z AUTO 00000KT //// // ////// 05/04 Q1019 OIMN 201900Z 34002KT 8000 BKN030 BKN070 04/01 Q1019 OING 201900Z 09004KT CAVOK 06/05 Q1021 PAEG 201853Z AUTO 00000KT 1/2SM -SN FZFG VV012 M08/M10 A3020 RMK AO2 SNB02 SLP249 P0002 T10781100 TSNO OIMQ 201900Z AUTO 04004KT //// // ////// 07/01 Q1018 PADQ 201853Z 00000KT 10SM CLR 02/01 A3049 RMK AO2 SLP326 T00170011 $ PACZ 201855Z AUTO 18027G36KT 9SM FEW039 BKN050 M01/M03 A3036 RMK AO2 PK WND 19038/1802 SLP290 T10071028 PAEH 201855Z AUTO 17010KT 10SM CLR 02/00 A3055 RMK AO2 SLP354 T00221001 PAEI 201856Z 27012KT 10SM OVC011 00/00 A3036 RMK AO2A SLP293 $ OIMS 201600Z 00000KT 9999 FEW035 12/00 Q1018 NSFA 201700Z 17004KT 9999 FEW026 SCT300 24/22 Q1005 RMK DEW PAFA 201853Z 23008G17KT 10SM BKN018 BKN026 OVC040 01/M02 A3036 RMK AO2 SNB19E46 SLP289 T00061017 OIMT 200900Z 28006KT 9999 FEW040 18/01 Q1015 OINK 201850Z AUTO 33004KT //// // ////// 05/04 Q1018 PAFB 201858Z 26009KT 10SM BKN015 OVC022 M01/M01 A3036 RMK AO2A SLP290 P0001 T10091012 PAEL 191945Z 09008KT 20SM OVC025 01/M01 A3026 RMK SPB E01010KT NOSPECI PADU 201856Z 16009KT 10SM -RA BKN033 OVC100 04/01 A3043 RMK AO2 SLP308 MH P0000 T00390006 PAEM 201856Z AUTO 19019KT 9SM CLR M02/M04 A3039 RMK AO2 SLP351 T10221039 FZRANO OINN 201900Z 00000KT 9999 SCT025 08/06 Q1018 PAEN 201853Z 00000KT 10SM CLR M11/M12 A3050 RMK AO2 SLP333 T11061117 $ PAFE 201856Z AUTO 00000KT 10SM CLR M01/M03 A3037 RMK AO2 SLP298 T10061033 FZRANO OINR 201900Z 00000KT 9999 FEW027 07/06 Q1018 PAGA 201856Z AUTO 13006KT 10SM CLR M03/M05 A3036 RMK AO2 SLP282 T10281050 FZRANO PAFM 201909Z AUTO 20010KT 8SM FEW021 SCT028 BKN047 M03/M04 A3015 RMK AO2 FZRANO OINZ 201900Z VRB02KT CAVOK 05/04 Q1019 PAGH 201856Z AUTO 22014G20KT 9SM CLR M02/M04 A3016 RMK AO2 SLP221 T10171044 FZRANO PAFR 201908Z AUTO 00000KT M M OVC002 M06/M06 A3043 RMK AO2 SLP317 $ SYCJ 201900Z 02014KT 9999 BKN020 29/19 Q1012 NOSIG PAFS 201901Z AUTO 16004KT 10SM CLR M04/M04 A3048 RMK AO2 SLP342 T10391044 FZRANO PAGK 201905Z AUTO 00000KT 7SM -SN FEW020 BKN055 OVC075 M11/M12 A3045 RMK AO2 P0000 T11111117 TSNO $ YTRE 201900Z AUTO 30007KT 9999 // SCT053 OVC063 17/15 Q1017 PAGM 201856Z AUTO 21027G34KT 4SM BR FEW033 M01/M03 A2995 RMK AO2 PK WND 22038/1759 SLP149 T10061028 FZRANO PAGN 201856Z AUTO 00000KT 10SM CLR M03/M04 A3037 RMK AO2 SLP273 T10281044 FZRANO PAGS 201856Z AUTO 00000KT 10SM FEW022 OVC110 M05/M06 A3036 RMK AO2 SLP282 T10501061 FZRANO SYEC 201900Z 01008KT 9999 FEW018 BKN039 27/22 Q1012 RESH PAHL 201856Z AUTO 20010KT 10SM CLR M02/M04 A3026 RMK AO2 SLP259 T10221039 FZRANO PAHN 201854Z AUTO 29005KT 10SM BKN100 M04/M08 A3034 RMK AO2 SLP276 T10441078 TSNO PAHO 201853Z 06003KT 10SM CLR M02/M03 A3047 RMK AO2 SLP319 T10171033 PAHP 201856Z AUTO 19015KT 7SM OVC044 00/M02 A3022 RMK AO2 SLP273 T00001022 FZRANO PAGY 201853Z AUTO 00000KT 10SM BKN100 M03/M07 A3035 RMK SLP275 T10281072 TSNO VIA AUTODIAL PAIG 201914Z AUTO 24003KT 3SM BR OVC003 M03/M03 A3056 RMK AO2 FZRANO $ PAII 201756Z AUTO 00000KT M1/4SM UP FZFG OVC001 M01/M01 A3058 RMK AO2 SLP358 P0000 60000 T10061006 10011 21006 53013 FZRANO OISA 201900Z 00000KT CAVOK 06/M09 Q1019 NTAA 201900Z 05011KT 9999 FEW023 SCT260 29/24 Q1013 NOSIG PAIK 201856Z AUTO 21016G25KT 7SM BKN050 M02/M03 A3007 RMK AO2 SLP187 T10171033 FZRANO PAIL 201853Z 26009KT 10SM CLR M03/M04 A3054 RMK AO2 SLP346 T10331039 PAJC 201757Z AUTO 16003KT 10SM CLR 02/01 A3057 RMK AO2 SLP353 T00220006 10056 20017 51008 FZRANO PAIM 201855Z AUTO VRB06KT 10SM FEW014 SCT044 M02/M05 A3020 RMK AO2 SHSNB1726E1826 SLP251 P0002 T10231046 PAIN 201856Z AUTO 00000KT 10SM CLR M09/M10 A3038 RMK AO2 SNE13 SLP334 P0000 T10891100 FZRANO OISF 201900Z 34004KT CAVOK 08/M06 Q1014 PAHX 201856Z AUTO 20012KT 5SM BR OVC032 M03/M03 A3050 RMK AO2 SLP330 T10281033 FZRANO YTTI 201900Z AUTO 27013KT //// // ////// 28/28 Q1006 RMK YTST 201900Z AUTO 24005KT 9999 // NCD 27/26 Q1006 RMK OISL 201900Z 00000KT CAVOK 14/M03 Q1013 PAJN 201853Z 00000KT 10SM FEW140 OVC200 M06/M06 A3035 RMK AO2 SLP276 I1000 T10561056 PAIW 201856Z AUTO 20035G42KT 6SM HZ SCT027 M01/M03 A2989 RMK AO2 PK WND 20043/1819 SLP124 T10061033 FZRANO PAKF 201912Z AUTO 17011KT 5SM BR BKN002 OVC090 02/01 A3055 RMK AO2 FZRANO CPRO 201500Z AUTO 28007KT M19/M22 RMK AO1 T11891224 PAKH 201856Z AUTO 10SM 05/01 A3053 RMK AO2 SLP341 T00500011 $ OISR 201500Z 28006KT 7000 NSC 22/04 Q1012 PAKI 201856Z AUTO 16008KT 8SM BKN038 M03/M04 A3052 RMK AO2 SLP337 T10331039 FZRANO ZLLL 201900Z 32001MPS 9999 FEW010 OVC046 M08/M09 Q1024 NOSIG OISS 201900Z 30004KT CAVOK 12/M03 Q1016 A3002 OKBK 201900Z 04008KT CAVOK 20/06 Q1015 NOSIG PAKK 200456Z AUTO 18017G24KT 4SM -SN BR BKN006 OVC010 00/00 A2995 RMK AO2 UPB03E05B31E52SNE03B05E31B52 CIG 004V007 SLP155 P0000 T00000000 FZRANO OITL 201851Z 23008KT CAVOK M00/M03 Q1015 OITM 201800Z 08008KT 9999 FEW040 SCT160 05/M01 Q1016 PAKN 201854Z 25003KT 1/2SM R12/1800V2800FT FG VV003 01/01 A3054 RMK AO2 SLP343 T00060006 OISY 201900Z 00000KT 8000 FEW035 SCT080 07/M03 Q1019 OITP 201900Z 00000KT 9999 OVC020 06/04 Q1018 PAKP 201856Z AUTO 21013KT 10SM OVC043 M08/M09 A2996 RMK AO2 SNB06E26 SLP205 P0000 T10781089 FZRANO PALG 201856Z 21003KT 7SM OVC039 M03/M03 A3055 RMK AO2 SLP306 PWINO FZRANO TSNO RVRNO PAJZ 201856Z AUTO 9SM FEW002 M06/M07 A3061 RMK AO2 SLP374 T10611072 FZRANO $ PALH 201853Z 00000KT 3SM BR OVC003 M04/M04 A3048 RMK AO2 SLP324 T10391044 PNO $ CPRY 201400Z AUTO 23013KT M19/M24 RMK AO1 T11911241 OITR 201900Z 27004KT 9999 FEW035CB SCT040 SCT090 04/01 Q1016 DIAP 201914Z 08016KT 6000 -TSRA BKN012 FEW020CB BKN030 23/21 Q1009 TEMPO 4000 TSRA PALJ 201758Z 00000KT 10SM BKN005 OVC020 M03/M03 A3050 RMK FIRST EST PASS CLSD NOSPECI OITT 201900Z VRB02KT 9999 SCT030 BKN090 04/M00 Q1017 A3006 NOSIG PAKT 201853Z 33008KT 10SM CLR 01/M06 A3035 RMK AO2 SLP280 HARBOR WIND 31010KT T00061061 PAMB 201914Z AUTO 05003KT 1/4SM FZFG OVC001 M04/M04 A3061 RMK AO2 FZRANO $ PAKU 201910Z 26020KT 10SM R24/P6000FT OVC039 M01/M01 A2989 OITU 201853Z 24004KT 9999 SCT040 03/M01 Q1016 PAMC 201853Z AUTO 00000KT 10SM FEW010 M02/M04 A3048 RMK AO2 SLP330 T10221044 TSNO CPST 201500Z AUTO 32010KT M15/M19 RMK AO1 T11511194 PAKV 201853Z AUTO 21006KT 10SM M02/M04 A3039 RMK UPB1754E05 SLP295 P0000 T10221039 TSNO $ VIA AUTODIAL PAMD 201857Z AUTO 28005KT 10SM OVC012 03/02 A3033 RMK AO2 SLP259 T00330017 PAKW 201853Z AUTO 00000KT 10SM CLR M01/M03 A3035 RMK AO2 SLP277 T10111033 TSNO CPSV 201500Z AUTO 22013KT M24/M28 RMK AO1 PK WND 22017/1427 T12411275 50004 PALP 201850Z 27020G27KT 7SM DRSN BKN065 M01/M02 A2987 OITZ 201500Z 22004KT CAVOK 05/01 Q1016 PAMH 201907Z AUTO 21006KT 10SM SCT016 M02/M04 A3042 RMK AO2 FZRANO PANA 201856Z AUTO 18005KT 4SM BR CLR M04/M04 A3055 RMK AO2 SLP345 T10391044 FZRANO PAMK 201856Z AUTO 19018KT 10SM BKN041 OVC049 M02/M04 A3037 RMK AO2 SLP289 T10171044 FZRANO $ PANC 201853Z 00000KT 1SM R07R/P6000FT BR OVC002 M03/M04 A3047 RMK AO2 SLP321 T10331044 $ PALU 201903Z AUTO 17035G53KT 140V200 M1/4SM +SN FG BKN007 M01/M02 A2954 RMK AO2 SLP004 PAMM 201856Z AUTO 00000KT 10SM CLR 01/M06 A3036 RMK AO2 SLP273 T00061056 FZRANO PAMO 201901Z AUTO 20011KT 8SM OVC040 M03/M04 A3046 RMK AO2 SLP322 T10331044 FZRANO PAMR 201853Z 00000KT 1/2SM FZFG VV003 M04/M04 A3047 RMK AO2 SLP320 T10441044 PANI 201844Z AUTO 00000KT 2SM BR BKN037 M04/M05 A3055 RMK AO2 FZRANO UHBB 201900Z 25002MPS CAVOK M22/M28 Q1014 R36/410260 NOSIG RMK QFE743/0991 PANN 201853Z AUTO 24013G21KT 10SM OVC041 01/M01 A3037 RMK AO2 SLP295 T00111011 TSNO PAOH 201856Z AUTO 00000KT 10SM CLR M06/M06 A3036 RMK AO2 SLP281 T10561061 FZRANO PANT 201853Z AUTO 33006KT 10SM CLR 02/M04 A3034 RMK SLP275 T00171044 TSNO VIA AUTODIAL PAPB 201912Z AUTO 13016KT 7SM FEW009 03/02 A3033 RMK AO2 T00330022 TSNO $ PANV 201656Z AUTO 18011KT 7SM CLR M03/M03 A3037 RMK AO2 SLP308 T10281033 FZRANO PAOM 201853Z 20021G25KT 4SM R28/6000VP6000FT BR BKN034 M02/M03 A3012 RMK PK WND 21032/1759 SLP201 T10171033 $ VIA AUTODIAL PANW 201905Z AUTO 31004KT 9SM FEW001 M04/M05 A3058 RMK AO2 FZRANO PNO $ UGKO 201900Z VRB01KT 9999 BKN040 06/04 Q1017 R07/09//70 NOSIG PAOO 201756Z AUTO 17006KT 8SM OVC039 M01/M02 A3049 RMK AO2 SLP337 T10111022 11011 21039 51033 FZRANO PAPG 201856Z 00000KT 10SM CLR M06/M07 A3038 RMK AO2 SLP291 T10561072 PAPH 201856Z AUTO 16003KT 1/4SM FG OVC002 00/00 A3059 RMK AO2 RAE19UPB19E31 SLP362 P0000 T00000000 FZRANO PAOR 201853Z 00000KT 10SM FEW050 BKN100 OVC110 M09/M10 A3028 RMK AO2 SLP306 T10941100 OIZB 201900Z 34019KT CAVOK 15/02 Q1014 PAOT 201853Z 19024G29KT 7SM BLSN BR BKN038 M02/M04 A2997 RMK AO2 PK WND 20031/1756 VIS 2 1/2 E SLP149 T10171039 $ PAOU 201856Z AUTO 1/4SM FG OVC003 02/01 A3056 RMK AO2 SLP349 T00170011 FZRANO $ PAPM 201856Z AUTO 04009KT CLR M02/M03 A3057 RMK AO2 SLP356 T10221028 PWINO FZRANO $ CPXL 201500Z AUTO 16005KT M24/M29 RMK AO1 T12381289 PAPN 201856Z AUTO 25003KT M1/4SM FG OVC002 01/01 A3059 RMK AO2 SLP361 T00110011 PWINO FZRANO PAPO 201910Z AUTO 19033G41KT 5SM BR OVC016 M01/M02 A2955 RMK AO2 PK WND 19041/1909 SNE03 P0000 FZRANO PAQH 201856Z AUTO 13006KT 7SM CLR M03/M03 A3057 RMK AO2 SLP354 T10281033 PWINO FZRANO OIZH 201900Z 35006KT CAVOK 13/M00 Q1017 A3005 OIZI 201900Z 25008KT CAVOK 22/M00 Q1013 OIZJ 201800Z 22006KT 4000 BR NSC 24/20 Q1011 PAPT 201753Z 32006KT 25SM FEW200 M04/M04 A3035 RMK NOSPECI FIRST PARC 201915Z AUTO 00000KT 1 3/4SM -SN BR SCT034 OVC050 M12/M14 A2987 RMK AO2 P0000 FZRANO OIYY 201900Z 22004KT CAVOK 11/M05 Q1018 PASA 201856Z AUTO 20037G45KT 1 1/2SM -SN BR CLR M01/M03 A2999 RMK AO2 PK WND 21045/1853 VIS 1 1/4V2 SLP158 P0000 T10061028 FZRANO $ PAQT 201853Z AUTO 24027KT 2SM UP BR SCT070 BKN080 M02/M02 A2989 RMK PK WND 24034/1829 UPB30 SLP121 P0000 T10171017 TSNO VIA AUTODIAL PASC 201916Z 24017KT 6SM BR OVC030 00/M01 A2988 RMK AO2 SNE07 P0000 T00001006 PASD 201856Z 19003KT 1/2SM -DZ BR OVC002 02/01 A3060 RMK AO2 RAB37E48DZB48 SLP364 KH P0000 T00170011 YWCA 201900Z AUTO 06011KT //// // ////// 25/12 Q1011 RMK PASI 201853Z 10004KT 10SM FEW150 01/M02 A3037 RMK AO2 SLP282 T00061017 YWBL 201900Z AUTO 07008KT 9999 // NCD 17/12 Q1012 RMK PATA 201852Z 00000KT 10SM OVC018 M01/M02 A3035 RMK AO2 SLP283 T10111017 PNO PARS 201856Z AUTO 04003KT 5SM BR OVC045 M05/M06 A3053 RMK AO2 SLP344 T10501056 FZRANO $ OLBA 201900Z 15003KT 8000 SCT070 SCT180 16/11 Q1012 NOSIG PASK 201856Z AUTO 20017KT 9SM BKN049 BKN070 M02/M04 A3013 RMK AO2 SLP199 T10171039 FZRANO $ PASL 201747Z AUTO 14004KT 1/4SM -SN FZFG OVC001 M04/M05 A3058 RMK AO2 P0000 FZRANO PATC 201855Z AUTO 21044G54KT 8SM BKN025 M01/M03 A2984 RMK AO2 PK WND 21054/1810 SLP108 T10151035 $ PASM 201856Z AUTO 19013KT 7SM CLR M03/M05 A3048 RMK AO2 SLP340 T10331050 FZRANO PASN 201911Z AUTO 14015KT 5SM BR OVC029 03/02 A3031 RMK AO2 T00280017 TSNO $ PATE 201856Z AUTO 20044G52KT 8SM CLR M02/M04 A2995 RMK AO2 PK WND 20054/1813 SLP148 T10171039 FZRANO PASO 201853Z AUTO 00000KT 10SM CLR M02/M02 A3046 RMK AO2 SLP314 T10171022 TSNO YWBR 201830Z AUTO 02017KT //// // ////// 24/21 Q1002 PATG 201856Z AUTO 34005KT 1/4SM FZFG OVC002 M02/M02 A3061 RMK AO2 SLP464 T10171022 FZRANO PARY 201856Z AUTO 22014KT 10SM CLR M03/M03 A3032 RMK AO2 SLP296 T10281033 FZRANO MSV 201900Z AUTO 00000KT 9999 // OVC027 12/11 Q1020 RMK PATK 201853Z 00000KT 10SM CLR M16/M17 A3048 RMK AO2 SLP333 T11561167 PATL 201911Z AUTO 00000KT 8SM SCT002 BKN016 M03/M03 A3050 RMK AO2 SLP350 PASV 201855Z AUTO 29002KT 1/4SM FZFG VV002 M06/M07 A3049 RMK AO2 SLP357 T10641070 MUI 201900Z AUTO 14022KT 9999 // NCD 11/11 Q1017 RMK PATO 201853Z AUTO 28005KT 10SM FEW009 M04/M06 A3044 RMK AO2 SLP310 T10391061 TSNO PASX 201856Z AUTO 00000KT 10SM CLR M10/M11 A3052 RMK AO2 SLP346 T11001111 FZRANO UHHH 201900Z 23004MPS CAVOK M21/M28 Q1012 R23L/090060 NOSIG RMK QFE752/1003 PASY 201859Z 03024G31KT 4SM -SHSN SCT006 OVC016 00/M01 A2980 RMK PK WND 03031/08 SNE1758UPB1758E1821SHSNB1821 CIG 006V016 SLP095 $ PATQ 201905Z AUTO 20026KT 1 3/4SM -SN BR M03/M04 A2979 RMK AO2 PK WND 20029/1904 P0000 FZRANO TSNO $ PAVA 201856Z AUTO 19015KT 8SM OVC045 M01/M03 A3044 RMK AO2 SLP395 T10111028 FZRANO NSTU 201850Z 00000KT 12SM FEW022 BKN220 27/24 A2972 RMK SLP066 T02740243 PAVC 201908Z AUTO 07008KT 1/2SM FG SCT002 BKN015 OVC100 01/01 A3058 RMK AO2 FZRANO PAVD 201856Z 25004KT 10SM FEW110 BKN150 BKN250 M03/M09 A3038 RMK AO2 SLP313 1851Z WEA PAUN 201856Z AUTO 19018KT 10SM CLR M01/M04 A3037 RMK AO2 SLP288 T10061039 FZRANO UIAA 201900Z 23005MPS 9999 NSC M13/M17 Q1011 R29/018165 NOSIG RMK QFE700/0934 UGSB 201900Z 12006KT 9999 BKN030 OVC140 05/04 Q1019 R13/CLRD70 NOSIG PAUT 201915Z AUTO 12017G23KT 10SM SCT036 BKN055 OVC075 04/02 A3042 RMK AO2 T00360022 PAVL 201853Z AUTO 19031G38KT 6SM BR OVC029 M01/M03 A2975 RMK AO2 PK WND 20043/1810 SLP074 T10061028 TSNO PNO $ PAWD 201853Z AUTO 35015G26KT 10SM CLR 02/M06 A3040 RMK AO2 PK WND 35029/1841 SLP293 T00221061 TSNO $ PAWG 201756Z 12005KT 10SM FEW005 FEW010 SCT100 M03/M04 A3037 RMK AO2 SLP286 T10331044 11033 21078 53005 PAWI 201853Z AUTO 17020KT 9SM OVC040 M03/M05 A2970 RMK AO2 PK WND 18026/1806 UPE03 SLP057 P0000 T10331050 TSNO UIBB 201900Z 26002MPS 9000 -SHSN SCT013CB M19/M20 Q1019 R30/451037 NOSIG RMK QFE721/0962 UGTB 201900Z VRB01KT 9999 OVC027 04/02 Q1021 R31L/CLRD70 NOSIG PAWM 201914Z AUTO 21019G31KT 4SM BR SCT025 BKN033 M02/M03 A3020 RMK AO2 PK WND 21031/1909 FZRANO PAWN 201856Z AUTO 18022G29KT 4SM UP BR BKN020 OVC110 M01/M03 A2989 RMK AO2 PK WND 19033/1826 UPB11SNE11 SLP137 P0000 T10111033 FZRANO YWHA 201900Z AUTO 23005KT 9999 // NCD 23/18 Q1008 PAYA 201905Z AUTO 00000KT 10SM BKN024 OVC030 M02/M03 A3032 RMK AO2 T10221028 TSNO ZLXY 201900Z 24002MPS 210V280 4000 BR FEW015 SCT030 OVC050 02/02 Q1029 NOSIG UHMA 201900Z 26010G13MPS 9999 -SN FEW010 SCT033 OVC080 M09/M11 Q1000 RMK END R01/27009MPS MT OBSC QFE746/0995 YWGT 201900Z AUTO 35003KT 9999 // NCD 14/08 Q1017 YVRD 201900Z AUTO /////KT //// // ////// 24/21 Q1005 UHMD 200500Z 15022G27MPS 9999 BKN017 02/M01 Q0996 RMK QBB510 MT OBSC QFE746/0995 PAZK 201856Z AUTO 25006KT 10SM OVC060 M08/M11 A3028 RMK AO2 SLP339 T10831106 FZRANO UHMM 201900Z 00000MPS 9999 OVC040 M24/M26 Q1004 RMK QFE738 YWIS 201900Z AUTO 10003KT //// // ////// 25/22 Q1005 RMK OMAA 201900Z 28003KT 210V010 8000 NSC 20/14 Q1013 NOSIG OMAD 201900Z 30003KT 8000 NSC 20/14 Q1013 NOSIG ZMUB 201900Z VRB01MPS 6000NW NSC M28/M31 Q1019 NOSIG RMK QFE656.5 70 NT OMAL 201900Z 32006KT 9000 NSC 19/12 Q1015 NOSIG YWLG 201900Z AUTO 09007KT 9999 // NCD 18/12 Q1013 RMK TQPF 201900Z 06014KT 9999 FEW020 BKN040 25/18 Q1020 YWLM 201900Z AUTO 33004KT 290V360 9999 // OVC058 17/15 Q1018 UHPP 201900Z 36004MPS 9999 NSC M17/M20 Q1008 R34L/CLRD70 NOSIG RMK QFE752/1003 EBBE 201855Z 02005KT 8000 FEW085 BKN100 01/M02 Q1020 BLU BLU YWLU 201900Z AUTO 17014KT //// // OVC018 21/17 Q1006 RMK OMDB 201900Z 17005KT 8000 NSC 21/14 Q1013 NOSIG EBBL 201855Z 04005KT 9999 FEW120 01/M03 Q1020 BLU BLU EBAW 201850Z 04005KT 9000 NSC 03/M01 Q1021 NOSIG UIII 201900Z 17003MPS 9999 -SHSN SCT043CB M18/M21 Q1022 R30/CLRD60 NOSIG RMK QFE721/0962 EBCI 201850Z 03006KT 7000 NSC 02/M02 Q1019 NOSIG EBBR 201850Z 03004KT 8000 NSC 01/M01 Q1020 NOSIG CTCK 201500Z AUTO 07008KT 02/01 RMK AO1 4PAST HR SOG 13 8005 SLP196 P0005 T00150014 50044 VAAH 201900Z 00000KT 4000 FU NSC 23/11 Q1010 NOSIG YWOL 201900Z AUTO 26006KT 9999 // OVC054 17/14 Q1019 RMK VABB 201900Z 31005KT 2500 FU NSC 26/19 Q1010 NOSIG KA08 201915Z AUTO 16015G22KT 10SM SCT045 SCT060 BKN070 26/17 A3020 RMK AO2 T02630174 OMDW 201900Z 18006KT 7000 NSC 18/14 Q1014 NOSIG EBCV 201905Z AUTO 03007KT 4800 FEW089/// BKN120/// 03/M01 Q1020 GRN UHSS 201900Z 36004MPS 3600 -SHSN BKN020CB M15/M16 Q1008 R01/490350 NOSIG RMK MT OBSC QFE755/1007 OMFJ 201900Z 29007KT 260V320 7000 NSC 24/10 Q1012 A2988 VAAU 201800Z 14002KT 5000 HZ NSC 24/11 Q1014 NOSIG EBDT 201855Z AUTO 02006KT 7000 BKN100/// 02/M03 Q1020 WHT VABO 201500Z 32005KT 6000 NSC 29/13 Q1011 NOSIG VABP 201800Z 07005KT 6000 NSC 21/09 Q1014 NOSIG VABV 201300Z 03002KT 6000 NSC 32/10 Q1010 EBFN 201903Z AUTO 04004KT 7000 SCT064/// OVC180/// 02/01 Q1021 WHT KA39 201915Z AUTO 32004KT 10SM CLR 12/M11 A3013 RMK AO2 EBFS 201855Z 03006KT 8000 BKN100 01/M03 Q1018 BLU BLU TEMPO WHT YWUD 201900Z AUTO 17008KT //// // ////// 20/18 Q1010 RMK YWTN 201900Z AUTO 04007KT //// // ////// 25/17 Q1002 RMK UHWW 201900Z 26002MPS 9999 NSC M14/M25 Q1022 R25L/0///70 NOSIG RMK QFE765 TRPG 201900Z 09015G25KT 9999 VCSH BKN018 25/21 Q1019 VAID 201800Z 09004KT 5000 HZ NSC 23/08 Q1015 EBLB 201855Z AUTO 05006KT 5000 BKN100/// M02/M04 Q1017 WHT EBLG 201850Z 03005KT 8000 NSC 01/M01 Q1019 NOSIG YWWL 201900Z AUTO 09007KT //// // ////// 14/08 Q1017 RMK VAJB 201500Z 00000KT 5000 HZ NSC 19/09 Q1015 VAJJ 201230Z 33011KT 3000 FU NSC 30/27 Q1009 NOSIG UKBB 201900Z 16002MPS 9999 OVC040 M03/M03 Q1024 R18L/190060 R18R/CLRD// NOSIG YWYM 201900Z AUTO 08003KT //// // ////// 27/// Q1005 RMK CTNK 201500Z AUTO 11001KT 01/M00 RMK AO1 4PAST HR SOG 31 5010 SLP175 P0005 T00111001 50029 UKDD 201900Z 01003MPS 340V060 9999 BKN066 M04/M07 Q1023 R26/710270 NOSIG UKDE 201900Z 35003MPS CAVOK M04/M06 Q1023 R02/CLRD70 NOSIG YWYY 201900Z AUTO 09011KT 9999 // OVC036 16/09 Q1019 RMK TTCP 201900Z 07011KT 9999 VCSH FEW025 28/19 Q1014 Q1014 NOSIG RMK VCSH SW UIUU 201900Z 27003MPS 140V280 9999 SCT026CB M13/M17 Q1019 R26/821550 NOSIG RMK QFE720/0960 EBOS 201850Z 05007KT 9999 SCT040 03/M01 Q1021 NOSIG UKDR 201900Z 01003MPS CAVOK M03/M06 Q1024 R36/09//70 NOSIG OMRK 201900Z 18002KT 6000 NSC 17/11 Q1013 A2994 CTRA 201500Z AUTO 04004KT M18/M20 RMK AO1 2PAST HR SOG 45 6021 SLP204 P0001 T11761202 50005 VANP 201900Z 36002KT 3000 HZ SCT100 24/09 Q1013 NOSIG OMSJ 201900Z 14005KT 100V170 CAVOK 20/14 Q1013 EDAC 201650Z 36005KT 6000 OVC033 01/M03 Q1018 EDAH 201450Z 07008KT 040V100 CAVOK 03/M06 Q1022 UKHH 201900Z 34003MPS 310V010 9999 BKN022 M05/M09 Q1023 R25/0///66 NOSIG VAPR 201200Z 34015KT 4000 FU NSC 29/19 Q1011 PFCL 201852Z AUTO 15004KT 10SM FEW002 M03/M03 A3060 RMK AO2 FZRANO TSNO YYNG 201900Z AUTO 11009KT 9999 // NCD 13/08 Q1017 RMK ULAA 201900Z 34001MPS CAVOK M16/M17 Q1023 R08/950548 NOSIG RMK QFE766/1022 VARK 201600Z 28009KT 6000 NSC 27/11 Q1012 VASD 201130Z 03006KT 5000 FU NSC 32/06 Q1012 NOSIG EDDB 201850Z 05007KT CAVOK M01/M06 Q1021 NOSIG EDDC 201850Z 06010KT CAVOK M01/M05 Q1019 NOSIG EDDE 201850Z 33001KT 7000 -SN FEW010 BKN030 M02/M04 Q1019 NOSIG EDDF 201850Z 03007KT 360V070 9999 BKN044 03/M05 Q1018 NOSIG EDDG 201850Z 04003KT 010V100 9999 FEW033 M00/M04 Q1021 NOSIG EDDH 201850Z 03004KT CAVOK 00/M03 Q1023 NOSIG KC07 201912Z AUTO 26008G15KT 220V290 2 1/2SM BR OVC006 M16/M18 A2967 RMK AO2 VIS 2V4 KAAA 201915Z AUTO 31009G22KT 5SM RA SCT007 OVC015 10/09 A2992 RMK AO2 P0005 T00960091 PFEL 201856Z AUTO 21012G16KT 7SM OVC016 M02/M04 A3026 RMK AO2 SLP249 T10221039 FZRANO KC09 201915Z AUTO 31015G23KT 5SM RA SCT010 OVC020 10/09 A2985 RMK AO2 P0005 T00960091 NVVV 200600Z 11003KT 9999 SCT020 27/23 Q1006 RMK RESH EDDK 201850Z 06005KT CAVOK 02/M04 Q1019 NOSIG EDDL 201850Z 03009KT CAVOK 02/M04 Q1020 NOSIG EDDM 201850Z 32002KT 3500 -SN BR BKN011 BKN080 M03/M04 Q1015 R88/290095 TEMPO 2500 SCT010 BKN020 KAAF 201853Z AUTO 13014KT 10SM BKN060 24/21 A3029 RMK AO2 SLP257 T02390206 EDDN 201850Z 36005KT 8000 -SN FEW013 SCT030 BKN050 M02/M04 Q1017 R28/29//94 TEMPO 4000 VCBI 201710Z 04006KT 9000 SKC 24/21 Q1011 NOSIG EDDP 201850Z 03005KT CAVOK M02/M04 Q1020 NOSIG UKKK 201900Z 26002MPS 230V290 9000 OVC035 M01/M05 Q1023 R26/190058 NOSIG VASU 201530Z 36002KT 6000 NSC 26/13 Q1010 EDDR 201850Z 07006KT 050V110 9999 FEW032 BKN046 M00/M04 Q1016 NOSIG VAUD 201500Z 00000KT 6000 NSC 22/09 Q1014 NOSIG UKKM 201900Z AUTO 00000MPS 7000 // ///040/// M01/M03 Q1023 EDDS 201850Z 01004KT 340V040 9999 FEW022 BKN035 M01/M04 Q1015 NOSIG EDDT 201850Z 05005KT 020V080 CAVOK 01/M05 Q1022 NOSIG ZPPP 201900Z 21003MPS CAVOK 07/00 Q1018 NOSIG KABE 201851Z VRB04KT 6SM HZ FEW006 13/11 A3029 RMK AO2 SLP259 T01330106 EDDV 201850Z 07003KT 8000 SCT032 M01/M04 Q1022 NOSIG EDDW 201850Z 05006KT CAVOK 00/M04 Q1023 NOSIG KAAO 201854Z AUTO 34017KT 10SM OVC014 M05/M06 A3009 RMK AO2 SLP208 T10501061 UKLI 201900Z 12006MPS 9999 BKN025 M03/M06 Q1018 R10/090070 NOSIG KABH 201856Z AUTO 25006KT A2988 RMK AO2 SNB09E19B37E56 SLPNO P0000 $ EDFH 201850Z 08003KT 030V140 9999 SCT025 00/M04 Q1016 KABI 201917Z 28008KT 2SM R35R/3000VP6000FT +TSRA BR FEW025 BKN038 OVC046 17/17 A2988 RMK AO2 LTG DSNT NE-SE P0014 T01720172 $ UKLL 201900Z 12005MPS CAVOK M04/M08 Q1018 R13/811060 NOSIG KACB 201915Z AUTO 20004KT 10SM OVC022 13/11 A2979 RMK AO2 T01300109 KAAT 201913Z AUTO 00000KT 10SM BKN026 M06/M12 A3008 RMK AO2 T10611117 KC29 201915Z AUTO 25005KT 4SM OVC008 03/03 A2986 RMK AO1 P0001 T00280028 UKLN 201900Z 12005MPS CAVOK M04/M06 Q1019 R15/09//70 NOSIG EDFM 201850Z 36004KT 9999 FEW033 BKN048 02/M03 Q1018 UKLR 201500Z 10003MPS CAVOK M04/M09 Q1022 NOSIG KC35 201915Z AUTO 27009G16KT 10SM OVC007 01/01 A2985 RMK AO2 T00100010 KABQ 201852Z 28008KT 240V300 10SM FEW040 BKN050 BKN085 02/M09 A2999 RMK AO2 SLP154 MTN TOPS OBSC SE T00171089 KABR 201853Z AUTO 33014KT 10SM SCT030 M12/M16 A3015 RMK AO2 SLP240 T11171161 UKLU 201900Z 31002MPS 9999 BKN043 02/01 Q1015 NOSIG KACJ 201915Z AUTO 16006KT 10SM SCT045 SCT050 OVC070 25/14 A3033 RMK AO2 KACK 201853Z 23016KT 1/4SM R24/1800FT FG VV002 08/08 A3029 RMK AO2 SLP258 T00780078 $ KADC 201915Z AUTO 30013G18KT 1/2SM -SN VV005 M12/M17 A2997 RMK AO2 VIS 1/4V4 KADF 201856Z AUTO 19013KT 10SM BKN045 BKN055 BKN110 25/18 A2999 RMK AO2 SLP157 T02500183 KADG 201906Z AUTO 23016KT 8SM -RA SCT014 OVC095 16/14 A3001 RMK AO2 P0001 T01560139 TSNO KABY 201853Z 14011KT 10SM BKN037 OVC070 27/18 A3032 RMK AO2 SLP266 T02670178 KACP 201915Z AUTO 18010G14KT 10SM BKN031 OVC040 26/20 A3006 RMK AO2 T02620195 KACQ 201915Z AUTO 29008KT 10SM -SN SCT018 OVC032 M07/M10 A2999 RMK AO2 KADH 201915Z AUTO 35008G14KT 5SM RA BKN006 OVC015 01/01 A2999 RMK AO2 P0002 EDHI 201850Z 05007KT CAVOK 01/M03 Q1023 EDGS 201850Z 06007KT CAVOK M02/M05 Q1017 KACT 201851Z 19010KT 1SM TSRA BR FEW020 BKN033 OVC047 21/19 A2991 RMK AO2 LTG DSNT ALQDS TSB46 SLP123 P0007 T02060189 EDHK 201550Z 08011KT CAVOK 02/M04 Q1023 EDHL 201720Z 07006KT CAVOK M01/M04 Q1023 KACV 201853Z AUTO 00000KT 10SM FEW075 07/M03 A3025 RMK AO2 SLP251 T00721033 KADM 201855Z 36020G26KT 4SM -RA SCT006 BKN012 OVC029 05/04 A2995 RMK LTG DSNT SW UKOH 201900Z 05003MPS CAVOK M03/M06 Q1023 R03/CLRD65 NOSIG KAEG 201848Z 26009KT 10SM BKN085 02/M11 A2998 KACY 201854Z 22013G18KT 10SM CLR 22/16 A3032 RMK AO2 SLP265 T02220156 $ KAEJ 201915Z AUTO 17012G17KT 130V200 10SM BKN070 M06/M22 A2978 RMK AO2 T10601221 KADS 201847Z 17010G18KT 7SM RA BKN011 OVC021 20/18 A2991 EDJA 201850Z 03007KT 3900 FEW007 BKN027 M04/M04 Q1014 UKON 201600Z 07003MPS CAVOK M02/M06 Q1023 NOSIG KADU 201915Z AUTO 32010KT 10SM -SN OVC016 M07/M10 A3008 RMK AO2 KAEL 201915Z AUTO 28007KT 250V310 10SM -SN OVC015 M08/M11 A2997 RMK AO2 UKOO 201900Z 09004MPS CAVOK 01/M05 Q1023 R16/090060 NOSIG KC62 201935Z AUTO 21019G27KT 10SM -RA SCT016 BKN028 OVC090 16/15 A2998 RMK AO2 P0002 T01610152 KADW 201856Z AUTO 20019G24KT 10SM CLR 24/14 A3029 RMK AO2 SLP263 T02410136 $ CWAE 201500Z 00000KT 15SM FEW240 M17/M19 A3011 RMK CI1 WND ESTD SLP243 KAFF 201856Z 18004KT 10SM FEW008 SCT070 M08/M14 A2985 RMK AO2A SLP190 T10841144 CWAF 201500Z AUTO 05019G25KT M04/M08 RMK AO1 PK WND 05028/1404 T10391075 KC65 201915Z AUTO 20013G20KT 2 1/2SM BR FEW015 BKN021 BKN030 17/17 A2993 RMK A01 KAFJ 201856Z AUTO 22009G20KT 10SM FEW055 25/12 A3020 RMK AO2 SLP218 T02500117 CWBA 201500Z AUTO 32003KT M05/M06 RMK AO1 SOG 40 T10541063 50016 CWAJ 201500Z AUTO RMK AO1 KAFK 201915Z AUTO 34015KT 10SM -SN OVC018 M06/M08 A3013 RMK AO2 T10641084 KAGC 201853Z 24015G20KT 10SM CLR 24/11 A3017 RMK AO2 SLP215 T02440106 TTPP 201900Z 11017KT 070V170 9999 VCSH SCT020 30/17 Q1013 NOSIG RMK VCSH NE E KAFN 201852Z AUTO 25003KT 10SM CLR 13/11 A3020 RMK AO2 SLP235 T01330111 DNBE 201300Z 18007KT 9999 BKN010 29/24 Q1009 CWBE 201500Z AUTO 07008KT M05/M06 RMK AO1 SLP156 T10481060 58013 KAEX 201853Z 16016G29KT 10SM SCT038 BKN060 BKN075 26/19 A3005 RMK AO2 PK WND 16029/1847 SLP177 T02560189 KAFO 201915Z AUTO RMK AO2 PWINO TSNO KAFP 201915Z AUTO 00000KT 10SM SCT034 SCT042 23/17 A3039 RMK AO2 T02300166 KC75 201915Z AUTO 00000KT 2 1/2SM RA BKN006 BKN022 OVC060 06/06 A2990 RMK AO2 P0005 T00600060 CWAQ 201500Z AUTO 25008KT M23/M26 RMK AO1 SOG 07 2007 SLP232 T12331264 PFKT 201917Z AUTO 20034KT 5SM BR OVC030 M02/M04 A3000 RMK AO2 PK WND 20039/1908 FZRANO DNCA 201700Z 24010KT 6000 SCT011 30/24 Q1007 CWCA 201500Z 30020G26KT 15SM DRSN FEW020 M21/M29 A3037 RMK CU1 CU TR SLP287 CWBK 201500Z AUTO 35002KT 01/01 RMK AO1 3PAST HR SOG 13 1006 SLP260 P0001 T00130008 50003 PFKW 201856Z AUTO 22008KT 5SM BR CLR M03/M03 A3056 RMK AO2 SLP347 T10281033 FZRANO CWAV 201500Z AUTO 24004KT M20/M23 RMK AO1 SOG 32 3011 SLP248 T11951229 KAFW 201909Z 16010G20KT 9SM -RA BKN012 BKN033 OVC100 21/19 A2984 RMK AO2 P0000 T02060194 KC83 201915Z AUTO 36008KT 10SM CLR 08/M07 A3025 RMK AO2 CWCF 201500Z AUTO 13004KT M20/M26 RMK AO1 SOG 18 6019 SLP223 T11951257 CWBO 201500Z AUTO 24001KT M25/M28 RMK AO1 SOG 12 3005 SLP230 T12491284 CWCI 201400Z AUTO M05/M06 RMK AO1 SLP119 T10541055 56017 KAGS 201853Z 17008KT 10SM BKN039 BKN060 26/17 A3035 RMK AO2 SLP275 T02610167 KAIA 201853Z AUTO 29007KT 10SM CLR M17/M21 A3006 RMK AO2 SLP265 T11671211 CWDA 201400Z AUTO 33014KT M04/M09 RMK AO1 PK WND 31025/1329 SLP250 T10411086 53038 CWCJ 201500Z AUTO 05010G17KT M17/M19 RMK AO1 2PAST HR SOG 50 8017 PK WND 06024/1424 SLP151 P0001 T11691189 50009 CWBS 201500Z AUTO 03012KT 01/01 RMK AO1 T00140014 EDMA 201850Z 04003KT 3700 BR OVC068 M03/M04 Q1015 KAIB 201915Z AUTO 29010G17KT 10SM SCT032 BKN040 OVC060 M03/M09 A2998 RMK AO2 CWBT 201500Z AUTO 04003KT M07/M19 RMK AO1 SLP329 T10721188 52020 KAID 201845Z 20020G27KT 10SM BKN050 BKN065 23/13 A3004 CWDC 201500Z AUTO 00000KT M38/M42 RMK AO1 SOG 53 1012 SLP306 T13821423 CWBU 201500Z AUTO 23006KT M23/M26 RMK AO1 SOG 22 5004 SLP180 T12291257 KAHN 201915Z 00000KT 10SM FEW019 SCT024 BKN034 23/18 A3036 RMK AO2 T02330183 EDLN 201850Z 01005KT CAVOK 03/M03 Q1020 CWCO 201500Z AUTO 14007KT 12/10 RMK AO1 8003 SLP136 T01200100 50002 KAIG 201915Z AUTO 28009KT 2 1/2SM BR OVC002 M01/M01 A2978 RMK AO2 T10111011 CWBY 201500Z AUTO 04008KT M08/M15 RMK AO1 SOG 76 2025 SLP318 T10751154 EDLP 201850Z 06006KT 9999 BKN030 00/M05 Q1020 KAHQ 201915Z AUTO 31015G20KT 10SM OVC023 M08/M12 A3016 RMK AO2 T10771116 CWBZ 201400Z AUTO 05008KT 02/02 RMK AO1 0005 SLP208 T00180017 50016 UMBB 201330Z 12004MPS CAVOK 02/M04 Q1023 R11/CLRD// NOSIG KD07 201856Z AUTO 28009KT M17/M20 A3013 RMK AO1 SLP274 T11671200 OOMS 201850Z 26006KT 8000 NSC 25/20 Q1011 NOSIG CWDJ 201500Z AUTO 23006KT M22/M25 RMK AO1 SOG 01 7005 SLP219 T12151252 KAIK 201915Z AUTO 15006KT 10SM SCT042 BKN050 23/16 A3040 RMK AO2 KBAB 201856Z AUTO 00000KT 10SM SCT120 OVC150 06/M06 A3023 RMK AO2 SLP241 T00611062 $ CWDK 201500Z AUTO 34006KT M17/M21 RMK AO1 SOG 10 2012 SLP253 T11671206 CWEB 201500Z AUTO 06003KT 01/M01 RMK AO1 PRESRR SLP207 T00061014 53002 CWCT 201400Z AUTO 00000KT RMK AO1 KBAC 201915Z AUTO 30017KT 10SM -SN BKN014 M13/M17 A3010 RMK AO2 KBAD 201856Z AUTO 19019G26KT 10SM FEW043 SCT180 26/16 A2999 RMK AO2 PK WND 17035/20 SLP157 T02610163 $ CWDM 201500Z AUTO 02009KT M11/M18 RMK AO1 SOG 49 1025 PK WND 00018/1400 SLP299 T11071175 EDLV 201850Z 03004KT 350V060 CAVOK 02/M02 Q1021 PFNO 201856Z AUTO 20023G29KT 4SM BR CLR M02/M04 A3006 RMK AO2 PK WND 20029/1851 SNB42E55 SLP181 P0000 T10171039 FZRANO CWEE 201400Z AUTO M14/M17 RMK AO1 SLP290 T11371167 58005 EDLW 201850Z 05004KT CAVOK 01/M04 Q1020 KBAF 201853Z 16008KT 10SM CLR 18/11 A3019 RMK AO2 SLP224 T01780106 KAIO 201915Z AUTO 33012G19KT 10SM -SN OVC017 M07/M10 A3009 RMK AO2 EDMO 201850Z 01005KT 4000 -SN SCT004 BKN034 BKN055 M04/M04 Q1014 CWEF 201300Z AUTO 26007KT M00/M01 RMK AO1 SLP256 T10031008 51006 CWDO 201500Z AUTO 27011G17KT M01/M04 RMK AO1 SOG 44 2008 PK WND 27023/1423 SLP241 T10131035 KAJG 201915Z AUTO 20024G31KT 10SM SCT048 25/14 A3000 RMK AO2 T02450141 CWDQ 201500Z AUTO 34006KT M05/M07 RMK AO1 SOG 53 8001 SLP256 T10461074 CWEH 201500Z AUTO 29003KT M25/M28 RMK AO1 SOG 66 8001 SLP231 T12501278 EEEI 201550Z 04005KT 9999 BKN011 M08/M10 Q1027 R06/290095 NOSIG KBAK 201845Z 20016G22KT 10SM BKN055 24/09 A3006 KAIT 201913Z AUTO 32004KT 10SM SCT024 BKN055 M09/M15 A2990 RMK AO2 KBBB 201855Z AUTO 35023KT 3SM HZ M12/M16 A3005 RMK AO2 CWDT 201400Z AUTO 03003KT M13/M19 RMK AO1 SLP326 T11341193 51008 CWEK 201500Z AUTO 04019KT M01/M05 RMK AO1 PK WND 03026/1435 SLP250 T10111053 53018 KAJL 201915Z AUTO BKN008 OVC015 A2955 RMK AO2 PWINO CWEL 201500Z AUTO 14014KT M00/M05 RMK AO1 PK WND 14019/1406 SLP223 T10021052 53002 KBAM 201915Z AUTO 00000KT 10SM CLR M05/M15 A3010 RMK AO1 NWWW 201900Z AUTO VRB02KT 8000 NCD 22/22 Q1008 NOSIG CWDV 201500Z AUTO 06005KT M20/M23 RMK AO1 5PAST HR SOG 47 8019 SLP167 P0002 T11991230 50037 CWFD 201500Z AUTO 07006KT ////SM //// SCT003 SCT014 ///// A//// KBAN 201852Z AUTO 00000KT 10SM CLR M07/M21 A2993 RMK AO2 SLP192 T10671206 $ DNEN 201600Z 29012KT 8000 BKN012 FEW020CB 36/23 Q1005 KAJO 201856Z AUTO 10SM CLR 13/M13 RMK AO2 SLPNO T01281128 $ KBBF 201915Z AUTO 16024KT 10SM 23/21 A2994 RMK A01 ULLI 201900Z 25002MPS 6000 FEW020 M15/M16 Q1025 R28L/420545 NOSIG CWFF 201500Z AUTO 22008KT M22/M25 RMK AO1 SOG 12 5000 SLP187 T12201249 KBBG 201845Z 21009G15KT 10SM SCT036 OVC100 20/14 A2995 KD25 201915Z AUTO 26005KT 10SM OVC009 M05/M05 A2977 RMK AO2 T10501050 CWEP 201500Z AUTO 32006KT 01/M00 RMK AO1 SOG 12 1006 SLP264 T00131004 KAKH 201854Z AUTO 26004KT 10SM FEW010 BKN018 OVC042 20/17 A3040 RMK AO2 SLP293 T02000167 KAIZ 201856Z AUTO 31010KT 260V340 10SM OVC005 05/04 A2998 RMK AO2 RAE53 SLP153 P0042 T00500044 CWDZ 201500Z AUTO 29001KT M29/M32 RMK AO1 T12891318 CWEQ 201500Z AUTO 25005KT M24/M27 RMK AO1 SOG 31 5010 SLP208 T12421269 KAJR 201915Z AUTO 16003KT 5SM BR OVC002 17/16 A3040 RMK AO2 T01670158 CWER 201500Z AUTO 05031G37KT RMK AO1 PK WND 05039/1448 CWFJ 201500Z AUTO 22009G15KT M16/M21 RMK AO1 T11601214 KALB 201851Z 18009KT 10SM FEW050 SCT060 OVC095 15/08 A3017 RMK AO2 SLP218 BINOVC T01500083 KBCB 201915Z AUTO 20010G16KT 170V280 10SM CLR 21/13 A3038 RMK AO2 T02100125 CWGB 201500Z AUTO 12009KT M00/M04 RMK AO1 PK WND 12020/1442 SLP219 T10021044 52003 CWEU 201500Z 14004KT 15SM IC FEW080 BKN180 M36/M40 A2982 RMK AC2AC5 SLP101 CWGD 201500Z AUTO 19016G22KT 13/12 RMK AO1 5PAST HR 8001 PK WND 20024/1423 SLP139 P0010 T01250121 50050 KBCE 201853Z AUTO VRB06KT 10SM CLR M08/M17 A2991 RMK AO2 SLP155 T10781172 CWEW 201500Z AUTO 02006KT 02/01 RMK AO1 8PAST HR SOG 21 8005 SLP224 P0007 T00160010 50040 KAKO 201853Z AUTO 33007KT 10SM CLR M14/M19 A3001 RMK AO2 UPB15E29 SLP254 P0000 T11441194 KBAX 201915Z AUTO 21012G16KT 10SM SCT014 SCT055 OVC110 15/14 A2991 RMK AO2 T01500143 KBBP 201915Z AUTO 19011G14KT 10SM SCT041 SCT050 27/16 A3037 RMK AO2 EDOP 201650Z 04005KT CAVOK 00/M05 Q1022 EDNY 201850Z 36006KT 9999 FEW028 OVC036 M01/M05 Q1015 KBAZ 201910Z 17013KT 3SM -RA BR SCT013 BKN030 OVC036 22/21 A2990 RMK AO2 RAB02 P0000 T02220206 KAJZ 201915Z AUTO 23009KT 10SM SCT033 BKN042 OVC049 M01/M09 A2998 RMK AO2 T10141090 KAKQ 201854Z AUTO 19004KT 9SM OVC005 18/17 A3042 RMK AO2 SLP301 T01780167 TSNO CWFQ 201500Z AUTO 14002KT 06/05 RMK AO1 1PAST HR SOG 13 8002 SLP203 P0004 T00570054 50024 CWEZ 201500Z AUTO 08012KT 01/M05 RMK AO1 SLP222 T00051048 56003 KALI 201853Z AUTO A2987 RMK AO2 SLPNO PWINO KAKR 201854Z AUTO 23011G17KT 10SM OVC044 22/14 A3012 RMK AO2 RAE03B38E53 SLP195 P0000 T02170139 KAMA 201853Z 36011KT 10SM CLR 01/M08 A2999 RMK AO2 SLP147 T00111078 ULMM 201900Z 17001MPS 9000 -SHSN BKN016CB M11/M13 Q1021 R31/490250 NOSIG RMK QFE758 KD39 201915Z AUTO 30014KT 10SM CLR M10/M14 A2998 RMK AO2 T10981143 KALK 201856Z AUTO 21020G32KT 10SM SCT044 OVC055 09/M02 A3000 RMK AO2 PK WND 21032/1854 SLP107 T00941022 KBCK 201855Z AUTO 29007KT 10SM OVC009 M02/M02 A2988 RMK AO2 T10181024 CWGL 201500Z AUTO 12006KT 07/06 RMK AO1 SLP157 T00670060 55001 KALM 201915Z AUTO 27010G16KT 10SM FEW050 BKN075 OVC080 14/M02 A2997 RMK AO2 CWGM 201500Z AUTO 22021G31KT M16/M22 RMK AO1 PK WND 22031/1453 T11641219 KBBW 201853Z AUTO 32019G22KT 10SM CLR M12/M18 A3011 RMK AO2 PK WND 32028/1833 SLP246 T11221183 KBDE 201916Z AUTO 31013KT 2 1/2SM HZ BKN023 OVC033 M14/M17 A2995 RMK AO2 SNE13 P0000 T11391172 KALN 201845Z 18012KT 10SM -RA SCT017 BKN075 OVC100 18/17 A2993 KALO 201854Z 28012G18KT 10SM OVC014 M04/M06 A2997 RMK AO2 SLP160 T10391056 DNGO 201300Z 33006KT 5000 HZ NSC 37/04 Q1008 KAMG 201853Z AUTO 16008KT 10SM FEW050 OVC060 27/17 A3033 RMK AO2 SLP268 T02720172 KBDG 201915Z AUTO 22004KT 1 1/2SM M05/M09 A3004 RMK AO1 T10511091 KBDH 201915Z AUTO 31019G25KT 4SM BKN011 OVC018 M12/M15 A3005 RMK AO2 NZAA 201900Z AUTO 26008KT 9999 VCSH BKN025/// 20/16 Q1006 NOSIG OOSA 201850Z 18003KT 9999 FEW025 24/19 Q1012 NOSIG CWHI 201400Z AUTO 27011KT M21/M25 RMK AO1 T12121254 CWGR 201500Z AUTO 36010KT M00/M02 RMK AO1 SLP268 T10011019 50008 ZSAM 201900Z 10003MPS 070V130 9999 BKN023 14/13 Q1015 NOSIG KALS 201852Z AUTO 23018G26KT 10SM CLR M02/M19 A2983 RMK AO2 PK WND 22030/1753 SLP116 T10171194 KBEA 201915Z AUTO 15015G18KT 10SM OVC017 23/21 A2990 RMK AO2 T02270213 KBCT 201847Z 13010G18KT 10SM SCT025 27/22 A3029 KANB 201853Z AUTO 14009G16KT 10SM SCT032 BKN070 24/17 A3028 RMK AO2 SLP248 T02440172 KD50 201915Z AUTO 24016G21KT 10SM CLR M16/M20 A3005 RMK AO2 DNIB 201700Z 19011KT 8000 BKN012 29/21 Q1007 CWGT 201500Z AUTO 12017KT 01/M05 RMK AO1 PK WND 12021/1413 SLP217 T00091049 57001 KBDL 201851Z 20012KT 10SM FEW100 FEW200 BKN250 18/10 A3022 RMK AO2 SLP233 T01780100 KBEC 201915Z AUTO 35015G19KT 10SM OVC013 M05/M08 A3009 RMK AO2 T10501077 CWHL 201500Z AUTO 06012KT M02/M06 RMK AO1 PK WND 04017/1413 SLP243 T10191062 53017 KBED 201856Z 22012KT 10SM CLR 20/11 A3018 RMK AO2 SLP231 T02000111 KAND 201913Z AUTO 21005KT 10SM FEW015 BKN033 21/17 A3038 RMK AO2 T02110167 EDQM 201850Z 01007KT 3900 BR OVC009 M03/M05 Q1016 CWID 201500Z AUTO 11002KT M29/M32 RMK AO1 SLP291 T12881322 58013 KALW 201853Z 22005KT 10SM SCT036 OVC070 M01/M09 A3020 RMK AO2 SLP243 T10061094 KBDN 201915Z AUTO 00000KT 10SM SCT047 SCT055 M01/M11 A3006 RMK AO2 KAMN 201915Z AUTO 16009G15KT 120V200 5SM -RA SCT004 SCT014 OVC022 13/13 A2989 RMK AO2 T01300130 KANE 201850Z 26009KT 10SM OVC017 M06/M10 A2995 CWHN 201500Z AUTO 33005KT 300V100 9SM CLR M25/M30 A3002 RMK SLP230 CWGW 201500Z AUTO 01005KT M29/M32 RMK AO1 SOG 37 1012 SLP318 T12931321 KALX 201915Z AUTO 15006KT 10SM SCT029 SCT033 SCT043 23/19 A3029 RMK AO2 T02320192 OOSH 201850Z AUTO 24002KT //// 23/14 Q1011 RMK 1007 CWGX 201500Z AUTO 13003KT M28/M32 RMK AO1 SOG 34 8002 SLP252 T12841321 CWHO 201500Z AUTO 27027G35KT M28/M35 RMK AO1 PK WND 27035/1446 SLP306 T12781347 50001 KD55 201915Z AUTO 28012KT 10SM CLR M13/M18 A3003 RMK AO2 PFSH 201856Z AUTO 20020KT 5SM BR CLR M01/M03 A3032 RMK AO2 PK WND 21026/1808 SLP268 T10111033 PWINO FZRANO CWHP 201400Z AUTO 01025KT M06/M10 RMK AO1 PK WND 01030/1326 SLP290 T10611104 51035 CWIG 201500Z AUTO 04022G28KT RMK AO1 PK WND 03029/1445 CWGY 201500Z AUTO 23012KT M20/M26 RMK AO1 SLP219 T11981255 52010 KBEH 201918Z AUTO 19013G21KT 3SM -RA BR BKN013 OVC021 17/16 A2987 RMK AO2 P0003 T01720156 CWGZ 201500Z 05004KT 10SM IC FEW020 FEW250 M33/M37 A2981 RMK SC1CI2 SC TR SLP105 ULPB 201900Z AUTO 31003MPS 9999 ///039/// M08/M11 Q1024 RMK QFE764/1018 CWHQ 201500Z AUTO 10008KT 01/01 RMK AO1 PK WND 08019/1431 T00110006 50022 KBDR 201852Z 23010KT 6SM HZ CLR 12/09 A3026 RMK AO2 SLP248 T01170089 KD57 201435Z AUTO 30009KT 8SM FEW026 SCT033 SCT039 M21/M24 A3011 RMK AO2 CWII 201500Z AUTO 00000KT M16/M19 RMK AO1 T11621190 KANJ 201911Z AUTO 10006KT 1 1/2SM BR OVC002 M02/M02 A2980 RMK AO2 T10171022 CWIJ 201500Z AUTO 21013KT M36/M39 RMK AO1 SOG 31 6015 PK WND 21017/1445 SLP260 T13571392 OPKC 201925Z 00000KT 5000 FU NSC 22/19 Q1013 NOSIG KANK 201915Z AUTO 29016G22KT 10SM CLR M04/M13 A2990 RMK AO1 T10391132 KD60 201915Z AUTO 26016KT 7SM -SN CLR M17/M19 A3005 RMK AO2 CWJB 201500Z AUTO 06011G18KT M00/ RMK AO1 SOG 47 PK WND 06022/1427 T1001 CWHT 201500Z AUTO 35002KT M16/M18 RMK AO1 SOG 27 8011 SLP283 T11591178 CWIK 201500Z AUTO 23005KT M21/M24 RMK AO1 SOG 04 6005 SLP217 T12111244 UKWW 201800Z 08002MPS CAVOK M06/M09 Q1022 R13/0///65 NOSIG EDSB 201850Z 36004KT 9999 OVC049 02/M03 Q1017 KBDU 201912Z AUTO 02004KT 10SM SCT017 OVC090 M12/M17 A2995 RMK AO2 ULOO 201900Z AUTO VRB01MPS 3700 // NCD M12/M14 Q1025 RMK QFE765 CWJC 201500Z AUTO 35008KT M41/M45 RMK AO1 SOG 14 3005 SLP303 T14101451 CWIL 201500Z AUTO 21013G19KT ////SM NCD ///// A//// KBFD 201853Z AUTO 23011G21KT 10SM BKN039 BKN090 19/13 A3017 RMK AO2 SLP212 T01890128 CWHV 201500Z AUTO 00000KT 02/02 RMK AO1 SLP241 T00180015 56002 CWJD 201500Z AUTO 18002KT M26/M29 RMK AO1 SOG 51 6010 SLP208 T12571286 UMGG 201900Z VRB01MPS 6000 OVC030 M07/M08 Q1024 R28/190055 NOSIG KAMW 201853Z AUTO 31017KT 10SM OVC018 M06/M08 A3004 RMK AO2 SLP182 T10561083 NZAP 201900Z 30010KT 260V330 20KM NCD 17/13 Q1006 RMK AUTO VATSIM USE ONLY KBFF 201853Z AUTO 25005KT 10SM CLR M13/M19 A3008 RMK AO2 SLP264 T11281194 CXAF 201400Z AUTO 01010KT M15/M17 RMK AO1 T11451172 TUPJ 201900Z 08009KT 040V130 9999 SCT018 SCT035 28/20 Q1020 RMK A3013 CXAG 201400Z AUTO 33004KT M14/M16 RMK AO1 T11401163 CWIP 201500Z AUTO 36005KT M10/ RMK AO1 T1100 KAOH 201853Z AUTO 20015G21KT 10SM BKN045 OVC070 21/16 A3005 RMK AO2 RAE28 SLP172 P0003 T02110156 CWJH 201500Z AUTO 33004KT M26/ RMK AO1 SOG 56 1011 SLP199 T1261 50002 OPLA 201855Z 18003KT 4000 FU SCT100 19/12 Q1013/29.91 NOSIG KBFI 201853Z 19004KT 10SM FEW015 OVC075 02/M04 A3021 RMK AO2 SLP228 T00171044 CWJI 201500Z AUTO 26011KT M22/M26 RMK AO1 SOG 03 6004 SLP228 T12231262 KAPA 201853Z 00000KT 10SM BKN090 BKN110 BKN200 M12/M16 A2989 RMK AO2 SLP216 T11221161 PHBK 201856Z AUTO 13003KT 10SM CLR 21/17 A2997 RMK AO2 SLP149 T02110167 CXBA 201400Z AUTO 26009KT M17/M22 RMK AO1 T11691220 CXAJ 201400Z AUTO 03009KT M18/M22 RMK AO1 SOG 38 T11821219 CWIS 201500Z AUTO 03006KT M05/M05 RMK AO1 SOG 61 0004 SLP258 T10491049 EEKA 201550Z 00000KT 9999 FEW014 M09/M11 Q1027 CXAK 201400Z AUTO 27010KT M19/M23 RMK AO1 T11881226 KAPC 201854Z AUTO 00000KT 10SM CLR 08/M03 A3026 RMK AO2 SLP236 T00781033 KBFL 201854Z 27003KT 10SM CLR 09/M05 A3024 RMK AO2 SLP241 T00891050 KBGD 201851Z AUTO 36011KT 10SM FEW024 M01/M11 A3003 RMK AO2 SLP167 T10061106 KBFM 201853Z 15013G21KT 10SM SCT020 BKN070 25/21 A3023 RMK AO2 SLP236 T02500206 CWKD 201400Z AUTO 03004KT M27/M32 RMK AO1 SLP340 T12691318 50011 KANW 201915Z AUTO 31014G17KT 10SM CLR M14/M18 A3014 RMK AO2 T11361177 KBGE 201915Z AUTO 15010G17KT 10SM SCT035 SCT042 28/21 A3029 RMK AO2 KD73 201855Z AUTO 01007KT 340V040 10SM SCT024 SCT031 BKN037 23/17 A3036 RMK AO2 T02260170 CWIW 201500Z AUTO 24005KT M19/M23 RMK AO1 SOG 02 7004 SLP197 T11871226 KAPF 201853Z 12010KT 10SM BKN041 29/20 A3024 RMK AO2 SLP240 T02890200 KAOO 201853Z AUTO 20013KT 10SM CLR 22/13 A3022 RMK AO2 SLP233 T02220128 EEKE 201903Z AUTO 03003KT 7000NDV -SN OVC022 M11/M12 Q1027 KBGF 201915Z AUTO 19010KT 10SM SCT041 BKN050 OVC055 24/16 A3024 RMK DNJO 201700Z 20008KT 8000 SCT007 28/11 Q1014 CWIX 201400Z AUTO 04005KT M07/M10 RMK AO1 SLP280 T10701100 50002 CWJO 201400Z AUTO 23004KT M08/M10 RMK AO1 SLP294 T10771103 50008 KAPG 201858Z 22010KT 7SM FEW200 22/14 A3030 RMK AO2A SLPNO P0001 $ NZCH 201900Z AUTO 22014KT 7000 DZ BKN007/// 12/11 Q0999 TEMPO 5000 RA NZCI 201900Z 34009KT 20KM SCT065 22/13 Q1002 RMK AUTO NZNR VATSIM USE ONLY CWKG 201500Z AUTO 05003KT 06/05 RMK AO1 3PAST HR 0003 SLP255 P0001 T00600053 50008 CWIZ 201500Z AUTO 03004KT 02/02 RMK AO1 9PAST HR SOG 23 M P0004 T00200015 50019 CWKH 201500Z AUTO M04/M07 RMK AO1 SLP202 T10371070 56003 CWJR 201500Z AUTO 08007KT M15/M20 RMK AO1 SOG 11 1010 SLP282 T11461195 CXBI 201500Z AUTO 17003KT 05/04 RMK AO1 8PAST HR SOG 17 0000 SLP164 P0003 T00510035 50020 KBHB 201856Z AUTO 10003KT 10SM -RA OVC009 05/04 A3026 RMK AO2 RAB51 CIG 008V015 SLP251 T00500039 PNO $ NZCM 201755Z 07020G27KT 9999 BKN035 BKN070 M22/M26 A2936 RMK PK WND 08028/27 SNE1430 SLP948 CWKK 201400Z AUTO 05013KT M20/M22 RMK AO1 SOG 42 7013 PK WND 05019/1309 SLP202 T11991217 CXAT 201400Z AUTO 00000KT M34/M37 RMK AO1 SOG 07 1014 SLP129 T13361372 CWJT 201500Z AUTO 10003KT 02/02 RMK AO1 8007 SLP210 T00190018 50020 KBHC 201915Z AUTO 16007KT 10SM SCT050 OVC060 26/16 A3032 RMK AO2 EDTL 201850Z 34001KT 9999 OVC043 01/M04 Q1017 CWLC 201500Z AUTO 01004KT M01/M04 RMK AO1 T10061035 KBGM 201853Z 22010KT 10SM CLR 16/11 A3017 RMK AO2 SLP221 T01560106 KBFW 200914Z AUTO 02006G14KT 1 1/2SM -SN OVC012 M11/M12 A2991 RMK AO2 CXCD 201400Z AUTO 24010KT M15/M18 RMK AO1 T11531180 CWJV 201500Z AUTO 09005KT M16/M19 RMK AO1 SLP278 T11591187 53007 CWKM 201500Z AUTO 07006KT M13/ A2991 RMK SLP132 KAPN 201909Z AUTO 20004KT 10SM SCT004 08/07 A2981 RMK AO2 T00780072 DNKN 201900Z VRB02KT 7000 NSW NSC 30/10 Q1010 NOSIG CWLE 201500Z AUTO 23016KT M21/M24 RMK AO1 SOG 02 8009 PK WND 23019/1448 SLP201 T12081243 CWJW 201500Z AUTO 17002KT M24/M26 RMK AO1 SLP287 T12401262 51011 VCRI 201310Z 07005KT 9999 FEW018 28/20 Q1008 NOSIG CWKO 201500Z AUTO 26009KT M24/M27 RMK AO1 SOG 08 8001 SLP228 T12401268 CWJX 201500Z AUTO 25013KT M21/M26 RMK AO1 SOG 10 5001 PK WND 25018/1407 SLP227 T12131262 CXBO 201500Z AUTO 08020G27KT RMK AO1 PK WND 09028/1425 50016 UMII 201600Z 29002MPS 4300 -SHSN BKN014CB M06/M08 Q1022 R23/493017 TEMPO 2000 SHSN BKN005 UNAA 201900Z 22001MPS 9999 SCT049CB M05/M10 Q1028 R20/090057 NOSIG RMK QFE749 CWKP 201500Z AUTO 25018KT M25/ A2990 RMK SLP178 CXCH 201500Z AUTO 03/M00 RMK AO1 SOG 00 T00261004 KBGR 201853Z 33004KT 5SM -RA BR OVC009 03/03 A3025 RMK AO2 CIG 007V012 SLP245 P0001 T00330033 CXBR 201400Z AUTO 30014KT M17/M22 RMK AO1 PK WND 29026/1339 T11711216 CWLI 201500Z AUTO 11007KT ////SM //// OVC004 M27/M29 A2997 KARA 201853Z 17015KT 10SM FEW027 SCT032 OVC050 27/20 A3011 RMK AO2 PK WND 15030/1807 SLP197 T02670200 KAPS 201855Z AUTO 20016G22KT 10SM CLR 30/19 A3014 RMK AO2 T02990193 KARB 201910Z 19014G21KT 6SM -RA BR BKN014 OVC022 16/15 A2999 RMK AO2 P0002 T01560150 KBHK 201851Z AUTO 25012KT 10SM CLR M18/M21 A3006 RMK AO2 SLP251 T11831211 CXDB 201400Z AUTO 23010KT M22/M25 RMK AO1 T12201248 CXCK 201500Z AUTO 00000KT M16/M18 RMK AO1 SOG 33 8017 SLP284 T11631180 50002 NZDN 201900Z 26004KT 230V290 10KM -RA FEW015 BKN020 OVC043 09/08 Q1005 RERA RMK KBHM 201853Z 15012G18KT 10SM SCT041 BKN049 BKN070 26/16 A3026 RMK AO2 SLP241 T02560161 KBID 201856Z AUTO 23015KT 1/2SM -RA FG OVC003 08/08 A3030 RMK AO2 SLP264 P0000 T00780078 CWLM 201500Z AUTO 09007KT 00/M04 RMK AO1 SLP216 T00001039 56003 KBIE 201915Z AUTO 33020G25KT 10SM BKN021 M06/M10 A3014 RMK AO2 T10571103 CXBW 201400Z AUTO 22009KT M24/M29 RMK AO1 T12431294 CWME 201400Z AUTO 04023KT M03/M09 RMK AO1 PK WND 04028/1314 SLP233 T10281088 51003 CXDE 201500Z AUTO 33006KT M22/M24 RMK AO1 SLP210 T12171240 56018 CWKW 201500Z AUTO ///// A2960 EDVE 201850Z VRB02KT 6000 FEW032 M01/M04 Q1021 KBIF 201858Z AUTO 19016G23KT 9SM CLR 16/M01 A2993 RMK AO2 SLP095 T01621008 KAQO 201850Z AUTO 18006KT 10SM OVC017 22/19 A2992 RMK AO2 CWKX 201500Z AUTO 06004KT M25/M28 RMK AO1 SOG 46 3007 SLP336 T12471278 OPNH 201900Z 00000KT 3000 FU NSC 19/12 Q1011 NOSIG KAQP 201913Z AUTO 32019G22KT 5SM HZ OVC017 M11/M16 A3008 RMK AO2 KD95 201915Z AUTO 19006KT 7SM RA SCT007 BKN014 OVC019 14/14 A2995 RMK AO2 P0001 T01420140 KARG 201856Z AUTO 18021G29KT 10SM BKN024 BKN030 23/19 A3002 RMK AO2 PK WND 17030/1836 SLP164 T02330189 KAPY 201915Z AUTO 16012G18KT 10SM CLR 30/17 A2983 RMK AO2 T02980176 EDTY 201850Z /////KT 7000 BKN039 BKN055 OVC065 M02/M05 Q1016 CWLP 201500Z AUTO 12010KT 01/M04 RMK AO1 SLP218 T00051035 53005 CXCP 201500Z AUTO 32011KT M20/M22 RMK AO1 T11971215 KBIH 201856Z AUTO VRB03KT 10SM CLR 01/M19 A3009 RMK AO2 SLP201 T00061189 UNBB 201900Z VRB01MPS CAVOK M10/M14 Q1029 R24/410358 NOSIG RMK QFE749 KAQR 201915Z AUTO 28006G15KT 4SM RA SCT010 BKN032 OVC045 16/16 A2994 RMK AO2 P0002 CXDI 201500Z AUTO 21005KT 10/10 RMK AO1 0005 SLP169 T00950098 50051 OPMT 201855Z 05004KT 4000 FU FEW120 18/13 Q1011 NOSIG KBIJ 201915Z AUTO 15005KT 10SM BKN030 OVC035 27/19 A3029 RMK AO2 CXCS 200800Z AUTO 21012KT M23/M26 RMK AO1 T12261260 CWMJ 201500Z AUTO 01002KT 01/01 RMK AO1 SOG 22 8019 SLP195 T00100008 50010 CXEA 201500Z AUTO 04004KT M18/M21 RMK AO1 SOG 53 6019 SLP214 T11841214 CWLS 201500Z AUTO 19007KT 09/09 RMK AO1 4PAST HR 0002 SLP158 P0005 T00930090 50026 EDVK 201850Z 08007KT 9000 BKN032 M01/M04 Q1020 CXDK 201500Z AUTO M30/M33 RMK AO1 SLP274 T12961330 58009 KBJC 201900Z 00000KT 10SM SCT015 BKN060 M12/M16 A2993 KBIL 201853Z 24017KT 10SM FEW110 FEW200 M16/M21 A3004 RMK AO2 SLP257 DRSN ALQDS ACSL DSNT S-SW T11561206 KE11 201915Z AUTO 27011G23KT 10SM CLR 22/M03 A2989 RMK AO2 T02161029 CXEC 201500Z AUTO 32007KT M14/M17 RMK AO1 SOG 25 3010 SLP213 T11351168 CWNC 201500Z AUTO 09003KT 03/03 RMK AO1 1PAST HR SOG 02 1007 SLP172 P0004 T00340027 50036 KASD 201913Z AUTO 15015G24KT 10SM BKN020 BKN037 OVC049 26/21 A3016 RMK AO2 RAE1855 P0000 T02560206 KARM 201915Z AUTO 15018G24KT 10SM BKN019 OVC026 25/20 A2997 RMK AO2 T02500199 KCAD 201916Z AUTO 21012G17KT 10SM OVC005 12/12 A2981 RMK AO2 T01230121 KAQV 201856Z AUTO 17014G22KT 10SM SCT037 SCT049 27/18 A3002 RMK AO2 RAB28E36 SLP164 P0000 T02670178 CWND 201500Z AUTO 15005KT M13/M15 RMK AO1 SLP123 T11341147 58022 DNMM 201900Z VRB02KT 8000 FEW012 27/24 Q1009 NOSIG CWMM 201500Z AUTO 05001KT M05/M07 RMK AO1 SOG 01 6004 SLP235 T10461071 KASE 201913Z 36005KT 10SM FEW010 SCT046 BKN070 M08/M14 A2981 RMK AO2 SNE00 P0000 T10831139 KAQW 201852Z AUTO 11008KT 10SM OVC095 16/10 A3017 RMK AO2 SLP220 T01610100 KCAE 201856Z 22008KT 10SM BKN049 27/16 A3036 RMK AO2 SLP280 T02670161 DNMN 201300Z 10006KT 9999 SCT013 37/22 Q1004 CWNE 201500Z AUTO 04012KT 00/M02 RMK AO1 SLP269 T00001019 51015 KAQX 201915Z AUTO 17009KT 10SM BKN060 27/16 A3035 RMK AO2 KASG 201848Z 19012KT 8SM SCT022 BKN026 OVC090 19/18 A2995 VEBI 200830Z 30007KT 5000 HZ FEW020 SCT100 23/02 Q1014 KCAG 201853Z AUTO 09004KT 10SM SCT035 BKN050 M11/M17 A2996 RMK AO2 SLP235 T11061167 CXDP 201400Z AUTO 33011KT M15/M18 RMK AO1 T11521181 CXEG 201400Z AUTO M17/M20 RMK AO1 T11721204 CWLY 201500Z AUTO 01004KT 280V040 9SM FEW080 SCT110 BKN140 M12/M17 A3030 RMK SLP278 KASH 201856Z VRB05KT 10SM CLR 19/11 A3018 RMK AO2 SLP231 T01890111 KE16 201915Z AUTO 09003KT 10SM CLR 08/M03 A3025 RMK AO2 UMKK 201900Z 07004MPS 9999 OVC014 M02/M04 Q1025 R24/19//60 NOSIG RMK QFE768/1024 CWMQ 201500Z AUTO 19007KT M19/M24 RMK AO1 SOG 02 8005 SLP236 T11871235 CWNH 201500Z AUTO 02010G16KT M05/M09 RMK AO1 SOG 36 2012 PK WND 04018/1443 SLP291 T10471090 ZSHC 201900Z 01002MPS 340V050 5000 BR SCT004 BKN006 BKN023 04/04 Q1023 NOSIG VEAT 201500Z 00000KT 4000 BR NSC 21/19 Q1011 NOSIG KARR 201913Z 30012KT 4SM RA BR SCT013 SCT018 OVC024 09/08 A2985 RMK AO2 WSHFT 1839 LTG DSNT E P0001 T00890083 PFWS 201856Z AUTO 23003KT M1/4SM FZFG OVC003 M02/M02 A3060 RMK AO2 SLP368 T10171017 FZRANO KBJI 201915Z AUTO 29010KT 10SM -SN SCT075 M13/M17 A2995 RMK AO2 T11261166 VECC 201900Z 00000KT 2800 HZ NSC 22/16 Q1011 NOSIG KBIS 201852Z 27014KT 10SM CLR M12/M18 A3015 RMK AO2 SLP250 T11171178 KBJJ 201856Z AUTO 23015G21KT 10SM SCT043 BKN075 22/14 A3012 RMK AO2 SLP195 T02170139 KASJ 201915Z AUTO 00000KT 10SM SCT013 SCT019 22/19 A3041 RMK AO2 T02160191 KCAK 201851Z 23014G26KT 10SM SCT038 BKN090 BKN250 22/13 A3013 RMK AO2 PK WND 22029/1758 SLP197 T02220133 $ KART 201856Z AUTO 20006KT 10SM OVC018 13/13 A3005 RMK AO2 RAE07 SLP174 P0000 T01330128 $ KBKB 201902Z AUTO VRB05KT 3SM -RA BR SCT030 BKN043 OVC090 23/22 A3003 RMK AO2 P0000 T02330217 $ VEBN 201830Z 25003KT 1500 HZ NSC 18/13 Q1012 NOSIG CWNK 201500Z AUTO 30003KT M15/M17 RMK AO1 2PAST HR M P0001 T11481169 50005 CWMT 201500Z AUTO 16005KT M27/M30 RMK AO1 SLP261 T12671304 58018 CWOB 201500Z AUTO 31019G28KT ////SM //// NCD M28/M31 A2942 KASL 201915Z AUTO 10SM SCT038 OVC047 24/17 A3001 RMK AO1 T02400167 CWNL 201400Z AUTO 08006KT M04/M04 RMK AO1 SLP121 T10371044 58017 CWOC 201500Z AUTO 14003KT M00/M03 RMK AO1 SLP287 T10021028 52020 KBIV 201853Z AUTO 21016G23KT 10SM BKN017 OVC024 18/15 A2986 RMK AO2 PK WND 21027/1840 RAE14 SLP110 P0000 T01780150 KBKD 201915Z AUTO 22008KT 7SM RA SCT016 SCT038 OVC070 19/18 A2987 RMK AO2 LTG DSNT ALQDS P0002 T01930183 KARV 201915Z AUTO 26008KT 10SM OVC008 M04/M04 A2977 RMK AO2 T10361045 CWOD 201500Z AUTO 36007KT M10/M16 RMK AO1 SOG 22 8004 SLP281 T10991157 CWNM 201500Z AUTO 26006KT M11/M14 RMK AO1 SOG 09 1006 SLP263 T11131141 ZSFZ 201900Z 04008MPS 9999 OVC008 11/10 Q1018 NOSIG KCBE 201857Z AUTO 19003KT 10SM CLR 28/12 A3023 RMK AO1 KBKE 201853Z AUTO 11006KT 10SM CLR M06/M16 A3011 RMK AO2 SLP245 T10611156 $ KASN 201915Z AUTO 18013G20KT 10SM SCT037 SCT046 OVC075 26/17 A3027 RMK AO2 T02550169 KARW 201915Z AUTO 17007KT 140V200 5SM HZ SCT021 BKN039 OVC060 24/19 A3038 RMK AO2 CWOE 201500Z AUTO 31001KT M30/M32 RMK AO1 SOG 28 0002 SLP258 T12961324 50002 CXDW 201500Z AUTO 30006KT M15/M17 RMK AO1 3PAST HR SOG 02 5005 SLP231 P0001 T11511173 50007 KCBF 201915Z AUTO 32018G23KT 9SM -SN OVC018 M08/M09 A3011 RMK AO2 KCAO 201855Z AUTO 08008KT 10SM CLR M01/M12 A2992 RMK AO2 SLP125 T10111117 KBIX 201856Z AUTO 14011G21KT 10SM FEW070 25/21 A3020 RMK AO2 SLP230 T02470206 KBKF 201858Z 12005KT 10SM FEW080 BKN200 M13/M17 A2992 RMK AO2A SLP212 T11341172 KCBG 201915Z AUTO 26006KT 10SM -SN CLR M08/M13 A2995 RMK AO2 VEBS 201900Z 23005KT 3000 HZ NSC 22/20 Q1011 NOSIG CWNP 201500Z AUTO 09003KT M12/M16 RMK AO1 SOG 73 3005 SLP265 T11191161 CWMZ 201400Z AUTO 17014KT 05/04 RMK AO1 PK WND 12018/1301 SLP136 T00460041 55006 CWNQ 201500Z AUTO 04008KT 01/01 RMK AO1 4PAST HR 8004 SLP225 P0005 T00140009 50030 KCAR 201854Z AUTO 07004KT 10SM OVC034 03/M01 A3025 RMK AO2 SLP254 T00331011 $ KCCA 201915Z AUTO 17009G14KT 150V210 6SM HZ CLR 23/17 A2998 RMK AO2 KAST 201855Z AUTO 07007KT 4SM -SN BR FEW006 OVC014 02/01 A3013 RMK AO2 SLP202 P0002 T00170006 KCCB 201915Z AUTO VRB06KT 10SM CLR 10/M15 A3012 RMK AO2 KCBK 201915Z AUTO 34014G20KT 10SM CLR M07/M15 A3010 RMK AO2 CXET 201500Z AUTO 13005KT 07/06 RMK AO1 4PAST HR SOG 09 0003 SLP155 P0005 T00740064 50017 KATL 201852Z 16009KT 10SM FEW023 SCT028 BKN030 23/17 A3034 RMK AO2 SLP269 T02280172 EFET 201850Z AUTO 00000KT CAVOK M26/M28 Q1027 KBKL 201853Z 18009KT 10SM OVC055 19/14 A3008 RMK AO2 PK WND 19028/1806 RAB1759E27 SLP186 P0001 T01890144 CWPC 201500Z AUTO 23017KT 08/07 RMK AO1 PK WND 21026/1430 SLP179 T00760068 54000 KCAV 201915Z AUTO 31018KT 10SM OVC017 M07/M07 A3003 RMK AO2 PWINO KCBM 201856Z AUTO 18012G18KT 10SM SCT028 25/19 A3019 RMK AO2 SLP225 T02460194 $ CXFM 201400Z AUTO 20010KT M27/M31 RMK AO1 T12691306 CWPD 201500Z AUTO 04002KT M03/M04 RMK AO1 SLP239 T10291037 58001 UMMG 201600Z 00000MPS CAVOK 01/M04 Q1023 NOSIG NZFX 201840Z 09013KT 9999 DRSN VCBLSN FEW025 SCT040 BKN070 BKN100 M21/M24 A2940 RMK VIS GRID SE-S 3200 VCBLSN GRID SE-S GRID26013KT SDG/HDG HDP GRID SE-S LAST KBKN 201915Z AUTO 34019KT 10SM OVC014 M03/M04 A3012 RMK AO2 VEDG 201030Z 08005KT 1500 FU SCT025 SCT100 29/17 Q1010 NOSIG KASW 201915Z AUTO 22007G16KT 10SM -RA SCT017 BKN021 OVC043 16/15 A2996 RMK AO2 CWPE 201500Z AUTO 05004KT 05/05 RMK AO1 SOG 02 1007 SLP258 T00540053 KASX 201853Z AUTO 01005KT 5SM BR OVC007 M06/M08 A2987 RMK AO2 CIG 005V011 SLP131 T10611078 KBLF 201852Z AUTO 22008KT 10SM CLR 22/07 A3034 RMK AO2 SLP249 T02220067 CWPF 201515Z AUTO 04003KT 01/M04 RMK AO1 T00101035 KAUG 201908Z AUTO 03004KT 1 1/2SM BR OVC003 04/03 A3024 RMK AO2 T00390033 KBLH 201852Z AUTO 36012KT 10SM CLR 13/M16 A3017 RMK AO2 SLP215 T01281156 PHHI 201856Z AUTO 00000KT 10SM CLR 20/16 A3001 RMK AO2 SLP157 T02040164 $ KAUH 201915Z AUTO 34014G22KT 10SM BKN022 M09/M14 A3017 RMK AO2 T10891141 NZGS 201900Z 33010KT 290V350 20KM NCD 22/16 Q1003 RMK AUTO VATSIM USE ONLY CXGH 201500Z AUTO 22002KT M16/M19 RMK AO1 T11631186 CWNZ 201500Z AUTO 06006KT M22/M25 RMK AO1 1PAST HR PRESFR SOG 57 8039 SLP229 P0000 T12151254 50001 KBLI 201853Z 03007KT 10SM SCT038 OVC090 00/M09 A3022 RMK AO2 SLP242 T00001089 OPPS 201900Z 31016KT 4000 DZ FEW030TCU SCT040 BKN100 17/04 Q1016 NZHK 201900Z 14007KT 110V190 16KM -RA BKN011 BKN024 BKN050 12/11 Q0998 RMK AUTO ULWC 201900Z 34003MPS 8000 -SN BKN009 M12/M14 Q1017 R21/490337 NOSIG RMK QFE753/1004 CXFR 201500Z AUTO 06002KT M16/M19 RMK AO1 T11611187 KATS 201915Z AUTO 23025G30KT 10SM CLR 18/M01 A2989 RMK AO2 KBKS 201915Z AUTO 17023G28KT 10SM SCT037 29/19 A2986 RMK AO1 T02850189 KCDA 201915Z AUTO 10003KT 1/4SM FG OVC002 06/06 A3014 RMK AO2 T00600056 KE38 201915Z AUTO 22012G20KT 10SM CLR 21/M02 A2999 RMK AO2 T02121021 UMMM 201400Z 29001MPS 9999 BKN0210 BKN100 M02/M06 Q1022 RMK QFE747 CXHA 201400Z AUTO 20013G19KT 13/11 RMK AO1 PK WND 21019/1308 SLP153 T01290106 51006 EFHA 201850Z AUTO 31004KT CAVOK M13/M14 Q1027 KATT 201915Z AUTO VRB05KT 6SM BR OVC019 21/20 A2992 RMK AO2 RAE12 CIG 012V024 P0000 T02110200 $ PFYU 201856Z 25011G17KT 8SM -SN SCT008 M06/M07 A3013 RMK AO2 SLPNO P0000 T10561067 $ KBKT 201915Z AUTO 21015G21KT 10SM BKN031 BKN040 22/16 A3037 RMK AO1 T02240160 UNEE 201900Z 20005MPS 9999 -SN NSC M09/M11 Q1028 R23/851040 NOSIG RMK QFE748 CWPK 201500Z AUTO 10005KT M05/M08 RMK AO1 SOG 52 8021 SLP236 T10541084 KCDC 201853Z AUTO 04005KT 10SM CLR M06/M11 A2999 RMK AO2 SLP194 T10561106 KAVC 201915Z AUTO 18008KT 10SM BKN015 OVC020 20/17 A3046 RMK AO2 T01960174 KBMC 201915Z AUTO 27003KT 10SM CLR M06/M14 A3010 RMK AO1 T10601143 NZHN 201900Z 03002KT 20KM NCD 18/17 Q1006 RMK AUTO VATSIM USE ONLY KCDD 201913Z AUTO 33003KT 4SM -SN SCT013 OVC021 M14/M18 A2991 RMK AO2 KBLM 201856Z AUTO VRB05KT 10SM CLR 22/14 A3029 RMK AO2 SLP262 T02220139 KBKV 201853Z 11008KT 10SM SCT045 BKN055 29/18 A3028 RMK AO2 SLP253 T02890178 $ KAUM 201915Z AUTO 28010KT BKN013 OVC018 M07/M09 A2995 RMK AO2 CXHD 201400Z AUTO 26007KT M16/M19 RMK AO1 T11551194 KBKW 201851Z AUTO 22010KT 10SM CLR 23/08 A3030 RMK AO2 SLP236 T02330083 TSNO KATW 201845Z 25009KT 7SM OVC005 01/01 A2978 KAUN 201915Z AUTO 00000KT 10SM OVC110 06/M10 A3019 RMK AO1 EDXW 201650Z 10013KT CAVOK 02/M01 Q1024 KAUO 201856Z AUTO 14009KT 10SM BKN020 BKN025 OVC070 23/18 A3032 RMK AO2 SLP282 T02280183 KBKX 201856Z AUTO 32019KT 9SM -SN SCT017 M13/M17 A3005 RMK AO2 SNB03E17B48 SLP228 P0000 T11281167 FZRANO KCCO 201915Z AUTO 17005KT 10SM BKN025 BKN030 OVC037 24/16 A3033 RMK AO2 T02350161 DNPO 201900Z 24013KT 1500 TSRA BKN006 FEW018CB 22/21 Q1006 NOSIG CXHF 201500Z AUTO 02/02 RMK AO1 1PAST HR M P0004 T00170017 50051 CWPO 201500Z AUTO 30005KT M17/M19 RMK AO1 2PAST HR SOG 10 6007 SLP233 P0001 T11651186 50005 KATY 201853Z AUTO 31018KT 8SM OVC011 M13/M17 A3006 RMK AO2 SLP220 T11331172 KBMG 201853Z 22016G31KT 10SM BKN047 24/13 A3004 RMK AO2 PK WND 21034/1833 SLP166 T02390133 CWOY 201500Z AUTO 22010KT M20/M24 RMK AO1 SOG 07 6006 SLP190 T12021244 UMMS 201900Z 08004MPS 9999 -SN OVC021 M05/M07 Q1023 R31/490341 NOSIG KCDH 201915Z AUTO 19016G21KT 160V220 9SM SCT041 BKN050 27/15 A3000 RMK AO2 NZHS 201900Z 34009KT 20KM SCT065 22/13 Q1002 RMK AUTO NZNR VATSIM USE ONLY CWQH 201500Z AUTO 03006KT 03/03 RMK AO1 SOG 21 T00310031 KCCR 201853Z 15006KT 10SM CLR 09/M06 A3025 RMK AO2 SLP231 T00941061 KBMI 201856Z 19026G38KT 10SM OVC011 18/17 A2984 RMK AO2 PK WND 19038/1848 RAE42 SLP122 P0002 T01780167 $ KCDI 201915Z AUTO 21009G18KT 190V260 10SM CLR 25/12 A3014 RMK AO2 T02510117 NZHT 201900Z 20013KT 150V240 25KM VCSH FEW055 BKN065 15/02 Q0998 RMK WIND LULL 5 CWPR 201500Z AUTO 00000KT M23/M26 RMK AO1 SOG 38 1005 SLP284 T12341256 KCDJ 201852Z AUTO 30007G15KT 260V330 M01/M03 A3007 RMK AO1 SLP198 P0006 T10111033 KAUS 201853Z 17013KT 9SM BKN021 OVC028 23/21 A2991 RMK AO2 PK WND 15027/1805 RAB16E53 SLP120 P0000 T02280211 KBNA 201853Z 20016G22KT 10SM BKN048 OVC055 25/14 A3019 RMK AO2 PK WND 20028/1806 SLP218 T02500144 ZSJN 200039Z 06003MPS 1200 R01/1800N BR OVC033 M00/M00 Q1027 NOSIG CWPS 201400Z AUTO 16030G35KT 11/10 RMK AO1 PK WND 16035/1355 SLP170 T01110095 53002 CWRA 201500Z AUTO 24015G20KT RMK AO1 PK WND 24025/1448 58016 KAVK 201915Z AUTO 35018G27KT 10SM CLR M03/M05 A3012 RMK AO2 CXIB 201500Z AUTO 22001KT 04/M00 RMK AO1 SLP255 T00401004 50001 CWQK 201500Z AUTO 08014KT 01/M05 RMK AO1 PK WND 08017/1453 SLP211 T00051052 56006 KBML 201859Z AUTO 00000KT 1/4SM FG OVC008 04/04 A3016 RMK AO2 CIG 004V011 T00390039 KBLU 201852Z AUTO VRB03KT 10SM OVC110 M04/M18 A3006 RMK AO2 SLP226 T10391178 EFHK 201850Z 36005KT CAVOK M14/M15 Q1027 NOSIG KCCU 201912Z AUTO 26023G27KT 1SM HZ BKN008 BKN016 OVC026 M16/M22 A2961 RMK AO2 KAVL 201854Z 18011G19KT 10SM FEW025 SCT035 21/13 A3040 RMK AO2 SLP278 T02060133 KCEC 201856Z AUTO 16010KT 10SM OVC055 07/M03 A3025 RMK AO2 SLP245 T00721033 EEPU 201350Z 09003KT 030V160 9999 SCT024 M06/M11 Q1026 OPRN 201900Z 05004KT 5000 HZ NSC 16/07 Q1014 NOSIG RMK A2997 KBLV 201856Z AUTO 22012KT 10SM FEW065 FEW090 SCT180 20/18 A2992 RMK AO2 RAB01E22DZB22E23RAB23E40 SLP133 P0001 T02020176 $ CXHM 201500Z AUTO 25004KT 12/ RMK AO1 4PAST HR 1010 SLP164 P0002 T0120 50054 PGRO 200950Z 08013KT 7SM SCT013 25/22 A2989 RMK LAST KAUW 201912Z AUTO 28010KT 10SM OVC011 M01/M03 A2979 RMK AO2 CIG 007V014 T10111028 KCDN 201915Z AUTO 19006KT 10SM FEW044 FEW050 FEW055 25/15 A3038 RMK AO2 KCEF 201856Z 19013KT 10SM FEW120 SCT180 BKN250 18/10 A3019 RMK AO2A SLP230 T01760102 PHJH 201845Z 03010KT 15SM FEW030 21/18 A3000 CWQO 201500Z AUTO 03017G24KT M05/M09 RMK AO1 PK WND 04024/1444 T10501093 CWPX 201500Z AUTO ///// ////SM //// FEW035 FEW055 SCT080 M32/M36 A2997 KCCY 201915Z AUTO 29013G20KT 10SM OVC014 M05/M05 A2997 RMK AO2 KAVP 201854Z 22006KT 9SM CLR 17/11 A3023 RMK AO2 SLP238 T01670106 KAWG 201915Z AUTO 32016G23KT 10SM BKN012 BKN016 BKN044 M00/M00 A2996 RMK AO2 CWQP 201500Z AUTO 18015KT 05/04 RMK AO1 2PAST HR SOG 05 1009 PK WND 18018/1455 SLP183 P0001 T00460040 50015 KBMQ 201853Z AUTO 17010G21KT 10SM BKN006 OVC012 21/19 A2991 RMK AO2 RAE10 CIG 005V009 SLP113 P0001 T02060194 KAVQ 201915Z AUTO 00000KT 10SM SCT075 10/M05 A3006 RMK AO2 T00981047 CWPZ 201500Z AUTO 00000KT M32/M36 RMK AO1 SOG 82 3018 SLP328 T13221355 CWRH 201500Z AUTO ///// M30/ A2959 RMK SLP086 KCDR 201853Z AUTO 26004KT 10SM CLR M17/M22 A3014 RMK AO2 SLP294 T11721217 CXHR 201400Z AUTO 30016KT M18/M23 RMK AO1 PK WND 30018/1351 T11821228 CWQR 201500Z AUTO 36008KT M09/ RMK AO1 T1089 KCDS 201853Z AUTO 36021KT 10SM CLR 04/M04 A3001 RMK AO2 PK WND 01027/1836 SLP158 T00441044 OPSK 201900Z 00000KT 3000 HZ NSC 19/15 QNH 1009 NOSIG KAXA 201855Z AUTO 32015G21KT 9SM CLR M08/ A3001 RMK AO2 PWINO CWQS 201500Z AUTO 01007KT 02/M02 RMK AO1 SLP248 T00161022 51018 CWRJ 201500Z AUTO 26013KT M18/M22 RMK AO1 SOG 04 6006 PK WND 26018/1400 SLP198 T11791215 CWSA 201511Z AUTO 20020KT 3/4SM -RA BR VV004 06/05 A3029 RMK TS/LTNG TEMPO UNAVBL SLP257 EGAA 201850Z 36004KT CAVOK 04/02 Q1030 KBMT 201915Z AUTO 16014G23KT 10SM OVC016 26/21 A3003 RMK AO2 T02550207 CWRK 201500Z AUTO 16001KT 03/03 RMK AO1 5PAST HR SOG 20 5004 SLP182 P0002 T00260026 50019 KBNL 201915Z AUTO 13010KT 10SM 27/18 A3035 RMK AO2 ORBD 201855Z 12002KT 5000 BR FEW040 OVC200 13/09 A3001 RMK WND DATA ALSTG ESTMD UMOO 200800Z 30003MPS 7000 NSC M09/M11 Q1023 R31/490735 NOSIG EGAC 201850Z AUTO 33009KT 9999 NCD 06/03 Q1029 KAWM 201853Z AUTO 18019G26KT 10SM BKN033 24/19 A3008 RMK AO2 PK WND 19029/1755 SLP181 T02390189 PGSN 201854Z 08015KT 10SM FEW025 SCT110 26/23 A2984 RMK AO2 SLP126 T02560228 KCFD 201915Z AUTO 16015G24KT 10SM SCT028 SCT035 OVC070 25/19 A2995 RMK AO2 LTG DSNT N AND NW T02460186 CWRM 201500Z AUTO 30009KT M15/M20 RMK AO1 SOG 33 2008 SLP231 T11511197 CWSD 201500Z AUTO 03009KT 02/M00 RMK AO1 SOG 13 3010 SLP269 T00181003 CWQV 201500Z AUTO 08014G19KT M01/M08 RMK AO1 PK WND 10019/1431 T10131084 KCDW 201853Z VRB06KT 10SM CLR 16/12 A3027 RMK AO2 SLP257 T01610117 KCFE 201915Z AUTO 26012KT 10SM BKN021 BKN050 M07/M13 A2998 RMK AO2 T10691127 EGAE 201850Z VRB03KT CAVOK 05/03 Q1030 CWRN 201500Z AUTO 32002KT 02/02 RMK AO1 SLP258 T00210018 58002 KAVX 201851Z AUTO 03006KT 10SM CLR 11/M07 A3014 RMK AO2 SLP210 T01061072 KBNO 201853Z AUTO 13005KT 10SM OVC037 M07/M14 A3008 RMK AO2 SLP240 T10721139 $ KAWO 201856Z AUTO 35007KT 10SM OVC046 M01/M06 A3021 RMK AO2 SLP237 T10111061 FZRANO CWRO 202200Z AUTO 11011KT M00/M01 RMK AO1 2PAST HR 8011 SLP226 P0001 T10031006 50002 CWSF 201500Z AUTO 01010KT M06/M11 RMK AO1 SOG 25 1023 SLP321 T10631113 NZKI 201900Z 21003KT 20KM NCD 14/14 Q0998 RMK AUTO NZWB VATSIM USE ONLY CWSG 201500Z AUTO 05012G18KT M07/M11 RMK AO1 PK WND 05019/1439 SLP319 T10721108 50014 PHJR 201858Z 03005KT 10SM CLR A3000 RMK AO2 $ KAXH 201915Z AUTO 17015G21KT 7SM OVC013 24/21 A2999 RMK AO2 T02420214 ORBI 201900Z VRB02KT 9999 BKN030 14/11 Q1016 NOSIG PGUA 201856Z AUTO 06017KT 10SM SCT016 25/22 A2984 RMK AO2 PK WND 09026/47 SLP095 T02520215 $ CYAH 201500Z AUTO 00000KT 9SM CLR M34/M39 A3056 RMK SLP403 KBOI 201853Z AUTO 30006KT 10SM CLR M05/M17 A3018 RMK AO2 SLP256 T10501167 $ NZKK 201900Z 30002KT 20KM NCD 18/17 Q1008 RMK AUTO VATSIM USE ONLY OPST 201900Z 05004KT 4000 FU SCT100 17/11 Q1013 NOSIG RH70 KCFJ 201915Z AUTO 20017G25KT 10SM SCT045 SCT050 BKN120 20/15 A2999 RMK AO2 T01960150 CXKA 201500Z AUTO 05009KT M21/M25 RMK AO1 2PAST HR PRESFR SOG 70 8042 SLP234 P0001 T12081248 50002 KBOK 201856Z AUTO VRB05KT 10SM OVC048 03/M03 A3024 RMK AO2 SLP256 T00331033 CYBB 201500Z 23022G27KT 15SM DRSN SKC M34/M38 A3024 RMK SLP245 CWSK 201500Z AUTO 03004KT M07/M12 RMK AO1 SOG 08 3003 SLP243 T10661119 CWRT 201500Z AUTO 30001KT M32/M35 RMK AO1 T13171351 EGBB 201850Z 33010KT 9999 SCT039 08/02 Q1024 KCEU 201854Z AUTO 00000KT 6SM BR OVC005 17/16 A3040 RMK AO2 SLP291 T01720156 KCGC 201915Z AUTO 10006KT 10SM SCT050 OVC060 30/18 A3028 RMK AO2 KBPC 201915Z AUTO 35008G17KT 10SM CLR 00/M11 A3005 RMK AO2 CWRU 201400Z AUTO 04003KT 02/M04 RMK AO1 SLP192 T00231041 53005 CWSL 201500Z AUTO 21001KT M19/M20 RMK AO1 SOG 46 3006 SLP288 T11891204 CYBC 201500Z AUTO 09006KT 020V100 9SM OVC034 M06/M15 A3046 RMK SLP319 CYBD 201500Z 09005KT 040V170 15SM FEW110 SCT240 M07/M14 A3030 RMK AC1CS4 AC TR SLP264 CYAM 201500Z 10010KT 2 1/2SM BR OVC006 M06/M07 A2989 RMK FG2ST6 SLP135 VDPP 201830Z 19005KT 9999 FEW017 26/22 Q1009 KCGE 201855Z AUTO 18011G16KT 10SM CLR 20/16 A3035 RMK A01 KCEW 201900Z AUTO 16010G17KT 130V200 10SM SCT022 BKN029 BKN070 25/19 A3027 RMK AO2 T02500189 $ PHKO 201853Z 36006KT 10SM CLR 25/15 A2997 RMK AO2 SLP148 T02500150 EFIV 201850Z AUTO 23004KT CAVOK M18/M19 Q1026 KAXN 201853Z AUTO 30014KT 10SM BKN018 M11/M16 A2998 RMK AO2 SLP184 T11061156 KBNW 201915Z AUTO 10SM OVC016 M07/M09 A3003 RMK AO2 KCGF 201845Z 19011KT 15SM FEW020 BKN035 OVC050 19/16 A3011 CXKE 201500Z AUTO 08002KT 02/02 RMK AO1 2PAST HR SOG 09 8007 SLP191 P0005 T00190015 50050 EFKE 201850Z 34003KT CAVOK M13/M15 Q1029 CWRX 201500Z AUTO 32033G39KT ////SM //// ////// M27/M30 A2982 EFJO 201850Z 34004KT CAVOK M18/M20 Q1026 KBPG 201915Z AUTO 24015G20KT 10SM CLR 23/01 A2989 RMK AO2 T02330010 CWTG 201500Z AUTO 03016G22KT M09/M16 RMK AO1 PK WND 03024/1429 SLP322 T10861164 50016 CWSP 201500Z AUTO 06003KT M00/M04 RMK AO1 SLP214 T10021044 56005 CWRY 201500Z AUTO 30012KT M25/M29 RMK AO1 SOG 33 1007 SLP255 T12501291 CYBG 201500Z 00000KT 12SM BKN012 OVC017 M07/M09 A3033 RMK SF6SC2 SLP282 ZSNB 201900Z 36002MPS 330V060 9999 SCT007 OVC030 06/05 Q1022 NOSIG KCEZ 201853Z AUTO VRB04KT 10SM FEW049 BKN070 OVC080 M02/M11 A2997 RMK AO2 SLP166 T10171111 PHLI 201853Z 27005KT 10SM CLR 21/18 A2999 RMK AO2 SLP152 T02110178 VEGT 201600Z 17002KT 3000 BR NSC 20/16 Q1012 NOSIG CWRZ 201500Z AUTO 04018KT M03/M06 RMK AO1 PK WND 04023/1430 SLP290 T10261059 51021 KCGI 201909Z 20024G37KT 10SM SCT024 OVC030 23/17 A3002 RMK AO2 PK WND 20037/1908 T02280172 KBPI 201853Z AUTO 13005KT 10SM BKN042 M16/M20 A2987 RMK AO2 SLP212 T11611200 CXKI 201500Z AUTO M15/M17 RMK AO1 SOG 27 6039 SLP207 T11531173 CWSR 201300Z AUTO 30008KT M15/M18 RMK AO1 SOG 13 3010 SLP167 T11461179 KCHA 201853Z 13006KT 10SM SCT028 BKN034 BKN048 22/16 A3029 RMK AO2 SLP254 T02220161 EFKI 201850Z AUTO 21001KT 1000 SN OVC011 M21/M24 Q1027 KBOS 201854Z 22011G20KT 10SM FEW090 SCT250 20/12 A3018 RMK AO2 SLP220 T02000122 KCFS 201915Z AUTO 20008KT 10SM SCT010 BKN075 OVC090 15/14 A2990 RMK AO2 T01520141 KAXS 201919Z AUTO 01022G32KT 10SM OVC013 01/M04 A3005 RMK AO2 NZMC 201900Z 20013KT 13KM -RA BKN009 BKN014 BKN055 10/09 Q1002 RMK AUTO NZTU VAT CYAS 201500Z 28034G41KT 1/2SM BLSN BKN004 M34/M38 A3015 RMK BLSN4ST1 PRESFR SLP235 EGBJ 201850Z 02006KT 9999 FEW026 08/04 Q1025 CWSS 201500Z AUTO 09001KT 05/04 RMK AO1 SOG 02 0005 SLP256 T00490036 KBPK 201853Z AUTO 22017G25KT 10SM BKN036 BKN044 21/16 A2996 RMK AO2 PK WND 23030/1825 SLP138 T02110156 KE80 201915Z AUTO 00000KT 10SM OVC060 03/M10 A2998 RMK AO2 T00291096 CWST 201500Z AUTO 03018G24KT M02/M06 RMK AO1 SOG 22 1014 PK WND 03024/1456 SLP276 T10231061 CYBK 201500Z CCA 34016KT 20SM IC DRSN SKC M36/M42 A3037 RMK SLP289 CYCB 201500Z 19010KT 12SM IC FEW120 M34/M38 A3014 RMK AC2 SLP216 CYAT 201500Z AUTO /////KT 9SM BKN120 M24/M28 A3055 RMK PRESFR WND MISG SLP349 EFKK 201850Z 28001KT 9999 FEW009 M17/M18 Q1029 PGUM 201854Z 07013KT 10SM CLR 26/24 A2984 RMK AO2 SLP096 T02610239 KAZC 201915Z AUTO 28008KT 10SM CLR 01/M13 A3006 RMK AO2 KCHD 201847Z 27010KT 10SM CLR 12/M12 A3008 CXLC 201500Z AUTO 20008KT M35/M38 RMK AO1 SOG 19 SLP278 T13451382 CYBL 201500Z 29003KT 250V310 15SM OVC027 M03/M06 A3018 RMK SC8 SLP226 KCFV 201912Z AUTO 35011KT 2SM FZRA BR FEW009 BKN030 OVC045 00/M01 A3006 RMK AO2 P0010 I1002 T00001006 EGCC 201850Z AUTO 34009KT 9999 OVC046 08/01 Q1026 NOSIG KAXV 201915Z AUTO 20018G21KT 5SM HZ SCT110 22/16 A3006 RMK AO2 NZMF 201900Z 20013KT 150V240 25KM VCSH FEW055 BKN065 15/02 Q0998 RMK WIND LULL 5 CXKM 201400Z AUTO 28009KT M16/M20 RMK AO1 T11611198 VEGY 201600Z 30005KT 2500 BR NSC 19/14 Q1013 CYCD 201500Z 28003KT 250V330 30SM SCT024 BKN035 BKN110 M03/M04 A3020 RMK SC3SC3AC1 SLP228 KBOW 201856Z 14008G16KT 10SM BKN045 30/16 A3028 KAZE 201855Z AUTO 21008KT 10SM BKN038 SCT047 SCT055 28/13 A3032 RMK AO2 T02830127 CWSW 201500Z 01007KT 20SM BKN095 M29/M33 A3017 RMK AC7 FROIN SLP342 CYAW 201500Z 31002KT 1SM -DZ BR OVC002 06/05 A3028 RMK SF8 DA-1242FT VIS HIER SE QUAD SLP256 CWTN 201500Z AUTO 08014KT M00/M02 RMK AO1 PK WND 05020/1406 SLP267 T10011024 51006 CYBN 201500Z AUTO 14005KT 1/4SM -RA OVC011 07/07 A2997 RMK PCPN 1.0MM PAST HR SLP157 EETN 201920Z 00000KT 9999 OVC007 M08/M09 Q1027 R08/19//95 NOSIG KAXX 201915Z AUTO 26015G21KT 4SM HZ SCT017 BKN021 OVC028 M07/M12 A2987 RMK AO2 T10671123 ZSNJ 201900Z VRB01MPS 8000 SCT014 OVC030 03/03 Q1025 NOSIG CYCG 201509Z 00000KT 15SM -SN FEW020 OVC057 M13/M16 A3024 RMK SF1SC7 SLP275 TVSA 201900Z 08011KT 9999 SCT018 BKN034 25/20 Q1015 NOSIG CYAY 201500Z AUTO 30014KT 9SM SCT021 M10/M15 A3031 RMK ICG SLP268 EFJY 201850Z AUTO 33002KT 5000 -SHSN FEW004 M16/M17 Q1027 CYAZ 201500Z 09005KT 15SM BKN048 OVC080 00/M04 A3014 RMK SC7AC1 SLP207 CYBQ 201500Z AUTO 07008KT 9SM OVC065 M28/M31 A3009 RMK SLP236 CYBR 201500Z 24007KT 2 1/2SM -SN BKN019 OVC035 M16/M19 A3008 RMK SC5SC3 SLP232 KCGS 201858Z AUTO 19010G16KT 10SM CLR 24/14 A3028 RMK AO1 T02350141 PHMK 201854Z 03005KT 10SM CLR 22/18 A3000 RMK AO2 SLP163 T02220183 $ KAYS 201915Z AUTO 14005KT 10SM SCT037 SCT055 OVC065 27/17 A3033 RMK AO2 T02700169 CYDA 201500Z 00000KT 12SM -SN OVC013 M14/M16 A3027 RMK SC8 CLIMAT -11.8/-18.9/TR CM/TR MWE 47054 SLP291 VEIM 201200Z 28006KT 5000 HZ SCT018 21/11 Q1012 NOSIG KBPT 201853Z 16014G27KT 10SM BKN016 BKN022 OVC029 25/21 A3003 RMK AO2 PK WND 15031/1805 SLP168 T02500206 EFKS 201850Z 29005KT CAVOK M17/M19 Q1024 EFMA 201850Z 34002KT CAVOK M14/M16 Q1028 KBQK 201915Z AUTO 16011G20KT 10SM SCT020 26/18 A3037 RMK AO2 KF00 201915Z AUTO 00000KT 10SM -RA BKN013 OVC020 16/16 A2991 RMK AO2 LTG DSNT S P0001 T01600156 KCHK 201915Z AUTO 01013KT 10SM OVC009 M02/M04 A3003 RMK AO2 T10231035 CWTT 201500Z AUTO 00000KT 03/03 RMK AO1 T00320032 CXKT 201500Z AUTO 09001KT 04/04 RMK AO1 2PAST HR SOG 00 1009 SLP261 P0001 T00400037 50004 CYDB 201500Z 00000KT 30SM FEW030 SCT060 BKN090 M13/M15 A3015 RMK CF1SC2AC4 CLIMAT -2.0/-22.5/0.0/48015 SLP277 ZSOF 201900Z 36002MPS 3000 -RA BR BKN016 OVC040 04/03 Q1025 BECMG TL2000 2800 EGCK 201850Z AUTO 03007KT 9999 NCD 06/04 Q1028 EFKT 201850Z AUTO 24003KT 9999 FEW041 M17/M20 Q1027 CYCK 201500Z AUTO 22020G28KT 9SM -RA FEW065 OVC088 12/10 A3000 RMK SLP162 KCIC 201852Z VRB05KT 40SM BKN180 05/M11 A3024 CYDC 201500Z 00000KT 20SM BKN093 OVC110 M23/M25 A3019 RMK AC5AS3 SLP287 CXLL 201500Z AUTO 08001KT M28/M31 RMK AO1 SOG 51 6013 SLP260 T12831312 CYBU 201500Z AUTO 21006KT 9SM -SN SCT065 OVC089 M23/M25 A2994 RMK SLP183 CWTU 201500Z AUTO ///// A2989 KBRD 201853Z AUTO 32007KT 7SM OVC055 M09/M15 A2992 RMK AO2 SLP159 T10941150 EETU 201850Z AUTO 36002KT 9999 NCD M15/M16 Q1026 KCID 201852Z 31017KT 10SM BKN014 OVC050 M01/M03 A2994 RMK AO2 RAE1754 SLP147 P0000 T10111028 EFKU 201850Z AUTO 30002KT CAVOK M18/M20 Q1027 CYBV 201500Z 14004KT 15SM OVC110 M20/M26 A3011 RMK AC8 SLP226 CXMD 201500Z AUTO 31004KT M14/M17 RMK AO1 2PAST HR 6007 SLP228 P0001 T11351170 50005 CWVD 201500Z AUTO 04005KT M30/ A2934 RMK SLP027 CYBW 201500Z AUTO 32006KT 9SM -SN SCT049 OVC075 M19/M23 A2994 RMK SLP252 KCHO 201853Z 19016G22KT 10SM CLR 24/14 A3031 RMK AO2 SLP259 T02440144 EGCN 201850Z 35017KT 9999 SCT025 BKN030 07/03 Q1026 PHNG 201857Z 20003KT 10SM CLR 22/19 A2996 RMK AO2 SLP140 T02220189 $ KAZO 201910Z 19013KT 1 3/4SM R35/3500VP6000FT +RA BR FEW006 BKN014 OVC031 17/15 A2992 RMK AO2 P0008 T01670150 CYDF 201500Z 30007KT 270V350 12SM BKN019 BKN045 M00/M04 A3028 RMK SC5SC2 SLP256 CYBX 201500Z 32008KT 15SM SKC M12/M20 A3035 RMK SLP284 CYCO 201500Z 21011KT 4SM -SN DRSN OVC029 M23/M26 A3010 RMK SN3SC5 SLP199 CWVF 201515Z AUTO 08012KT M02/ RMK AO1 T1022 KBQP 201915Z AUTO 19010G20KT 150V210 10SM SCT041 BKN047 BKN060 27/17 A3005 RMK AO2 T02740167 KF05 201915Z AUTO 01021G31KT 10SM OVC013 01/M04 A3003 RMK AO1 T00061038 CYCP 201500Z 32003KT 15SM FEW046 SCT110 BKN150 M30/M33 A3023 RMK SC1AC3AC2 FROIN WND ESTD SLP324 CXMG 201400Z AUTO 01003KT M21/M24 RMK AO1 T12111240 CWTY 201500Z AUTO 03009G15KT 01/01 RMK AO1 7PAST HR 8001 SLP232 P0011 T00050013 50041 CWUP 201500Z AUTO ///// M27/ A2947 RMK SLP037 EFLP 201850Z AUTO 36003KT CAVOK M14/M16 Q1026 KCGZ 201856Z AUTO 33007KT 10SM 12/M11 A3009 RMK AO2 SLP190 T01171106 $ CYCQ 201500Z 24010KT 35SM FEW040 M19/M23 A3024 RMK SC1 SLP299 CWVH 201500Z AUTO 11004KT M10/ A2994 RMK SLP170 CWVI 201500Z AUTO 32010KT M13/M16 RMK AO1 SLP209 T11321160 53013 ZSPD 201900Z 04004MPS 010V070 CAVOK 05/03 Q1023 NOSIG EFMI 201850Z AUTO 26002KT CAVOK M19/M20 Q1027 KDAA 201856Z AUTO 17012G16KT 10SM CLR 24/14 A3029 RMK AO2 SLP260 T02410142 $ KCHS 201856Z 18012KT 10SM SCT035 BKN055 27/18 A3039 RMK AO2 SLP290 T02670178 $ TVSM 201900Z 08006KT 9999 BKN015 27/21 Q1015 CYCS 201500Z 31005KT 15SM FEW090 M38/M42 A3035 RMK AC1 AC TR SLP282 CWWA 201500Z AUTO 01002KT M05/M10 RMK AO1 SLP223 T10471102 56003 CWUS 201500Z AUTO 30006KT M14/M18 RMK AO1 SLP277 T11361180 51008 PHNL 201853Z 00000KT 10SM FEW025 23/16 A2998 RMK AO2 SLP152 T02330161 $ KDAB 201853Z 11010G18KT 10SM SCT022 SCT035 SCT046 26/21 A3033 RMK AO2 SLP270 T02560211 CWWB 201500Z AUTO 11/10 RMK AO1 SLP167 T01090104 51006 KBRL 201853Z AUTO 33009KT 5SM RA BR BKN008 OVC039 01/00 A2991 RMK AO2 SLP133 P0010 T00110000 EGEC 201720Z 36007KT CAVOK 07/04 Q1028 CYDL 201500Z AUTO 05005KT 9SM FEW170 M25/M28 A3027 RMK SLP321 EGDM 201850Z AUTO 34012KT 9999 FEW035/// BKN044/// 07/02 Q1023 CXMM 201500Z AUTO 33004KT M27/M31 RMK AO1 SOG 37 1020 SLP269 T12741307 CYED 201500Z AUTO 31008KT 8SM FEW029 FEW035 OVC043 OVC065 M14/M20 A3000 RMK SLP215 KCIN 201915Z AUTO 31017G22KT 10SM OVC018 M07/M10 A3006 RMK AO2 NZNP 201900Z 29017KT 19KM NCD 19/11 Q1004 RMK AUTO VATSIM USE ONLY CWVN 201500Z AUTO 27002KT M25/M28 RMK AO1 SOG 05 5000 SLP254 T12461278 CWWE 201500Z AUTO 22003KT 04/04 RMK AO1 8003 SLP251 T00430043 50002 CYDN 201500Z AUTO 22008KT 9SM CLR M17/M21 A3008 RMK SLP218 CWUW 201500Z AUTO 13010KT ////SM //// NCD M26/M29 A2942 KBRO 201853Z 16022G31KT 10SM BKN023 BKN029 29/22 A2992 RMK AO2 PK WND 17033/1816 SLP129 T02890222 PHOG 201854Z 01003KT 10SM FEW045 22/19 A2999 RMK AO2 SLP161 T02220189 KBQX 201915Z AUTO 14009KT 3SM BR SCT021 SCT027 23/21 A2997 RMK A01 NZOH 201900Z 32012KT 30KM FEW025 18/12 Q1003 RMK VATSIM USE ONLY CXMO 201400Z AUTO 25002KT M23/M26 RMK AO1 T12251264 50005 CWWF 201500Z AUTO 26005KT M20/M24 RMK AO1 SOG 10 3004 SLP233 T12021239 CWUX 201500Z AUTO 05003KT M07/M09 RMK AO1 SLP273 T10651094 58005 CYCX 201500Z 08005KT 040V100 15SM FEW003 BKN053 OVC094 04/02 A3030 RMK SF1SC6AC1 DA-1473FT SLP263 VDSR 201830Z 22004KT 9000 FEW017 25/24 Q1007 KDAG 201850Z AUTO VRB03KT 10SM CLR 08/M16 A3018 RMK AO2 SLP219 T00781161 NZNR 201900Z 34009KT 20KM SCT065 22/13 Q1002 RMK AUTO VATSIM USE ONLY CYDP 201500Z 28007G17KT 250V340 15SM FEW020 M31/M38 A3040 RMK SC1 TR SC SLP298 ORER 201900Z VRB02KT 9000 NSC 12/08 Q1018 NOSIG CWVP 201500Z AUTO 29004KT M21/M24 RMK AO1 SOG 22 2003 SLP210 T12061238 CYEG 201500Z 29007KT 15SM -SN FEW028 BKN038 BKN220 M15/M20 A3000 RMK SC1SC6CI1 CI TR SLP223 CYCY 201433Z AUTO 32017KT 1SM -SN BKN034 OVC044 M23/M25 A2968 RMK SLP056 VEJS 201200Z 00000KT 3500 HZ FEW020 30/15 Q1010 NZNS 201900Z 23003KT 20KM NCD 15/15 Q1000 RMK AUTO VATSIM USE ONLY CWVQ 201500Z AUTO 04007KT 02/02 RMK AO1 4PAST HR SOG 23 8005 SLP211 P0005 T00150015 50045 CYDQ 201500Z AUTO 28013KT 9SM OVC110 M15/M19 A3017 RMK SLP280 KCIR 201915Z AUTO 17015G21KT 10SM BKN034 OVC042 23/16 A3005 RMK AO2 T02250163 KF17 201915Z AUTO 17011G21KT 10SM SCT039 OVC047 25/16 A3001 RMK AO2 T02460163 UNKL 201900Z 27004MPS 7000 -SN SCT048 M09/M12 Q1025 R29/420250 NOSIG RMK QFE743 ZSQD 201900Z 05002MPS CAVOK 02/M05 Q1027 NOSIG PGWT 200950Z 06012KT 7SM SCT015 26/26 A2989 RMK LAST KBTA 201915Z AUTO 32011G14KT 10SM OVC018 M08/M11 A3013 RMK AO2 T10821113 EGDR 201850Z 01017G27KT 9999 FEW014 07/04 Q1026 BLU TEMPO SCT018 WHT CWXA 201400Z AUTO 25011G18KT M20/M25 RMK AO1 PK WND 25021/1310 SLP234 T11981250 51007 KCKB 201853Z 26009KT 10SM CLR 25/11 A3022 RMK AO2 SLP219 T02500111 NZNV 201900Z 10004KT 040V140 8000 -RA BKN012 BKN026 BKN065 09/08 Q1007 RMK AUTO CWWK 201500Z AUTO 05003KT M04/M09 RMK AO1 SLP235 T10381086 56004 CWVT 201500Z AUTO 31006KT M29/M33 RMK AO1 SOG 31 3026 SLP262 T12921326 50002 CYFB 201500Z 30030G37KT 1/4SM R34/1600V2400FT/N -SN BLSN VV008 M24/M27 A2971 RMK BLSN8 VIS VRB 1/8-3/8 SLP068 CYEK 201500Z 29006KT 10SM SKC M38/M43 A3041 RMK IC TR CI SLP302 KDAL 201916Z 16011KT 6SM -RA BR SCT009 BKN012CB OVC039 21/19 A2987 RMK AO2 OCNL LTGIC DSNT S CB N-NE SE AND DSNT S MOV NE P0006 T02060194 $ KCIU 201914Z AUTO 12007KT 1/4SM -SN FZFG OVC003 M02/M03 A2980 RMK AO2 P0000 FZRANO KCKC 201915Z AUTO 32003KT 3SM -SN OVC010 M15/M18 A2978 RMK AO2 VEKO 201200Z 02004KT 6000 NSC 29/06 Q1013 CWWL 201500Z AUTO 36018KT 01/ RMK AO1 PK WND 35021/1430 SLP241 T0010 53012 CWXC 201500Z AUTO 01006KT M06/M09 RMK AO1 SLP268 T10591087 58002 CWVU 201500Z AUTO 01007KT 05/05 RMK AO1 0000 SLP262 T00520050 50002 CYFC 201500Z AUTO 07005KT 9SM OVC055 04/03 A3030 RMK SLP261 CXNM 201500Z AUTO 34004KT M01/M01 RMK AO1 SOG 45 T10071006 KDAN 201853Z AUTO 23008KT 10SM BKN019 BKN025 20/16 A3039 RMK AO2 SLP285 T02000161 CYEN 201500Z 23007KT 15SM BKN140 OVC220 M18/M22 A3007 RMK AC7CI1 SLP241 KCKF 201915Z AUTO 17007KT 10SM SCT036 SCT049 OVC060 28/17 A3034 RMK AO2 T02780168 PHNY 201856Z AUTO 00000KT 10SM CLR 21/15 A3003 RMK AO2 SLP157 T02060150 EGDX 201850Z AUTO 32007KT 9999 NCD 07/01 Q1026 EGFF 201850Z AUTO 32005KT 9999 NCD 06/01 Q1026 KBRY 201915Z AUTO 20018G27KT 10SM SCT050 26/12 A3014 RMK AO1 CXMY 201500Z AUTO 05/05 RMK AO1 6PAST HR M P0002 T00490049 50006 CXNP 201500Z AUTO 02006KT 04/03 RMK AO1 SOG 01 2007 SLP268 T00430029 50003 EGDY 201850Z 33010KT 9999 FEW030 08/01 Q1024 BLU NOSIG KCKI 201915Z AUTO 10004KT 7SM SCT040 SCT045 BKN055 26/17 A3037 RMK AO2 KCJR 201915Z AUTO 18012G19KT 10SM CLR 25/13 A3030 RMK AO2 T02510133 CWXI 201500Z AUTO 36012G19KT M10/M15 RMK AO1 SOG 07 1041 PK WND 03019/1403 SLP268 T10991154 CYER 201500Z AUTO 20003KT 9SM CLR M30/M38 A3050 RMK PRESRR SLP333 KDCA 201852Z 18014G20KT 10SM SCT250 23/14 A3029 RMK AO2 SLP256 T02280144 CXPA 201400Z AUTO 31010KT M12/M16 RMK AO1 4PAST HR M P0002 T11221158 50004 CWWS 201500Z AUTO 16007KT M20/M24 RMK AO1 SOG 88 6016 SLP221 T11951240 NZPM 201900Z 32011KT 19KM NCD 17/12 Q1002 RMK AUTO VATSIM USE ONLY CYET 201500Z AUTO 25005KT 9SM -SN BKN027 OVC170 M15/M17 A3002 RMK SLP242 KBTL 201917Z 20016G21KT 2SM R23R/4000VP6000FT RA BR OVC009 16/15 A2993 RMK AO2 P0012 T01610150 CWWU 201500Z 25009KT 15SM BKN015 BKN060 OVC120 01/M01 A3029 RMK SC5SC1AC1 T6013 SLP261 CXOL 201400Z AUTO 29008KT M20/M23 RMK AO1 T11981230 CWXL 201500Z AUTO 17007KT M23/M28 RMK AO1 T12281278 CXPC 201500Z AUTO RMK AO1 SOG 13 7009 KBTM 201853Z AUTO 18005KT 10SM CLR M22/M26 A2993 RMK AO2 SNB38E47 SLP287 P0000 T12221261 KCKM 201915Z AUTO 16013KT 10SM FEW025 SCT035 BKN040 25/21 A3008 RMK A01 VELP 200930Z 02004KT 5000 HZ NSC 27/10 Q1009 NOSIG CYEV 201500Z 09010KT 15SM BKN082 M10/M12 A2998 RMK AC7 SLP161 EGGD 201850Z AUTO 35012KT 9999 NCD 06/01 Q1024 KCLE 201851Z 20007KT 10SM BKN042 OVC055 19/16 A3012 RMK AO2 RAE08 SLP196 P0002 T01940156 KDAW 201851Z AUTO 02005KT 10SM OVC006 09/08 A3020 RMK AO2 SLP226 T00940083 KCKN 201916Z AUTO 33013KT 2SM HZ SCT007 OVC012 M13/M16 A3009 RMK AO2 KDBN 201915Z AUTO 19009G14KT 10SM SCT039 SCT060 27/15 A3035 RMK AO2 NZPP 201900Z 33017G30KT 290V010 9999 NCD 19/10 Q0999 NOSIG RMK KAUKAU 31044KT AU CYGE 201510Z 00000KT 10SM -SN FEW006 BKN035 OVC055 M25/M28 A3020 RMK ST2SC5SC1 SLP315 KBUF 201912Z 23012KT 8SM -RA SCT026 BKN033 OVC050 15/13 A3007 RMK AO2 P0003 T01500133 $ CYFO 201500Z 19002KT 15SM SCT098 M27/M30 A2994 RMK AC4 SLP180 CWWX 201400Z AUTO M02/M02 RMK AO1 T10181021 VELR 201200Z 14002KT 2500 HZ FEW020 SCT100 25/19 Q1011 KBTP 201856Z AUTO 20015G20KT 10SM SCT050 23/12 A3017 RMK AO2 SLP214 T02330122 KDAY 201856Z 20021G32KT 10SM FEW046 SCT075 BKN130 BKN220 23/14 A3009 RMK AO2 PK WND 20032/1812 SLP185 T02280144 KCKP 201915Z AUTO 31012G17KT 10SM OVC019 M09/M12 A3011 RMK AO2 T10951120 KDBQ 201853Z 29014KT 10SM OVC008 00/M02 A2990 RMK AO2 UPB00E31 CIG 008V013 SLP138 P0002 T00001017 CYGH 201500Z VRB02KT 15SM -SN OVC032 OVC100 M19/M21 A3010 RMK SC8AC1 AC TR SLP203 CWWZ 201500Z AUTO 22008G16KT 11/10 RMK AO1 5PAST HR SOG 00 2007 SLP172 P0002 T01060102 50036 KBTR 201856Z 15015G22KT 10SM BKN045 29/17 A3011 RMK AO2 T02890167 KCLI 201915Z AUTO 24004KT 7SM OVC004 01/00 A2983 RMK AO2 T00060000 CYFR 201500Z 00000KT 7SM PRFG FEW280 M41/M45 A3038 RMK CS1 CS TR CONTRAIL /0/68/ SNW CVR/MEDIUM PACK SLP319 CWXR 201500Z AUTO 28006KT M22/ A3003 RMK SLP182 KCMA 201855Z 06012KT 10SM CLR 15/M14 A3017 RMK AO2 SLP225 T01501139 NZRC 201900Z 10004KT 040V140 8000 -RA BKN012 BKN026 BKN065 09/08 Q1007 RMK AUTO CYHA 201500Z 25005KT 220V290 15SM DRSN BKN055 OVC076 M29/M35 A3005 RMK NS6AS2 SLP183 CWZA 201500Z AUTO 04016G22KT M06/M12 RMK AO1 PK WND 04023/1427 SLP239 T10611120 56003 CWYJ 201500Z AUTO 10003KT M00/M05 RMK AO1 SLP217 T10011047 56005 CYFS 201500Z 12005KT 080V150 15SM FEW050 M24/M28 A3025 RMK SC2 SLP267 KCLK 201915Z AUTO 10SM OVC008 M03/M05 A3009 RMK AO2 PNO TSNO CYGK 201500Z 20006KT 3/4SM -RA BR BKN003 OVC014 06/06 A3007 RMK FG5SF2SC1 VIS VRB 1/2-1 SLP189 CYFT 201500Z 27024G31KT 15SM DRSN SKC M28/M34 A3036 RMK SLP294 VEMN 201130Z 35002KT 4000 HZ SCT100 25/13 Q1011 NOSIG KCLL 201853Z 16017G23KT 10SM FEW029 SCT038 OVC075 25/19 A2994 RMK AO2 PK WND 17026/1812 RAB41E46 SLP135 P0000 T02500194 KDDC 201852Z AUTO 01015G26KT 10SM CLR M04/M14 A3010 RMK AO2 PK WND 35028/1759 SLP221 T10391139 NZQN 201900Z 36007KT 17KM -RA BKN030 BKN038 06/04 Q1004 RMK AUTO VATSIM USE ONLY EGHC 201720Z 01020KT 9999 FEW012 07/03 Q1026 CXPL 201400Z AUTO 23003KT M27/M30 RMK AO1 T12701296 CWYL 201500Z AUTO 08001KT M30/M33 RMK AO1 SOG 145 1005 SLP256 T12971326 CYGL 201500Z 08009KT 15SM BKN160 M30/M35 A3056 RMK AC5 SLP384 KCLM 201853Z AUTO VRB03KT 10SM OVC060 02/M04 A3018 RMK AO2 SLP224 T00171039 KDCM 201915Z AUTO 19006KT 7SM SCT022 SCT032 22/14 A3040 RMK AO2 KCKV 201852Z AUTO 20023G29KT 10SM FEW048 24/13 A3014 RMK AO2 PK WND 18037/1807 SLP201 T02440128 EFOU 201850Z AUTO 21002KT 9999 -SN FEW001/// OVC058/// M18/M20 Q1029 KBTV 201854Z 19014G20KT 10SM OVC041 12/08 A3009 RMK AO2 RAB1759E12 SLP192 P0000 T01170083 KCMD 201915Z AUTO 18013G20KT 10SM SCT070 25/15 A3025 RMK AO2 T02450145 CYHD 201502Z AUTO 03008KT 1 3/4SM -SN BKN024 OVC035 M18/M21 A2997 RMK SLP193 CWYM 201500Z AUTO ///// M28/ A2929 RMK SLP002 EGHE 201720Z 01015KT 9999 FEW021 08/04 Q1028 CYHE 201500Z AUTO 09009KT 9SM OVC140 M08/M11 A3029 RMK SLP261 KF44 201915Z AUTO 18013G23KT 10SM VCTS OVC030 22/16 A2992 RMK AO2 LTG DSNT W CXOX 201500Z AUTO 34012KT M22/M26 RMK AO1 SOG 55 2032 PK WND 34017/1457 SLP185 T12161255 EFPO 201850Z AUTO 00000KT CAVOK M14/M16 Q1028 KF45 201915Z AUTO 13009G16KT 10SM FEW024 SCT033 BKN046 28/20 A3030 RMK AO2 CXOY 201400Z AUTO 25012KT M22/M25 RMK AO1 T12151252 CWZG 201500Z AUTO 23003KT M27/M30 RMK AO1 SOG 36 0003 SLP277 T12681296 CYGP 201500Z 36008KT 310V020 15SM BKN020 BKN120 M03/M09 A3043 RMK SC5AC2 SLP307 KCMH 201851Z 22020G28KT 10SM FEW050 SCT120 OVC200 24/14 A3013 RMK AO2 PK WND 19030/1821 SLP197 T02440139 EGGP 201850Z 34010KT 9999 SCT046 07/03 Q1027 KDDH 201854Z AUTO 23009G15KT 10SM FEW048 SCT070 OVC090 19/11 A3016 RMK AO2 SLP212 T01940111 KF46 201915Z AUTO 19011KT 5SM RA SCT029 BKN041 OVC065 20/20 A2990 RMK AO2 LTG DSNT S AND SW P0002 T01960196 KCKZ 201915Z AUTO 21005KT 10SM CLR 19/14 A3029 RMK AO2 KBVI 201847Z 21018G24KT 10SM BKN0050 BKN095 24/12 A3016 EGHH 201850Z 34010KT 290V360 9999 FEW041 07/03 Q1023 CYGQ 201500Z 05013G23KT 1/4SM -SN BLSN VV001 M23/M26 A3000 RMK BLSN8 PRESFR SLP203 KCMI 201853Z 19027G37KT 9SM -RA FEW019 SCT055 OVC100 18/17 A2992 RMK AO2 PK WND 18039/1828 SLP130 P0002 T01830167 KBUR 201853Z 19003KT 10SM CLR 12/M13 A3015 RMK AO2 SLP204 T01171128 CYHI 201500Z 00000KT 5SM -SN OVC030 M26/M29 A3004 RMK SC8 -25.6/-25.7/20/TR/TR LOOSE SLP180 CYGR 201500Z 01010KT 20SM BKN097 00/M02 A3033 RMK AC6 SLP272 EGHI 201850Z 34009KT 310V020 9999 FEW040 08/01 Q1023 KCLS 201915Z AUTO 14005KT 1 1/4SM BR CLR 00/M01 A3017 RMK AO2 KCLT 201852Z VRB05KT 10SM BKN016 BKN026 21/17 A3041 RMK AO2 SLP292 T02110172 KCNB 201915Z AUTO 28014G20KT 10SM SCT022 M10/M15 A3010 RMK AO2 T11041152 CYGT 201500Z 28015KT 3/8SM FZFG SKC M30/M34 A2988 RMK IC3 HALO SLP130 CXRB 201500Z AUTO 30005KT M32/M35 RMK AO1 SOG 07 5004 SLP128 T13171349 CYHK 201500Z 22012KT 15SM IC SKC M38/M42 A3028 RMK SLP266 KDCU 201853Z AUTO 19014KT 10SM FEW047 OVC065 24/16 A3022 RMK AO2 SLP228 T02440156 KCNC 201915Z AUTO 32018KT 10SM SCT014 BKN019 OVC025 M04/M05 A3003 RMK AO2 KDEC 201901Z 20021G32KT 10SM SCT020 OVC110 19/18 A2990 RMK AO2 PK WND 19032/1856 T01890178 KBUU 201915Z AUTO 24007KT 7SM RA SCT018 BKN034 OVC043 09/08 A2983 RMK AO2 P0003 T00920084 CWZL 201500Z AUTO 29007KT 01/M01 RMK AO1 SLP255 T00101011 52018 KDED 201915Z AUTO 10012G16KT 10SM BKN036 BKN060 29/20 A3030 RMK AO2 KBWD 201915Z AUTO 16014G21KT 10SM CLR 22/19 A2985 RMK AO2 NZRO 201900Z 27010KT 23KM FEW021 SCT043 BKN050 18/16 Q1006 RMK AUTO VATSIM USE O CYHM 201500Z 22009KT 12SM BKN034 OVC040 11/11 A3003 RMK SC5SC3 SLP176 CYGV 201500Z AUTO 02010G15KT 9SM FEW250 M10/M20 A3048 RMK SLP326 KCLW 201915Z AUTO 12009KT 10SM CLR 28/18 A3026 RMK AO2 PHSF 201856Z AUTO 00000KT 10SM CLR 15/06 A3027 RMK AO2 SLP145 WND DATA ESTMD T01540059 $ KBVN 201915Z AUTO 34014G20KT 10SM SCT023 M10/M15 A3016 RMK AO2 T11021153 CYGW 201500Z AUTO 13008KT 9SM CLR M30/M35 A3067 RMK SLP390 KBVO 201916Z AUTO 2 1/2SM FZRA BR BKN012 OVC027 00/M01 A3008 RMK AO2 P0006 I1003 T00001011 EGGW 201850Z AUTO 01019KT 9999 BKN016 OVC021 06/04 Q1022 CWZO 201500Z AUTO 00012KT RMK AO1 CYGX 201500Z 13004KT 15SM BKN120 M28/M32 A3020 RMK AS5 SLP252 ZSSS 201900Z 35002MPS CAVOK 04/03 Q1023 NOSIG KBWG 201853Z AUTO 18019G31KT 10SM BKN055 25/15 A3017 RMK AO2 PK WND 19034/1804 SLP212 T02500150 KBUY 201854Z AUTO 17008KT 10SM BKN018 BKN026 22/17 A3040 RMK AO2 SLP291 T02220172 KDCY 201915Z AUTO 19021G29KT 10SM SCT050 24/12 A3004 RMK AO2 T02350124 CWYY 201500Z AUTO 03001KT M13/M15 RMK AO1 SOG 01 2005 SLP279 T11261154 KDEH 201915Z AUTO 28008G16KT 10SM OVC012 M04/M04 A2991 RMK AO2 EGHQ 201850Z 36017KT 9999 BKN015 06/04 Q1027 CWZQ 201500Z AUTO 33007KT M01/M02 RMK AO1 SLP258 T10081018 50001 UNNT 201900Z 20003MPS 9999 SCT033 M11/M14 Q1030 R25/810160 R16/810160 NOSIG RMK QFE762/1016 CXRH 201500Z AUTO 34005KT M02/ RMK AO1 T1018 KCMR 201915Z AUTO 26012G22KT 10SM CLR M03/M19 A2997 RMK AO2 KBWI 201854Z 19007KT 160V230 10SM FEW160 BKN250 24/14 A3027 RMK AO2 SLP249 T02440144 KCNI 201915Z AUTO 09006KT 10SM BKN015 OVC024 21/18 A3035 RMK AO2 KBXA 201915Z AUTO 18011G20KT 10SM SCT028 BKN050 OVC070 28/20 A3016 RMK AO2 T02770196 KBVS 201915Z AUTO 04008KT 10SM CLR M00/M09 A3022 RMK A01 EGJA 201820Z 36019KT 9999 FEW024 08/// Q1022 CWZS 201500Z AUTO 33007KT M04/M08 RMK AO1 SLP289 T10361082 51012 EFSA 201850Z AUTO 25002KT 8000 -SHSN BKN023 M18/M20 Q1026 KCNK 201855Z AUTO 32013KT 10SM OVC024 M07/M11 A3015 RMK AO2 SLP232 T10671106 CYIK 201500Z 19015KT 10SM IC DRSN FEW040 FEW100 M26/M29 A3023 RMK SC1AC1 SLP245 EGJB 201850Z 36012KT CAVOK 08/03 Q1023 KBVU 201915Z AUTO 32008G15KT 10SM CLR 06/M18 A3015 RMK AO2 CXSC 201400Z AUTO 24019KT M23/M27 RMK AO1 PK WND 24022/1349 T12281267 UNOO 201900Z 14003MPS 8000 NSC M16/M19 Q1025 R25/810555 NOSIG RMK QFE760 CXRL 201500Z AUTO 35008KT M19/M23 RMK AO1 4PAST HR M P0002 T11901227 50004 KCNM 201853Z AUTO 28019G24KT 10SM CLR 19/01 A2989 RMK AO2 PK WND 26026/1821 SLP083 T01940011 KCOD 201856Z AUTO 00000KT 10SM CLR M08/M23 A2995 RMK AO2 SLP244 T10831228 FZRANO CYHU 201500Z AUTO 02009KT 3SM -RA BR OVC005 02/01 A3016 RMK SLP216 CWZV 201400Z AUTO 03006G15KT 03/ RMK AO1 SLP223 T0027 53009 KDEN 201853Z 08008KT 10SM FEW065 BKN090 BKN200 M13/M17 A2994 RMK AO2 SLP217 T11281167 KCOE 201856Z AUTO VRB04KT 10SM OVC055 M07/M13 A3019 RMK AO2 SLP293 T10671128 FZRANO NZTG 201900Z 27006KT 34KM OVC050 20/18 Q1006 RMK AUTO VATSIM USE ONLY CXSE 201500Z AUTO 21014KT M29/M32 RMK AO1 SOG 29 6011 PK WND 25020/1444 SLP131 T12861316 CWZW 201500Z AUTO 06002KT M20/M22 RMK AO1 SOG 37 6007 SLP311 T12011219 CYIN 201500Z AUTO 00000KT 9SM CLR M31/M34 A3001 RMK SLP285 KCMX 201853Z AUTO 00000KT 4SM BR OVC005 M03/M05 A2974 RMK AO2 UPB1755E02 CIG 004V009 SLP087 P0000 I1000 T10281050 KCNO 201853Z 16006KT 10SM CLR 14/M14 A3016 RMK AO2 SLP213 T01391139 KBVX 201856Z AUTO 19018G23KT 10SM SCT032 BKN040 BKN110 24/17 A3000 RMK AO2 PK WND 22027/1802 SLP157 T02390167 KCOF 201856Z AUTO 14010KT 10SM CLR 26/23 A3032 RMK AO2 SLP272 T02640228 $ NZSP 201750Z 07009KT 3200 IC BLSN FEW000 FEW010 SCT060 M46/ A2843 RMK BLSN FEW000 CLN AIR 07010KT ALL WNDS GRID SDG/HDP CYJF 201500Z 23008KT 15SM FEW240 M21/M24 A3024 RMK CI1 CI TR FROIN/-5.7/-23.1/0/60/SNW CVR/MEDIUM PACK SLP265 CYIO 201500Z AUTO 22008KT 9SM CLR M36/M40 A2979 RMK SLP101 KBVY 201853Z 24006KT 10SM CLR 20/12 A3017 RMK AO2 SLP213 T02000117 EFRO 201850Z AUTO 30009KT CAVOK M13/M15 Q1026 KCMY 201915Z AUTO 27005KT 10SM OVC011 M02/M03 A2989 RMK AO2 T10241032 KBWP 201855Z AUTO 32020G23KT 4SM OVC015 M12/M16 A3009 RMK AO1 CYHY 201500Z 15004KT 6SM BR FEW240 M38/M42 A3036 RMK CI1 VIS E 2 SM VIS S 15 SM SLP313 ZUCK 201900Z 01003MPS 9999 SCT030 OVC050 09/07 Q1019 NOSIG KDEQ 201853Z AUTO 19011G17KT 10SM SCT031 BKN042 OVC050 24/18 A2994 RMK AO2 SLP135 T02390178 $ CXSH 201500Z AUTO 07008G15KT 01/M00 RMK AO1 6PAST HR 1004 SLP236 P0006 T00121004 50062 CYHZ 201500Z 34006KT 7SM OVC003 05/05 A3027 RMK ST8 CIG VRB 2-4 SLP258 CWZZ 201500Z AUTO ///// ////SM //// NCD M33/M37 A2975 KDFI 201853Z AUTO 21009G19KT 6SM -RA BR FEW055 OVC070 17/15 A3001 RMK AO2 PK WND 22028/1756 SLP163 P0015 T01670150 EFSI 201850Z AUTO 00000KT 3900 -SHSN ////// M21/M23 Q1028 EGKA 201850Z 35014G24KT 9999 FEW025 SCT038 08/04 Q1021 CYKA 201500Z 04003KT 30SM FEW005 FEW030 BKN100 BKN240 M19/M21 A3032 RMK SF1SC1AC3CI1 SLP302 EGJJ 201850Z 36011KT 9999 FEW026 08/04 Q1023 KDET 201853Z 21014KT 6SM -RA BR BKN018 OVC024 16/14 A2999 RMK AO2 SLP154 P0002 T01610144 KBXK 201915Z AUTO 26006KT 10SM CLR 13/M10 A3010 RMK AO1 KF70 201915Z AUTO 35004KT 10SM CLR 11/M12 A3013 RMK AO1 EGKB 201850Z 36020KT 9999 BKN016 06/04 Q1021 KCNU 201914Z AUTO 34013KT 3SM FZRA BR FEW010 BKN013 OVC020 M01/M02 A3008 RMK AO2 P0007 I1003 T10111022 EHAK 201855Z AUTO 07006KT 050V120 9999 FEW005/// SCT007/// BKN012/// 05/03 Q1024 W///H/// KCPC 201915Z AUTO 16006KT 10SM SCT041 SCT048 SCT050 26/16 A3040 RMK AO2 T02600161 CXSL 201500Z AUTO 02012KT M18/M22 RMK AO1 PK WND 02020/1425 T11801218 KCOM 201915Z AUTO 17012G17KT 10SM SCT018 SCT031 BKN038 22/18 A2987 RMK AO2 LTG DSNT N S AND W T02160178 CYKD 201500Z 15003KT 15SM FEW050 SCT230 M17/M19 A2999 RMK SC1CS2 SLP157 CYIV 201500Z 12006KT 15SM OVC080 M24/M29 A3015 RMK AC8 PRESFR SLP244 CXTD 201500Z AUTO 33003KT 03/03 RMK AO1 2PAST HR SOG 02 1004 SLP267 P0001 T00340030 50002 PHTO 201853Z 00000KT 10SM FEW085 26/18 A2998 RMK AO2 SLP151 T02560178 KCON 201851Z AUTO 14003KT 10SM BKN100 16/11 A3017 RMK AO2 SLP218 T01610106 KBWW 201915Z AUTO 28014KT 10SM OVC003 M18/M21 A2996 RMK AO2 KCNW 201855Z 17011KT 5SM RA OVC026 22/19 2991 KDEW 201853Z AUTO 25003KT 10SM OVC036 M10/M15 A3020 RMK AO2 SLP275 T11001150 EHAM 201855Z 03007KT 9000 NSC 02/M01 Q1022 NOSIG CZBF 201500Z 36003KT 340V050 15SM OVC120 01/M03 A3036 RMK AS8 SLP284 KBYG 201853Z AUTO 16003KT 10SM CLR M15/M22 A2994 RMK AO2 SLP238 T11501217 CYKF 201502Z AUTO 21010G16KT 5SM -RA BR OVC006 11/11 A3000 RMK SLP166 KCNY 201853Z AUTO 29008KT 10SM CLR M01/M17 A2999 RMK AO2 SLPNO T10061172 $ KBYH 201850Z 20015G29KT 10SM BKN031 23/17 A3008 CYKG 201500Z 27024G33KT 3/8SM -SN DRSN FEW010 BKN042 OVC055 M28/M32 A2996 RMK SC1SC6SC1 VIS VRB 1/4 - 1/2 SLP175 CXSP 201400Z AUTO 33005KT M14/M17 RMK AO1 T11351173 KCOQ 201915Z AUTO 27005KT 5SM -SN BKN018 OVC025 M11/M15 A2988 RMK AO2 CXTH 201400Z AUTO 31008KT M15/M17 RMK AO1 T11461166 VEPT 201800Z 00000KT 3000 BR NSC 17/14 Q1012 NOSIG KBYI 201853Z AUTO 28013G20KT 10SM CLR M09/M16 A3009 RMK AO2 SLP242 T10941161 $ CXSR 201500Z AUTO 32015G21KT M16/M18 RMK AO1 SOG 66 2006 PK WND 32024/1440 SLP229 T11561175 VERC 201900Z 34003KT 3000 HZ NSC 20/09 Q1014 NOSIG KCOS 201904Z 16007KT 2SM -SN BR FEW004 BKN012 BKN080 M10/M12 A2988 RMK AO2 SFC VIS 3 P0000 T11001122 NZTU 201900Z 20013KT 13KM -RA BKN009 BKN014 BKN055 10/09 Q1002 RMK AUTO VATSIM U CYLA 201500Z 27021G29KT 3/8SM BLSN SKC M33/M37 A3029 RMK BLSN2 SLP266 CYKJ 201500Z AUTO VRB02KT 9SM CLR M36/M40 A3001 RMK SLP235 KCOT 201853Z AUTO 16011G16KT 10SM SCT033 28/19 A2985 RMK AO2 SLP101 T02780189 KCQB 201915Z AUTO 33008KT 5SM -SN BR OVC005 M02/M02 A3006 RMK AO2 T10161021 KCPK 201915Z AUTO 23008G15KT 7SM SCT024 SCT028 SCT049 24/19 A3041 RMK AO2 T02390186 CYJT 201500Z 32004KT 280V020 12SM SCT010 OVC014 00/M02 A3029 RMK SF4SC4 SLP261 EGKK 201850Z 35016G28KT 9999 BKN028 08/03 Q1021 KCOU 201902Z 31011KT 2 1/2SM RA BR OVC005 03/03 A2997 RMK AO2 VIS 1 3/4V5 P0004 T00330033 $ EHBK 201855Z AUTO 04009KT 9999 NSC 02/M02 Q1019 NOSIG KBYL 201915Z AUTO 20018G25KT 180V240 10SM FEW050 25/12 A3025 RMK AO1 KCQC 201853Z AUTO 29021G29KT 9SM -SN SCT028 BKN047 OVC055 M01/M10 A2991 RMK AO2 PK WND 29031/1836 SNB40 SLP117 P0000 T10061100 CYLC 201509Z 28018G26KT 1/2SM -SN DRSN BKN011 OVC037 M24/M28 A2986 RMK SN3ST4SC1 SLP121 CYKL 201500Z AUTO 32006KT 260V010 9SM CLR M31/M38 A3036 RMK SLP363 EGLC 201850Z AUTO 35014KT 9999 BKN020 OVC029 08/03 Q1022 CYLD 201500Z 06008KT 3SM -SN OVC012 M17/M19 A2993 RMK SC8 SLP182 KDFW 201912Z 16012KT 8SM -RA SCT013 BKN032 OVC085 21/19 A2985 RMK AO2 PRESFR P0006 T02110194 CXTN 201500Z AUTO 25010KT M27/M30 RMK AO1 SLP172 T12681296 56016 KCQF 201915Z AUTO 14016G24KT 10SM OVC020 25/21 A3022 RMK AO2 CYKO 201500Z 24008KT 1SM DRSN FEW004 SCT220 M30/M34 A3037 RMK IC1SC1CI2 SLP291 EGLF 201350Z 35014KT 320V020 9999 BKN031 09/02 Q1021 CXTO 201500Z AUTO 09/08 RMK AO1 2PAST HR SOG 00 1008 SLP167 P0001 T00930084 50027 CXTP 201500Z AUTO 28007KT 02/M03 RMK AO1 SOG 01 7003 PK WND 28019/1410 SLP240 T00161029 CYKP 201500Z AUTO 08007G16KT 050V120 9SM OVC060 M24/M31 A3034 RMK SLP310 OSDI 201900Z 35007KT CAVOK 11/04 Q1011 EFTP 201850Z AUTO VRB00KT CAVOK M17/M19 Q1027 CYKQ 201500Z 08008KT 030V100 15SM FEW100 OVC140 M24/M31 A3050 RMK AC2AC6 PRESFR SLP333 KCPR 201853Z 23018KT 10SM CLR M14/M19 A2992 RMK AO2 SLP252 T11391189 NZWB 201900Z 21003KT 20KM NCD 14/14 Q0998 RMK AUTO VATSIM USE ONLY KBYS 201855Z AUTO 15003KT 10SM CLR 07/M20 A3017 RMK AO2 SLP246 WND DATA ESTMD T00691196 KCPS 201853Z 18009G17KT 9SM -RA BKN100 OVC120 19/17 A2994 RMK AO2 SLPNO P0002 T01940167 $ CYLJ 201500Z 01012KT 15SM DRSN SCT045 BKN075 M19/M25 A3003 RMK SC3AC3 SLP220 CYMA 201500Z 34002KT 8SM -SN SCT010 OVC020 M14/M17 A3022 RMK ST4SC4 SLP290 EFVA 201850Z AUTO VRB02KT 3300 -SN OVC004/// M12/M13 Q1029 KCPT 201915Z AUTO 14012KT 3SM VCTS DZ FEW006 FEW009 SCT027 19/19 A2987 RMK AO2 LTG DSNT E-S NZWD 192225Z 08008KT 9999 BKN035 BKN070 M18/M22 A2938 RMK GRID25008KT SDF/HDG LAST CYLK 201500Z 07005KT 12SM FEW050 BKN140 M39/M42 A3038 RMK SC2AC3 -27.0/-42.2/0/-29.4 SNW CVR/MUCH LOOSE SLP326 ORMM 201900Z 32006KT CAVOK 16/06 Q1015 NOSIG CZDB 201500Z AUTO 02004KT 04/03 RMK AO1 3003 SLP264 T00430032 50002 KCPU 201850Z AUTO 00000KT 10SM BKN120 07/M11 A3020 RMK AO2 T00651108 CYLL 201500Z 01008KT 4SM -SN BR OVC030 M15/M17 A2994 RMK SC8 SLP198 EFTU 201850Z AUTO 09002KT CAVOK M15/M17 Q1027 EGLL 201850Z AUTO 01011KT 340V050 9999 BKN026 OVC032 08/03 Q1023 NOSIG EGMC 201850Z 36013KT 9999 -RA BKN008 07/05 Q1021 KCQM 201915Z AUTO 30005KT 7SM -SN M13/M17 A2989 RMK AO2 P0001 CXTV 201400Z AUTO 10003KT M12/M13 RMK AO1 SOG 23 8020 SLP168 T11191130 VERP 201800Z 02007KT 5000 HZ NSC 24/13 Q1013 NOSIG EGMD 201850Z AUTO 35010KT 9999 FEW007/// BKN010/// OVC015/// 06/06 Q1020 KCRE 201853Z 15005KT 10SM BKN050 23/19 A3043 RMK AO1 SLP303 T02280189 KDGW 201853Z AUTO 14007KT 10SM CLR M21/M24 A2998 RMK AO2 SLP268 T12111239 KDHN 201853Z 15012KT 10SM SCT029 BKN047 OVC070 26/18 A3031 RMK AO2 RAE00 SLP258 P0000 T02560178 KCPW 201906Z AUTO 20015G26KT OVC002 M18/M19 A2974 RMK AO2 PWINO KBZN 201856Z 04004KT 10SM CLR M17/M23 A3005 RMK AO2 SLP283 T11721233 KCRG 201853Z 14016G22KT 10SM FEW032 28/20 A3034 RMK AO2 PK WND 14026/1805 SLP272 T02780200 KBYY 201915Z AUTO 15018G29KT 7SM OVC016 26/22 A2996 RMK AO2 T02600220 ORNI 201900Z 03004KT 7000 BKN040 15/10 Q1016 NOSIG CZCP 201500Z AUTO 27007KT ////SM //// FEW004 OVC012 M24/M27 A3000 CYKY 201500Z 24008KT 15SM SCT070 M18/M23 A2994 RMK AC4 SLP210 CYKZ 201500Z 00000KT 1/4SM -RA FG VV001 05/04 A3002 RMK FG8 SLP172 CYMH 201500Z AUTO 31015KT 9SM CLR M12/M20 A3030 RMK SLP262 NZWK 201900Z 29004KT 240V320 14KM FEW050 BKN065 20/18 Q1005 RMK AUTO VATSIM USE CZCR 201500Z AUTO 14002KT 00/M03 RMK AO1 SOG 88 1015 SLP285 T00001030 KDIJ 201856Z AUTO 20011KT 10SM FEW030 OVC050 M11/M18 RMK AO2 SLPNO T11111178 $ CYMJ 201500Z 25013KT 15SM FEW050 BKN064 M18/M24 A3001 RMK SC2SC6 SLP215 CYNA 201500Z AUTO 36010G15KT 9SM CLR M10/M19 A3044 RMK SLP311 KCQT 201847Z AUTO VRB03KT 10SM CLR 14/M13 A3016 RMK AO2 SLP214 T01391128 KDHT 201853Z AUTO 04010KT 10SM CLR 00/M12 A2999 RMK AO2 SLP154 T00001117 KDIK 201856Z AUTO 27013KT 10SM CLR M16/M20 A3005 RMK AO2 SLP240 T11561200 CYLT 201500Z 00000KT 15SM FEW100 SCT210 M31/M35 A2969 RMK AC1CI1 AC TR SLP059 CXWB 201400Z AUTO 31008KT M34/M39 RMK AO1 SLP269 T13421391 52016 EFUT 201850Z 35004KT CAVOK M12/M13 Q1026 CYNC 201500Z 10007G15KT 15SM FEW150 SCT160 BKN250 M28/M35 A3064 RMK AC1AS2CS3 SLP380 CYLU 201500Z 22016G22KT 1/8SM +BLSN VV004 M31/M35 A3037 RMK BLSN8 SLP297 EGNC 201750Z VRB01KT 9999 SCT028 06/02 Q1027 NZWN 201900Z AUTO 33017G30KT 290V010 9999 NCD 19/10 Q0999 NOSIG TXKF 201855Z 08010KT 050V110 9999 FEW035 FEW055 20/12 Q1035 EHDL 201855Z AUTO 03007KT 7000 BR NCD M00/M02 Q1021 WHT CYND 201500Z 09010KT 3SM -RA BR OVC005 02/01 A3010 RMK SF8 SLP198 CXVM 201400Z AUTO 28006KT M15/M19 RMK AO1 T11451186 CYMM 201512Z AUTO 32004KT 9SM -SN BKN010 OVC035 M27/M30 A3023 RMK SLP284 KCQW 201915Z AUTO 21009KT 160V220 10SM FEW036 25/16 A3038 RMK AO2 NZWP 201900Z 29003KT 250V320 20KM VCSH SCT025 19/18 Q1007 RMK VATSIM USE ONLY CXVN 201500Z AUTO 22016G23KT 13/12 RMK AO1 8PAST HR SOG 02 2005 PK WND 22027/1446 SLP162 P0003 T01330118 50034 CYLW 201500Z AUTO VRB02KT 9SM -SN OVC018 M14/M17 A3025 RMK SLP282 CYNE 201500Z AUTO 13005KT 9SM M25/M28 A3007 RMK CLD MISG SLP215 KCQX 201852Z AUTO 23007G17KT 1/2SM FG VV002 08/08 A3028 RMK AO2 SLP254 T00830083 TSNO CYMO 201500Z AUTO 06009G16KT 9SM SCT130 M24/M31 A3048 RMK PRESFR SLP324 KCSG 201851Z 17007KT 10SM SCT031 BKN038 OVC070 25/17 A3030 RMK AO2 SLP257 T02500172 KCRP 201851Z 16017KT 9SM -RA BKN009 BKN013 OVC021 23/22 A2991 RMK AO2 PK WND 15029/1821 RAE1755B18 SLP127 P0001 T02280222 NZWR 201900Z 32003KT 20KM NCD 19/17 Q1007 RMK AUTO VATSIM USE ONLY KCRQ 201853Z AUTO CLR 13/M12 A3014 RMK AO2 SLP206 T01331117 PWINO PNO $ NZWS 201900Z 14007KT 110V190 16KM -RA BKN011 BKN024 BKN050 12/11 Q0998 RMK AUTO EGNH 201850Z 33009KT 9999 FEW044 06/05 Q1027 EHEH 201855Z AUTO 05007KT 010V110 9999 NCD 02/M02 Q1021 BLU 04007KT CAVOK KCRS 201853Z AUTO 18016G21KT 10SM SCT029 BKN034 OVC065 24/18 A2993 RMK AO2 LTG DSNT W RAB40E47 SLP130 P0000 T02390183 KEBA 201915Z AUTO 00000KT 10SM BKN018 BKN037 OVC055 23/19 A3038 RMK AO2 T02250185 NZWU 201900Z 33009KT 300V010 20KM NCD 18/11 Q1003 RMK AUTO VATSIM USE ONLY CZFA 201500Z 14006KT 30SM FEW035 OVC140 M15/M17 A3017 RMK SC2AC6 CLIMAT -10.7/-15.0/0.0 47034 SLP285 CYOA 201500Z 16010KT 15SM SCT120 M38/M42 A3011 RMK AC3 EGNJ 201850Z 34010KT 5000 BKN012 BKN016 07/05 Q1024 KCTB 201856Z AUTO 29011KT 10SM CLR M14/M19 A2999 RMK AO2 SLP259 T11441194 KDKB 201915Z AUTO 28007KT 5SM -RA SCT035 SCT042 OVC048 08/08 A2985 RMK AO2 P0002 T00760076 CYMT 201500Z AUTO 07010G15KT 9SM OVC095 M16/M21 A3029 RMK PRESFR SLP297 CYMU 201500Z 18016KT 15SM DRSN FEW170 M31/M35 A3062 RMK AS1 SLP386 CYOC 201500Z 26004KT 6SM -SN SCT006 OVC014 M13/M14 A3003 RMK ST4SC4 HIGHEST SIGNAL 1470 FT SLP198 CZEL 201500Z AUTO 21009KT 09/08 RMK AO1 2PAST HR SOG 02 0011 SLP167 P0005 T00880083 50050 KCSM 201853Z 36020G28KT 10SM OVC006 M04/M06 A3007 RMK AO2 PK WND 36031/1800 SLP187 T10441056 CZEM 201500Z 08008KT 15SM OVC130 M27/M34 A3057 RMK AC8 SLP356 CXWM 201400Z AUTO 26015KT M20/M25 RMK AO1 T12011249 CYOD 201500Z 03009KT 15SM -SHSN OVC043 M20/M26 A3006 RMK SC8 PCPN VRY LGT SLP231 CYNM 201500Z AUTO 07006KT 030V100 9SM OVC075 M18/M22 A3026 RMK ICG INTMT SLP283 EGNM 201850Z 01012KT 340V050 9999 SCT025 SCT030 06/01 Q1025 KCRW 201854Z 22014G19KT 10SM FEW065 FEW300 27/10 A3021 RMK AO2 SLP221 T02670100 KEAN 201915Z AUTO 32003KT 10SM CLR M16/M22 A2999 RMK AO2 T11641219 EHDV 201855Z AUTO VRB07KT 8000 NSC 04/02 Q1024 W///H/// EHFD 201855Z AUTO 06003KT 8000 SCT017/// 05/03 Q1024 W///H/// CXWN 201500Z AUTO 03002KT M16/M19 RMK AO1 2PAST HR 8003 SLP224 P0001 T11581186 50005 CXVW 201500Z AUTO 02006KT M16/M18 RMK AO1 6PAST HR M P0002 T11571180 50006 KCRX 201915Z AUTO 17014KT 10SM FEW028 BKN035 OVC065 23/16 A3016 RMK AO2 EGNO 201850Z 33005KT 9999 FEW048 06/04 Q1027 CYMX 201500Z 05006KT 340V080 4SM -RA BR OVC004 01/01 A3016 RMK SF8 SLP217 KEBG 201915Z AUTO 16018G23KT 10SM OVC029 29/19 A2987 RMK AO2 T02880193 KCSQ 201915Z AUTO 33018KT 10SM OVC015 M06/M08 A3006 RMK AO2 UNTT 201900Z 23004MPS 9999 FEW034CB M09/M11 Q1026 NOSIG RMK QFE755 KEAR 201856Z AUTO 35016KT 10SM FEW023 M09/M15 A3015 RMK AO2 SLP244 T10891150 FZRANO EGNR 201850Z 31010KT 9999 FEW045 06/04 Q1027 KCTJ 201855Z AUTO 15009KT 10SM BKN014 OVC024 21/17 A3036 RMK AO2 T02050169 CYPA 201500Z 27003KT 6SM -SN OVC046 M22/M25 A2995 RMK SC8 SLP191 CYOJ 201500Z 01003KT 15SM FEW260 M29/M31 A3028 RMK CI1 CI TR SLP300 EGPA 201850Z 28006KT 9999 FEW019 03/01 Q1027 KCUB 201853Z AUTO 20004KT 10SM SCT038 BKN055 26/16 A3038 RMK AO2 SLP286 T02560156 KDKK 201853Z AUTO 23013G21KT 6SM RA OVC042 18/14 A3008 RMK AO2 PK WND 22029/1841 RAB00 SLP186 P0003 T01830144 EGNS 201850Z 35010KT 320V030 9999 FEW015 07/04 Q1028 NOSIG KEAT 201855Z AUTO 00000KT 10SM OVC100 M06/M13 A3022 RMK AO2 SLP254 T10611128 EGNT 201850Z 02008KT 9999 BKN028 06/03 Q1027 EGPB 201850Z 32010KT 290V350 9999 FEW022 07/03 Q1025 NOSIG KEAU 201856Z 26011KT 9SM OVC011 M05/M07 A2988 RMK AO2 SLP133 T10501072 CYPC 201500Z 30004KT 8SM OVC012 M24/M26 A3008 RMK SC8 SLP189 EGPC 201850Z 28005KT 9999 FEW021 03/02 Q1027 ZUGY 201900Z 05006MPS 6000 -DZ SCT005 BKN012 OVC026 04/04 Q1018 NOSIG KCSV 201853Z AUTO 17010G17KT 150V210 10SM FEW018 OVC046 19/14 A3031 RMK AO2 PK WND 18029/1803 SLP249 T01940139 CZFM 201500Z 11003KT 060V130 10SM BKN230 M10/M13 A2998 RMK CS5 SLP159 EGNV 201850Z 36015KT 9999 FEW022 BKN032 07/04 Q1026 EGOM 201850Z 07003KT 9999 FEW028 SCT042 04/01 Q1026 BLU CZEV 201400Z AUTO 10005KT M09/M10 RMK AO1 SOG 45 7023 SLP174 T10881095 CYPD 201514Z AUTO 29004KT 2 1/2SM BR BKN004 OVC009 03/03 A3027 RMK SLP257 EGPD 201850Z AUTO 31012KT 9999 NCD 05/02 Q1027 NOSIG CZFN 200000Z 05004KT 20SM -SN SCT067 BKN120 M15/M18 A3023 RMK AC3AC4 -11.6 / -14.8 / TR / SNOW CVR / MEDIUM PACK / LAST STFD OBS/NEXT 201600Z SLP250 CYPE 201500Z 02006KT 15SM -SN OVC033 M19/M22 A3016 RMK SC8 SLP267 EGPE 201850Z 26004KT 9999 FEW020 02/01 Q1029 KDLF 201855Z 15009KT 10SM BKN023 BKN170 25/19 A2984 RMK AO2A SLP095 T02480185 EGNX 201850Z 36010KT 320V040 9999 BKN035 07/02 Q1025 EGPF 201850Z AUTO 29003KT 9999 NCD 05/02 Q1029 KECG 201854Z 21009KT 10SM FEW019 24/19 A3042 RMK AO2 SLP300 T02440194 CYOO 201518Z AUTO 11005KT 1/8SM -RA FG VV003 07/06 A3003 RMK SLP174 CYPG 201500Z 25004KT 2SM -SN OVC028 M15/M17 A3013 RMK SC8 SLP228 EGOP 201850Z AUTO 02013KT 9999 // NCD 06/04 Q1027 KDLH 201917Z 31006KT 4SM -SN SCT015 OVC021 M12/M14 A2986 RMK AO2 VIS 2 RWY 27 P0000 T11171144 EHGG 201855Z AUTO 06006KT 5000 BR NCD M01/M03 Q1022 TEMPO 3000 KCUH 201915Z AUTO 34006KT 5SM UP OVC008 M01/M02 A3005 RMK AO2 T10131020 CXYH 201400Z AUTO M27/M30 RMK AO1 SOG 32 6009 SLP250 T12671296 CYPH 201500Z AUTO 21012KT 9SM CLR M32/M35 A3053 RMK SLP345 EGPH 201850Z VRB03KT 9999 SCT048 06/01 Q1028 KDKR 201915Z AUTO 16011G17KT 10SM -RA FEW033 SCT039 BKN050 25/19 A2999 RMK AO2 EGPI 201850Z AUTO VRB03KT 9999 NCD 03/01 Q1030 KEBS 201915Z AUTO 30020KT 10SM -SN OVC017 M07/M10 A3002 RMK AO2 KDMA 201856Z AUTO 27003KT 10SM OVC065 10/M01 A3005 RMK AO2 SLP166 T01011013 EGQA 201450Z 31011KT 9999 VCSH FEW010 SCT020 08/// Q1027 WHT CZFS 201500Z AUTO 12006KT M24/M27 RMK AO1 SOG 30 8015 SLP265 T12441273 EGOS 201850Z AUTO 32010KT 9999 BKN048/// 06/03 Q1026 CYQA 201520Z AUTO 14008KT 3SM -RA BR OVC003 05/05 A2995 RMK SLP155 EHFS 201855Z AUTO 05008KT 9000 NSC 04/00 Q1021 W///H/// KCVB 201915Z AUTO 15011KT 5SM BR OVC013 23/21 A2990 RMK AO2 T02250205 KEDC 192035Z AUTO 17019G30KT 10SM FEW035 BKN044 OVC065 25/18 A2984 RMK AO2 KCVC 201856Z AUTO 19005KT 7SM BKN035 BKN040 OVC048 24/17 A3034 RMK AO2 CYQB 201500Z 07019KT 8SM -SNPL FEW010 BKN027 OVC038 00/M02 A3028 RMK SF1SC6SC1 -PL INTMT SLP258 EGPK 201850Z 34004KT 310V050 CAVOK 05/01 Q1029 KDLL 201915Z AUTO 28010KT 10SM OVC007 01/01 A2984 RMK AO2 T00100005 KCUL 201915Z AUTO 19021KT 10SM SCT049 BKN055 25/15 A3003 RMK AO2 T02450153 CYPL 201500Z 06010KT 2SM -SN OVC035 M23/M27 A3008 RMK SN5SC3 PRESFR SLP235 CXZC 201500Z AUTO 06009KT M24/M30 RMK AO1 PRESFR SOG 46 8032 SLP324 T12441295 EGPL 201850Z AUTO 23002KT 5000 HZ NCD 05/03 Q1029 VGEG 201700Z 00000KT 3500 HZ SCT100 25/15 Q1010 NOSIG EGOV 201850Z AUTO 36010KT 9999 NCD 07/05 Q1028 CYQD 201500Z 14007KT 15SM FEW070 M26/M30 A2997 RMK AC1 AC TR SLP186 KDLN 201853Z AUTO 22003KT 10SM CLR M22/M23 A2996 RMK AO2 SLP300 T12171233 EGPM 201850Z AUTO 28006KT 9999 NCD 04/02 Q1025 KEDE 201915Z AUTO 00000KT 10SM BKN029 BKN036 OVC060 25/19 A3041 RMK AO2 T02450190 EGOW 201650Z 33011KT 9999 FEW035 08/04 Q1026 BLU EGPN 201850Z 29003KT 9999 FEW045 05/00 Q1028 CYOW 201500Z 07010KT 6SM -RA BR OVC003 01/01 A3009 RMK SF8 SLP198 KDLO 201915Z AUTO 30005KT 10SM CLR 07/M05 A3025 RMK AO2 T00731054 KDKX 201915Z AUTO 24012G22KT 10SM CLR 26/13 A3027 RMK A01 CYPO 201500Z AUTO 20006KT 9SM CLR M31/M37 A3053 RMK SLP353 CYQF 201500Z 29011KT 15SM BKN060 BKN090 OVC200 M15/M21 A2999 RMK SC5AC2CI1 SLP239 KECP 201853Z 14015G22KT 10SM SCT025 26/20 A3027 RMK AO2 PK WND 14028/1826 RAE1754 SLP262 P0000 T02610200 EGPO 201850Z VRB03KT 9999 FEW025 01/01 Q1029 KCVG 201852Z 21015G30KT 10SM FEW040 SCT250 BKN300 24/13 A3011 RMK AO2 PK WND 23030/1846 SLP190 T02440133 KDLP 201915Z AUTO 07007KT 5SM BR CLR 24/23 A3015 RMK A01 KCTY 201915Z AUTO 13007KT 080V140 10SM SCT044 OVC065 28/18 A3033 RMK AO2 T02840181 CYQG 201500Z 20017KT 6SM -RA BR FEW029 BKN040 OVC070 13/11 A2998 RMK CF1NS7AC1 CF TR SLP154 CYOY 201500Z 09005KT 6SM -SN BR BKN013 OVC025 01/M02 A3024 RMK SF6SC2 DA-1297FT SLP251 KDMH 201854Z AUTO 24/14 A3029 RMK AO1 SLP257 T02440139 KCTZ 201915Z AUTO 17005KT 10SM SCT044 SCT060 27/17 A3040 RMK AO2 T02720171 KCVH 201915Z AUTO 00000KT 10SM CLR 09/M04 A3025 RMK A01 CYQH 201500Z 15002KT 15SM FEW240 M29/M32 A3022 RMK CI1 SLP310 CYPQ 201518Z AUTO 00000KT 1 1/4SM RA BR BKN004 OVC011 03/03 A3003 RMK VIS VRB 3/4-3 SLP178 EHFZ 201855Z AUTO 02007KT 6000 NSC 05/01 Q1024 W///H/// KCWA 201848Z 27009KT 10SM OVC007 M01/M01 A2982 CYPR 201500Z AUTO 07005KT 9SM CLR M04/M05 A3025 RMK SLP246 KDLS 201853Z AUTO 22003KT 10SM OVC065 M02/M07 A3026 RMK AO2 SLP249 T10171067 EHGR 201855Z AUTO 02006KT 340V060 6000 BR FEW083 BKN098 01/M01 Q1021 WHT KDNA 201915Z AUTO 28012KT 10SM FEW050 SCT065 BKN080 14/02 A2996 RMK AO2 PWINO CYQI 201500Z 27005KT 1/4SM -RA FG VV002 07/07 A3026 RMK FG8 SLP250 KECS 201915Z AUTO 28005KT 10SM CLR M16/M22 A3004 RMK AO2 KEDJ 201915Z AUTO 22020G25KT 10SM CLR 20/13 A3009 RMK AO1 CYRA 201500Z 16007KT 130V200 10SM OVC020 M27/M32 A3015 RMK SC8 -27.2/ -38.2/ 0.0/ SNW CVR/ MEDIUM PACK/ CIG RAG SLP250 KCUT 201853Z AUTO 27012G17KT 10SM CLR M14/M22 A2983 RMK AO2 SLP209 T11441222 $ EGQK 201850Z AUTO 24006KT 9999 FEW060/// 05/02 Q1028 CYRB 201500Z 31004KT 2SM -SN OVC033 M32/M36 A2990 RMK SC8 SLP142 CYQK 201500Z 36009KT 3SM -SN SCT015 OVC028 M18/M21 A3000 RMK SC3SC5 SLP201 KCWC 201915Z AUTO 36018G27KT 7SM RA OVC010 01/00 A3002 RMK AO2 P0002 T00070001 KECU 201915Z AUTO 17008KT 9SM BKN013 OVC020 21/18 A2995 RMK AO2 CYQL 201500Z 26011KT 60SM SCT070 M21/M25 A3001 RMK AC3 SLP274 EGPU 201850Z AUTO 30006KT 7000 NCD 05/03 Q1029 KEED 201856Z AUTO 04005KT 10SM CLR 12/M14 A3017 RMK AO2 SLP208 T01221139 EGQL 201850Z 36002KT CAVOK 04/00 Q1028 BLU CYQM 201500Z 03010KT 15SM FEW012 BKN044 BKN082CB OVC110 04/M00 A3032 RMK CU1SC5CB2AC1 CU TR SLP271 KDMN 201853Z AUTO 28012KT 10SM BKN070 11/02 A2997 RMK AO2 SLP116 T01060017 KEDN 201915Z AUTO 16006KT 10SM SCT025 BKN035 OVC070 25/20 A3026 RMK AO2 T02460198 EGQM 201850Z AUTO 33009KT 9999 BKN037/// BKN050/// 07/04 Q1027 CYPW 201500Z 07003KT 030V110 15SM FEW030 BKN040 BKN050 M02/M06 A3018 RMK SC2SC3SC2 SLP228 KDMO 201906Z AUTO 31012KT 6SM RA BR BKN007 OVC027 01/01 A3002 RMK AO2 P0002 T00110011 KCVO 201908Z AUTO 17013KT 10SM -RA SCT012 OVC039 02/01 A3019 RMK AO2 P0000 FZRANO KCWF 201855Z 17021G25KT 7SM BKN025 OVC029 26/21 A3007 CYPX 201514Z AUTO 23013KT 5SM HZ CLR M32/M35 A3041 RMK SLP305 CYPY 201514Z AUTO 00000KT 6SM HZ CLR M39/M43 A3034 RMK SLP312 KDLZ 201915Z AUTO 21012G25KT 10SM CLR 22/14 A3012 RMK AO2 CYQQ 201500Z 24003KT 20SM -SN BKN029 OVC060 M00/M05 A3019 RMK SC6SC2 PCPN VRY LGT SLP226 KCWI 201916Z AUTO 10SM -RA SCT006 BKN055 OVC070 01/01 RMK AO2 RAB06SNE06 P0002 FZRANO $ CYQR 201500Z 23007KT 15SM BKN060 BKN150 M22/M25 A3000 RMK SC6AC1 SLP221 KCVS 201856Z AUTO 35004KT 10SM CLR 10/M03 A2994 RMK AO2 SLP120 T00961030 $ CYRJ 201500Z 32010KT 40SM BKN017 OVC077 M10/M15 A3034 RMK SC7AS1 SLP289 EGQS 201850Z 24006KT CAVOK 03/02 Q1028 BLU EHJA 201855Z AUTO 03011KT 9000 FEW012/// 04/01 Q1024 W///H/// OTBD 201900Z 32007KT CAVOK 19/11 Q1014 NOSIG KDNL 201853Z AUTO 10006KT 10SM SCT028 BKN040 OVC055 24/18 A3037 RMK AO2 SLP280 T02440178 CYQT 201500Z 33003KT 270V340 1 1/2SM -SN OVC016 M16/M18 A2994 RMK SC8 /S01/ SLP161 CYSB 201500Z 06010KT 1/2SM R22/3500V6000FT/D -FZDZ -PL FZFG SCT001 OVC007 M10/M12 A2993 RMK SF4SF4 PRESFR SLP163 KEDU 201920Z AUTO 02007KT 10SM FEW110 08/M08 A3025 RMK AO1 CYRL 201500Z 02004KT 010V090 4SM -SN OVC018 M19/M24 A3005 RMK SC8 SLP222 EGSC 201750Z 01018KT 9999 VCSH FEW016 BKN025 07/04 Q1022 CYQU 201500Z 29008KT 5SM -SN OVC030 M14/M19 A3014 RMK SC8 SLP268 KEFD 201850Z 15016G24KT 7SM OVC012 24/21 A3001 CYSC 201516Z AUTO 07004KT 2SM -RA BR SCT002 OVC012 03/03 A3017 RMK SLP227 CXZV 201500Z AUTO 03006KT M11/M21 RMK AO1 SOG 125 0016 SLP334 T11131209 CYQV 201500Z AUTO 22013KT 9SM SCT049 M23/M26 A2997 RMK SLP207 KDMW 201855Z AUTO 20011G15KT 10SM CLR 24/14 A3027 RMK AO2 KEDW 201856Z 03003KT 90SM CLR 04/M13 A3016 RMK AO2A SLP226 T00431135 KDNN 201915Z AUTO 14008KT 10SM SCT021 BKN026 OVC032 21/17 A3033 RMK AO2 KEEN 201856Z AUTO 24003KT 10SM BKN095 13/09 A3021 RMK AO2 SLP253 T01280094 KCVW 201920Z AUTO 13012KT 6SM BR CLR 22/21 A3006 RMK A01 KCXE 201915Z AUTO 22004KT 10SM SCT024 SCT031 BKN040 21/17 A3039 RMK AO1 T02140165 KCWN 201916Z AUTO 11003KT 4SM -SN BKN003 BKN049 M11/M12 A2977 RMK AO2 CIG 003V048 BKN V SCT SLP078 $ KEEO 201853Z AUTO 19004KT 9SM SCT021 SCT026 M11/M14 A2993 RMK AO2 SNB40E49 SLP209 P0000 T11061139 CYQW 201500Z AUTO 31006KT 9SM -SN BKN029 BKN070 M16/M19 A2996 RMK SLP196 KCVX 201915Z AUTO 20008G15KT 10SM BKN026 OVC033 12/10 A2980 RMK AO2 T01220099 EHHW 201855Z AUTO 10012KT 030V150 9999 ///////// 04/00 Q1023 W///H/// CYQX 201500Z 25013G20KT 20SM FEW022 BKN059 BKN120 BKN250 01/M03 A3022 RMK CU2SC4AC1CI1 CI TR SLP245 CYSF 201500Z AUTO VRB02KT 9SM CLR M34/M39 A3025 RMK SLP286 OTBH 201856Z AUTO 32007KT 9999 CLR 18/10 A2997 RMK AO2 SLP150 T01770103 $ CZHY 201500Z AUTO 16004KT M39/M42 RMK AO1 SOG 28 8003 SLP307 T13851423 CYQY 201500Z 32003KT 9SM SCT039 OVC073 04/03 A3028 RMK NS3AS5 SLP258 CYQZ 201500Z AUTO 00000KT 9SM BKN095 M27/M30 A3030 RMK SLP330 EGSH 201850Z 07006KT 6000 FEW010 SCT020 04/03 Q1023 TEMPO BKN008 CYRQ 201500Z AUTO 04011KT 3SM -RA BR OVC004 01/01 A3021 RMK SLP233 KDPA 201908Z 30015G29KT 1 3/4SM RA BR BKN008 BKN013 OVC019 11/11 A2984 RMK AO2 PK WND 28038/1855 WSHFT 1842 LTG DSNT E RAB1855 P0004 T01060106 KDNS 201915Z AUTO 32014G21KT 10SM -SN OVC018 M08/M11 A3012 RMK AO2 CYSJ 201500Z 05008KT 6SM -RA BR SCT005 OVC014 05/04 A3027 RMK SC4SC4 PRESFR SLP257 KEET 201853Z AUTO 16013G20KT 10SM SCT041 BKN065 26/17 A3025 RMK AO2 SLP236 T02610172 OSKL 201700Z 09004KT 9999 SCT026 BKN100 12/08 Q1015 ORSU 201800Z 33004KT 9999 FEW045 BKN080 07/07 Q1018 KEFK 201915Z AUTO 19006KT 10SM BKN013 BKN030 OVC037 07/07 A3010 RMK AO2 T00710071 CYSK 201500Z 20013KT 15SM SKC M29/M34 A3062 RMK SLP377 CYRT 201500Z 33005KT 15SM IC SKC M39/M43 A3034 RMK SLP282 EGTC 201720Z 35014KT 320V010 9999 BKN029 08/04 Q1021 KCWV 201915Z AUTO 09007KT 10SM SCT041 SCT048 BKN060 28/18 A3034 RMK AO2 T02750181 KDNV 201915Z AUTO 20017G27KT 10SM RA SCT075 OVC085 18/17 A2992 RMK AO2 T01800165 CYSM 201514Z 00000KT 15SM SKC M39/M42 A3035 RMK SLP316 CYRV 201500Z AUTO 00000KT 9SM OVC055 M13/M17 A3024 RMK SLP277 EHKD 201904Z AUTO 04008KT 010V070 4200 BR NCD 02/01 Q1023 GRN 04007KT 3500 BR NSC TEMPO 6000 NSW KEGE 201856Z 20014KT 10SM BKN070 OVC080 M07/M13 A2990 RMK AO2 SLP187 T10671133 CYSN 201500Z 23013G24KT 8SM -RA FEW010 OVC037 14/13 A3003 RMK SC2SC6 SLP173 EGTE 201850Z 33012KT CAVOK 06/03 Q1025 CYTE 201500Z 27021G30KT 1SM -SG BLSN BKN007 OVC025 M22/M25 A2992 RMK BLSN1ST6SC1 VIS VRB 1/2-2 SLP140 KCXO 201853Z 16015KT 10SM BKN027 OVC035 24/21 A2998 RMK AO2 SLP150 T02440206 KDPG 201850Z 17004KT 35SM FEW028 SCT050 SCT070 M06/M10 A3011 RMK SLP233 T10631099 KCXP 201915Z AUTO 11004KT 10SM CLR M01/M15 A3007 RMK AO2 CYSP 201500Z 07009G23KT 3/4SM -SN BLSN BKN008 OVC013 M18/M21 A2991 RMK SN4SC2SC2 SLP162 CYTH 201500Z 11003KT 070V200 15SM FEW100 FEW210 M26/M30 A3007 RMK AC1CI2 AC TR SLP217 KEGI 201917Z 16013KT 10SM BKN014 BKN019 24/19 A3026 RMK AO2A BKN014 V SCT $ OSLK 201900Z 07003KT 9999 FEW030 SCT100 13/10 Q1011 KEHA 201915Z AUTO 34013G17KT 10SM CLR M01/M13 A3003 RMK AO2 T10091132 EHJR 201855Z AUTO 06012KT //// // ///////// 04/01 Q1023 RE// W06/H7 CYUA 201500Z AUTO 20031G36KT ////SM //// OVC130 M08/M10 A2993 EGSS 201850Z AUTO 36013KT 320V020 9999 OVC007 06/04 Q1022 KEFT 201915Z AUTO 25008KT 3SM -RA BKN005 OVC013 01/01 A2985 RMK AO2 P0003 EGTK 201850Z 36016KT 9999 SCT038 OVC042 08/02 Q1023 KDPL 201915Z AUTO 19004KT 10SM SCT060 27/16 A3041 RMK AO2 CYUB 201500Z 12006KT 15SM OVC019 M18/M20 A3001 RMK SC8 SLP166 KCXU 201915Z AUTO 16005KT 10SM SCT033 BKN065 OVC075 26/19 A3030 RMK AO1 T02610190 KEHC 201915Z AUTO 14017KT 5SM HZ CLR A3006 RMK A01 EGUB 201850Z 35013KT 9999 BKN035 08/01 Q1023 BLU BECMG BKN022 WHT CYTL 201500Z AUTO 13006KT 9SM BKN110 BKN130 M26/M32 A3031 RMK PRESFR SLP300 KDOV 201856Z 20014KT 10SM FEW150 23/15 A3031 RMK AO2A PK WND 22028/00 SLP267 T02300148 $ KCXY 201856Z 01003KT 10SM CLR 21/13 A3025 RMK AO2 SLP245 T02110128 VGHS 201900Z 00000KT 3200 HZ NSC 23/16 Q1011 TEMPO S/VIS 2500M KDQH 201915Z AUTO 16003KT 10SM SCT038 SCT046 OVC065 26/17 A3034 RMK AO2 CYTQ 201500Z 27029KT 1SM BLSN SCT010 M32/M37 A3038 RMK SC4 SLP297 CYTR 201500Z 04002KT 3SM -RA BR OVC010 04/04 A3006 RMK SF8 SLP184 KCYS 201853Z 25008KT 10SM CLR M12/M16 A2986 RMK AO2 SLP220 T11171156 KDRA 201855Z AUTO 24006KT 10SM CLR 03/M17 A3012 RMK AO2 SLP202 T00281172 CYTS 201500Z 08020KT 1 1/2SM -SN DRSN OVC013 M18/M21 A3006 RMK SC8 VIS VRB 1-2 PRESFR SLP214 EGVA 201856Z AUTO 35007KT M M OVC050 08/03 A3023 RMK AO2 SLP242 T00760027 RVRNO $ EHMA 201855Z AUTO VRB11KT 7000 NCD 04/01 Q1023 W///H/// EICK 201900Z 33007KT 9999 FEW040 06/02 Q1030 NOSIG KCZL 201915Z AUTO 18007KT 10SM SCT023 SCT030 BKN048 24/17 A3031 RMK AO2 T02360166 CYUL 201500Z 03011KT 4SM -RA BR BKN004 OVC012 02/01 A3015 RMK SF6SF2 SLP213 CYVC 201500Z 34011G17KT 12SM -SN DRSN SCT024 BKN070 M22/M25 A2998 RMK SC4AC3 SLP191 EGUL 201916Z AUTO 05010KT 9999 BKN011 BKN020 OVC050 05/05 A3020 RMK AO2 SLP230 $ KEGV 201915Z AUTO 26007KT 10SM OVC007 M03/M03 A2976 RMK AO2 T10301035 CZMD 201500Z AUTO 05005KT 9SM OVC095 M26/M31 A3021 RMK SLP275 EHKV 201855Z AUTO 03014KT 7000 FEW015 05/00 Q1023 W///H/// KEHO 201915Z AUTO 00000KT 5SM BR OVC004 16/16 A3041 RMK AO2 T01620156 EGUN 201856Z AUTO 02009KT 9999 OVC011 06/06 A3019 RMK AO2 OVC V BKN SLP227 T00580058 $ EHMG 201855Z AUTO 05013KT 5000 HZ FEW011 SCT014 05/01 Q1023 W///H/// CYTZ 201510Z AUTO 06003KT 1/4SM R08/1200V1800FT/ FG VV002 05/05 A3003 RMK SLP173 KDRI 201915Z AUTO 16012G16KT 10SM SCT030 BKN049 OVC075 26/20 A3007 RMK AO2 T02550195 KEHR 201856Z AUTO 20017G23KT 10SM SCT049 25/15 A3006 RMK AO2 SLP186 T02500150 CZMJ 201500Z AUTO 25014KT M18/M23 RMK AO1 SOG 06 8008 PK WND 26018/1405 SLP219 T11841230 CYUS 201500Z AUTO 12011G18KT 100V200 ////SM //// NCD ///// A//// CYWA 201500Z 12003KT 100V160 5SM -RA BR FEW003 OVC009 02/01 A3007 RMK SF1ST7 DA-1100FT SLP189 KEIK 201918Z AUTO 06005KT 10SM SCT100 M12/M18 A3003 RMK AO2 T11251178 KCZT 201915Z AUTO 18006G14KT 10SM SCT110 26/19 A2984 RMK AO2 CYUT 201500Z 30004KT 15SM SCT250 M33/M38 A3023 RMK CI3 SLP242 EIDL 201900Z 15003KT 7000 OVC039 04/03 Q1031 EGWC 201550Z 33014KT 9999 FEW015 SCT030 09/03 Q1024 BLU CYVL 201500Z AUTO 20009KT 9SM CLR M21/M23 A2999 RMK SLP194 KDRM 201915Z AUTO 00000KT 3/4SM BR OVC002 M01/M01 A2980 RMK AO2 T10151015 CYVM 201500Z 08004KT 6SM IC FEW027 FEW050 BKN200 M27/M30 A2967 RMK SC1SC1CS6 SC TR SLP049 EGUW 201850Z 08008KT 9000 -RADZ BKN006 BKN014 04/03 Q1022 YLO1 BECMG NSW BKN013 GRN CYWE 201501Z AUTO 18005KT 9SM OVC046 M34/M38 A3015 RMK SLP280 KDRO 201853Z AUTO 24005KT 10SM BKN047 BKN060 OVC080 M04/M12 A2994 RMK AO2 SLP183 T10441122 EHLW 201855Z AUTO 04007KT 2300 R05/1900N BR NCD 00/M01 Q1023 YLO 05007KT 2400 BR NSC KFAF 201906Z AUTO 20005KT 10SM -DZ OVC005 17/17 A3039 RMK AO2 DZB1856 SLP294 $ EGVN 201850Z 01015KT 9999 FEW040 BKN050 08/00 Q1024 BLU NOSIG KDSF 201915Z AUTO 13016KT 3SM HZ BKN021 25/22 A3017 RMK A01 CYVO 201500Z 07007G16KT 15SM FEW012 OVC040 M10/M13 A3011 RMK SF1SC7 SLP228 CYUX 201500Z 32025KT 1/8SM -SN BLSN BKN042 M32/M36 A2993 RMK BLSN5SC2 SLP139 EGVO 201850Z 01016KT 9999 BKN032 08/01 Q1022 BLU NOSIG KEHY 201915Z AUTO 25018G24KT 5SM HZ BKN012 M11/M16 A2978 RMK AO2 EGVP 201850Z 33010KT 9999 BKN048 08/01 Q1023 BLU BECMG BKN022 WHT CYWG 201500Z 34002KT 2SM -SN OVC033 M17/M19 A3013 RMK SC8 SLP229 CYVP 201500Z 25016G29KT 15SM IC DRSN FEW029 FEW099 FEW260 M31/M37 A3044 RMK SC1AC1CI1 SC TR SLP315 CYUY 201508Z 09009KT 15SM -FZDZ FEW014 OVC030 M12/M16 A3008 RMK SC2SC6 SLP217 KCZZ 201852Z AUTO 08008G16KT 08/M13 A3006 RMK AO1 SLP172 T00831128 CYVQ 201510Z 14004KT 4SM -SN SCT048 BKN070 OVC095 M18/M21 A3014 RMK SN3SC1AC3AC1 SLP216 CYWH 201500Z 10007KT 15SM SCT020 OVC110 01/M04 A3017 RMK SC4AC4 SLP218 KEIR 201915Z AUTO 17008KT 7SM SCT060 24/22 A3012 RMK A01 CYVR 201500Z 08007KT 30SM FEW040 SCT100 BKN140 OVC250 M03/M08 A3021 RMK SC1AC2AC2CS3 SLP231 KDTA 201915Z AUTO 10004KT 7SM SCT021 BKN035 OVC075 M07/M08 A3007 RMK AO1 CYWJ 201500Z 33008KT 40SM FEW080 M20/M23 A3004 RMK AC1 AC TR SLP204 KDRT 201853Z AUTO 13006KT 10SM SCT024 24/18 A2984 RMK AO2 SLP089 T02390183 CYVT 201500Z 32007KT 15SM FEW250 M31/M34 A3011 RMK CI1 FROIN SLP248 CZMT 201500Z 35003KT 290V040 15SM SCT025 00/M03 A3029 RMK SC3 SLP257 CYWK 201500Z VRB02KT 15SM SCT260 M27/M34 A3042 RMK CI4 SLP369 CZMU 201400Z AUTO 31008KT M14/M17 RMK AO1 SOG 12 T11411172 CYWL 201500Z 32003KT 15SM FEW120 M22/M25 A3010 RMK AC2 SLP285 CYXC 201500Z 00000KT 25SM VCSH FEW002 FEW025 BKN046 M23/M26 A3013 RMK SF1SC2SC5 SF TR SLP290 KDSM 201854Z 30018KT 10SM OVC015 M05/M08 A3004 RMK AO2 SLP184 T10501078 KFAM 201856Z AUTO 19019G28KT 10SM BKN034 OVC041 21/16 A2997 RMK AO2 PK WND 18028/1848 SLP139 T02110161 EGXC 201850Z 01011KT 5000 -DZ BKN008 BKN018 06/05 Q1024 GRN CYVV 201500Z 19015KT 1/2SM -RA PRFG OVC006 09/09 A2990 RMK FG4ST4 VIS W - NW 3 SLP135 EGXE 201850Z AUTO 02014KT 9999 BKN023/// 07/03 Q1026 CYXE 201500Z 23008KT 15SM BKN072 M18/M21 A2996 RMK AC5 SLP197 EIDW 201900Z 34004KT 9999 FEW040 03/00 Q1030 NOSIG KFBG 201856Z AUTO 22003KT 10SM FEW044 FEW060 25/17 A3039 RMK AO2 SLP293 T02470174 $ CYXH 201500Z 23011KT 30SM FEW070 M22/M27 A3004 RMK AC1 SLP245 KFAR 201912Z 32014KT 1 1/2SM -SN OVC011 M12/M16 A3011 RMK AO2 SNB10 P0000 T11221156 KDUA 201915Z AUTO 20008G15KT 10SM -RA SCT028 BKN046 OVC070 16/16 A2990 RMK AO2 P0003 KELA 201915Z AUTO 17018G23KT 10SM BKN024 OVC031 26/22 A2994 RMK AO2 T02610217 KDUB 201915Z AUTO RMK AO2 TSNO PWINO CYXJ 201500Z 24007KT 35SM FEW070 SCT110 M20/M23 A3018 RMK AC2AC1 SLP284 KFAT 201853Z 11004KT 10SM FEW050 09/M05 A3025 RMK AO2 SLP243 CU OMTNS DSNT SE T00891050 CYYB 201517Z 09014G20KT 4SM -FZDZ BR BKN003 OVC014 M02/M02 A2993 RMK SF5SC3 CIG RAG SLP157 KFBL 201915Z AUTO 26008KT 10SM BKN017 OVC033 M07/M11 A2997 RMK AO2 KDTL 201915Z AUTO 32015G19KT 1/4SM SN BKN013 BKN075 M13/M16 A3003 RMK AO2 KDUC 201915Z AUTO 36014KT 7SM -SN BR 00/M01 A3001 RMK AO2 P0002 T10031013 KEKM 201852Z 20010G22KT 5SM RA BR OVC010 16/15 A2993 RMK AO2 CZOL 201400Z AUTO 30004KT M15/M20 RMK AO1 T11481195 CYYC 201500Z 32009KT 15SM BKN075 BKN180 M13/M19 A2995 RMK AC5AC2 SLP234 CYXL 201500Z 03004KT 350V100 2SM -SN VV013 M18/M22 A2997 RMK SN8 PRESFR SLP193 CZPC 201500Z AUTO 31013KT 9SM OVC065 M22/M25 A2996 RMK SLP274 EGWU 201850Z 02014KT 9999 BKN023 BKN030 08/03 Q1022 WHT NOSIG KELD 201853Z AUTO 17015G25KT 10SM BKN046 27/18 A3002 RMK AO2 SLP162 T02670178 KDSV 201854Z AUTO 20010G20KT 170V250 10SM FEW070 SCT100 24/12 A3007 RMK AO2 SLP190 T02390122 EGYD 201850Z AUTO 35014KT 9999 // OVC015/// 06/03 Q1024 CYYD 201500Z 19004KT 20SM FEW070 FEW230 M25/M27 A3030 RMK AC1CI1 AC TR SLP316 KDTN 201853Z 150/16G30 10SM SCT045 BKN055 A3000 KEKN 201851Z AUTO 18010G15KT 10SM CLR 25/09 A3025 RMK AO2 SLP242 T02500089 TSNO CYXN 201500Z 25005KT 15SM IC SKC M39/M44 A3037 RMK -34.5/-40.0/TR SLP288 EGYE 201450Z 35025KT 9999 BKN025 ///// Q1021 BLU CYYE 201500Z VRB02KT 30SM -SN FEW120 M23/M25 A3024 RMK AC1 AC TR FROIN SLP283 KDTO 201913Z 16011KT 10SM SCT009 BKN013 OVC038 20/19 A2985 RMK AO2 LTG DSNT NE RAE05 P0000 T02000194 KEKO 201856Z AUTO 25008KT 10SM FEW033 M07/M14 A3006 RMK AO2 SLP229 T10721144 CYYF 201500Z 00000KT 15SM VCSH SCT020 BKN120 M15/M18 A3028 RMK SF3AC2 SLP282 OTHH 201900Z 32009KT CAVOK 19/09 Q1014 NOSIG KFAY 201853Z 21009KT 10SM FEW040 BKN060 26/17 A3039 RMK AO2 SLP285 T02560167 KDUG 201856Z AUTO 24021G26KT 10SM BKN065 BKN080 13/01 A2997 RMK AO2 PK WND 24028/1837 SLP115 T01280006 $ CYWY 201500Z 17004KT 15SM FEW050 M24/M27 A3022 RMK SC1 -10.0/-24.9/TR/50 SNW CVR/MEDIUM PACK SLP254 CYXP 201500Z 11003KT 090V150 12SM IC SCT030 BKN210 M26/M30 A2961 RMK SC3CS3 CIG ESTD SLP033 EGXP 201850Z AUTO 34015KT 9999 // SCT017/// BKN028/// 06/04 Q1024 CYYG 201500Z 03009KT 15SM FEW010 FEW062 BKN140 BKN240 03/00 A3031 RMK SC1SC2AC4CI1 SC TR SLP267 KDUH 201915Z AUTO 22013G19KT 7SM RA SCT016 BKN027 OVC035 17/15 A3002 RMK AO2 T01650150 KFCH 201915Z AUTO 10SM CLR 08/M05 RMK A01 EHPG 201855Z AUTO 04019KT 7000 NSC 05/00 Q1022 W///H/// CYXQ 192300Z 32004KT 30SM FEW017 SCT090 BKN150 M03/M08 A3028 RMK SF1AC2AC2 CLIMAT -2.2/-4.3/TR CM/TR MWE/LAST STFD OBS/NXT 201700Z SLP304 EGYH 201550Z 01027G38KT 9999 SCT010 BKN025 06/05 Q1021 GRN KFBR 201624Z AUTO 24007KT 10SM CLR M14/M16 A2987 RMK AO2 CYYH 201500Z 17012KT 15SM IC FEW005 M40/M44 A3024 RMK ST1 ST TR FROIN SLP248 KFCI 201856Z AUTO 22011G18KT 10SM SCT036 24/16 A3037 RMK AO2 SLP300 T02390156 $ CYXR 201519Z AUTO 05008KT 2 1/4SM -SN OVC013 M13/M14 A3005 RMK ICG PRESFR SLP200 KDUJ 201853Z AUTO 23013KT 10SM BKN041 BKN048 OVC110 21/12 A3018 RMK AO2 SLP214 T02060117 KDTS 201903Z 13010KT 10SM SCT008 BKN015 OVC020 24/19 A3026 RMK AO2 T02440194 KEKS 201915Z AUTO 14005KT 10SM OVC050 M17/M22 A2999 RMK AO2 EGXS 201850Z AUTO 07003KT 2100 // SCT005/// BKN014/// 05/05 Q1024 CYYJ 201500Z 29003KT 180V320 30SM FEW025 BKN110 BKN120 M01/M05 A3018 RMK SC1AC7AC1 SC TR AC TR SLP223 CYXS 201507Z AUTO 03002KT 6SM HZ OVC002 M27/M30 A3024 RMK SLP326 KELK 201915Z AUTO 01018KT 10SM OVC010 M03/M06 A3004 RMK AO2 T10311063 EGXT 201850Z AUTO 35017KT 9999 SCT011/// BKN018/// BKN023/// 06/04 Q1023 CYXT 201500Z 36018G24KT 20SM DRSN SKC M12/M16 A3031 RMK SLP283 EGXU 201850Z AUTO 36016KT 9999 // BKN021/// BKN035/// 07/04 Q1025 KELM 201853Z 23010KT 10SM CLR 21/13 A3014 RMK AO2 SLP209 T02060133 CYYL 201504Z AUTO 34006KT 3SM -SN OVC050 M22/M24 A2994 RMK SLP181 CYXU 201519Z 19007KT 8SM -SHRA OVC030 11/10 A3001 RMK NS8 CVCTV CLD EMBD SLP167 KFCM 201853Z 28011KT 10SM OVC016 M07/M11 A2995 RMK AO2 SLP156 T10671111 KELN 201853Z AUTO 18004KT 10SM SCT055 BKN065 BKN080 M03/M13 A3015 RMK AO2 SLP232 T10281128 TSNO KDTW 201853Z 22023G31KT 6SM -RA BR FEW018 OVC095 17/15 A3000 RMK AO2 PK WND 22031/1845 SLP161 P0003 T01720150 EGXV 201850Z AUTO 33009G19KT 9999 OVC017/// 06/04 Q1024 RERA EGYM 201850Z 05008KT 9999 FEW008 BKN018 BKN060 05/04 Q1023 WHT TEMPO 6000 -RADZ SCT010 GRN CYYN 201500Z AUTO 26010G15KT 9SM CLR M20/M26 A2994 RMK SLP215 CYZE 201500Z AUTO 08008KT 7SM -SN OVC007 M04/M05 A2991 RMK ICG SLP140 KEKX 201915Z AUTO 20023G30KT 10SM SCT055 25/13 A3015 RMK AO2 T02460126 KELO 201915Z AUTO 00000KT 4SM -SN BKN015 OVC045 M14/M17 A2986 RMK AO2 P0002 EGXW 201850Z 35013KT 9999 BKN020 07/04 Q1024 WHT EHQE 201855Z AUTO 02016KT 6000 FEW013 04/00 Q1023 W///H/// CYZF 201500Z 15007KT 15SM SCT130 BKN240 M36/M40 A3031 RMK AC4CI2 FROIN SLP305 CYXX 201500Z 04004KT 30SM BKN110 M06/M09 A3021 RMK AC7 SLP236 KELP 201851Z 25016KT 10SM SCT080 17/00 A2993 RMK AO2 SLP090 T01720000 KEKY 201856Z AUTO 17009G22KT 140V210 10SM FEW040 SCT050 BKN065 26/17 A3025 RMK AO2 SLP253 T02560167 CYZG 201500Z 25028G34KT 3/4SM BLSN OVC045 M28/M32 A3007 RMK BLSN1SC7 SLP224 CYXY 201500Z 18002KT 15SM BKN140 M13/M15 A3018 RMK AC5 SLP284 EGYP 201850Z 34014KT 9999 FEW040 15/06 Q1010 BLU NOSIG CYXZ 201500Z 04010KT 6SM BR OVC014 M15/M17 A2990 RMK ST8 PRESFR SLP155 EGXZ 201850Z AUTO 36021KT 5000 -RA FEW021/// BKN030/// 06/05 Q1026 CYYQ 201500Z 09008KT 15SM BKN055 BKN067 OVC093 M29/M32 A3035 RMK SC5AC1AC2 SLP285 CYZH 201514Z AUTO 33006KT 3SM -SN OVC036 M18/M20 A3010 RMK SLP245 CYYR 201500Z 31012G18KT 15SM DRSN FEW045 FEW190 FEW250 M23/M32 A3055 RMK CF1AC1CI1 SLP351 KFCS 201856Z 17007KT 7SM SCT006 SCT012 M09/M13 A2989 RMK AO2A SCT012 V BKN SLP219 T10891134 CIG LWR SE-S MNT TOPS OBSCURED $ CZPS 201400Z AUTO 28009KT M17/M22 RMK AO1 T11651220 KFDK 201848Z 21010KT 10SM SKC 24/12 A3029 KEMK 201915Z AUTO 14025KT 2 1/2SM BR BKN015 24/22 A3003 RMK A01 KDVK 201915Z AUTO 23017G29KT 10SM SCT055 25/12 A3020 RMK AO2 CYYT 201500Z 25011KT 15SM OVC025 00/M02 A3026 RMK SC8 CLD ESTD SLP257 KDVL 201856Z AUTO 27014KT 10SM CLR M14/M18 A3008 RMK AO2 SLP240 T11441183 FZRANO CYYU 201519Z 08013KT 1 3/4SM -SN OVC020 M20/M24 A3012 RMK SN5SC3 SLP227 KEND 201856Z AUTO 35006KT 10SM OVC010 M04/M04 A3008 RMK AO2 CIG 009 RWY17C SLP202 T10371038 $ KDVN 201852Z AUTO 30013G21KT 5SM -RA BR SCT009 BKN046 OVC070 02/00 A2994 RMK AO2 SLP140 P0018 T00170000 EHRD 201855Z AUTO 04006KT 5000 BR NSC 02/M01 Q1021 NOSIG KDUX 201915Z AUTO 03009KT 10SM CLR 00/M12 A3000 RMK AO2 T10021122 KDVO 201915Z AUTO 00000KT 10SM CLR 09/M04 A3024 RMK AO2 KEMP 201904Z AUTO 33014G20KT 5SM HZ OVC015 M05/M08 A3009 RMK AO2 T10501078 KELY 201853Z AUTO 32010KT SCT044 M07/M18 A2999 RMK AO2 SLP226 T10721183 KDVP 201918Z AUTO 30017KT 5SM HZ SCT018 BKN075 M12/M15 A3004 RMK AO2 T11211153 CYYY 201500Z 06017G25KT 30SM OVC084 M06/M10 A3043 RMK AC8 SLP311 KDWH 201853Z 16013G22KT 10SM BKN025 BKN030 OVC055 26/21 A2998 RMK AO2 SLP148 T02610206 CYZP 201500Z AUTO 32012KT 9SM OVC029 01/M01 A3027 RMK SLP254 KELZ 201856Z AUTO 23011G23KT 10SM BKN034 20/13 A3016 RMK AO2 SLP210 T02000128 CYYZ 201500Z 12004KT 6SM -RA BR FEW008 BKN013 OVC070 08/08 A3002 RMK SF1NS6AS1 SLP171 KFDR 201911Z AUTO 36027G32KT 10SM BKN010 OVC019 M01/M02 A2999 RMK AO2 PK WND 36032/1911 T10061022 CYZR 201520Z AUTO 18009KT 5SM -RA BR BKN032 BKN041 BKN055 OVC098 11/11 A2996 RMK SLP149 KFFA 201915Z AUTO 00000KT 10SM BKN026 BKN034 OVC055 A3043 RMK AO2 KEMT 201845Z 21003KT 10SM CLR 12/M13 A3017 CYZS 201500Z 35012G21KT 12SM IC DRSN SCT160 M29/M33 A3015 RMK AC3 PRESRR SLP224 KDVT 201853Z 23007KT 10SM CLR 12/M12 A3007 RMK AO2 SLP177 T01171117 EHSA 201855Z AUTO 04018KT 8000 ///////// 05/M00 Q1021 W06/H5 CYZT 201500Z 16003KT 100V240 20SM FEW018 BKN067 BKN230 M03/M05 A3017 RMK SC1AC4CI1 SLP221 KFFC 201853Z AUTO 17006KT 10SM SCT028 BKN038 OVC055 24/17 A3034 RMK AO2 SLP269 T02390167 KENL 201915Z AUTO 19025G36KT 10SM SCT032 BKN038 OVC110 22/17 A2996 RMK AO2 T02240173 CYZU 201500Z 30009KT 15SM FEW015 FEW190 M16/M18 A3002 RMK SF1AC2 SF TR SLP229 KEMV 201915Z AUTO 18003KT 7SM OVC007 17/16 A3043 RMK AO2 EHSC 201855Z AUTO 07016KT 7000 ///////// 04/M00 Q1021 W06/H4 KEOD 201858Z AUTO 10020G26KT 10SM FEW047 24/14 A3013 RMK AO2 PK WND 09032/32 SLP202 T02410140 CYZV 201500Z 01011KT 30SM FEW120 SCT250 M12/M23 A3050 RMK AC1CI4 AC TR PRESFR SLP333 KFDW 201915Z AUTO 20004KT 10SM SCT026 BKN034 OVC050 22/16 A3039 RMK AO1 KEOE 201915Z AUTO 20003KT 10SM SCT037 SCT046 23/16 A3041 RMK AO2 CYZW 200100Z 08006KT 30SM SCT043 OVC092 M10/M15 A3016 RMK SC4AC4 CLIMAT -8.4/-18.1/0.0/44040/LAST STFD OBS/NXT 201700Z SLP280 CYZX 201500Z 06005KT 5SM -RA BR FEW009 OVC013 06/05 A3030 RMK SF2SC6 PCPN VRY LGT SLP261 KFDY 201853Z AUTO 21007KT 10SM FEW035 BKN045 OVC050 18/15 A3005 RMK AO2 RAE42 SLP170 P0004 T01830150 KFEP 201915Z AUTO 26006KT 3SM RA BKN004 OVC015 02/02 A2990 RMK AO2 P0003 T00160016 CYZY 201500Z AUTO 14002KT 9SM CLR M30/M34 A3026 RMK SLP332 KDYA 201915Z AUTO 19007KT 10SM 27/15 A3019 RMK AO2 T02660148 KDYB 201915Z AUTO 17007KT 124V194 10SM SCT042 SCT055 27/16 A3039 RMK AO1 CZSJ 201520Z AUTO 07003KT 5SM HZ OVC085 M23/M28 A3014 RMK SLP248 KEOK 201915Z AUTO 32006KT 5SM -RA BKN009 OVC013 01/01 A2996 RMK AO2 KFET 201915Z AUTO 32016G21KT 10SM BKN021 M09/M12 A3018 RMK AO2 T10871120 CZTB 201500Z AUTO 32003KT M16/M19 RMK AO1 4PAST HR SOG 28 8014 SLP157 P0002 T11611190 50008 KDWU 201856Z AUTO 25016G24KT 10SM FEW065 26/12 A3018 RMK AO2 SLP216 T02560122 KFFL 201915Z AUTO 31016KT 10SM OVC012 M01/M03 A2996 RMK AO2 PWINO KFFM 201915Z AUTO 33020KT 2 1/2SM HZ BKN014 M13/M17 A3006 RMK AO2 VIS 1 3/4V4 KENV 201856Z AUTO 19008KT 10SM CLR M04/M13 A3009 RMK AO2 SLP232 T10441133 FZRANO CZSM 201500Z AUTO 00000KT M38/M43 RMK AO1 SOG 61 1011 SLP315 T13841427 KENW 201912Z 28008KT 3SM RA BR BKN004 BKN020 OVC029 11/09 A2984 RMK AO2 TSE12 TS MOV NE P0006 T01060089 KFEW 201856Z AUTO M 10SM CLR M13/M17 A2989 RMK AO2 SLP236 T11311168 $ KFFO 201856Z AUTO 20024G29KT 10SM FEW049 SCT100 24/13 A3009 RMK AO2 PK WND 20032/16 SLP188 T02390128 KDWX 201915Z AUTO 00000KT 7SM SCT017 BKN027 OVC036 M12/M16 A2996 RMK AO2 T11181165 VHHH 201900Z 08008KT 9000 FEW014 SCT040 20/17 Q1013 NOSIG PLCH 201900Z 11015KT 9999 BKN018 27/21 Q1010 KEPH 201853Z AUTO VRB04KT 10SM OVC050 M05/M12 A3022 RMK AO2 SLP253 T10501122 ZUUU 201900Z 01003MPS 310V040 9999 BKN050 12/05 Q1021 NOSIG KDXR 201853Z 25008KT 10SM CLR A3026 RMK AO2 SLPNO $ KH78 201551Z 17023KT 12SM BKN020 25/21 A3019 RMK SEAS 4-6 KEQA 201915Z AUTO 35013KT 10SM OVC011 M03/M05 A3008 RMK AO2 KFFT 201853Z AUTO 20022G32KT 10SM SCT050 25/12 A3015 RMK AO2 PK WND 22036/1823 SLP201 T02500117 KDZB 201915Z AUTO 16009G17KT 10SM SCT010 BKN015 OVC022 22/20 A2988 RMK AO2 LTG DSNT NE T02150199 KFHB 201918Z AUTO 13010G15KT 10SM CLR 26/19 A3034 RMK AO1 CZST 201500Z 06002KT 15SM SKC M17/M18 A3037 RMK CLIMAT -2.4/-17.9/0.0 SLP286 KDYL 201854Z AUTO 22007KT 10SM CLR 19/12 A3028 RMK AO2 SLP253 T01890122 FABL 201900Z AUTO 31002KT 9999 ///////// 23/14 Q1018 FABM 201514Z 16007KT 9999 -TSRA BKN025TCU SCT045CB OVC090 19/17 Q1020 RETS KFGN 201915Z AUTO 32013KT 3SM HZ SCT009 BKN018 OVC027 M14/M17 A2998 RMK AO2 EIKN 201900Z 32004KT 9999 FEW022 05/03 Q1030 NOSIG KDXX 201915Z AUTO 32017G23KT 10SM M10/M14 A3009 RMK AO2 KFFX 201916Z AUTO 19007KT 4SM BR OVC003 13/13 A2983 RMK AO2 T01310127 KFFZ 201847Z 28009KT 30SM FEW100 12/M09 A3009 PKMJ 192352Z 09013KT 15SM FEW015 SCT050 BKN120 OVC300 29/25 A2981 RMK LAST KDYR 201856Z AUTO 18014G22KT 10SM OVC034 24/16 A3010 RMK AO2 SLP204 T02390161 PNO $ KDYS 201917Z 12008KT 10SM VCTS FEW044 OVC055 19/15 A2986 RMK AO2A RAE03 TSE17 PRESRR SLP080 $ KDZJ 201915Z AUTO 13007KT 10SM BKN022 OVC029 19/14 A3038 RMK AO2 T01880142 KDYT 201915Z AUTO 28007KT 5SM -SN OVC019 M10/M13 A2994 RMK AO2 CZUM 201500Z AUTO 27008KT 250V330 9SM CLR M27/M34 A3042 RMK SLP361 KFGX 201855Z AUTO 21019G30KT 10SM BKN048 24/14 A3019 RMK AO2 T02390135 EIME 201900Z VRB03KT 9999 FEW050 06/01 Q1029 KFIG 201854Z AUTO 23015G20KT 10SM FEW047 23/13 A3018 RMK AO2 SLP221 T02280128 EIKY 201830Z 33002KT 9999 SCT033 06/03 Q1031 PKMR 201852Z 08007KT 15SM FEW015 SCT050 OVC300 27/23 A2979 RMK SLP090 T02740232 KERI 201851Z 20015G22KT 10SM BKN047 OVC070 21/13 A3008 RMK AO2 RAE22 SLP184 P0000 T02060133 CHINO NE $ KFHR 201853Z AUTO 07008KT 10SM BKN031 OVC035 01/M08 A3022 RMK AO2 SLP234 T00111083 FACT 201900Z 18016KT 9999 FEW030 20/13 Q1016 NOSIG EHVK 201855Z AUTO 04004KT 9999 NCD 01/M03 Q1021 BLU 03003KT CAVOK KESC 201910Z AUTO 26005KT 3SM BR OVC002 M01/M02 A2979 RMK AO2 FZRANO KFHU 201858Z 36003KT 10SM BKN044 BKN050 07/01 A3000 RMK AO2A SLP135 T00650013 KGAD 201856Z AUTO 15010G14KT 10SM BKN033 BKN042 OVC070 24/18 A3026 RMK AO2 SLP249 T02440183 CZVL 201515Z AUTO 33012KT 9SM FEW019 BKN028 OVC035 M14/M18 A3001 RMK SLP218 EHVL 201855Z AUTO 06009KT 3600 BR NCD 02/00 Q1023 YLO FACV 200950Z 27007KT 9999 FEW035 29/04 Q1016 KFIN 201850Z 14012G21KT 7SM BKN024 26/19 A3034 KESF 201853Z AUTO 17017G24KT 10SM BKN043 BKN060 28/18 A3007 RMK AO2 PK WND 23028/1813 SLP180 T02830178 KGAF 201915Z AUTO 29009KT 10SM SCT018 M12/M16 A3011 RMK AO2 PWINO VIAR 201830Z 28004KT 230V300 3000 BR SCT100 17/14 Q1013 NOSIG KEQY 201853Z AUTO 22009KT 10SM SCT022 SCT028 23/17 A3039 RMK AO2 SLP296 T02280172 KGAG 201853Z AUTO 01015G22KT 10SM BKN017 M03/M07 A3009 RMK AO2 SLP205 T10281067 KGAI 201856Z AUTO 21013G17KT 10SM CLR 25/13 A3028 RMK AO2 SLP282 T02500133 KFKA 201915Z AUTO 30010G14KT 5SM BR OVC012 M06/M08 A2993 RMK AO2 T10601080 KI19 201855Z AUTO 23022G29KT 10SM SCT050 SCT110 24/11 A3012 RMK AO2 T02440112 KFIT 201852Z AUTO 23007KT 10SM CLR 21/13 A3019 RMK AO2 SLP221 T02110128 TSNO KETB 201915Z AUTO 25008KT 7SM RA BKN008 BKN013 OVC025 06/06 A2983 RMK AO2 P0003 FAEL 201700Z 23006KT 9999 SCT004 BKN009 23/22 Q1015 KERV 201915Z AUTO 17012G18KT 7SM OVC009 21/19 A2992 RMK AO2 T02130190 KGBD 201856Z AUTO 36015G20KT 9SM BKN022 M05/M09 A3014 RMK AO2 UPB07E23SNB39E54 SLP233 P0000 T10501094 FZRANO KESN 201850Z 23012G18KT 10SM SKC 22/14 A3037 KI23 201855Z AUTO 21020G28KT 10SM CLR 23/14 A3013 RMK AO1 EINN 201900Z 32005KT 9999 FEW020 05/03 Q1031 NOSIG KGAO 201915Z AUTO 16012G17KT 10SM BKN027 BKN034 BKN044 26/20 A3015 RMK AO2 T02630199 FAEO 201440Z 11008KT 9999 SCT020 22/15 Q1020 EHWO 201905Z AUTO 04007KT 360V060 7000 HZ FEW079 BKN086 03/M01 Q1021 WHT KERY 201915Z AUTO 15003KT M1/4SM FG OVC003 01/00 A2975 RMK AO2 T00060001 KGBG 201915Z AUTO 31009KT 4SM -RA OVC006 02/02 A2990 RMK AO2 P0002 T00200020 FADY 200743Z 33005KT CAVOK 27/10 Q1018 KETH 201913Z AUTO 30016G22KT 5SM HZ BKN021 M13/M17 A3012 RMK AO2 KEST 201914Z AUTO 30018KT 10SM BKN015 M09/M13 A3004 RMK AO2 T10941128 KGBK 201915Z AUTO 11012G20KT 9SM CLR 46/43 A3008 RMK A01 KGCC 201853Z AUTO 23011KT 10SM CLR M18/M22 A3000 RMK AO2 SLP267 T11831222 KFKL 201856Z AUTO 25013G17KT 10SM -RA OVC039 19/13 A3018 RMK AO2 RAB36 SLP217 P0000 T01940128 KFLD 201911Z AUTO 24007KT 10SM -RA BKN008 OVC017 03/01 A2985 RMK AO2 P0000 T00280011 TSNO KGCD 201915Z AUTO 35004KT 10SM CLR M04/M13 A3007 RMK AO2 T10441134 KFKN 201915Z AUTO 22003KT 3SM BR OVC004 17/17 A3042 RMK AO2 T01730170 KETN 201915Z AUTO 19017G22KT 10SM OVC016 21/18 A2985 RMK AO2 LTG DSNT W THRU E T02110178 KEUF 201858Z AUTO 16007KT 10SM FEW027 BKN043 OVC075 27/19 A3028 RMK AO2 SLP251 T02670194 KEUG 201854Z 19012KT 7SM -SN OVC039 03/M02 A3019 RMK AO2 SNE32B52 SLP227 P0000 T00281017 KI35 201915Z AUTO 21006KT 10SM SCT050 25/10 A3028 RMK AO1 KFLG 201857Z 23010KT 10SM CLR M04/M19 A2995 RMK AO2 SLP162 T10391194 FAGG 201900Z AUTO 16010KT 6000 -RA FEW002/// BKN005/// OVC015/// 19/18 Q1018 KFKR 201915Z AUTO 22017G27KT 10SM SCT036 SCT060 OVC065 21/16 A3000 RMK AO2 T02070160 KFKS 201915Z AUTO 20006G16KT 180V240 10SM RA BKN010 OVC014 12/11 A2980 RMK AO2 T01190113 KEVB 201847Z 11015KT 10SM SCT025 27/21 A3035 KGDB 201855Z AUTO 30017KT 10SM BKN017 BKN120 M10/M14 A3008 RMK AO2 T11011141 KGCK 201854Z 36015G27KT 10SM CLR M04/M17 A3008 RMK AO2 PK WND 34028/1809 SLP220 T10441172 $ KFLL 201853Z 11016KT 10SM SCT017 BKN060 27/23 A3028 RMK AO2 SLP251 T02720228 KEUL 201856Z AUTO VRB03KT 10SM CLR M05/M17 A3022 RMK AO2 SLP269 T10501167 FZRANO KGCM 201915Z AUTO 01013G19KT 2SM RA BKN009 BKN022 OVC037 01/00 A3002 RMK AO2 P0006 FAGM 200600Z 11007KT 9999 BKN010 20/17 Q1023 VIDP 201900Z 00000KT 3000 HZ FEW100 17/11 Q1013 NOSIG KFME 201857Z AUTO 22012G18KT 10SM CLR 24/13 A3030 RMK AO1 KGCN 201854Z 22010KT 10SM BKN041 M06/M13 A2998 RMK AO2 SLP201 T10561133 KFLO 201853Z 20010KT 10SM SCT045 28/16 A3038 RMK AO2 SLP285 T02780156 KFLP 201856Z AUTO 21010G19KT 10SM OVC037 22/16 A2996 RMK AO2 PK WND 18027/1800 SLP139 T02220156 KFMH 201915Z AUTO 23012KT 1/2SM FG OVC003 09/10 A3028 RMK AO2 KGDJ 201855Z AUTO 13011G15KT 10SM SCT025 SCT120 21/19 A2986 RMK AO2 LTG DSNT N AND NW P0001 T02070191 CZZJ 201500Z AUTO 26004KT M16/M19 RMK AO1 SOG 40 3010 SLP245 T11611186 KFNB 201853Z AUTO 33014G22KT 10SM OVC019 M06/M09 A3013 RMK AO2 SLP214 T10561094 KEWB 201853Z 24009KT 10SM BKN008 13/11 A3026 RMK AO2 SLP245 T01280106 KFMM 201915Z AUTO 00000KT 10SM SCT110 M10/M20 A3003 RMK AO2 T11021196 KGED 201854Z AUTO 23016G23KT 10SM CLR 21/15 A3035 RMK AO2 RAB1759E08 SLP277 P0000 T02110150 KEVM 201915Z AUTO 28004KT 5SM -SN SCT027 A2988 RMK AO2 KFMN 201853Z 26006KT 10SM SCT100 M02/M11 A2998 RMK AO2 SLP180 T10171111 KGEG 201853Z 15007KT 10SM SCT036 BKN055 M08/M16 A3016 RMK AO2 SNE12 SLP256 P0000 T10831156 KGDP 201851Z AUTO 25034G51KT 10SM CLR 14/M01 A2993 RMK AO2 PK WND 24051/1844 SLP088 T01441011 KFLY 201915Z AUTO 20008KT 7SM -SN CLR M08/M13 A2984 RMK AO2 T10811129 KFOA 201915Z AUTO 20020G31KT 10SM BKN033 BKN042 24/17 A2999 RMK AO2 T02350171 KGFA 201758Z 23012KT 10SM FEW050 M17/M21 A3006 RMK SLP354 4/004 T11721216 11177 21252 52009 FAHS 201900Z AUTO 17007KT //// // ////// ///// Q1015 KEWK 201914Z AUTO 34015G24KT 10SM OVC015 M05/M07 A3010 RMK AO2 FZRANO FAJB 201900Z AUTO 09002KT //// // ////// 22/15 Q1021 KFNL 201856Z AUTO 18007KT 10SM FEW110 M11/M16 A2999 RMK AO2 SLP231 T11111156 FZRANO KEVU 201855Z AUTO 33011G16KT 10SM OVC015 M04/M08 A3009 RMK AO2 KEVV 201854Z 20015G25KT 10SM CLR 24/14 A3006 RMK AO2 PK WND 21029/1757 SLP177 T02390139 KFOD 201856Z AUTO 29015G21KT 9SM -SN OVC018 M07/M10 A3004 RMK AO2 SNB06 SLP219 P0000 T10671100 FZRANO KGDV 201856Z AUTO 24011KT 10SM CLR M17/M21 A3011 RMK AO2 SLP260 T11671211 FZRANO DRRM 201800Z VRB02KT 1200 DU NSC 34/10 Q1007 KEVW 201915Z AUTO 26009KT 7SM FEW017 BKN027 OVC047 M13/M16 A2988 RMK AO2 SNE11 P0000 T11281156 KFOE 201853Z 32015KT 10SM OVC017 M03/M06 A3010 RMK AO2 SLP204 T10331061 KEWN 201854Z 17012KT 10SM BKN030 BKN037 OVC049 24/18 A3044 RMK AO2 SLP306 T02440178 KI63 201915Z AUTO 32008KT 7SM -DZ SCT004 BKN012 OVC060 04/04 A2993 RMK AO2 T00400036 DRRN 201900Z 06002KT 2500 DU NSC 34/M02 Q1005 NOSIG KFMY 201853Z 12014G20KT 10SM FEW048 BKN055 BKN075 30/18 A3024 RMK AO2 SLP242 T03000178 EISG 201830Z 27004KT 3700 BR NSC 06/05 Q1030 KEWR 201851Z 22010KT 10SM FEW032 BKN250 19/12 A3027 RMK AO2 SLP250 T01890122 EKAH 201850Z AUTO 00000KT 5000NDV OVC038/// 01/00 Q1027 KI67 201915Z AUTO 21018G23KT 10SM SCT050 25/11 A3009 RMK AO1 FAIR 201610Z 07016G29KT 7000 TSRA BKN040 FEW045CB 21/18 Q1020 KI68 201915Z AUTO 21015G26KT 10SM SCT050 24/13 A3010 RMK AO2 KGFK 201853Z 32010KT 10SM FEW012 FEW023 SCT040 SCT250 M12/M16 A3010 RMK AO2 SNE41 SLP217 P0000 T11171156 KFNT 201901Z 18007KT 3SM RA BR FEW008 BKN023 OVC029 14/14 A2994 RMK AO2 P0003 T01390139 KFOK 201905Z 20009KT 3/4SM BR BKN002 09/08 A3031 RMK AO2 SFC VIS 1 1/2 T00940083 $ KI69 201915Z AUTO 23013G27KT 10SM SCT055 26/12 A3013 RMK AO2 T02550115 KGEU 201850Z 00000KT 10SM SKC 13/M10 A3011 DRRT 201800Z 26006KT 8000 NSC 35/M00 Q1007 KGFL 201853Z AUTO 20004KT 10SM BKN045 OVC055 09/07 A3016 RMK AO2 SLP219 T00890067 KGEV 201915Z AUTO 15004KT 10SM BKN027 18/11 A3039 RMK AO2 T01800111 KGGE 201915Z AUTO 16010KT 10SM SCT030 SCT037 SCT050 25/17 A3042 RMK AO2 KEYE 201853Z AUTO 22017G33KT 10SM FEW045 OVC080 23/13 A3001 RMK AO2 PK WND 22035/1815 SLP157 T02330128 VIGR 201800Z 00000KT 4000 HZ NSC 17/11 Q1013 KGEY 201753Z AUTO 00000KT 10SM CLR M24/M26 A3009 RMK AO2 SLP292 T12391256 11239 21322 51004 KGGG 201853Z 18018G24KT 10SM BKN027 OVC050 24/18 A2998 RMK AO2 PK WND 18027/1832 SLP145 T02390178 KI75 201915Z AUTO 30011KT 10SM OVC015 M04/M06 A3003 RMK AO2 T10381057 KGEZ 201853Z AUTO 21023G35KT 10SM BKN060 24/12 A3004 RMK AO2 PK WND 22036/1815 SLP166 T02440122 KGGI 201915Z AUTO 29013KT 10SM OVC012 M03/M04 A2999 RMK AO2 T10311045 EKBI 201850Z AUTO 06005KT 5000NDV SCT035/// M01/M02 Q1026 FALA 201900Z 07004KT CAVOK 22/16 Q1020 NOSIG KFPK 201915Z AUTO 20009KT 4SM RA OVC009 16/15 A2991 RMK AO2 P0003 T01550147 KGHB 201915Z AUTO 00000G10KT 7SM CLR 25/22 A3010 RMK A01 KFOT 201915Z AUTO 13005KT 10SM CLR 04/M01 A3025 RMK AO1 KFQD 201915Z AUTO 16005KT 10SM SCT008 BKN029 OVC041 17/17 A3041 RMK AO2 T01650165 FAKM 201900Z 00000KT CAVOK 23/12 Q1017 FALE 201900Z 03009KT 9999 FEW008 SCT012 BKN017 25/22 Q1014 NOSIG KEZF 201915Z AUTO 21017G24KT 10SM CLR 25/14 A3031 RMK AO2 T02450139 KEXX 201915Z AUTO 00000KT 10SM BKN015 BKN022 OVC028 19/17 A3040 RMK AO2 T01890168 FAKN 201900Z AUTO 15002KT //// // ////// 20/19 Q1017 KGHG 201915Z AUTO 21009G15KT 10SM CLR 19/12 A3020 RMK AO2 KGGP 201915Z AUTO 20015G21KT 10SM SCT035 SCT060 BKN095 17/15 A2997 RMK AO2 KFOZ 201913Z AUTO 29005KT 5SM -SN SCT006 BKN020 OVC070 M11/M15 A2990 RMK AO2 TSNO WAAA 201900Z 00000KT 8000 FEW019 25/24 Q1008 NOSIG EKCH 201849Z 08007KT 9999 FEW018 BKN042 01/M01 Q1026 NOSIG KFPR 201853Z 11014KT 10SM FEW019 BKN070 27/22 A3031 RMK AO2 SLP263 T02670217 PKWA 201920Z AUTO 07011KT 10SM SCT025 26/21 A2982 RMK AO2 T02630213 KGIC 201915Z AUTO 03004KT 10SM CLR M09/M15 A3011 RMK AO1 KEZM 201915Z AUTO 20010KT 10SM SCT042 BKN060 28/10 A3035 RMK AO2 T02770103 FALM 201100Z 14010KT 9000-RA OVC008 23/// Q1016 KGGW 201853Z AUTO 28009KT 10SM CLR M21/M25 A3012 RMK AO2 SNE00 SLP270 P0000 T12111250 KEYW 201853Z 10017G23KT 10SM FEW023 27/22 A3024 RMK AO2 SLP238 T02720217 KGIF 201853Z AUTO 14010G18KT 10SM BKN050 31/16 A3029 RMK AO2 SLP256 T03060156 KFRG 201853Z 26015KT 10SM CLR 18/12 A3029 RMK AO2 SLP256 T01830117 URKA 201900Z AUTO 06008MPS 9999 // NCD 00/M01 Q1019 RMK QFE760/1014 KFRH 201915Z AUTO 19010G18KT 10SM SCT050 23/08 A3008 RMK AO1 WABB 201900Z 00000KT 9999 SCT018 24/23 Q1007 NOSIG KFRI 201856Z 32009KT 10SM OVC020 M05/M09 A3014 RMK AO2A OVC V BKN SLP219 T10511092 KEZS 201915Z AUTO 00000KT 4SM BR OVC004 01/00 A2980 RMK AO2 T00130003 EKEB 201850Z AUTO 05003KT 6000NDV BKN030/// 01/M01 Q1026 KFRM 201856Z AUTO 30019KT 10SM -SN BKN014 BKN032 M08/M12 A3003 RMK AO2 PK WND 30026/1833 SLP194 P0000 T10831117 FZRANO KFSD 201856Z 31022G27KT 6SM -SN BLSN SCT014 M12/M16 A3008 RMK AO2 PK WND 31028/1832 SNB53 SLP218 P0000 T11171161 $ KHAE 201855Z AUTO 31011KT 7SM UP BKN004 OVC007 03/02 A2996 RMK AO2 P0009 VIJP 201900Z VRB00KT 2000 HZ NSC 20/06 Q1014 NOSIG FAMM 201900Z AUTO 11005KT //// // ////// 22/17 Q1018 KFSE 201915Z AUTO 31010KT 7SM -SN SCT009 M12/M18 A3002 RMK AO2 KGHW 201915Z AUTO 30016G21KT 10SM OVC018 M12/M16 A3000 RMK AO2 FALW 201900Z AUTO 20013KT //// // ////// 19/13 Q1014 KHAF 201915Z AUTO 26005KT 8SM CLR 09/02 A3022 RMK AO2 PMDY 201856Z AUTO 15012KT 10SM FEW020 BKN046 OVC100 21/18 A3006 RMK AO2 SLP179 T02110178 EIWF 201900Z 35003KT 9999 FEW035 SCT050 06/02 Q1030 URKK 201900Z 04005MPS 9999 BKN029 02/M02 Q1021 R05R/19//65 NOSIG RMK QFE762 KHAI 201915Z AUTO 21015G19KT 5SM RA SCT006 SCT010 OVC015 16/16 A2993 RMK AO2 T01620162 KFSI 201913Z 01022G29KT 10SM OVC008 M01/M01 A2998 RMK AO2A SLP152 KFRR 201915Z AUTO 20008G16KT 160V220 10SM CLR 26/11 A3024 RMK AO1 USCC 201900Z 17002MPS 9999 SCT020 M09/M12 Q1012 R09/000060 TEMPO 2000 SN BR BKN005 RMK QFE739 FAOB 201900Z AUTO 17006KT //// // ////// 22/14 Q1019 KFSM 201853Z 18011G22KT 10SM BKN049 BKN090 23/15 A2990 RMK AO2 SLP121 T02330150 KHAO 201853Z AUTO 21017G26KT 10SM FEW055 25/13 A3010 RMK AO2 PK WND 20030/1843 SLP191 T02500133 KFSO 201915Z AUTO 33003KT 1/4SM FG OVC027 05/05 A3008 RMK AO2 T00470047 KHBG 201853Z AUTO 16009KT 10SM -RA FEW028 BKN036 OVC080 24/21 A3019 RMK AO2 RAB12E22B39 SLP220 P0000 T02440206 KFTG 201848Z 11007KT 10SM BKN080 M12/M16 A2995 VILK 201900Z 00000KT 2000 BR NSC 14/11 Q1012 NOSIG KHBI 201915Z AUTO 22006KT 10SM BKN015 OVC022 19/16 A3043 RMK AO2 T01910163 KGKJ 201853Z AUTO 22010KT 10SM OVC037 18/14 A3015 RMK AO2 RAB12E43 SLP206 P0000 T01830139 KFST 201853Z AUTO 26014G19KT 10SM CLR 24/M02 A2989 RMK AO2 SLP081 T02391022 $ WADD 201900Z 29005KT 8000 FEW016CB SCT016 27/23 Q1007 NOSIG RMK CB TO N USCM 201900Z 12001MPS 6000 -SN OVC020 M12/M14 Q1011 R18/090060 TEMPO 1000 SN VV002 RMK QFE720 KGJT 201853Z 00000KT 10SM SCT030 M03/M10 A3000 RMK AO2 SLP186 VCSH T10281100 $ KFTK 201918Z AUTO 20019G26KT 10SM CLR 26/12 A3012 RMK AO2 SLP197 KGLD 201853Z AUTO 33018KT 10SM CLR M11/M17 A3005 RMK AO2 PK WND 33026/1839 SLP233 T11061172 KHCD 201915Z AUTO 27015G20KT 10SM SCT016 SCT044 M08/M12 A3000 RMK AO2 T10801120 URMG 201600Z 12002MPS 4400 BR OVC011 03/03 Q1021 R26/000070 NOSIG RMK OBST OBSC QFE751/1001 KFSW 201915Z AUTO 29009KT 3SM RA OVC009 01/01 A2997 RMK AO2 KFTN 201915Z AUTO 19009KT 10SM CLR 27/19 A2984 RMK A01 KGLE 201915Z AUTO 23003KT 10SM OVC007 18/17 A2990 RMK AO2 T01770167 FAPE 201900Z 23004KT 9999 OVC034 21/19 Q1017 NOSIG KGLH 201853Z 17015KT 10SM FEW039 BKN047 OVC075 26/18 A3006 RMK AO2 SLP186 T02560183 KHBR 201853Z AUTO 02022KT 10SM OVC008 M02/M04 A3005 RMK AO2 PK WND 02030/1831 SLP177 T10221039 URML 201900Z 10001MPS 1600 1100SE R14/P2000D BR OVC002 02/02 Q1022 R14/290060 TEMPO 0400 DZ FG RMK QBB060 MT OBSC QFE766/1022 WADL 201900Z AUTO 32004KT 3600 FEW021 BKN042 OVC059 25/24 Q1008 FAOR 201900Z 08007KT CAVOK 19/16 Q1022 NOSIG DRZA 201800Z 24006KT CAVOK 33/03 Q1008 URMM 201900Z 10004MPS 4600 -DZ BR OVC002 00/00 Q1020 R12/290250 TEMPO 0300 -SN FG BKN001 OVC011 RMK QBB080 MT OBSC QFE737/0982 KGKT 201915Z AUTO 23009G18KT 10SM CLR 28/10 A3026 RMK A01 URMN 201900Z 07002MPS 0500 R24/0650 -DZ FG VV001 02/02 Q1018 R24/////// NOSIG RMK QBB050 MT OBSC OBST OBSC QFE727 FBFT 201900Z VRB02KT 9999 FEW020 FEW030CB BKN065 22/22 Q1015 KFUL 201853Z VRB04KT 10SM CLR 14/M13 A3015 RMK AO2 SLP211 T01441128 KHDC 201915Z AUTO 14011G18KT 10SM BKN025 BKN055 BKN075 27/20 A3014 RMK AO2 URMO 201730Z 09003MPS 7000 SCT007 BKN022 01/00 Q1018 R09/010070 NOSIG RMK QFE720/0960 KHBV 201855Z AUTO 17017G25KT 10SM BKN030 27/18 A2988 RMK AO2 T02680184 ZWSH 201900Z AUTO 32003MPS 9000 M02/M09 Q1024 KFVE 201853Z AUTO 07007KT 10SM OVC034 01/M04 A3024 RMK AO2 SLP251 T00111039 KFTW 201853Z 16013KT 8SM -RA SCT011 BKN048 OVC100 21/20 A2985 RMK AO2 TSB03E18 PRESFR SLP101 P0004 T02110200 KHDE 201915Z AUTO 32013G19KT 10SM CLR M08/M14 A3014 RMK AO2 T10821142 FAPN 201900Z AUTO 06007KT //// // ////// 26/16 Q1016 KHCO 201915Z AUTO 30009KT 5SM HZ SCT009 M13/M16 A3007 RMK AO2 KGKY 201912Z 14011KT 10SM -RA SCT008 BKN045 OVC095 19/19 A2986 RMK AO2 LTG DSNT SE AND S P0001 T01940194 $ KFTY 201853Z 16007KT 10SM BKN025 BKN030 OVC060 22/17 A3033 RMK AO2 SLP266 T02220172 FAPP 201900Z AUTO 08003KT //// // ////// 22/19 Q1018 URMT 201900Z 07005MPS 4000 BR OVC005 M02/M03 Q1019 R07/290055 TEMPO 0400 FZDZ FZFG OVC001 RMK QFE724 KGLR 201915Z AUTO 21013G18KT 10SM BKN015 11/10 A2979 RMK AO2 T01110100 KHCR 201915Z AUTO 00000KT 10SM SCT065 SCT080 M04/M13 A2997 RMK AO2 FAPR 201649Z 27003KT 9999 TS FEW030CB BKN035 20/19 Q1019 RETS KGNA 201856Z AUTO 33007KT M10/M15 A2987 RMK AO1 SLP137 T11001150 KGLS 201852Z 13015KT 3SM HZ BKN021 OVC070 23/20 A3001 RMK AO2 SLP163 T02330200 KFWA 201854Z 20009KT 10SM -RA BKN050 BKN080 OVC100 18/16 A3000 RMK AO2 RAE22B40 SLP158 P0001 T01830161 $ KGMJ 201915Z AUTO 34007KT 2 1/2SM +RA BKN009 BKN012 OVC024 03/03 A3002 RMK AO2 P0010 KGNB 201920Z AUTO 25006KT 10SM SCT060 SCT070 M10/M18 A2981 RMK AO2 T10961183 KFWB 201915Z AUTO 19006KT 10SM 19/15 A2994 RMK AO2 KFWC 201915Z AUTO 19014G20KT 10SM BKN039 OVC045 23/17 A3000 RMK AO1 T02320167 KGNC 201915Z AUTO 23012G23KT 10SM CLR 21/M02 A2991 RMK AO2 T02061020 KHDN 201856Z AUTO 21004KT 10SM CLR M13/M17 A2994 RMK AO2 SLP236 T11331167 FZRANO KGLW 201850Z AUTO 21012G25KT 10SM BKN046 OVC050 24/14 A3019 RMK AO2 T02410135 KHDO 201851Z AUTO 15009KT 10SM BKN017 OVC023 23/19 A2990 RMK AO2 SLP111 T02330194 KHEF 201856Z 22012G21KT 10SM CLR 25/14 A3029 RMK AO2 SLP266 T02500144 PNO $ KHEG 201915Z AUTO 11008KT 9SM FEW043 SCT050 27/17 A3034 RMK AO2 KGLY 201915Z AUTO 35011KT 2SM RA SCT011 OVC024 00/00 A3003 RMK AO2 ZYCC 201900Z 26004MPS CAVOK M13/M24 Q1022 NOSIG KHEI 201853Z AUTO 28011KT 10SM CLR M17/M21 A3010 RMK AO2 SLP262 T11671211 $ DRZR 201800Z 14002KT CAVOK 33/07 Q1008 FASB 200853Z 11003KT CAVOK 26/04 Q1018 KGMU 201853Z 00000KT 10SM BKN016 BKN020 OVC026 20/17 A3040 RMK AO2 SLP292 T02000167 KHFD 201853Z 18006KT 10SM CLR 17/12 A3024 RMK AO2 SLP240 T01670117 KFWN 201853Z AUTO 23007KT 10SM CLR 13/10 A3027 RMK AO2 SLP251 T01330100 KFXE 201853Z 10018KT 10SM SCT020 SCT027 BKN033 27/22 A3028 RMK AO2 SLP256 T02720217 KHFF 201912Z AUTO 22008KT 10SM SCT029 SCT055 25/16 A3039 RMK AO2 SLP305 $ KFVX 201915Z AUTO 21012G19KT 10SM SCT034 24/15 A3034 RMK AO2 T02440154 KHEQ 201910Z AUTO 34013G19KT 10SM CLR M08/M17 A3009 RMK AO2 KGNR 201856Z AUTO 13010KT 02/02 A3018 RMK AO1 SLP237 P0004 T00170017 KFWS 201850Z 13007KT 5SM -RA BKN009 OVC019 20/19 A2989 KHFJ 201850Z AUTO 31010KT 7SM RA OVC005 04/04 A2999 RMK AO2 P0013 DTKA 201900Z 26013KT 8000 SCT020 BKN030 11/10 Q1005 NOSIG EKKA 201918Z AUTO 10002KT 7000NDV SCT037/// M01/M03 Q1026 NOSIG KGOK 201853Z AUTO 35010G20KT 310V030 10SM OVC009 M03/M04 A3008 RMK AO2 FZRAE09 SLP196 P0001 I1001 T10331044 KGNT 201915Z AUTO 35003KT 2SM -SN SCT012 OVC028 M03/M06 A2998 RMK AO2 T10311057 FCBB 201900Z 00000KT 9000 NSC 27/22 Q1009 NOSIG KGPC 201915Z AUTO 22009G19KT 10SM SCT040 SCT048 BKN070 22/13 A3001 RMK AO2 KGNV 201853Z 09010KT 10SM BKN050 29/17 A3033 RMK AO2 SLP267 T02890172 KGON 201917Z 20006KT 1/2SM R05/1800V2600FT FG FEW002 OVC006 08/08 A3028 RMK AO2 T00830078 KFYE 201915Z AUTO 14.91666715G22KT 10SM SCT036 SCT042 BKN055 25/16 A3010 RMK A01 USHH 201900Z 11002MPS 2800 -SN SCT012 M10/M12 Q1019 R06/490539 TEMPO 1500 SN BKN005 RMK QFE760 FBKE 201800Z 20008KT 9999 FEW030CB BKN070 24/20 Q1014 KGOO 201920Z AUTO 19003KT 10SM SCT095 02/M14 A3013 RMK AO1 KFYG 201855Z AUTO 32004KT 10SM OVC019 13/12 A2992 RMK AO2 KGOP 201915Z AUTO 16006KT 10SM SCT009 BKN015 BKN024 20/20 A2991 RMK AO2 LTG DSNT NE-SE KHEY 201858Z AUTO 19008KT 10SM FEW027 OVC070 25/19 A3026 RMK AO2 RAE1758 SLP247 P0000 T02540191 KGPH 201915Z AUTO 32009KT 10SM M02/M05 A3009 RMK AO2 KFWZ 201915Z AUTO 21006KT 5SM HZ SCT003 M17/M20 RMK AO2 TSNO KHEZ 201856Z AUTO 20013G26KT 10SM SCT050 BKN060 BKN070 28/17 A3010 RMK AO2 PK WND 16028/1811 SLP192 T02830167 KGPI 201855Z 00000KT 9SM -SN OVC055 M13/M18 A3016 RMK AO2 SLP293 P0000 T11331178 KFYJ 201915Z AUTO 17008KT 10SM SCT018 21/17 A3039 RMK AO2 T02120165 KGOV 201858Z AUTO 21009KT 7SM BKN012 13/11 A2980 RMK AO2 SLP104 P0001 T01280114 KGPM 201850Z 15007KT 4SM -RA BKN008 BKN012 OVC027 20/20 A2990 KFYM 201915Z AUTO 17014KT 140V210 10SM FEW038 OVC060 24/16 A3022 RMK A01 KHHF 201915Z AUTO 01013G23KT 10SM CLR 01/M10 A3007 RMK AO2 T00071100 KHFY 201920Z AUTO 22023G30KT 10SM SCT050 SCT070 23/M32 A3004 RMK AO2 T02301318 KFXY 201915Z AUTO 30010G14KT 10SM -SN OVC014 M06/M08 A2999 RMK AO2 KFZG 201915Z AUTO 17007KT 10SM SCT033 SCT050 BKN055 27/18 A3035 RMK AO2 T02650181 KHHG 201915Z AUTO 20008KT 10SM BKN050 OVC080 18/17 A2999 RMK AO2 T01790166 TSNO WAHS 201600Z 25003KT 6000 SCT014 24/23 Q1009 NOSIG UTAA 201900Z 22004KT 9000 FEW100 04/03 Q1020 R88/CLRD70 NOSIG KHGR 201853Z 16013KT 10SM CLR 24/13 A3023 RMK AO2 SLP246 T02440128 KHIB 201915Z AUTO 33008KT 6SM HZ BKN017 OVC049 M13/M16 A2988 RMK AO2 SNE13 P0000 T11281161 KGPT 201853Z 13017KT 10SM SCT010 BKN029 OVC075 25/21 A3019 RMK AO2 SLP223 T02500211 KGRB 201853Z 24008KT 7SM BKN007 OVC017 02/00 A2981 RMK AO2 RAE04 SLP104 P0000 T00170000 DTMB 201900Z 16013KT 9999 FEW020 13/08 Q1006 KFYV 201853Z 19005KT 5SM -RA BR OVC095 19/18 A2992 RMK AO2 RAB03 SLP122 P0002 T01890178 KGRD 201856Z AUTO 00000KT 10SM FEW018 SCT024 BKN033 22/17 A3040 RMK AO2 SLP289 T02170172 KHIE 201852Z AUTO 00000KT 1/4SM FG OVC003 05/05 A3014 RMK AO2 RAE1754 SLP218 P0000 T00500050 KGRF 201916Z AUTO 02004KT 3SM -SN BR OVC027 00/00 A3018 RMK AO2 SLP228 $ KHIF 201856Z 00000KT 10SM FEW020 SCT027 BKN040 M08/M14 A3006 RMK AO2A SNE30 SLP219 P0000 T10791143 FAUP 201900Z AUTO 22005KT //// // ////// 28/01 Q1013 KGPZ 201856Z AUTO 28007KT 9SM -SN OVC017 M12/M16 A2991 RMK AO2 SLP162 P0000 T11221156 FZRANO WAJJ 201800Z 00000KT 8000 FEW014 24/21 Q1006 NOSIG UTAK 201900Z 16002KT 9999 BKN033 04/02 Q1021 R34L/CLRD70 NOSIG KHHR 201853Z 00000KT 10SM CLR 13/M13 A3018 RMK AO2 SLP218 T01281128 $ KGRI 201853Z 35013G24KT 10SM FEW024 M09/M16 A3016 RMK AO2 PK WND 34028/1810 SLP254 T10891156 KHII 201855Z AUTO 34011KT 10SM CLR 12/M14 A3016 RMK AO2 ZWWW 201900Z 29001MPS 1600 -SN BR BKN015 M14/M15 Q1031 NOSIG UTAM 201900Z 02004KT 6000 SCT018CB BKN018 06/03 Q1024 NOSIG KGRK 201918Z AUTO 15015KT 9SM OVC007 20/20 A2987 RMK AO2 LTG DSNT NE-E PRESFR SLP107 KIAB 201856Z 35007KT 10SM OVC013 M05/M07 A3009 RMK AO2A SLP208 T10461069 KGSB 201856Z AUTO 19006KT 10SM FEW033 26/17 A3039 RMK AO2 SLP294 T02640174 $ FAWB 201900Z AUTO 11001KT //// // ////// 21/20 Q1018 FAUT 201900Z AUTO 13006KT //// // ////// 21/19 Q1018 KIAD 201852Z 18012G21KT 10SM FEW250 25/14 A3027 RMK AO2 SLP249 T02500144 KHHV 201920Z AUTO 15022G27KT 3SM HZ FEW016 FEW021 25/22 A2999 RMK A01 KGRN 201915Z AUTO 29004KT 10SM CLR M16/M21 A3009 RMK AO2 T11591213 KHHW 201915Z AUTO 27007KT 7SM RA BKN021 OVC026 18/16 A2993 RMK AO2 LTG DSNT S T01750156 FBMN 201800Z VRB02KT 9999 FEW030CB SCT070 24/23 Q1013 KHIO 201853Z 13005KT 1/4SM R13R/4000FT SN OVC005 01/M01 A3017 RMK AO2 SLP221 CIG 005V010 P0002 T00061006 KIAG 201853Z 23017G26KT 10SM -RA FEW036 BKN048 OVC070 17/13 A3004 RMK AO2 PK WND 22028/1824 RAE1759B40 SLP173 P0000 T01670128 KFZY 201854Z AUTO 12005KT 10SM OVC041 12/11 A3006 RMK AO2 RAE01B42E52 SLP181 P0000 T01170111 URSS 201900Z 08002MPS 9999 OVC050 07/04 Q1017 R06/090070 R02/////// NOSIG RMK R02/06002MPS QFE762 ZYHB 201900Z 22004MPS CAVOK M20/M26 Q1019 NOSIG KGSH 201853Z AUTO 5SM -RA BR BKN013 OVC019 17/16 A2994 RMK AO2 SLP139 P0014 T01670156 $ KIAH 201853Z 16016G22KT 10SM OVC024 25/21 A2999 RMK AO2 PK WND 16026/1824 SLP155 T02500206 KHJH 201915Z AUTO 34013G17KT 10SM BKN024 M06/M11 A3017 RMK AO2 T10601113 DTNH 201900Z 24005KT 9999 SCT023 SCT030 12/09 Q1005 UTAT 201900Z 23008KT 9999 OVC030 04/02 Q1017 R26/CLRD70 NOSIG KGRR 201912Z 19008KT 10SM BKN010 OVC018 17/15 A2987 RMK AO2 T01670150 KHKA 201853Z AUTO 20016G25KT 10SM BKN039 OVC049 24/18 A3008 RMK AO2 PK WND 18029/1817 SLP184 T02390178 KGTB 201909Z AUTO 22008KT 8SM RA FEW003 OVC015 13/12 A3005 RMK AO2 RAB07 CIG 013 RWY03 SLP179 TSNO $ UTAV 201900Z 25006KT 7000 OVC026 05/00 Q1024 NOSIG FAWK 201900Z AUTO 14003KT //// // ////// ///// Q1021 EKOD 201550Z 07005KT 9999 FEW035 BKN041 02/M00 Q1024 FAVV 201900Z AUTO /////KT //// // ////// 22/17 Q1019 KHJO 201853Z AUTO VRB04KT 10SM CLR 08/M02 A3026 RMK AO2 SLP251 T00781022 KGTF 201853Z 22012KT 10SM CLR M16/M22 A3003 RMK AO2 SLP272 T11611217 KGSO 201854Z 22008KT 10SM BKN015 20/16 A3040 RMK AO2 SLP291 T02000161 KGSP 201853Z 00000KT 10SM SCT010 BKN015 OVC023 18/17 A3040 RMK AO2 SLP290 T01830167 KGRY 201910Z AUTO 17017KT 6SM HZ CLR 26/21 A3012 RMK A01 WALL 201900Z 34002KT 9000 SCT020 26/25 Q1007 NOSIG UTDD 201900Z 35002MPS 9000 -SHRA FEW019 BKN026CB OVC041 04/02 Q1023 R09/29//50 NOSIG RMK QFE698/0931 KHLB 201915Z AUTO 10SM CLR 24/13 A3008 RMK A01 KHLC 201853Z AUTO 34018G27KT 10SM FEW110 M04/M16 A3014 RMK AO2 PK WND 32027/1821 SLP240 T10441161 KGUC 201856Z AUTO 26013G19KT 10SM CLR M07/M17 A2985 RMK AO2 SLP154 T10721167 FZRANO KIBM 201915Z AUTO 27004KT 10SM CLR M15/M21 A3000 RMK AO2 T11521211 KHLG 201853Z 24013G21KT 10SM CLR 24/11 A3017 RMK AO2 SLP210 T02440111 URWA 201900Z 04002MPS 9999 BKN040 M01/M05 Q1023 R27/010060 NOSIG RMK QFE769/1025 UTDK 201900Z 03005MPS 9999 -RA OVC024 05/03 Q1024 R01/29//50 RMK QFE710/0947 KGTR 201856Z 16018G24KT 10SM FEW026 SCT043 BKN055 25/18 A3019 RMK AO2 PK WND 16027/1842 SLP223 T02500183 UTDL 201900Z 25008MPS 3000 -SHRA BR BKN042CB OVC083 04/03 Q1018 R26/19//60 NOSIG RMK QFE726/0968 KHKS 201853Z 17019G27KT 10SM SCT038 BKN049 BKN065 27/18 A3012 RMK AO2 PK WND 17027/1852 SLP191 T02720183 KIDA 201853Z 23017KT 2 1/2SM -SN OVC025 M11/M16 A3004 RMK AO2 SNE09B31 SLP242 P0000 T11111156 WAMM 201830Z VRB01KT 8000 SCT021 24/24 Q1008 TEMPO -RA KICL 201915Z AUTO 34015G21KT 10SM BKN018 M06/M08 A3014 RMK AO2 KGTU 201911Z 17010KT 4SM BR OVC013 21/20 A2992 RMK AO2 LTG DSNT N P0001 KGUL 201915Z AUTO 16015KT 2SM BR CLR 24/22 A3006 RMK A01 KHME 201850Z 09010KT CAVOK 08/02 Q1017 KHLN 201853Z 05004KT 10SM CLR M19/M24 A3009 RMK AO2 SLP304 T11941239 KGVE 201915Z AUTO 22017G21KT 10SM CLR 23/15 A3031 RMK AO1 T02310148 URWI 201900Z AUTO 36002MPS 9999 // NCD M02/M03 Q1022 KGUP 201853Z AUTO 23016G23KT 10SM SCT050 SCT060 M02/M11 A2996 RMK AO2 SLP193 T10221106 KHKY 201853Z 20006KT 10SM OVC007 17/15 A3040 RMK AO2 CIG 006V010 SLP281 T01670150 FAYP 201200Z 20025KT 9999 FEW035 22/// Q1015 UTDT 201900Z 17005MPS 9999 -SHRA FEW008 BKN026CB OVC056 07/06 Q1023 35////// RMK QFE727/0970 KHLR 201914Z AUTO 18012KT 10SM VCTS BKN009 BKN021 BKN028 OVC100 19/19 A2986 RMK AO2 RAE1859 CIG 009V028 BKN009 V FEW SLP104 KICR 201853Z AUTO 31016KT 10SM CLR M13/M18 A3018 RMK AO2 SLP264 T11281178 KIDI 201915Z AUTO 25013G20KT 10SM SCT050 24/13 A3022 RMK A01 KGUS 201856Z 21015G21KT 10SM FEW010 SCT060 BKN100 BKN160 BKN190 19/19 A2997 RMK AO2A PK WND 20032/00 SLP149 P0004 T01890189 $ KICT 201853Z 34017G24KT 10SM OVC015 M04/M07 A3010 RMK AO2 SLP206 T10391067 $ KGWB 201915Z AUTO 20009G16KT 7SM -RA SCT021 BKN036 OVC065 16/15 A2999 RMK AO2 KHNB 201856Z AUTO 19024G29KT 10SM CLR 24/14 A3007 RMK AO2 PK WND 18029/1856 SLP181 T02440144 USNN 201900Z 11002MPS 6000 SCT011 OVC022 M10/M10 Q1022 R03/490534 NOSIG RMK QFE763 KGVL 201853Z AUTO 10005KT 5SM BR OVC003 17/17 A3040 RMK AO2 SLP286 T01720167 UTFF 201700Z VRB02KT 5000 HZ NSC 08/02 Q1013 R18/CLRD70 KHND 201856Z 34006KT 10SM CLR 06/M16 A3016 RMK AO2 SLP224 T00611161 $ KHMN 201856Z AUTO 25009KT 10SM FEW060 SCT075 14/M01 A2999 RMK AO2 SLP116 T01381006 $ KHLX 201915Z AUTO 20014G23KT 10SM BKN017 18/13 A3038 RMK AO2 T01790125 KGUY 201853Z AUTO 35015KT 10SM CLR M01/M14 A3004 RMK AO2 SLP186 T10061144 KHMP 201915Z AUTO 18006KT 10SM SCT028 BKN033 OVC055 24/16 A3034 RMK AO2 T02350160 KIDP 201915Z AUTO 33007KT 5SM -SN BR BKN009 BKN015 OVC038 M01/M02 A3007 RMK AO2 P0001 T10081018 WBGB 201900Z 17004KT 120V240 8000 -TSRA FEW003 SCT014 FEW015CB OVC140 25/24 Q1007 KGXA 201855Z AUTO 03005G13KT 10SM CLR 04/M19 A3013 RMK AO2 SLP212 WND DATA ESTMD T00421186 KIFA 201915Z AUTO 29013KT 10SM OVC016 M05/M07 A3002 RMK AO2 T10531075 KHOB 201850Z 23013G19KT 10SM SKC 18/M01 A2991 KGVT 201850Z AUTO 16009KT 10SM -DZ SCT035 BKN050 OVC095 21/20 A2992 RMK AO2 P0002 LTG DSNT W UTFN 201900Z 00000KT 7000 NSC 06/01 Q1014 R28/CLRD70 NOSIG URWW 201900Z 29003MPS 9999 BKN030 M05/M06 Q1022 R24/410160 NOSIG EKSB 201850Z 07007KT 9999 BKN040 02/M03 Q1025 EKRK 201850Z AUTO 06004KT 020V100 9999NDV BKN039/// 01/M01 Q1026 WAOO 201700Z AUTO 15001KT 6000 NCD 26/25 Q1008 WBGG 201900Z 00000KT 9999 SCT020 BKN150 25/24 Q1008 NOSIG KIEN 201852Z AUTO 23006KT 10SM CLR M17/M21 A3012 RMK AO2 SLP278 T11671206 KHOE 201915Z AUTO 14006KT 10SM SCT039 OVC060 26/17 A3033 RMK AO2 KGWO 201853Z AUTO 18015G22KT 10SM FEW037 SCT047 BKN070 27/18 A3010 RMK AO2 SLP191 T02720183 EKRN 201850Z AUTO 03005KT 9999NDV NCD M01/M04 Q1025 KGXF 201858Z AUTO 34005KT 10SM CLR 12/M13 A3011 RMK AO2 SLP194 T01171126 KHMZ 201915Z AUTO 18009KT 10SM CLR 23/11 A3020 RMK AO2 T02340109 KGWR 201915Z AUTO 31015KT 8SM M11/M16 A3011 RMK A01 KHNR 201915Z AUTO 31018G25KT 10SM OVC017 M08/M09 A3012 RMK AO2 KIER 201915Z AUTO 18009G22KT 10SM OVC048 27/17 A3003 RMK AO2 T02650172 DTTA 201900Z 29008KT 250V340 8000 -RA FEW026 FEW030CB 10/08 Q1005 NOSIG KGYB 201915Z AUTO 17006G16KT 10SM SCT022 BKN048 OVC060 23/19 A2994 RMK AO2 T02300186 DTTB 201900Z 29005KT 260V330 6000 -RA BKN016 SCT030 10/09 Q1004 FBSK 201900Z 08010KT 9999 FEW035CB SCT065 25/18 Q1016 NOSIG DTTD 201800Z 32008KT 9999 SCT023 14/07 Q1009 WAPP 201230Z 34009KT 9999 SCT019 26/24 Q1008 NOSIG USPP 201900Z 22002MPS 4400 -SN BR NSC M12/M13 Q1012 R21/490340 NOSIG RMK QFE748 KHON 201855Z AUTO 32018KT 10SM SCT016 M12/M16 A3016 RMK AO2 SLP244 T11221161 KGWW 201915Z AUTO 20008KT 10SM SCT044 SCT050 BKN060 26/18 A3040 RMK AO2 T02580180 WBGR 201900Z VRB01KT 9999 FEW016 BKN150 26/25 Q1007 DTTF 201900Z 25011KT 9999 FEW026 13/06 Q1006 NOSIG KHOP 201856Z AUTO 19021G30KT 10SM CLR 25/13 A3013 RMK AO2 SLP200 T02490131 KIFP 201915Z 35009G15KT 320V020 10SM CLR 11/M15 A3017 RMK AO2 KGYH 201847Z 20004KT 10SM BKN011 BKN020 21/17 A3040 WBGS 201900Z VRB03KT 9999 FEW005 BKN150 24/23 Q1008 FBSP 201600Z 14006KT 9999 FEW030 28/20 Q1013 DTTG 201900Z 23011KT 9999 FEW020 13/08 Q1007 NOSIG EKSP 201850Z 10006KT 9999 SCT038 00/M03 Q1025 TEMPO 5000 BR KHNZ 201915Z AUTO 23008KT 10SM SCT014 SCT020 20/15 A3040 RMK AO2 T01980150 KGYI 201915Z AUTO 16010KT 7SM -RA SCT022 BKN031 OVC100 18/17 A2990 RMK AO2 LTG DSNT S P0002 T01750165 DTTJ 201900Z 16007KT 9999 SCT023TCU 12/08 Q1006 NOSIG KHOT 201853Z AUTO 19005KT 10SM -RA BKN034 BKN046 23/18 A3000 RMK AO2 RAB50 SLP151 P0000 T02330178 DTTK 201900Z 35004KT 9999 BKN023 16/05 Q1005 KHOU 201853Z 16011G21KT 10SM OVC016 24/22 A2999 RMK AO2 SLP160 T02440222 KGYL 201915Z AUTO 29013KT 10SM SCT021 OVC042 M07/M11 A2998 RMK AO2 T10731113 DTTL 201900Z VRB05KT 8000 SCT020 SCT030 10/10 Q1004 KIGM 201851Z AUTO 02005KT 10SM CLR 05/M13 A3011 RMK AO2 SLP183 T00501133 WBGY 201900Z 00000KT 9999 SCT022 BKN150 24/23 Q1008 KHPN 201856Z 22005KT 10SM CLR 17/11 A3026 RMK AO2 SLP246 T01720106 WAQQ 201500Z 03002KT 8000 FEW015 26/24 Q1009 DTTN 201900Z 24010KT 210V290 8000 SCT020 SCT030 10/08 Q1005 KGXY 201856Z AUTO 16007KT 10SM CLR M13/M19 A3004 RMK AO2 SLP267 T11331194 FZRANO KHQG 201915Z AUTO 36016G20KT 340V040 10SM CLR M01/M17 A3006 RMK AO2 T10081167 KGZH 201853Z AUTO 18011KT 10SM FEW046 BKN070 28/18 A3024 RMK AO2 SLP237 T02780178 KIGQ 201915Z AUTO 20020G30KT 10SM RA OVC015 17/17 A2986 RMK AO2 T01740165 KGYR 201847Z 20003KT 10SM FEW200 11/M08 A3011 KHQI 201915Z AUTO 13016G23KT 3SM BR BKN016 A3004 RMK A01 DTTR 201600Z 29012KT 9999 FEW020 17/09 Q1010 KK88 201915Z AUTO 00000KT 1/2SM M02/M02 A3009 RMK AO1 P0003 T10181018 KIIB 201915Z AUTO 29017KT 10SM BKN013 OVC026 M03/M05 A2995 RMK AO2 T10281047 KGZL 201915Z AUTO 35009G18KT 3SM RA SCT004 BKN024 OVC034 09/06 A2994 RMK AO2 P0001 KHQM 201853Z AUTO 05010KT 1 1/4SM -SN BR FEW008 OVC020 00/M01 A3015 RMK AO2 SLP212 P0000 T00001011 KGZN 201900Z AUTO RMK AO2 PNO PWINO TSNO EKVD 201850Z AUTO 08005KT //// ///////// 01/M01 Q1025 KIGX 201856Z AUTO 00000KT 10SM SCT014 21/17 A3042 RMK AO2 SLP296 T02110167 WARR 201900Z 30006KT 5000 HZ SCT020 25/25 Q1007 NOSIG USRR 201900Z 07003MPS 6000 -SN OVC018 M13/M14 Q1021 R25/490233 NOSIG RMK OBST OBSC QFE760 DTTX 201900Z 15003KT 9999 SCT020 12/08 Q1006 NOSIG KGYY 201845Z 21016G34KT 7SM OVC019 19/16 A2986 EKVG 201920Z AUTO 28008KT 9999NDV FEW025/// 03/01 Q1024 DTTZ 201900Z 24009KT 9999 SCT026 14/08 Q1007 NOSIG KHRI 201853Z AUTO 00000KT 10SM FEW110 M01/M09 A3024 RMK AO2 SLP247 T10111094 KHSA 201850Z 14009G17KT 7SM BKN015 BKN026 24/21 A3019 UUBC 201900Z AUTO 31004MPS 5000 // ///028/// M08/M10 Q1020 RMK QFE748/0997 KL08 201915Z AUTO 03004KT 10SM CLR 13/M13 A3015 RMK AO2 KGZS 201915Z AUTO 14.04166714G22KT 10SM SCT041 SCT047 BKN060 26/16 A3019 RMK A01 KHRJ 201915Z AUTO 00000KT 10SM SCT037 SCT048 SCT055 24/17 A3040 RMK AO2 T02400172 EKVJ 201450Z 13010KT 9999 FEW015 SCT150 03/01 Q1023 KHSB 201915Z AUTO 21016G24KT 10SM BKN045 OVC050 24/16 A3004 RMK AO2 T02390160 KHRL 201852Z 17023G26KT 10SM SCT028 BKN075 BKN100 26/22 A2989 RMK AO2 PK WND 17029/1835 RAE34 SLP121 P0000 T02610217 KJAC 201856Z 17010KT 10SM FEW020 OVC034 M11/M18 A2987 RMK AO2 SLP220 T11111178 KHQU 201915Z AUTO 24005KT 10SM SCT033 SCT040 BKN060 24/17 A3040 RMK AO2 T02440170 KIJD 201852Z AUTO 19005KT 10SM CLR 18/12 A3025 RMK AO2 SLP242 T01780117 TSNO KHSD 201915Z AUTO 36022G27KT 9SM FEW007 M03/M04 A3007 RMK A01 KHSE 201851Z AUTO 18008KT 10SM OVC023 22/19 A3047 RMK AO2 SLP316 T02220189 TSNO KHRO 201853Z AUTO 20012G27KT 10SM BKN110 21/15 A2994 RMK AO2 PK WND 17027/1847 SLP128 T02060150 ELLX 201850Z 05007KT CAVOK 01/M03 Q1017 R06/15//50 NOSIG KHSG 201850Z AUTO 10SM CLR M17/M22 A2997 RMK AO2 T11661220 USSS 201900Z 15002MPS 3800 -SN SCT035 M09/M11 Q1011 R08L/490235 NOSIG RMK QFE739/0985 KHQZ 201850Z 15006KT 4SM RA BR OVC024 19/18 A2992 WBKK 201900Z VRB02KT 9999 FEW014 SCT140 BKN270 26/24 Q1007 NOSIG KHSI 201853Z AUTO 34017G26KT 10SM CLR M09/M15 A3015 RMK AO2 PK WND 34030/1759 SLP245 T10891150 WBKL 201900Z VRB02KT 9999 FEW012 BKN130 BKN300 26/25 Q1007 KL18 201915Z AUTO 12003KT 10SM CLR 13/M12 A3014 RMK AO2 KHRT 201858Z 12012G17KT 10SM OVC008 22/20 A3025 RMK SLP245 $ UUBP 201500Z 25003MPS 9999 BKN020CB M08/M11 Q1020 R34/950245 NOSIG RMK QFE747/0997 KJAN 201854Z 16016G22KT 10SM FEW033 SCT049 BKN065 27/18 A3012 RMK AO2 SLP195 T02670183 KHRX 201915Z AUTO 01009KT 10SM CLR 05/M05 A2996 RMK AO2 T00511051 USTR 201900Z 18005MPS CAVOK M10/M15 Q1015 R21/CLRD65 NOSIG RMK QFE752/1002 KHSP 201915Z AUTO 16010G16KT 10SM SCT018 SCT022 18/10 A3039 RMK AO2 T01810102 KIKG 201915Z AUTO 14015G20KT 10SM BKN035 BKN045 30/21 A2987 RMK AO2 T02950210 KIIY 201254Z AUTO 00000KT 1/2SM FG OVC002 14/14 A3042 RMK AO2 TSNO WBKS 201900Z 00000KT 9999 -RA FEW013 SCT030 BKN270 26/26 Q1007 KJAQ 201915Z AUTO 23005KT 10SM BKN120 07/M08 A3018 RMK AO1 T00681085 KHTH 201915Z AUTO 00000G11KT 10SM CLR M02/M14 A3009 RMK A01 WATT 201500Z 26003KT 8000 SCT016 25/25 Q1009 NOSIG WBKT 201900Z VRB02KT 9999 FEW013 SCT140 BKN270 26/24 Q1008 KJAS 201915Z AUTO 17011G18KT 130V190 10SM BKN030 BKN037 OVC055 26/20 A3004 RMK AO2 T02620200 KJCA 201915Z AUTO 00000KT 5SM BR OVC002 18/18 A3037 RMK AO2 KHUA 201858Z AUTO 22012KT 10SM SCT044 OVC060 25/16 A3021 RMK AO2 SLP226 T02490160 UUDD 201900Z 28004MPS 8000 -SN SCT014 M10/M12 Q1018 R88/450294 NOSIG KHST 201856Z AUTO 09010G17KT 10SM FEW021 28/22 A3026 RMK AO2 SLP250 T02760218 KIKK 201915Z AUTO 20015G27KT 10SM SCT015 BKN075 OVC095 18/17 A2987 RMK AO2 T01780166 UUBW 201900Z 29002MPS 7000 -SN SCT019 M10/M12 Q1019 R30/820340 NOSIG WBKW 201900Z VRB01KT 9999 FEW017 BKN300 25/24 Q1008 KHTL 201906Z AUTO 21011KT 10SM OVC008 12/12 A2983 RMK AO2 CIG 007V012 T01220117 KJAU 201915Z AUTO 19009G18KT 10SM BKN047 OVC055 24/14 A3030 RMK A01 KHSV 201853Z 18009G19KT 10SM FEW045 BKN070 24/17 A3022 RMK AO2 SLP226 T02440172 KILE 201856Z AUTO 16009KT 10SM VCTS BKN008 BKN016 OVC055 21/20 A2990 RMK AO2 LTG DSNT NE AND E RAE42 CIG 006V013 SLP135 P0008 T02060200 KHUF 201853Z 20023G29KT 10SM SCT041 BKN050 BKN075 23/15 A3000 RMK AO2 PK WND 21031/1836 RAE1755 SLP155 P0000 T02280150 KIJX 201915Z AUTO 00000KT 3SM RA SCT006 BKN044 OVC050 06/06 A2993 RMK AO2 T00600055 KJAX 201856Z 13011G19KT 10SM SCT036 28/18 A3032 RMK AO2 SLP269 T02780178 KHTO 201915Z AUTO 20009KT 4SM BR OVC003 09/08 A3029 RMK AO2 T00880075 KILG 201851Z 21009KT 10SM CLR 22/15 A3030 RMK AO2 SLP260 T02220150 KL35 201915Z AUTO 07007KT 10SM M02/M20 A2999 RMK AO2 KJBR 201853Z AUTO 17022G29KT 10SM BKN030 BKN040 23/19 A3004 RMK AO2 PK WND 17029/1844 SLP170 T02330189 UUDL 201900Z 28003MPS 9999 SCT020 M13/M15 Q1016 R23/390143 NOSIG RMK QFE754 KHTS 201851Z 23011G17KT 10SM FEW060 27/11 A3019 RMK AO2 SLP217 T02670106 UUEE 201900Z 28003MPS 9999 BKN019 M10/M12 Q1018 R24R/550336 R24L/550340 NOSIG KHUL 201853Z AUTO VRB03KT 7SM -RA BKN037 OVC065 03/02 A3024 RMK AO2 SLP248 P0001 T00330017 KILM 201853Z AUTO 15007KT 10SM FEW028 SCT038 SCT046 24/18 A3043 RMK AO2 SLP303 T02440183 KIKV 201915Z AUTO 10SM OVC018 M05/M08 A3005 RMK AO2 KHUM 201847Z 15014G19KT 7SM BKN022 27/22 A3015 KJDD 201915Z AUTO 18011G21KT 140V200 10SM BKN034 OVC045 24/17 A2993 RMK AO2 LTG DSNT SW KILN 201854Z AUTO 20018G26KT 10SM CLR 24/15 A3012 RMK AO2 PK WND 19029/1756 SLP194 T02390150 KHVE 201920Z AUTO 26005KT 10SM CLR 01/M19 A3003 RMK AO2 KIKW 201915Z AUTO 20007G14KT 10SM OVC006 14/14 A2987 RMK AO2 T01420135 FCPP 201900Z 13003KT 9999 FEW010 26/25 Q1007 NOSIG KJCT 201907Z AUTO 19016G24KT 8SM SCT024 SCT038 23/18 A2987 RMK AO2 T02330183 KHUT 201852Z 34013G23KT 10SM BKN018 M05/M08 A3010 RMK AO2 PK WND 32028/1822 SLP205 T10501078 UTNN 201900Z 22006KT 9999 OVC018 02/M01 Q1018 R33/CLRD60 NOSIG EKYT 201850Z AUTO 07005KT 9999NDV FEW010/// OVC039/// 02/01 Q1027 NOSIG KIML 201853Z AUTO 34015KT 10SM CLR M11/M18 A3010 RMK AO2 SLP255 T11111178 KHWD 201854Z 00000KT 10SM CLR 09/M04 A3024 RMK AO2 SLP251 T00891044 KIND 201854Z 21020G28KT 10SM FEW049 SCT080 BKN130 BKN250 25/13 A3002 RMK AO2 PK WND 22041/1813 SLP160 T02500128 $ KIMM 201915Z AUTO 12012KT 10SM OVC070 30/20 A3026 RMK AO2 KJDN 201848Z AUTO 25006KT M22/M25 A3011 RMK AO1 SLP277 T12171250 $ KHVN 201853Z 25007G17KT 6SM HZ CLR 13/10 A3028 RMK AO2 SLP252 T01280100 KJEF 201900Z 30011KT 2 1/2SM +RA BR FEW006 BKN014 OVC027 04/03 A2998 RMK AO2 VIS 1 3/4V5 P0004 T00440033 $ KINF 201915Z AUTO 13007KT 10SM OVC045 28/19 A3029 RMK AO2 ZYTL 201900Z 28001MPS CAVOK M07/M16 Q1027 NOSIG KHVR 201853Z AUTO 23015KT 10SM CLR M23/M26 A3011 RMK AO2 SLP274 T12331261 UTNU 201900Z 21008KT 8000 -RA OVC018 04/02 Q1018 R31/19//55 NOSIG KINJ 201915Z AUTO 20007KT 4SM VCTSRA BKN006 BKN010 OVC018 20/20 A2991 RMK AO2 LTG DSNT ALQDS P0009 T02000200 KIMS 201915Z AUTO 20019G25KT 10SM CLR 25/11 A3012 RMK AO1 KHVS 201855Z AUTO 20008KT 10SM SCT035 SCT048 SCT050 25/16 A3038 RMK AO2 KINK 201853Z AUTO 24012G25KT 10SM CLR 22/M02 A2989 RMK AO2 PK WND 27026/1834 SLP090 T02171017 KIMT 201854Z AUTO 00000KT 4SM BR OVC003 M01/M02 A2975 RMK AO2 SLP090 T10111017 KIOB 201915Z AUTO 25015G26KT 230V290 10SM CLR 24/13 A3020 RMK AO2 KINL 201906Z AUTO 29008KT 2 1/2SM -SN BKN020 BKN030 OVC038 M13/M17 A2992 RMK AO2 P0000 T11331167 KHXD 201910Z 14007KT 6SM -DZ BKN028 OVC040 22/19 A3040 KHWO 201853Z 09016G22KT 10SM SCT024 BKN031 28/22 A3029 RMK AO2 SLP257 T02830217 KJER 201853Z AUTO 26016KT 10SM CLR M07/M18 A3011 RMK AO2 SLP245 T10721178 TSNO KHYA 201902Z 24015G25KT 2 1/2SM BR OVC004 12/12 A3024 RMK AO2 T01220122 $ KJES 201920Z AUTO 12008KT 10SM SCT033 SCT041 BKN060 28/18 A3034 RMK AO2 KINS 201856Z AUTO 01004KT 10SM CLR 03/M20 A3011 RMK AO2 SLP199 T00321196 $ KJFK 201851Z 25010KT 10SM FEW080 BKN260 18/12 A3029 RMK AO2 SLP257 T01780122 KINT 201854Z 21006KT 10SM OVC007 17/15 A3042 RMK AO2 SLP298 T01720150 ZYTX 201900Z VRB01MPS CAVOK M14/M22 Q1026 NOSIG KHWV 201856Z AUTO 18008KT 10SM CLR 13/10 A3029 RMK AO2 SLP257 T01280100 ENAL 201850Z 14011KT 9999 -SN FEW013 BKN030 03/M04 Q1022 KINW 201856Z AUTO VRB06KT 10SM CLR 03/M18 A3001 RMK AO2 SLP175 T00331183 ENAN 201850Z 14013KT CAVOK M05/M10 Q1026 KHWY 201915Z AUTO 21012G20KT 10SM CLR 25/12 A3029 RMK AO2 T02540121 KJGG 201915Z AUTO 19007KT 10SM BKN007 20/18 A3041 RMK AO1 KHYI 201903Z 17010KT 10SM -RA BR OVC015 22/20 A2992 RMK AO2 P0000 $ FDJR 201900Z AUTO 09007KT //// // ////// 20/17 Q1019 KIPJ 201925Z AUTO 22004KT 10SM OVC007 17/16 A3041 RMK AO2 T01740162 FDLB 201600Z AUTO 27001KT //// // ////// 24/22 Q1016 ENAT 201850Z 21004KT CAVOK M18/M21 Q1029 RMK WIND 700FT 17005KT KIPL 201853Z AUTO 35009KT 10SM CLR 15/M11 A3016 RMK AO2 SLP213 T01501106 ENBL 201850Z 23002KT 6000 -SN VV025 M02/M05 Q1023 KHZD 201915Z AUTO 18017G24KT 10SM BKN038 OVC046 24/16 A3012 RMK A01 KIOW 201852Z AUTO 31013KT 10SM OVC015 01/M01 A2996 RMK AO2 RAE01 SLP152 P0000 T00061006 KHZE 201915Z AUTO 28013KT 10SM M14/M18 A3013 RMK AO2 ENBN 201850Z VRB04KT CAVOK M04/M11 Q1024 KJFX 201915Z AUTO 10SM FEW046 26/16 A3021 RMK AO2 PWINO ENBO 201850Z 07022KT 9999 FEW020 BKN050 M04/M10 Q1025 NOSIG UTSA 201900Z 18007KT 6000 -DZ OVC010 03/01 Q1021 R07/CLRD70 NOSIG KJFZ 201915Z AUTO 19008G16KT 160V220 10SM CLR 23/08 A3033 RMK AO2 T02260079 UTSB 201900Z 20006KT 8000 OVC023 04/03 Q1022 R01/290055 NOSIG WBSB 201900Z 17004KT 9999 FEW004 FEW015CB BKN140 25/25 Q1008 NOSIG KHYR 201916Z AUTO VRB05KT 10SM BKN005 OVC010 M06/M08 A2987 RMK AO2 T10611078 ENBR 201850Z 13006KT 9999 FEW020 BKN035 02/M06 Q1026 NOSIG RMK WIND 1200FT 15011KT KHYS 201856Z AUTO 36015KT 10SM CLR M05/M12 A3016 RMK AO2 SLP241 T10501122 FZRANO ENBS 201650Z 03018KT 7000 -SHSN SCT017 SCT024 BKN045 M03/M06 Q1023 KIPT 201913Z 07007KT 9SM SCT009 12/10 A3023 RMK AO2 T01220100 KHZL 201915Z AUTO 18007KT 10SM CLR 21/11 A3028 RMK AO2 ENBV 201220Z 30014KT 9999 SCT039 M01/M08 Q1027 KHYW 201915Z AUTO 16010G14KT 7SM SCT036 SCT048 25/17 A3040 RMK AO2 KJHN 201915Z AUTO 35013G23KT 10SM CLR M03/M17 A3005 RMK AO2 T10331167 ENCN 201850Z 04005KT 9999 -SN SCT014 SCT024 M01/M03 Q1028 KHYX 201915Z AUTO 21011KT 5SM -DZ SCT009 SCT036 OVC055 14/13 A2989 RMK AO2 KM04 201915Z AUTO 20014G22KT 10SM FEW039 SCT044 BKN050 24/16 A3009 RMK A01 UTSK 201900Z 19004KT 6000 OVC033CB 05/04 Q1022 R16/190060 KHZR 201915Z AUTO 17011G19KT 10SM SCT045 BKN070 BKN090 29/18 A3010 RMK AO2 T02850178 KM08 201915Z AUTO 15017G23KT 8SM SCT026 SCT031 SCT075 24/17 A3012 RMK A01 KIRK 201913Z AUTO 32008KT 4SM -RA BR BKN010 OVC024 01/00 A2998 RMK AO2 P0004 T00060000 KJHW 201856Z AUTO RMK AO2 SLPNO FZRANO RVRNO $ KHZX 201915Z AUTO 32005KT 10SM SCT055 SCT100 M08/M13 A2991 RMK AO2 KHZY 201853Z AUTO 21012KT 10SM FEW033 SCT055 OVC070 18/15 A3013 RMK AO2 PK WND 24027/1756 RAB18E53 SLP199 P0000 T01780150 UTSS 201900Z 28006KT 6000 BKN064CB 03/M01 Q1020 R27/29//55 NOSIG UTST 201900Z 23004KT 190V250 9999 SCT007 OVC050CB 07/05 Q1023 R88/CLRD70 NOSIG VLLB 201300Z 00000KT 9999 FEW018 27/19 Q1008 NOSIG KIRS 201915Z AUTO 21014G25KT 5SM RA OVC008 17/16 A2994 RMK AO2 P0003 T01650156 KJKA 201915Z AUTO 13010G21KT 10SM BKN010 OVC014 25/21 A3024 RMK AO2 T02480211 KM19 201456Z AUTO 17015KT 10SM 19/18 A3007 RMK AO2 SLP188 T01940178 53012 $ FDMS 201400Z 17006KT 9999 BKN030 FEW035TCU 27/21 Q1014 NOSIG ENFB 201850Z AUTO 27011KT //// BKN019/// BKN170/// 06/05 Q1022 W///S5 KM21 201915Z AUTO 20012G24KT 10SM CLR 25/12 A3010 RMK AO2 T02480122 ENDU 201850Z VRB02KT CAVOK M22/M24 Q1028 RMK WIND 1100FT 12009KT WIND 2200FT 13018KT KISM 201856Z 16012KT 10SM SCT050 SCT060 30/17 A3030 RMK AO2 SLP261 T03000172 KISN 201852Z AUTO 26015KT 10SM SCT110 M16/M20 A3011 RMK AO2 SLP248 T11561200 KISO 201856Z 21009KT 10SM SCT035 SCT060 27/16 A3041 RMK AO2 FEFF 201900Z 20003KT 7000 TS FEW020 FEW040CB 29/24 Q1006 TEMPO 4000 TSRA KISP 201856Z 21008KT 10SM FEW065 BKN250 17/12 A3028 RMK AO2 SLP255 T01720117 KM25 201915Z AUTO 19017G24KT 10SM CLR 23/14 A3010 RMK AO2 PWINO LBBG 201900Z 09013KT 9999 SCT017 SCT020 OVC027 07/03 Q1017 NOSIG KISQ 201915Z AUTO 21004KT 1/4SM FG OVC003 01/00 A2977 RMK AO2 T00100002 KITH 201856Z 17007KT 10SM CLR 19/12 A3015 RMK AO2 SLP209 T01890122 UTTT 201900Z 17004KT 3000 -SHRA BR OVC009CB 04/03 Q1020 R08R/29//50 NOSIG KJKJ 201915Z AUTO 33014KT 3SM HZ SCT002 BKN006 OVC011 M13/M16 A3011 RMK AO2 KM30 201915Z AUTO 18012G24KT 10SM OVC042 24/15 A3007 RMK AO2 T02380149 VLLN 201200Z 14002KT 7000 FEW050 22/18 Q1010 NOSIG KJKL 201853Z AUTO 19011G24KT 150V220 10SM CLR 26/11 A3024 RMK AO2 SLP225 T02560111 ENGC 201850Z 28011KT 9999 FEW008 SCT040 BKN080 06/03 Q1022 W06/S6 ENFL 201850Z 12014KT 3500 -SN SCT005 BKN007 00/M02 Q1024 ENEV 201850Z 12007KT CAVOK M07/M15 Q1027 RMK WIND 1400FT 10015KT KISW 201902Z AUTO 29009KT 10SM SCT007 BKN012 OVC019 00/M02 A2985 RMK AO2 T00001022 KM33 201915Z AUTO 18009G18KT 150V220 10SM BKN047 OVC055 25/15 A3020 RMK A01 KITR 201853Z AUTO 35013KT 10SM CLR M12/M18 A3003 RMK AO2 SLP233 T11171183 KM40 201915Z AUTO 18014G21KT 10SM FEW028 SCT032 BKN048 25/25 A3018 RMK AO2 ENGK 201350Z 03008KT 9999 -SN BKN008 M02/M05 Q1026 FEFT 201000Z 28010KT 9999 BKN023 30/21 Q1008 UUMO 201900Z 29003MPS 7000 -SN BKN015 M12/M13 Q1019 R26/490345 NOSIG RMK QFE749/0999 KJLN 201906Z 32012KT 3SM RA BR BKN007 OVC022 01/01 A3005 RMK AO2 P0005 T00110011 ENGM 201850Z VRB02KT 9999 -SN SCT041 BKN051 M06/M08 Q1026 NOSIG ENHD 201850Z 14006KT 9999 OVC029 01/M02 Q1026 ENHE 201850Z 15018KT 9999 OVC013 04/02 Q1020 W///S4 ENHF 201850Z 23003KT 200V270 9999 FEW021 SCT042 M05/M07 Q1026 RMK WIND 1254FT 26010KT FDPP 201700Z AUTO 17003KT //// // ////// 19/18 Q1021 UUOB 201900Z 29003MPS 9999 SCT010 M09/M11 Q1022 R29/090060 NOSIG KIWA 201853Z VRB04KT 20SM FEW100 12/M11 A3009 ENHK 201320Z VRB01KT 9999 FEW020 M6/M08 Q1030 KIWD 201856Z AUTO 27008KT 9SM OVC007 M05/M07 A2980 RMK AO2 CIG 006V010 SLP113 T10501067 FZRANO